ENHM 312350Z AUTO 15033KT //// /// ///// Q//// W11/S/ UUOK 311900Z 32002MPS CAVOK 03/M02 Q1020 NOSIG RMK 30CLRD70 KIWI 312353Z AUTO 00000KT 10SM CLR 06/02 A3007 RMK AO2 SLP183 T00560017 10111 20050 51011 KJMR 312355Z AUTO 00000KT 10SM CLR M01/M08 A3051 RMK AO2 KJMS 312356Z AUTO 15010KT 10SM CLR 00/M08 A3032 RMK AO2 SLP293 T00001078 10039 20000 56020 KIXA 312355Z AUTO 00000KT 10SM CLR 07/06 A2982 RMK AO2 PPIT 312356Z AUTO 04022G29KT 10SM FEW012 M09/M11 A2907 RMK AO2 PK WND 04030/2322 SLP843 T10891111 11083 21111 58025 FZRANO UUOO 312330Z 31003MPS 5000 BR BKN100 03/M01 Q1015 NOSIG RMK 30290155 KIXD 312353Z 35007KT 10SM CLR 01/M06 A3044 RMK AO2 SLP314 60000 T00111061 10078 20011 58003 $ ENHV 312150Z 29010KT 9999 -SHSN FEW021 BKN040 01/M02 Q1022 KM63 312356Z AUTO 05015G22KT 10SM FEW220 19/04 A3020 RMK AO2 SLP177 T01930036 10216 20193 55007 PPIZ 312356Z AUTO 00000KT 10SM FEW048 M17/M19 A2995 RMK AO2 TSNO 56006 60000 T11721194 11100 21172 SNB2258E2259 P0000 SLP148 $ KIYA 312350Z AUTO 35008KT 10SM CLR 17/09 A3013 RMK AO2 T01720085 ENKB 312350Z AUTO 09007KT 060V120 9999NDV DZ BKN048/// OVC057/// 06/04 Q1010 KJNX 312355Z AUTO 00000KT 10SM CLR 10/08 A2981 RMK AO2 OYMB 311500Z 23004KT CAVOK 29/01 Q1012 KIZA 312355Z AUTO 17011G19KT 10SM SCT030 BKN050 OVC065 18/11 A2983 RMK AO2 ENLA 312350Z AUTO 19038KT 9999NDV FEW110/// 14/12 Q1008 W///S4 KJOT 312355Z AUTO 36018G24KT 10SM OVC050 03/M07 A3031 RMK AO2 T00301070 10053 20028 FDST 010000Z AUTO 23009KT //// // ////// 16/16 Q1019 KJQF 312355Z 00000KT 10SM SCT070 12/07 A2982 LBGO 010000Z 29002MPS 2000 BR BKN040 05/05 Q1025 NOSIG KIZG 312354Z AUTO 00000KT 10SM BKN060 03/02 A3004 RMK AO2 SLP178 T00280017 10100 20028 51010 ENKR 312350Z AUTO 24005KT 9999NDV NCD M04/M06 Q1021 RMK WIND 731FT 23008KT ENLK 312050Z 06006KT 9999 FEW030 00/M03 Q1025 KN03 312355Z AUTO 04004KT 10SM OVC055 07/02 A2994 RMK AO2 ENMH 312150Z 35009KT 6000 -SHSN SCT012 BKN030 M00/M02 Q1021 KLAA 312353Z AUTO 15016G24KT 10SM CLR 12/M02 A3020 RMK AO2 PK WND 15026/2256 SLP226 T01221022 10156 20111 56018 ENNA 312350Z 14006KT 120V200 9999 BKN047 M01/M05 Q1023 RMK WIND 1800FT 28012KT ENML 312320Z 08011KT 9999 FEW025 BKN050 06/03 Q1011 ENNE 312350Z AUTO 12032KT 9999NDV BKN140/// 06/01 Q1014 W06/S4 KLAF 312354Z 35012G19KT 9SM -RA SCT010 OVC019 01/00 A3018 RMK AO2 UPB39E41RAB54SNE39B41E54 SLP225 P0003 60016 T00110000 10050 20006 51035 ENOA 312350Z 16039KT 0050 -RA FG VV001 11/11 Q1004 W///S5 ENMS 312150Z VRB02KT CAVOK M03/M04 Q1022 RMK WIND 412FT VRB01KT KLBB 312353Z 13008KT 10SM FEW250 FEW300 14/M01 A3033 RMK AO2 SLP260 T01391006 10189 20139 57003 ENNK 311850Z 13007KT 9999 FEW020 SCT050 00/M03 Q1026 KLAL 312350Z 30006KT 15SM SKC 17/10 A2988 KJTC 312355Z AUTO 16010G16KT 10SM CLR 18/05 A3020 RMK AO2 KLAM 312355Z AUTO 17007KT 10SM CLR 14/M02 A3031 RMK AO2 T01351020 10149 20111 KLAN 312353Z 35018G24KT 10SM BKN029 OVC036 01/M04 A3016 RMK AO2 PK WND 35026/2336 SLP222 60000 I6000 T00111039 10028 20011 51034 ENNM 312050Z 10017G27KT CAVOK 03/M01 Q1019 KLBE 312350Z VRB05KT 4SM -RA BR BKN007 OVC024 05/05 A2989 KLBF 312353Z AUTO 14008KT 10SM CLR 04/M09 A3031 RMK AO2 SLP283 T00391089 10089 20039 56014 KJSO 312315Z AUTO 34004KT 10SM CLR 17/05 A3026 RMK AO2 T01720055 ENNO 311550Z 30003KT 8000 3500NW -RADZ VCFG FEW000 SCT008 OVC014 05/04 Q1022 LATI 312350Z VRB02KT CAVOK 06/04 Q1021 NOSIG KLAR 312353Z AUTO 16011KT 10SM CLR 07/M03 A3010 RMK AO2 WSHFT 2244 SLP167 T00721028 10189 20072 55000 VMMC 010000Z VRB01KT 5000 BR FEW012 26/23 Q1014 NOSIG KLAS 312356Z 16016G22KT 10SM FEW180 BKN250 28/M01 A2971 RMK AO2 SLP040 T02831011 10294 20233 56019 KJST 312354Z AUTO 06004KT 5SM -RA BR OVC019 04/02 A2984 RMK AO2 SLP119 P0001 60003 T00390022 10061 20039 53007 KLBL 312355Z AUTO 12011KT 10SM CLR 09/M08 A3036 RMK AO1 10120 20080 401500000 57010 ENOL 312350Z 12015KT 9999 FEW040 BKN100 07/01 Q1012 KJSV 312355Z AUTO 00000KT 10SM CLR 10/M01 A3037 RMK AO2 KLAW 312353Z AUTO 03009KT 10SM -RA CLR 12/M03 A3036 RMK AO2 SLP282 P0000 60000 T01221028 10172 20122 53003 KLAX 312353Z 27008KT 10SM SCT017 BKN036 OVC055 19/15 A2986 RMK AO2 SLPNO 60000 T01890150 10206 20167 58009 $ KLCG 312355Z AUTO 13003KT 10SM CLR 00/M07 A3045 RMK AO2 T10011073 10058 21001 KLCH 312353Z 34008G17KT 10SM CLR 19/08 A3016 RMK AO2 SLP219 T01890078 10244 20189 53020 KLCI 312355Z AUTO 00000KT 10SM SCT060 04/01 A3001 RMK AO1 10090 20040 400900020 52010 KN38 312355Z AUTO 34005KT 10SM OVC041 04/02 A2991 RMK AO2 ENQA 312350Z AUTO 16042KT 0200NDV -RA NCD 12/12 Q1006 W10/S5 KLBT 312354Z AUTO 00000KT 10SM CLR 11/08 A2979 RMK AO2 SLP089 T01110078 10206 20106 53000 KLCK 312355Z AUTO 32008KT 10SM DZ OVC013 05/03 A2990 RMK AO2 T00450033 ENQC 312350Z AUTO 14037KT 3900NDV BR OVC003/// 12/12 Q1006 W///S5 ENOV 312150Z VRB03KT 9999 -RA BKN035 09/08 Q1010 RMK WIND 2175FT 15023KT KLBX 312353Z AUTO 34005KT 10SM CLR 18/07 A3017 RMK AO2 SLP214 T01830072 10256 20183 53012 KLCQ 312355Z AUTO 00000KT 10SM CLR 13/08 A2987 RMK AO2 VLVT 010000Z 02002KT 9999 FEW020 BKN050 25/23 Q1010 NOSIG KLDJ 312355Z AUTO 11012KT 10SM BKN032 BKN050 OVC065 15/08 A2991 RMK AO2 T01460075 10146 20130 KKLS 312355Z AUTO 00000KT 10SM BKN070 BKN075 A2987 RMK AO1 60013 54000 ENRA 312150Z VRB05KT 9999 FEW020 M03/M08 Q1024 KLEB 312353Z 00000KT 10SM OVC050 07/02 A3000 RMK AO2 SLP162 T00720017 10106 20072 51008 KJVL 312345Z 35015G20KT 10SM OVC050 04/M08 A3037 OYRN 312300Z 34005KT CAVOK 24/19 Q1011 KLDM 312355Z AUTO 03013G19KT 10SM OVC042 02/M05 A3031 RMK AO2 T00151054 10026 20013 KLEE 312353Z AUTO 27008KT 10SM CLR 19/11 A2988 RMK AO2 SLP115 T01940111 10250 20194 53019 OYSH 311500Z 04008KT 9999 FEW025 22/08 Q//// KJWG 312355Z AUTO 04006KT 10SM CLR 07/00 A3041 RMK AO2 T00721005 10129 20072 ENQR 312350Z AUTO 16037KT 0050NDV -RA NCD 11/10 Q1002 W///S6 KN60 312352Z AUTO 15016G28KT 03/M09 A3012 RMK AO1 PK WND 16028/2349 SLP225 T00281094 10050 20011 56023 UUWW 010000Z 28002MPS 9999 BKN046 01/M02 Q1018 24000070 NOSIG ENSB 312350Z 26005KT 200V290 9999 -SN FEW010 SCT020 BKN029 M04/M07 Q1015 RMK WIND 1400FT 26005KT OYSN 010000Z 00000KT CAVOK 12/09 Q1025 NOSIG ENSD 312020Z 15008KT 9999 -RA BKN034 06/04 Q1013 RMK WIND 1138FT 07010KT UWGG 010000Z 00000MPS 5000 BR BKN044 M00/M01 Q1016 NOSIG 36190055 RMK QFE755 KJVW 312355Z AUTO 10SM CLR 13/10 A3017 RMK AO2 ENRM 312120Z 07008KT CAVOK 03/M01 Q1018 LCEN 312350Z 26008KT 9999 FEW025 FEW030CB 15/11 Q1012 NOSIG ENSE 312350Z AUTO 17040KT 0350NDV -RA NCD 11/10 Q1003 W///S5 OYSQ 010000Z 10008KT 9999 FEW018 25/20 Q1009 ENRO 312350Z AUTO 28003KT 240V300 9999NDV -SHRA OVC018/// 01/M01 Q1015 ENSG 311950Z 07007KT 9999 -RA FEW/// SCT015 BKN032 01/01 Q1016 RMK WIND 3901FT 10014KT ENSH 311950Z 33006KT 300V020 9999 FEW030 01/M03 Q1026 KLFI 312358Z AUTO 35004KT 10SM OVC048 12/04 A2983 RMK AO2 SLP108 T01190042 10146 20112 53002 KLGA 312351Z 05014KT 10SM OVC085 13/06 A2989 RMK AO2 SLP122 T01280061 10128 20117 58003 ENRS 311850Z 08010KT 9999 FEW035 04/M02 Q1024 KLFK 312353Z AUTO 34004KT 10SM CLR 18/07 A3023 RMK AO2 SLP233 T01780067 10239 20178 51017 KLGB 312353Z 16003KT 10SM OVC055 20/15 A2985 RMK AO2 SLP108 T02000150 10217 20200 58012 ENSK 312050Z 03005KT 9999 FEW020 M03/M04 Q1025 KLGC 312355Z AUTO 32006KT 10SM CLR 14/09 A2994 RMK AO2 T01350086 10188 20135 ENTC 312350Z 18012KT 9999 VCSH FEW002 SCT009 BKN012 00/M01 Q1024 RMK WIND 2600FT 23008KT ENSL 312350Z AUTO 19038KT 7000NDV FEW240/// 12/12 Q1004 W10/S4 KLGD 312355Z AUTO 28013KT 10SM FEW070 11/03 A2978 RMK AO1 60001 10200 20110 402000110 52017 LBPD 010000Z 00000MPS CAVOK 06/05 Q1024 NOSIG KLEW 312355Z AUTO 00000KT 10SM CLR 04/01 A3005 RMK AO1 10100 20040 401001020 52014 KJXN 312356Z 36021G29KT 10SM OVC022 01/M02 A3011 RMK AO2 PK WND 36030/2329 SLP203 60007 T00061022 10056 20006 51036 ENSN 311850Z VRB02KT 4000 RA BR BKN007 06/06 Q1021 OYSY 010000Z AUTO VRB01KT //// ////// 18/05 Q1013 KLEX 312354Z 33006KT 6SM RA SCT017 BKN028 OVC050 04/01 A2999 RMK AO2 RAE2255B45 SLP159 P0001 60013 T00390011 10094 20039 51011 ENSO 311850Z 14011KT 9999 FEW005 BKN018 13/10 Q1013 KJYG 312355Z AUTO 00000KT 10SM CLR 00/M09 A3049 RMK AO2 KJWY 312355Z AUTO 01004KT 10SM CLR 15/04 A3032 RMK AO2 T01480038 10194 20148 ENRY 312350Z AUTO 10008KT 8000NDV -DZ BKN005/// BKN011/// OVC014/// 06/06 Q1019 ENSR 311950Z 16005KT 9999 BKN047 M01/M02 Q1024 RMK WIND 1119FT VRB02KT ENSS 312050Z 24011KT 9999 VCSH FEW010 M03/M04 Q1020 RMK WIND 500FT 25012KT KLFT 312353Z 35012KT 10SM CLR 19/08 A3014 RMK AO2 SLP205 T01940083 10250 20194 53021 KLHB 312355Z AUTO 36003KT 10SM CLR 18/05 A3026 RMK AO2 T01750051 10225 20174 ENST 312120Z 02008KT 9999 FEW040 03/M06 Q1021 RMK WIND 300FT 33009KT KJYL 312355Z AUTO 00000KT 10SM SCT120 17/15 A2981 RMK AO2 T01730148 10239 20173 KJYM 312354Z AUTO 36020G27KT 10SM OVC019 01/M01 A3007 RMK AO2 T00111009 UUYY 312330Z 26003MPS 6000 -SHSN SCT009 BKN021CB OVC066 00/M02 Q1009 TEMPO 0700 +SHSN 19290247 RMK QFE748/0998 EPCE 312330Z 16004KT 120V190 5000 BR SCT005 BKN017 OVC033 06/05 Q1024 RMK 058 KJYO 312355Z AUTO 00000KT 10SM OVC060 10/03 A2987 RMK AO2 OYTZ 312200Z 36004KT CAVOK 17/11 Q1019 ENTO 312350Z AUTO 02005KT 3400NDV BR VV001 06/06 Q1019 KJZI 312355Z AUTO 00000KT 10SM CLR 13/11 A2980 RMK A02 P000 KJYR 312355Z AUTO 13003KT 10SM CLR 03/M08 A3043 RMK AO2 EPDA 312330Z 14006KT 4000 BR OVC004 08/07 Q1023 RMK 076 098 8/8= ENVA 312350Z 09009KT CAVOK 06/00 Q1015 RMK WIND 670FT 11011KT FGBT 312300Z 14005KT 9999 SCT010 BKN100 25/24 Q1012 NOSIG KLGU 312351Z AUTO 12005KT 10SM CLR 18/M01 A2986 RMK AO2 SLP092 T01781011 10228 20156 56006 TSNO KLIC 312355Z AUTO 15014G22KT 10SM CLR 08/M02 A3019 RMK AO2 PK WND 16028/2301 SLP226 T00781022 10111 20078 56008 KLHM 312355Z AUTO 00000KT 10SM SCT005 BKN012 OVC028 13/13 A2977 RMK AO1 ENVD 312350Z 29015KT 9999 FEW015 SCT048 BKN070 M03/M05 Q1021 EPDE 312330Z AUTO 11002KT 0100 M02/M02 Q1027 RMK M018 098= EPBY 010000Z 13003KT 3000 BR NSC 06/06 Q1024 KLHQ 312353Z AUTO 33007KT 10SM -RA BKN010 OVC016 06/04 A2989 RMK AO2 CIG 009V012 SLP126 P0001 60012 T00560039 10089 20056 51009 ENVH 312350Z AUTO 19036KT 9999NDV FEW110/// BKN130/// 14/12 Q1010 W///S4 UWKD 010000Z 36003MPS 5000 BR BKN070 01/M01 Q1013 R29/CLRD60 NOSIG RMK QFE749/0998 UWKE 010000Z 22005MPS 7000 OVC100 03/02 Q1013 NOSIG RMK QFE743/0991 21210370 KLHW 312358Z AUTO 00000KT 10SM CLR 14/10 A2981 RMK AO2 SLP098 T01420099 10230 20142 52010 KMAE 312353Z AUTO 32011KT 10SM BKN060 OVC090 23/09 A2974 RMK AO2 SLP070 T02280089 10250 20194 56017 KLHX 312353Z AUTO 15016KT 10SM CLR 16/M02 A3014 RMK AO2 SLP188 T01611022 10189 20139 56014 KMAF 312353Z 09011KT 10SM CLR 18/00 A3031 RMK AO2 SLP242 T01830000 10211 20183 56003 KLJF 312353Z AUTO 00000KT CLR 01/M08 A3049 RMK AO2 PWINO LBSF 010000Z 27004MPS 6000 FEW017 07/05 Q1025 NOSIG DXNG 312100Z 16004KT 9999 FEW008 26/22 Q1016 KLHZ 312355Z AUTO 00000KT 10SM OVC060 09/08 A2982 RMK AO2 VOCB 010000Z 00000KT 3000 HZ FEW015 23/21 Q1012 NOSIG KMAI 312353Z AUTO 26009KT 10SM FEW070 SCT085 SCT120 17/11 A2991 RMK AO2 PK WND 35029/2311 WSHFT 2304 RAB11E36 SLP129 P0001 60001 T01670106 10233 20156 53015 $ VOBL 010000Z 02003KT 360V080 6000 FEW012 SCT080 23/23 Q1015 NOSIG KLIT 312353Z 01011KT 10SM CLR 11/M06 A3029 RMK AO2 SLP261 T01111061 10183 20111 53032 KO22 312355Z AUTO 21004KT 9SM SCT028 BKN034 OVC044 15/09 A2978 RMK AO1 KMAN 312355Z AUTO 00000KT 10SM CLR 15/05 A2972 RMK AO1 KMAO 312355Z AUTO 00000KT 10SM CLR 11/09 A2980 RMK AO2 VOCI 010000Z 00000KT 4000 HZ FEW015 BKN080 24/23 Q1010 NOSIG KMBG 312352Z AUTO 14021KT 10SM CLR 04/M11 A3021 RMK AO2 PK WND 14030/2256 SLP249 T00391111 10061 20028 56027 UWKS 010000Z 33002MPS 6000 FEW033 BKN066 M01/M02 Q1014 NOSIG RMK QFE746 24190158 VNKT 312350Z 00000KT 0800 FG BKN008 13/12 Q1019 NOSIG VOCL 010000Z 00000KT 5000 HZ FEW015 SCT018 25/24 Q1009 NOSIG KMCB 312353Z AUTO 33010KT 10SM CLR 16/07 A3013 RMK AO2 SLP200 T01610067 10222 20161 53028 KMBL 311835Z AUTO 03011G21KT 340V050 10SM SCT031 OVC038 02/M03 A3020 RMK AO1 KMCD 312340Z AUTO 03016G24KT 10SM OVC038 00/M07 A3034 RMK AO2 T10011070 KMCE 312353Z AUTO 30016G26KT 9SM -RA OVC060 19/09 A2976 RMK AO2 PK WND 30026/2350 RAB22 SLP078 P0000 60000 T01890089 10228 20189 55009 EPGD 010000Z VRB02KT 5000 BR BKN005 06/05 Q1024 KMCF 312358Z AUTO 34010G16KT 10SM CLR 20/11 A2990 RMK AO2 SLP128 T01970113 10243 20197 52015 KLKR 312355Z AUTO 08003KT 10SM FEW065 SCT075 SCT110 12/12 A2978 RMK AO2 LTG DSNT N AND NW KMCI 312353Z 01006KT 9SM FEW250 02/M07 A3044 RMK AO2 SLP315 T00171072 10078 20017 56004 KMBS 010005Z 36018G30KT 10SM BKN026 OVC034 02/M03 A3020 RMK AO2 PK WND 35030/2358 T00171028 KLLJ 312355Z AUTO 18006KT 10SM FEW110 16/M05 A2980 RMK AO2 SLP065 T01561050 10183 20111 57005 KMCJ 312355Z AUTO 33012G19KT 10SM CLR 21/04 A3015 RMK AO1 KMCK 312353Z AUTO 14008KT 10SM CLR 04/M09 A3034 RMK AO2 SLP292 T00441094 10089 20039 56015 LCLK 010000Z 29007KT 9999 FEW035CB 16/11 Q1012 NOSIG UWLW 010000Z 23002MPS 2200 -SHRA BR BKN033CB OVC100 04/04 Q1014 20290250 TEMPO 2100 -RA BR BKN007 RMK QFE755 KLKU 312355Z AUTO 00000KT 10SM SCT048 OVC060 08/05 A2983 RMK AO2 KLKV 312355Z AUTO 17003KT 7SM FEW012 BKN020 OVC033 06/03 A2982 RMK AO1 60001 10120 20060 401600060 54000 KMDD 312355Z AUTO 08007KT 10SM CLR 18/00 A3033 RMK AO2 T01820000 10211 20182 KMCN 312353Z AUTO 28006KT 10SM OVC100 14/06 A2989 RMK AO2 SLP120 T01390061 10222 20139 51015 TSNO KMCO 312353Z 29006KT 10SM CLR 21/08 A2986 RMK AO2 SLP108 T02060083 10261 20206 53018 KMDH 312352Z AUTO 33010KT 10SM CLR 05/M06 A3029 RMK AO2 SLP258 T00501061 10089 20050 53017 KLLQ 312353Z AUTO 00000KT 10SM FEW060 13/04 A3023 RMK AO2 SLP236 T01280039 10183 20128 53021 KMDJ 312355Z AUTO 34027KT 10SM CLR 23/09 A3005 RMK A01 KMEB 312352Z AUTO 04003KT 10SM CLR 11/07 A2980 RMK AO2 SLP091 T01110067 10194 20111 55002 KLNC 312355Z AUTO 02003KT 10SM CLR 16/01 A3032 RMK AO2 T01550012 10195 20155 KLND 312353Z AUTO 21003KT 10SM CLR 13/M02 A2993 RMK AO2 SLP115 T01281022 10161 20106 56010 TSNO KMCW 312353Z AUTO 35005KT 10SM CLR M03/M08 A3048 RMK AO2 SLP334 T10281078 10044 21033 51004 KLMO 312353Z AUTO 35003KT 10SM CLR 11/00 A3014 RMK AO2 T01071005 KMCX 312355Z AUTO 36011G20KT 10SM SCT014 BKN036 OVC048 02/01 A3017 RMK AO2 60004 T00180005 10031 20012 KO54 312355Z AUTO 00000KT 10SM FEW041 BKN050 12/07 A2977 RMK AO1 KMDQ 312355Z AUTO 34009KT 10SM BKN029 OVC039 05/01 A3011 RMK AO2 KMEH 312356Z AUTO 00000KT 10SM OVC090 08/04 A2981 RMK AO2 SLP097 60002 T00780044 10150 20078 58004 KMEI 312358Z 33018G24KT 10SM BKN060 14/06 A3011 RMK AO2 PK WND 34028/2317 SLP194 T01440061 10222 20144 53039 KMDS 312355Z AUTO 15006KT 10SM CLR 00/M09 A3042 RMK AO2 KLMT 312353Z 18004KT 10SM -RA FEW017 BKN031 OVC075 06/02 A2981 RMK AO2 SLP083 P0003 60018 T00560022 10072 20050 58009 KLNK 312354Z AUTO 07005KT 10SM CLR 03/M09 A3046 RMK AO2 SLP328 T00281089 10072 20017 56014 KMDT 312356Z 00000KT 10SM BKN060 BKN180 BKN250 08/02 A2988 RMK AO2 SLP119 T00780022 10122 20072 50002 LDDU 010000Z 02019KT 350V050 CAVOK 12/02 Q1022 KLNL 312355Z AUTO 35004KT 10SM OVC031 M02/M06 A3044 RMK AO2 T10171061 10000 21018 UWOO 010000Z 11003MPS P5000 SKC M05/M09 Q1021 26CLRD65 NOSIG RMK QFE755/1007 KMFD 312352Z 34007KT 6SM -RA BR BKN006 OVC019 05/04 A2988 RMK AO2 SLP126 P0002 60012 T00500044 10067 20050 53013 KMEM 312354Z 35012G23KT 10SM CLR 09/M06 A3026 RMK AO2 SLP246 T00891061 10139 20089 52038 $ KMDW 010003Z 35017KT 10SM -SN FEW010 BKN023 BKN060 02/M01 A3030 RMK AO2 P0000 T00171006 ENZV 312350Z 14018KT 9999 FEW012 BKN100 15/12 Q1011 KMFE 312353Z 03008KT 10SM CLR 24/14 A3018 RMK AO2 SLP219 T02440139 10267 20239 53013 $ LBWN 010000Z 25004MPS 6000 NSC 05/03 Q1023 NOSIG UWOR 010000Z 24004MPS CAVOK M03/M06 Q1021 25CLRD65 NOSIG RMK QFE742/0990 KLNP 312355Z AUTO 29006KT 10SM -RA OVC008 05/05 A2985 RMK AO2 P0001 KMDZ 312355Z AUTO 36007KT 10SM BKN032 M01/M06 A3044 RMK AO2 T10101065 10024 21011 KMFI 312354Z AUTO 36005KT 10SM FEW039 00/M07 A3043 RMK AO2 SLP320 T00001072 10039 20000 53006 KMER 312345Z 32015G25KT 10SM FEW030 BKN050 OVC060 19/13 A2978 KLNR 312356Z AUTO 36005KT 10SM CLR 03/M09 A3043 RMK AO2 SLP306 T00331089 10072 20033 51014 EPIR 312300Z 13004KT 2500 BR SCT015 OVC080 06/05 Q1025 RMK 056 097 8/4= KLNS 312353Z 09004KT 10SM OVC060 08/03 A2989 RMK AO2 SLP122 T00830028 10128 20083 50006 KO69 312350Z AUTO 27009KT 10SM OVC027 15/12 A2980 RMK AO1 DXSK 312100Z 00000KT 9999 FEW020CB BKN260 26/23 Q//// KLOL 312353Z AUTO 36004KT 10SM CLR 21/M03 A2964 RMK AO2 SLP023 T02111033 10222 20150 58031 KLPC 312355Z AUTO 19010KT 10SM FEW033 SCT042 BKN050 19/10 A2982 RMK AO1 10220 20190 402300120 57014 KMGC 312355Z AUTO 01017G29KT 10SM BKN036 OVC042 03/M03 A3023 RMK AO2 KLOM 312355Z AUTO 00000KT 10SM SCT032 BKN050 OVC070 10/02 A2988 RMK AO1 KMEV 312355Z AUTO 23020G26KT 10SM CLR 16/00 A2971 RMK AO2 KMGE 010002Z 28010KT 7SM FEW029 BKN039 OVC050 10/09 A2991 RMK AO2A $ KMGG 312354Z AUTO 00000KT 10SM CLR M01/M07 A3050 RMK AO2 T10091069 10045 21009 KMEZ 312355Z AUTO 00000KT 10SM CLR 12/00 A3031 RMK AO2 LCPH 010000Z VRB05KT 9999 TS FEW020CB BKN031 17/14 Q1013 KLOR 312353Z AUTO 35006KT 10SM BKN065 BKN075 OVC100 16/09 A2992 RMK AO2 SLP132 T01610094 10233 20139 53017 TSNO $ KMFR 312353Z 30004KT 10SM FEW008 SCT100 14/07 A2980 RMK AO2 SLP087 60000 T01440067 10150 20117 57005 KMGJ 312354Z AUTO 04006KT 10SM BKN040 OVC060 09/03 A2993 RMK AO2 RAB36E49 SLP136 P0000 60000 T00890028 10117 20089 53007 TSNO KLOT 312355Z AUTO 02016G24KT 10SM OVC046 03/M07 A3031 RMK AO2 T00281071 10052 20028 EPLB 312200Z VRB02KT 8000 NSC 01/00 Q1027 KLOU 312353Z 31013G26KT 7SM -RA FEW015 BKN025 OVC034 03/01 A3006 RMK AO2 PK WND 31026/2344 RAB40 SLP180 P0000 60009 T00330006 10067 20033 51015 EPKK 010000Z 00000KT 1500 BR NSC M01/M01 Q1026 KMGM 312353Z 32016G28KT 10SM FEW038 SCT055 BKN075 17/07 A2998 RMK AO2 PK WND 33028/2353 SLP151 T01720067 10233 20161 53025 KMFV 312355Z AUTO 02005KT 10SM CLR 08/03 A2982 RMK AO2 KMHE 312353Z AUTO 15007KT 10SM CLR 02/M08 A3041 RMK AO2 SLP318 T00171078 10050 20017 56018 KMGN 312355Z AUTO 01007KT 10SM OVC041 00/M06 A3034 RMK AO2 T10031064 FHAW 312350Z 14012KT 9999 BKN036 23/16 Q1016 BLU TEMPO SCT020 WHT VOHS 312340Z VRB02KT 3000 HZ NSC 14/10 Q1015 NOSIG KLOZ 312353Z AUTO 31005KT 10SM -RA BKN013 OVC027 03/01 A2999 RMK AO2 SLP161 P0002 60010 T00280006 10083 20028 51034 KO86 312355Z AUTO 00000KT 10SM CLR 10/07 A2979 RMK AO1 KLPR 010000Z AUTO 00000KT 6SM -RA BR OVC029 06/05 A2991 RMK AO2 P0000 T00610050 TSNO KMGR 312355Z AUTO 31003KT 10SM CLR 17/07 A2990 RMK AO2 LCRA 312350Z AUTO 29005KT //// // FEW037/// 18/12 Q1012 KMIA 312353Z 29007G19KT 10SM FEW045 FEW095 26/17 A2983 RMK AO2 SLP102 T02560172 10306 20256 53019 EPKS 312330Z 13004KT 2000 BR OVC016 08/07 Q1024 RMK 079 092 8/8= KMHK 312352Z 02003KT 10SM CLR 04/M09 A3045 RMK AO2 SLP320 T00441089 10089 20039 56006 KLQK 312355Z AUTO 10SM SCT065 BKN080 BKN090 13/05 A2981 RMK AO2 T01260046 10270 20017 KMIB 312358Z AUTO 15018KT 10SM CLR 02/M10 A3010 RMK AO2 PK WND 14026/42 SLP223 T00221096 10046 20021 57027 $ EPMB 312330Z 19002KT 1500 BR BKN050 BKN100 04/04 Q1026 RMK 043 097 7/5= EPLK 312330Z 13002KT 6000 OVC080 05/04 Q1026 RMK 053 093 8/8= KMIC 312353Z 05003KT 10SM CLR 01/M10 A3049 RMK AO2 SLP338 T00061100 10050 20006 55001 EPKT 010000Z 14003KT 2000 BR NSC 00/00 Q1026 EPLL 010000Z VRB02KT 4500 BR SCT024 05/03 Q1026 KLRD 312356Z 02006KT 10SM CLR 22/10 A3023 RMK AO2 53003 T02220100 10261 20216 SLP228 VOHY 311340Z 09005KT 5000 HZ NSC 28/08 Q1015 NOSIG KMGW 312353Z 02005KT 7SM -RA SCT004 OVC021 07/04 A2988 RMK AO2 SLP122 P0001 60005 T00670039 10106 20067 53007 KMIE 312353Z 36022G29KT 10SM UP BKN014 OVC019 02/01 A3005 RMK AO2 PK WND 01035/2336 UPB46SNE46 SLP178 P0002 60007 T00220006 10050 20022 52031 KLRF 312358Z AUTO 02007KT 10SM CLR 11/M05 A3030 RMK AO2 SLP264 T01051055 10172 20104 52032 KMGY 010001Z AUTO 31007KT 7SM -RA OVC013 04/03 A2994 RMK AO2 P0000 T00390028 KMHR 312350Z 29003KT 7SM BKN009 OVC042 14/14 A2978 EPMI 312300Z 15004KT 1200 BR OVC004 08/08 Q1024 RMK 079 100 8/8= KMHS 312356Z AUTO 28003KT 10SM BKN009 BKN012 OVC044 08/07 A2977 RMK AO2 CIG 006V010 SLP094 60020 T00830067 10089 20061 58013 KLRJ 312355Z AUTO 00000KT 10SM CLR 03/M08 A3047 RMK AO2 LEAB 010000Z 13007KT CAVOK 12/11 Q1024 NOSIG KMHT 312353Z 09004KT 10SM OVC065 08/01 A3001 RMK AO2 SLP179 T00780006 10111 20078 53009 KLSB 312355Z AUTO 11014G22KT 10SM CLR 21/08 A3010 RMK AO2 LTG DSNT N KMHV 312355Z AUTO 20019G24KT 10SM CLR 16/08 A2983 RMK AO1 EPMM 312330Z VRB02KT 2000 BR SCT020 BKN070 01/00 Q1027 RMK 008 096 6/3= KLSE 312353Z 35007KT 10SM CLR 02/M07 A3046 RMK AO2 SLP328 T00221067 10067 20022 52009 KLSF 312358Z AUTO 30005KT 10SM CLR 11/06 A2992 RMK AO2 SLP135 T01090059 10220 20109 52014 EPMO 312300Z 19004KT 4500 MIFG BR NSC 02/02 Q1026 LEAG 010000Z AUTO 09010KT 9999 BKN023 20/15 Q1022 EPLY 312300Z VRB02KT 1500 BR BKN020 BKN090 05/05 Q1027 RMK 048 100 7/6= UWSS 010000Z VRB02MPS 9999 BKN022 OVC100 06/05 Q1015 12200355 NOSIG RMK QFE749 LEBA 010000Z AUTO 00000KT CAVOK 13/11 Q1022 KMIS 312355Z AUTO 02026KT 10SM FEW060 22/08 A3000 RMK A01 LEBB 312230Z VRB03KT CAVOK 20/12 Q1019 NOSIG KNAK 312354Z AUTO 03004KT 10SM SCT055 11/04 A2986 RMK AO2 SLP113 T01110039 10128 20094 58002 LEAL 010000Z 29003KT CAVOK 16/14 Q1023 NOSIG KMKC 312354Z 36005KT 10SM CLR 05/M08 A3044 RMK AO2 SLP313 T00501078 10089 20050 56002 KNBC 312356Z AUTO A2982 RMK AO2 SLP100 53013 PWINO FZRANO TSNO $ KLRU 312355Z AUTO 11009KT 10SM CLR 20/05 A3020 RMK AO2 LTG DSNT W T01960049 10221 20188 LEAM 312130Z 03005KT 360V080 CAVOK 20/13 Q1023 KMIV 312354Z AUTO 34007KT 10SM SCT029 OVC045 10/04 A2985 RMK AO2 SLP106 T01000039 10122 20100 58009 KMIW 312353Z AUTO 35007KT 10SM CLR M01/M07 A3045 RMK AO2 SLP323 T10061072 10061 21006 51006 KMKE 312352Z 35017G29KT 10SM BKN046 02/M08 A3035 RMK AO2 PK WND 36029/2345 SLP285 T00221083 10039 20022 51022 LEAO 311900Z 00000KT CAVOK 14/09 Q1023 LEBG 010000Z AUTO 04005KT 2300 // VV001 06/06 Q1024 KNBG 312355Z 34007KT 10SM FEW050 21/07 A3006 RMK AO2 SLP178 T02060067 10244 20206 53022 $ KMKG 312355Z 02014G24KT 10SM OVC036 02/M05 A3028 RMK AO2 PK WND 36028/2332 SLP261 60000 T00221050 10039 20022 51028 KMJQ 312354Z AUTO 07004KT 10SM CLR M01/M10 A3047 RMK AO2 LEAS 312230Z 29004KT CAVOK 16/12 Q1019 NOSIG KNCA 312356Z AUTO 35007KT 10SM CLR 13/07 A2979 RMK AO2 SLP091 T01330067 10194 20128 53009 KP28 312356Z AUTO 08007KT 06/M07 A3041 RMK AO1 SLP308 T00561067 10117 20056 58001 KLUA 312355Z AUTO 00000KT 10SM OVC060 10/05 A2984 RMK AO2 KMKJ 312355Z AUTO 26006KT 10SM -DZ SCT007 OVC013 05/04 A2986 RMK AO2 P0001 60013 T00500038 10085 20048 KMLB 312353Z 30006KT 10SM CLR 19/10 A2983 RMK AO2 SLP101 T01890100 10283 20189 53020 EPOK 312330Z 18008KT 9999 OVC051 06/05 Q1024 RMK 063 092 8/8= LEBL 010000Z VRB01KT 9999 FEW020 BKN025 17/14 Q1024 NOSIG KMLC 312353Z AUTO 01012KT 10SM -RA FEW075 FEW090 SCT110 10/M02 A3037 RMK AO2 SLP284 P0000 60000 T01001017 10156 20100 51013 KMKL 312353Z 36014G21KT 10SM CLR 07/M04 A3024 RMK AO2 SLP242 T00671044 10122 20067 51036 KLUD 312355Z AUTO 01005KT 10SM CLR 13/02 A3033 RMK AO2 T01300020 10177 20130 KLSV 312358Z AUTO 15013KT 10SM CLR 28/02 A2972 RMK AO2 PK WND 17026/44 SLP048 T02830024 10293 20230 57021 $ KMKN 312355Z AUTO 04006KT 10SM CLR 15/04 A3031 RMK AO2 T01500041 10198 20150 KMLE 312355Z AUTO 00000KT 10SM CLR 03/M06 A3046 RMK AO2 T00331062 10065 20031 KMLF 312352Z AUTO 22014KT 10SM CLR 21/M03 A2987 RMK AO2 PK WND 19026/2306 SLP078 T02111033 10239 20211 58019 TSNO KMKO 312353Z AUTO 34009KT 10SM CLR 08/M02 A3040 RMK AO2 SLP293 T00781022 10139 20078 52007 KMJX 312355Z AUTO 00000KT 10SM OVC070 09/06 A2986 RMK AO1 10120 20090 401201020 57007 KLUF 312358Z AUTO 27001KT 10SM CLR 32/08 A2976 RMK AO2 SLP067 T03160080 10323 20277 57016 $ KMLI 312352Z 01008G15KT 10SM CLR 03/M08 A3040 RMK AO2 SLP301 T00331083 10072 20033 51020 $ LEDA 311530Z VRB01KT 9000 FEW020 21/14 Q1023 UWUU 010000Z 21006G09MPS 9999 -RA OVC033 03/M00 Q1016 141///50 NOSIG RMK QFE751/1002 KMKS 312355Z AUTO 00000KT 10SM CLR 12/12 A2980 RMK AO2 KMLJ 312355Z AUTO 29005KT 10SM OVC070 16/08 A2987 RMK AO2 KLTS 312358Z AUTO 03007KT 10SM CLR 10/M03 A3037 RMK AO2 SLP285 T01031029 10172 20103 50002 $ VOMM 312340Z 35008G18KT 2500 HZ SCT015 FEW025CB BKN100 22/20 Q1008 NOSIG LEBT 010000Z AUTO 36005KT 9000 // NSC 14/14 Q1024 KLUK 312353Z 30007KT 10SM OVC030 04/01 A2999 RMK AO2 SLP156 60006 T00440011 10067 20044 52003 KMKT 312355Z AUTO 03005KT 10SM CLR 02/M11 A3048 RMK AO1 10040 20020 57003 KNBT 312356Z AUTO 02011KT 7SM FEW025 BKN060 16/11 A2978 RMK AO2 SLP088 6//// T01610106 10200 20161 53005 PNO KLUM 312355Z AUTO 34004KT 10SM CLR 00/M07 A3048 RMK AO2 T00021075 10045 20002 LECO 010000Z 00000KT 9999 BKN008 15/15 Q1021 TEMPO 3000 RA BKN013 DXXX 312300Z 22008KT 9999 FEW012 27/25 Q1013 NOSIG KMLP 312353Z AUTO VRB05KT 10SM BKN070 06/02 A2984 RMK AO2 SLP049 T00610017 10111 20061 51007 KMKY 312355Z 32009KT 10SM CLR 22/16 A2988 RMK AO1 10280 20220 52020 EPPO 010000Z 17004KT 130V210 6000 BKN019 09/07 Q1024 LEBZ 010000Z AUTO 15002KT CAVOK 15/12 Q1022 KMMH 312355Z AUTO 21006G23KT 10SM CLR 15/M07 A2981 RMK AO1 KMMI 312355Z AUTO 33013KT 10SM FEW029 SCT037 BKN060 05/01 A3000 RMK EPPR 312330Z AUTO 15000KT ///008 06/05 Q1025 RMK 060 091= KLVJ 312353Z AUTO 03011KT 10SM CLR 22/04 A3018 RMK AO2 SLP218 T02220044 10267 20222 53012 KMLS 312353Z AUTO 14013KT 10SM CLR 12/01 A2983 RMK AO2 SLP111 T01170006 10144 20100 56014 KLWA 312355Z AUTO 03015G20KT 10SM OVC041 02/M04 A3024 RMK AO2 T00231036 10038 20010 EPRA 312330Z AUTO 19004KT 2200 ///235 00/M00 Q1026 RMK 000 099= KLVK 312353Z 17003KT 10SM SCT019 BKN070 14/12 A2979 RMK AO2 SLP086 60010 T01390117 10189 20133 56007 KMLT 312353Z AUTO 00000KT 10SM OVC045 06/01 A3009 RMK AO2 SLP198 T00610011 10083 20061 53009 KMMK 312353Z AUTO VRB05KT 7SM -RA OVC035 09/06 A2996 RMK AO2 RAB20 SLP145 P0000 60000 T00890061 10122 20089 53011 TSNO KLWB 312355Z AUTO 00000KT 7SM -RA SCT018 OVC024 06/04 A2983 RMK AO2 P0005 60011 T00560043 10090 20056 LEEC 311500Z VRB01KT CAVOK 27/06 Q1018 KLWC 312352Z AUTO 36005KT 10SM CLR 02/M08 A3045 RMK AO2 SLP318 T00171083 10083 20017 58003 KMLU 312353Z 36006KT 10SM SCT055 15/07 A3022 RMK AO2 SLP232 T01500072 10211 20150 53023 KMML 312355Z AUTO 14003KT 10SM CLR 01/M09 A3046 RMK AO1 10040 20010 57007 KLVL 312355Z AUTO 00000KT 10SM CLR 08/07 A2982 RMK AO1 T00800066 10156 20080 LECV 311800Z 00000KT CAVOK 16/04 Q1024 KLVM 312353Z AUTO 20007G21KT 10SM CLR 19/M05 A2979 RMK AO2 SLP078 T01891050 10233 20072 55000 KLWD 312353Z AUTO 35005KT 10SM CLR 01/M07 A3044 RMK AO2 SLP322 T00111067 10061 20011 53003 KP53 312356Z AUTO 35016KT 03/M04 A3041 RMK AO1 PK WND 01027/2306 SLP305 T00331039 10039 20017 51012 KLVN 312348Z AUTO 00000KT 10SM CLR M02/M08 A3049 RMK AO2 KMNE 312354Z AUTO 35005KT 10SM CLR 14/07 A3025 RMK AO2 EPPW 312330Z 15004KT 2000 BR BKN010 OVC015 07/07 Q1025 RMK 073 098 8/5= KLUX 312355Z AUTO 29007G15KT 10SM -RA SCT055 BKN070 BKN100 14/02 A2979 RMK AO2 KMNH 312352Z AUTO 20008KT 10SM CLR 05/M03 A3018 RMK AO2 KMNI 312355Z AUTO 00000KT 10SM SCT090 12/ A2979 RMK AO2 KP58 312351Z AUTO 01026G38KT 04/01 A3011 RMK AO1 PK WND 02041/2321 SLP203 60002 T00440011 10050 20039 51031 KLVS 312353Z AUTO 18014KT 10SM CLR 10/M02 A3033 RMK AO2 SLP235 T01001022 10139 20100 56004 KP59 312351Z AUTO 03013G21KT 02/M04 A3047 RMK AO1 SLP328 T00171044 10022 20011 51015 KP60 312356Z AUTO 00000KT 09/M05 A3003 RMK AO1 SLP141 T00941050 10139 20094 56001 KMOB 312356Z 32009KT 10SM FEW200 18/08 A3002 RMK AO2 SLP166 T01780083 10233 20178 53025 KMMT 312358Z 06002KT 10SM BKN070 OVC120 13/10 A2979 RMK AO2A SLP091 60000 T01300096 10209 20129 55000 UWWW 010000Z 19003MPS 2200 -SHRA BR OVC005 SCT020CB 04/02 Q1014 23290050 15//99// TEMPO BKN003 RMK QFE749/0999 KMMU 312345Z 03005KT 10SM BKN050 OVC070 09/05 A2990 EPSC 010000Z 14004KT 2000 BR BKN013 09/09 Q1023 KMMV 312353Z AUTO 00000KT 10SM CLR 13/08 A2984 RMK AO2 SLP104 T01330083 10156 20117 56002 KMOD 312353Z 31007KT 9SM -RA OVC090 16/13 A2977 RMK AO2 SLP082 P0000 60000 T01560133 10217 20156 56010 KLWM 312354Z 06004KT 10SM OVC055 09/02 A3004 RMK AO2 SLP173 T00890017 10111 20083 53007 KMNM 312355Z AUTO 01012G18KT 10SM OVC047 01/M07 A3042 RMK AO1 10030 20000 52020 KMNN 312353Z AUTO 35013KT 6SM -RA BR OVC010 04/03 A2991 RMK AO2 RAE2258B24 CIG 006V013 SLP136 P0001 60009 T00440033 10067 20044 53016 TSNO KNFE 312356Z AUTO 01004KT 10SM OVC045 14/05 A2981 RMK AO2 SLP098 T01390050 10189 20139 52002 KNFG 312354Z AUTO 23005KT 7SM FEW041 OVC055 21/12 A2987 RMK AO2 SLP114 T02060122 10228 20206 58003 $ KNDZ 312356Z 34015G21KT 10SM FEW035 FEW070 20/08 A2996 RMK AO2 SLP134 T02000078 10244 20183 53018 $ LEGA 311800Z 19009KT CAVOK 18/12 Q1023 KP68 312353Z AUTO 17018G28KT 17/M07 A2980 RMK AO1 PK WND 17028/2353 PRESFR SLP030 T01721067 10183 20167 58027 KLWS 312356Z 32013KT 10SM BKN031 OVC110 14/09 A2979 RMK AO2 SLP088 T01440089 10178 20122 53018 KP69 312352Z AUTO 36003KT 13/11 A2973 RMK AO1 SLP066 T01330106 10189 20117 55001 KLWT 312354Z AUTO 24007KT 10SM CLR 17/M01 A2975 RMK AO2 SLP063 T01721011 10222 20161 56005 KLXL 312357Z AUTO 00000KT 10SM CLR M02/M08 A3048 RMK AO2 KNFL 312356Z 18006KT 10SM SCT060 BKN120 BKN220 21/M08 A2961 RMK AO2 SLP013 T02061083 10244 20161 56031 FGSL 010000Z VRB02KT 9999 FEW008 SCT060 23/23 Q1012 NOSIG KLWV 312353Z AUTO 33024G33KT 10SM BKN049 05/M03 A3019 RMK AO2 PK WND 34037/2326 SLP227 60000 T00501033 10067 20033 52015 LEGE 010000Z 00000KT 9000 FEW012 SCT022 14/13 Q1023 KNEW 312353Z AUTO 34025KT 10SM CLR 21/11 A3007 RMK AO2 PK WND 34029/2339 SLP177 T02110106 10239 20211 53022 TSNO KLXN 312355Z AUTO 14008KT 10SM CLR 05/M11 A3035 RMK AO2 T00471106 10073 20032 EPSN 312330Z 16006KT 2000 BR BKN003 OVC010 08/08 Q1023 RMK 081 099 8/5= KMOP 312358Z AUTO 36012G28KT 10SM OVC032 01/M05 A3023 RMK AO2 T00071050 10032 20007 KLYH 312354Z 00000KT 10SM OVC050 08/06 A2984 RMK AO2 SLP104 T00830056 10133 20078 55001 $ KMNZ 312355Z AUTO 02008G15KT 10SM CLR 16/03 A3031 RMK AO2 T01590030 10206 20159 KMOR 312355Z AUTO 33016KT 5SM FEW005 SCT010 BKN018 06/05 A2990 RMK EPRZ 010000Z 00000KT 0100 R27/0175 FG VV000 01/01 Q1027 LDOS 010000Z 28005KT 4000 BR NSC 05/04 Q1028 KLXT 312353Z AUTO 36007KT 10SM CLR 03/M08 A3043 RMK AO2 SLP314 T00331083 10078 20033 58001 KMOT 312354Z AUTO 13015G26KT 10SM CLR 03/M12 A3011 RMK AO2 PK WND 13028/2341 SLP222 T00281117 10050 20022 56029 KMQB 312355Z AUTO 35009KT 10SM CLR 02/M06 A3041 RMK AO2 T00231058 10071 20023 LEHC 010000Z AUTO VRB01KT 6000 // SCT017/// 12/11 Q1024 LDPL 010000Z 30004KT 200V330 CAVOK 07/05 Q1024 KLXV 312353Z AUTO 16003KT 10SM CLR 08/M10 A3028 RMK AO2 SLP175 T00781100 10133 20072 55003 EPTM 312300Z VRB02KT 4000 BR NSC 00/00 Q1026 RMK 004 099 3/3= KMQE 312354Z AUTO 07011G19KT 08/03 A2998 RMK AO1 SLP165 T00830028 10100 20083 50006 KNFW 312352Z 36010KT 10SM CLR 18/02 A3036 RMK AO2 SLP262 T01780022 53009 CHINO N VISNO N $ KMOX 312344Z AUTO 18004KT 10SM CLR M01/M05 A3045 RMK AO2 KMPO 312353Z AUTO 10006KT 10SM OVC050 06/00 A2989 RMK AO2 SLP136 T00610000 10094 20061 50009 KNGP 312356Z 03013KT 10SM FEW140 FEW250 24/08 A3016 RMK AO2 SLP213 T02390083 10267 20233 53007 KLXY 312355Z AUTO 36006KT 10SM CLR 16/05 A3027 RMK AO2 T01560046 10200 20156 LEGR 010000Z AUTO VRB02KT CAVOK 10/09 Q1024 KMQI 312355Z AUTO 01013G19KT 10SM OVC025 14/10 A2977 RMK AO2 T01420095 10157 20142 KMQJ 312354Z AUTO 35020G25KT 10SM BKN010 OVC014 02/02 A3007 RMK AO1 LEGT 312000Z 05002KT CAVOK 16/07 Q1023 LEIB 312330Z 00000KT CAVOK 15/14 Q1023 NOSIG KNHK 312352Z 35007KT 10SM FEW030 SCT060 10/03 A2984 RMK AO2 SLP104 T01000028 10144 20100 58008 $ KMRB 312353Z 04003KT 10SM OVC060 10/02 A2987 RMK AO2 SLP115 T01000022 10122 20100 53000 KMRC 312355Z AUTO 34008KT 10SM FEW055 05/M04 A3015 RMK KNGU 312359Z 35012KT 10SM BKN047 BKN200 13/04 A2983 RMK AO2 SLP100 T01330044 10167 20133 58002 $ KP92 312353Z AUTO 35006KT 19/09 A3010 RMK AO1 SLP192 T01940089 10250 20194 53023 KMPV 312351Z AUTO 36003KT 10SM OVC050 06/M01 A3005 RMK AO2 SLP187 T00561006 10094 20056 51010 KLYV 312354Z AUTO 00000KT 10SM CLR 01/M07 A3046 RMK AO2 KNID 312356Z 17018G27KT 10SM BKN230 22/06 A2976 RMK AO2 PK WND 17027/2350 SLP068 T02170061 10250 20206 56015 $ KMRF 312355Z AUTO 08011KT 10SM CLR 17/04 A3033 RMK AO1 10210 20170 402100120 57003 KMPZ 312355Z AUTO 34009KT 10SM CLR 02/M06 A3042 RMK AO2 T00151065 10059 20015 KMRH 312358Z AUTO 35008KT 10SM OVC060 14/07 A2978 RMK AO2 SLP086 T01440072 10189 20144 53008 TSNO LDRI 311500Z VRB05KT CAVOK 14/01 Q1025 KMQS 312355Z AUTO 03003KT 10SM FEW030 SCT048 BKN050 08/03 A2988 RMK AO2 KMRJ 312355Z AUTO 35007KT 10SM CLR 01/M08 A3040 RMK AO2 EPWA 010000Z 14002KT 4000 BR FEW020 01/00 Q1026 NOSIG KLZU 312345Z 28005KT 10SM CLR 12/03 A2988 RMK ATIS Z RWY 25 JW KMRN 312355Z AUTO 00000KT 10SM DZ OVC050 09/08 A2986 RMK AO2 T00920083 10145 20092 KNIP 312353Z 29005KT 10SM CLR 21/08 A2985 RMK AO2 SLP104 T02110078 10250 20211 53015 KMQY 312356Z 35020G26KT 10SM SCT043 BKN060 06/M02 A3015 RMK AO2 51026 60000 T00551022 10105 20055 PK WND 34027/2259 SLP220 KLZZ 312355Z AUTO 36004KT 10SM CLR 16/05 A3027 RMK AO2 T01630051 10215 20163 KOAJ 312355Z AUTO 33004KT 10SM CLR 11/06 A2981 RMK AO1 10190 20110 401900090 52007 LFBA 010000Z AUTO 09006KT 9000 NSC 12/11 Q1021 KOAK 312353Z 27003KT 10SM FEW017 SCT024 BKN090 OVC160 15/12 A2979 RMK AO2 SLP087 60014 T01500117 10167 20144 58010 KMRT 312354Z AUTO 36011G15KT 5SM OVC012 04/03 A2992 RMK AO2 T00380025 10060 20036 KNJK 312356Z 26015KT 10SM CLR 30/09 A2972 RMK AO2 SLP078 T03000089 10311 20278 56010 $ KMSL 312353Z AUTO 34015G25KT 10SM CLR 08/M04 A3016 RMK AO2 PK WND 33028/2323 SLP212 6//// T00831039 10161 20083 53035 $ KMTC 312356Z AUTO 35022G28KT 10SM -RA OVC012 02/02 A2999 RMK AO2 LFBC 010000Z AUTO 12006KT 9999 NSC 14/11 Q1019 KNJM 312357Z AUTO 35003KT 10SM CLR 12/08 A2979 RMK AO2 SLP092 T01220078 10194 20122 53007 TSNO $ LFBD 010000Z AUTO 13010KT 9999 NSC 16/12 Q1019 KMSN 312353Z 34006KT 10SM FEW050 01/M08 A3041 RMK AO2 SLP307 T00061083 10044 20006 51015 KOBE 312355Z AUTO CLR 18/12 A2986 RMK AO2 PWINO LFBE 010000Z AUTO 06003KT 9999 NSC 11/10 Q1021 KMSO 312353Z AUTO 17004KT 10SM CLR 13/06 A2976 RMK AO2 SLP084 T01330056 10150 20061 56002 TSNO VOTR 312110Z 02006KT 4000 HZ FEW018 SCT100 25/22 Q1008 NOSIG KMSP 312353Z 02005KT 10SM CLR 01/M09 A3050 RMK AO2 SLP339 T00111094 10044 20011 55002 KMRY 010003Z 23008KT 2SM -RA BR SCT005 BKN013 14/13 A2982 RMK AO2 RAB00 PRESRR P0001 LDSP 010000Z 34004KT CAVOK 12/01 Q1023 LFBG 010000Z AUTO 11005KT 9999 NSC 14/10 Q1019 KMTH 312353Z AUTO 32009G18KT 10SM SCT026 25/21 A2987 RMK AO2 SLP114 T02500206 10289 20244 53018 LFBH 010000Z AUTO 15007KT 9999 NSC 17/11 Q1019 LFAQ 010000Z AUTO 14008KT 9999 NSC 12/11 Q1019 LEJR 312200Z 00000KT CAVOK 17/11 Q1021 LFBI 010000Z AUTO 20005KT 9999 NSC 12/09 Q1020 KMTJ 312353Z AUTO 32003KT 10SM CLR 18/M01 A3011 RMK AO2 SLP156 T01781011 10206 20133 58008 KMSS 312353Z AUTO 05008KT 10SM BKN070 OVC080 05/M03 A3008 RMK AO2 SLP191 T00501033 10083 20044 53012 EPWR 010000Z 11003KT 1800 BR BKN023 06/04 Q1025 VOTV 312340Z 00000KT 3000 HZ SCT015 FEW025CB BKN090 25/23 Q1009 NOSIG LFAT 010000Z AUTO 10006KT 9999 NSC 13/10 Q1018 LELC 312100Z 32002KT 9999 FEW015 17/15 Q1023 NOSIG KNLC 312356Z 24012KT 10SM SCT060 SCT170 22/09 A2974 RMK AO2 SLP071 RH/43 T02220094 10250 20211 56015 $ LFBL 010000Z AUTO 13005KT 9999 NSC 14/09 Q1022 KMSV 312355Z AUTO 08003KT 10SM OVC055 06/01 A2993 RMK AO1 10090 20050 400901030 52010 LFBM 010000Z AUTO 10006KT 9999 NSC 12/11 Q1020 KMTN 312345Z 00000KT 10SM SCT060 11/05 A2989 KMTO 312353Z AUTO 34018G26KT 10SM BKN048 03/M05 A3026 RMK AO2 PK WND 33029/2314 SLP250 60000 T00281050 10056 20028 53025 KOCF 312355Z AUTO 29005KT 10SM CLR 17/07 A2988 RMK AO1 10240 20170 402400130 52017 LFBO 010000Z AUTO 13010KT 9999 NSC 15/12 Q1022 KMTP 312354Z AUTO 05011G24KT 11/09 A2992 RMK AO1 SLP131 P0001 60002 T01110094 10144 20111 50001 KMSY 312353Z 35015G23KT 10SM FEW040 FEW250 21/08 A3008 RMK AO2 SLP187 T02060078 10244 20206 53023 LFBP 010000Z AUTO 14006KT 9999 NSC 14/09 Q1020 KOCH 312355Z AUTO 34003KT 10SM CLR 14/07 A3024 RMK AO1 10220 20140 52014 KMUI 312358Z AUTO 04003KT 10SM FEW055 07/01 A2990 RMK AO2 SLP131 T00660013 10117 20064 52007 $ KNKT 312354Z 36008KT 10SM FEW055 14/07 A2980 RMK AO2 SLP088 T01440067 10200 20144 53007 $ LFBT 010000Z AUTO 16007KT 9999 NSC 17/08 Q1021 LFCK 010000Z AUTO 12018KT 9999 NSC 15/11 Q1023 LELL 311630Z 12004KT 080V160 9000 FEW020 19/15 Q1023 LFBU 311800Z AUTO 12006KT 9999 NSC 19/11 Q1020 LEMD 010000Z 33006KT CAVOK 11/06 Q1024 NOSIG KMTV 312355Z AUTO 34006KT 10SM BKN035 OVC048 10/07 A2985 RMK AO2 T00990065 10140 20094 LELN 312000Z 31002KT CAVOK 11/07 Q1022 KMVE 312353Z AUTO 00000KT 10SM CLR 00/M07 A3049 RMK AO2 KMTW 312356Z AUTO 01017G22KT 10SM OVC049 02/M06 A3039 RMK AO2 SLP316 60000 T00221061 10028 20017 51020 FZRANO LELO 010000Z 00000KT 2400 BR BKN015 10/10 Q1024 KMUO 312358Z AUTO 21004KT 10SM OVC130 18/01 A2973 RMK AO2 SLP054 T01790014 10204 20151 57015 KNKX 312355Z COR 28005KT 10SM OVC055 21/13 A2989 RMK AO2 SLP116 60000 T02060128 10217 20200 56002 $ LEMG 010000Z 28006KT 9999 FEW020 15/14 Q1023 NOSIG LFBY 010000Z AUTO 10001KT 9999 // ////// 12/11 Q1019 EPZG 312100Z 12002KT 3400 BR NSC 09/08 Q1024 LEMH 312100Z 07003KT 9999 FEW020 16/13 Q1024 KMVH 312355Z AUTO VRB04G10KT 10SM CLR 14/M01 A2980 RMK A01 KOCQ 312355Z AUTO 36008KT 10SM SCT039 BKN045 BKN050 00/M06 A3043 RMK AO1 T00001061 10034 20000 LFBZ 010000Z AUTO 16006KT 130V220 9999 NSC 20/11 Q1019 LFCR 010000Z AUTO 11006KT 8000 NSC 11/09 Q1023 KMWA 312355Z AUTO 33006KT 10SM SCT060 06/M05 A3028 RMK AO2 KOEB 312354Z AUTO 36017G28KT 10SM BKN029 OVC035 02/M02 A3012 RMK AO2 T00201017 10071 20018 KMUT 312355Z AUTO 36009KT 10SM CLR 03/M07 A3043 RMK AO2 KMVL 312354Z AUTO 35004KT 10SM OVC055 06/M02 A3005 RMK AO2 SLP185 T00561017 10106 20056 51014 KMWC 312345Z AUTO 36017G25KT 10SM BKN050 02/M09 A3037 KNMM 312356Z AUTO 34016G23KT 10SM BKN060 14/06 A3011 RMK AO2 PK WND 33028/2301 SLP206 T01390056 10217 20139 53037 $ KMVN 312355Z AUTO 35009G18KT 310V010 10SM BKN060 06/M07 A3028 RMK AO1 10070 20060 52020 KOCW 312355Z AUTO 00000KT 10SM SCT050 10/06 A2981 RMK AO2 T01020060 10177 20100 KODO 312353Z AUTO 09008KT 10SM CLR 18/M02 A3032 RMK AO2 SLP243 T01781017 10211 20178 56002 LEMO 312300Z 00000KT CAVOK 15/09 Q1021 NOSIG KMWH 312352Z 19007KT 5SM BR FEW007 SCT013 12/11 A2977 RMK AO2 SLP082 60009 T01220111 10128 20106 50007 KMWK 312355Z AUTO 34003KT 10SM -RA OVC036 09/07 A2985 RMK AO2 P0005 60008 T00860068 10136 20086 KMWL 312353Z AUTO 02006KT 10SM CLR 15/03 A3031 RMK AO2 SLP261 T01500028 10194 20150 53008 KMWM 312353Z AUTO 00000KT 10SM CLR M01/M09 A3047 RMK AO2 KMWN 312347Z 31013KT 1/16SM FZFG VV001 M07/M07 RMK 11039 21071 KODX 312353Z AUTO 15006KT 10SM CLR 03/M10 A3038 RMK AO2 SLP310 T00281100 10061 20022 56015 KMWO 312355Z AUTO 31007KT 10SM SCT034 BKN045 OVC065 05/02 A2998 RMK AO2 T00480020 10061 20048 KOEO 312355Z AUTO 00000KT 10SM CLR 01/M08 A3053 RMK AO2 T00081083 10038 20008 KOFF 312358Z AUTO 05003KT 10SM CLR 03/M08 A3046 RMK AO2 SLP330 T00301077 10068 20030 57007 KMXF 312358Z AUTO 30013G19KT 9SM -RA OVC055 16/10 A2999 RMK AO2 RAB2352 SLP159 P0000 60000 T01590102 52027 KMVY 312353Z 05016G24KT 10SM -RA SCT022 OVC049 11/07 A2995 RMK AO2 RAB45 SLP143 P0000 60000 T01060067 10117 20106 53003 KNOG 312356Z AUTO 10SM CLR 22/09 A3020 RMK AO2 SLP206 T02170094 10283 20217 53009 $ KMWS 312345Z 22504G07KT 07/08 RMK SNOW DEPTH 1.00 LEPA 010000Z VRB01KT 9999 FEW035 15/14 Q1023 NOSIG KNPA 312356Z 31004KT 10SM SCT065 18/08 A2996 RMK AO2 SLP148 T01830078 10244 20183 53018 $ KOGA 312355Z AUTO 15009G14KT 10SM CLR 06/M06 A3025 RMK AO2 T00641061 10100 20053 PTKK 312350Z VRB06KT 15SM FEW014 SCT120 BKN280 31/28 A2984 RMK SLP106 8/171 T03060278 10306 20256 50007 LFGA 010000Z AUTO 19003KT 9999 NSC 08/07 Q1024 KMWT 312353Z AUTO VRB04KT 10SM CLR 11/01 A3027 RMK AO2 SLP254 T01060006 10172 20106 53019 KOGB 312353Z AUTO 07005KT 10SM FEW060 BKN070 OVC110 14/11 A2980 RMK AO2 LTG DSNT W RAB10E41 SLP091 P0008 60008 T01390106 10211 20133 53006 KOFK 312356Z AUTO 13004KT 10SM CLR 01/M08 A3042 RMK AO2 SLP321 T00111078 10061 20011 57012 KOGD 312353Z AUTO 36003KT 10SM CLR 19/M01 A2984 RMK AO2 SLP067 T01891011 10239 20189 58011 TSNO KMYF 312353Z 23005KT 10SM SCT025 OVC055 21/14 A2989 RMK AO2 SLP118 T02060139 10217 20200 56002 KMXO 312355Z AUTO 33006KT 10SM CLR M00/M06 A3043 RMK AO2 KOFP 312354Z AUTO 00000KT 10SM CLR 08/04 A2986 RMK AO2 SLP110 T00830044 10156 20083 55002 PTKR 312354Z 17008KT 15SM SCT017TCU BKN120 OVC300 29/25 A2976 RMK TCU ALQDS SLP079 60012 8/278 T02940249 10294 20250 52022 KNQA 312350Z 36011KT 10SM SKC 08/M04 A3027 LDZA 010000Z 24003KT 5000 BR OVC032 09/07 Q1027 NOSIG LFGJ 010000Z AUTO 10002KT 0200 R05/0700D FG VV/// 07/06 Q1024 KMYL 312351Z AUTO 20004KT 10SM -RA CLR 13/01 A2979 RMK AO2 SLP078 P0000 60000 T01330011 10150 20100 56013 LDZD 010000Z VRB02KT CAVOK 04/01 Q1023 NOSIG LEPP 312300Z 00000KT 2000 BR FEW017 10/10 Q1024 ESCF 312350Z AUTO 12003KT 090V150 9999NDV -SHRA OVC026/// 05/05 Q1023 KMYP 312355Z AUTO 21016G22KT 10SM CLR 03/M08 A3052 RMK AO2 KMZG 312355Z AUTO 01017KT 10SM CLR 24/08 A3015 RMK A01 KMZH 312352Z AUTO 00000KT 10SM CLR M01/M10 A3047 RMK AO2 KMYR 312345Z 35005KT 10SM CLR 13/08 A2980 KNQI 312356Z AUTO 35006KT 10SM CLR 21/13 A3018 RMK AO2 SLP215 6//// T02110133 10272 20211 53007 GABS 312330Z VRB04KT CAVOK 22/15 Q1014 NOSIG KNRB 312352Z AUTO VRB04KT 10SM CLR 19/11 A2984 RMK AO2 SLP103 T01940111 10244 20194 53014 TSNO $ KMYV 312353Z AUTO 00000KT 6SM -RA BR BKN043 BKN065 OVC080 14/13 A2977 RMK AO2 SLP082 P0005 60031 T01390133 10167 20139 58005 ESDF 312350Z AUTO 13005KT 9999NDV OVC008/// 10/09 Q1023 FJDG 312055Z 00000KT 9999 FEW020 27/24 A2984 RMK SLP102 8/100 T02670240 57017 KMYZ 312355Z AUTO 06004KT 10SM CLR 02/M08 A3044 RMK AO2 WIBB 311500Z 00000KT 8000 FEW018 25/24 Q1009 LERI 311800Z 00000KT CAVOK 20/14 Q1023 NOSIG LESA 010000Z VRB01KT CAVOK 09/07 Q1023 KOJA 312355Z AUTO 05005KT 7SM CLR 07/M03 A3039 RMK AO2 KOJC 312353Z 01004KT 10SM CLR 04/M08 A3042 RMK AO2 SLP308 T00441083 10078 20044 58003 LGAD 312350Z 00000KT 9999 FEW020 SCT090 09/08 Q1018 KPAE 312353Z 22005KT 10SM BKN009 OVC014 11/09 A2984 RMK AO2 SLP106 60003 T01060089 10111 20100 53006 KNSE 312356Z 33008G17KT 10SM SCT070 19/07 A2997 RMK AO2 SLP135 T01890072 10239 20183 53018 $ KNQX 312353Z 32011KT 10SM SCT030 26/18 A2988 RMK AO2 SLP118 60000 T02560183 10294 20256 53018 $ KPAH 312353Z 33009G22KT 10SM FEW065 06/M06 A3025 RMK AO2 PK WND 32026/2337 SLP244 T00611056 10100 20061 51021 FIMP 010000Z 11005KT 9999 SCT017 21/16 Q1019 KMZZ 312355Z AUTO 36013G26KT 5SM -SN OVC008 01/00 A3009 RMK AO2 60008 T00111001 10048 20011 KNSI 312357Z 19006KT 10SM BKN037 A2987 RMK AO2 SLPNO 55004 $ FIMR 311800Z 13016KT 9999 SCT018 SCT050 23/17 Q1019 LERS 010000Z AUTO VRB01KT 3700 // FEW023/// FEW028/// BKN033/// 16/15 Q1024 KNRS 312356Z 23005KT 10SM SCT015 OVC055 21/15 A2989 RMK AO2 SLP122 T02110150 10222 20206 55002 $ LERT 010000Z 12011KT 090V150 CAVOK 20/14 Q1020 NOSIG KOKB 312352Z AUTO 26003KT 10SM SCT045 OVC060 21/14 A2987 RMK AO2 SLP113 T02060144 10233 20206 58004 LFKB 010000Z AUTO 21005KT 180V240 9999 NSC 10/05 Q1024 LFKC 311630Z 22003KT 170V240 9999 FEW066 16/09 Q1023 NOSIG LGAL 312050Z /////KT 9999 FEW020 09/03 Q1022 KOKC 312352Z 03008KT 10SM FEW250 11/M04 A3038 RMK AO2 SLP287 T01111044 10156 20111 53002 LFJL 010000Z AUTO 11006KT 2800 BR NSC 09/09 Q1023 KNTD 312356Z 17009KT 10SM FEW020 BKN060 22/13 A2986 RMK AO2 SLP113 T02170128 10228 20200 56009 $ KPAM 312358Z AUTO 30009KT 10SM CLR 20/11 A2992 RMK AO2 SLP135 T01990106 10230 20196 402300106 52010 $ KPAN 312355Z AUTO 19007KT 150V210 9SM CLR 22/06 A3007 RMK AO2 KPAO 312347Z VRB04KT 10SM FEW008 BKN020 OVC100 15/14 A2979 LESO 312030Z VRB01KT CAVOK 16/12 Q1019 KPBF 312353Z AUTO 36011G18KT 10SM CLR 13/00 A3026 RMK AO2 SLP246 T01280000 10178 20128 53025 LFKF 010000Z AUTO 00000KT 9999 NCD 03/02 Q1024 KPBG 312353Z AUTO 01010KT 10SM BKN110 06/M03 A3007 RMK AO2 SLP184 T00561028 10083 20056 53013 KPBH 312355Z AUTO 36003KT 10SM BKN030 M02/M07 A3046 RMK AO2 T10221073 10009 21023 KPBI 312353Z 29007KT 10SM FEW040 SCT120 22/18 A2981 RMK AO2 SLP093 CB DSNT E 60026 T02220178 10278 20217 53017 LFJR 010000Z AUTO 15004KT 9999 NSC 13/10 Q1019 LFKJ 010000Z AUTO 05005KT 9999 NSC 12/09 Q1023 WIDD 312330Z 27003KT 6000 FEW015 25/24 Q1009 NOSIG LEST 010000Z 32003KT 290V350 9999 SCT005 BKN020 14/13 Q1022 TEMPO 3000 RA KOKK 312355Z AUTO 01020G27KT 10SM BKN015 OVC021 02/M02 A3012 RMK AO1 60003 10040 20020 400900020 52044 LFLB 010000Z AUTO 20002KT 3800 BR NSC 06/06 Q1025 KNUC 312256Z VRB05KT 10SM FEW024 SCT034 BKN046 BKN200 20/12 A2989 RMK SLP122 LAST T02000122 LETL 010000Z AUTO 13005KT 4800 HZ VV/// 08/07 Q1026 LGBL 312350Z 27006KT 9999 FEW010 SCT030 BKN080 11/07 Q1022 LFLC 010000Z VRB02KT CAVOK 12/07 Q1022 NOSIG PTPN 312350Z 32003KT 15SM SCT017TCU BKN130 OVC300 30/25 A2980 RMK TCU NE-SE LGAV 312350Z 01012KT 9999 SCT025 13/06 Q1020 NOSIG KOKM 312355Z AUTO 01006KT 10SM CLR 07/M03 A3039 RMK AO2 T00651031 10124 20065 KOLE 312355Z AUTO 00000KT 7SM RA BKN008 OVC014 02/02 A2991 RMK AO2 LETO 010000Z 03005KT CAVOK 11/06 Q1024 NOSIG KOLF 312353Z AUTO 12007KT 10SM CLR 09/01 A2987 RMK AO2 SLP127 T00940006 10117 20094 56015 KOLG 312355Z AUTO 00000KT 10SM CLR M03/M08 A3048 RMK AO1 ESGG 312350Z 14009KT 4700 BR BKN002 OVC004 07/07 Q1020 KNUI 312353Z AUTO 00000KT 10SM CLR 10/03 A2983 RMK AO2 SLP101 T01000028 10150 20100 58008 $ KOMA 312352Z 06005KT 10SM SCT250 04/M07 A3048 RMK AO2 SLP329 T00441072 10072 20039 56006 LFKS 010000Z AUTO 27007KT 9999 NSC 13/04 Q1023 ESGJ 312350Z 14008KT 5000 BR BKN002 07/06 Q1021 REDZ LEVC 010000Z 00000KT 9999 BKN030 19/17 Q1024 NOSIG KNTU 312356Z 01009KT 10SM BKN043 13/04 A2981 RMK AO2 SLP095 T01330039 10167 20133 55000 KPDC 312355Z AUTO 00000KT 10SM CLR 03/M09 A3044 RMK AO2 T00281090 10052 20027 LFMC 010000Z AUTO 00000KT 6000 ////// 08/07 Q1025 LFLL 010000Z 00000KT CAVOK 09/07 Q1024 NOSIG LEVD 312030Z 20002KT CAVOK 14/06 Q1023 KOLM 312354Z 15006KT 10SM SCT038 BKN060 13/09 A2984 RMK AO2 SLP105 T01280089 10133 20100 53003 KPCM 312355Z AUTO 30004KT 10SM CLR 18/10 A2991 RMK AO2 KOKV 312355Z AUTO 10005KT 10SM OVC048 10/00 A2985 RMK AO2 LFMD 010000Z AUTO 36005KT 320V020 9999 NSC 11/09 Q1024 LFLN 010000Z AUTO 00000KT 0250 R33/1200U FG NSC 08/08 Q1023 KPBX 312355Z AUTO 30016G22KT 7SM -RA OVC005 04/04 A2988 RMK AO2 T00430036 10062 20043 LFLP 010000Z AUTO 06003KT 030V100 9999 NSC 08/06 Q1025 ESGP 312350Z 14007KT 5000 BR OVC005 09/08 Q1019 KOKZ 312355Z AUTO 30003KT 10SM BKN100 15/07 A2988 RMK AO2 T01500072 10213 20150 KNUQ 312356Z AUTO 12003KT 10SM BKN085 14/13 A2980 RMK AO2 SLP093 60012 T01440133 10183 20139 58011 TSNO KOMH 312355Z AUTO 02003KT 10SM OVC060 10/04 A2986 RMK AO2 LFMH 010000Z AUTO 16003KT 9999 NSC 09/07 Q1023 PTSA 312350Z 04010KT 10SM SCT022 SCT300 32/25 A2980 LFMI 010000Z AUTO 07004KT 2800 BR NSC 10/10 Q1024 ESGR 312350Z AUTO 12007KT 3400 BR OVC005/// 06/06 Q1021 KOLS 312354Z AUTO 17007KT 10SM CLR 26/09 A2999 RMK AO2 SLP099 T02610089 10289 20261 55003 KONA 312353Z AUTO 01003KT 10SM CLR 02/M07 A3048 RMK AO2 KPEA 312355Z AUTO 35006KT 10SM CLR 02/M07 A3046 RMK AO2 T00191071 10066 20018 LFLS 010000Z AUTO 09007KT 9999 NSC 07/06 Q1024 KOMK 312353Z AUTO 19005KT 10SM BKN028 OVC035 11/09 A2974 RMK AO2 SLP074 60004 T01110094 10117 20100 53008 KPDK 312353Z AUTO 28010G18KT 8SM -RA FEW031 BKN047 OVC075 11/07 A2990 RMK AO2 RAB37 SLP131 P0000 60000 T01060067 10167 20106 51009 KNY0 312355Z AUTO 05005KT 10SM OVC044 06/00 A2997 RMK AO2 T00571001 10091 20056 LFMK 010000Z AUTO 10007KT 080V140 2200 BR BKN004 14/13 Q1023 LFLU 311800Z AUTO 18003KT 9999 NSC 13/10 Q1024 ESGT 311850Z 11008KT 9999 BKN026 08/06 Q1022 ESIB 312350Z AUTO 12009KT 9999NDV -SHRA BKN007/// OVC014/// 07/07 Q1020 LFML 010000Z AUTO 00000KT 4900 BR NSC 11/09 Q1024 KOLV 312250Z 01014G28KT 10SM SKC 08/M05 A3021 KOMN 312250Z 30007KT 10SM SKC 22/11 A2982 RMK LAST LFLW 010000Z AUTO 10004KT 9999 NSC 07/06 Q1023 PTRO 312350Z 21013G23KT 13SM -SHRA BKN015CB BKN110 OVC300 29/26 A2976 RMK CB VC ALQDS KPCW 312343Z AUTO 02021G29KT 6SM RA BR OVC016 04/03 A2992 RMK AO2 PK WND KNUW 312356Z 14009KT 10SM FEW012 SCT055 BKN120 BKN250 12/09 A2984 RMK AO2 SLP109 60007 T01220089 10133 20117 52007 $ LFMN 010000Z 33011KT CAVOK 14/09 Q1024 NOSIG LFMO 010000Z AUTO 00000KT 4400 R14/1300U BR NSC 08/07 Q1025 LFLX 010000Z AUTO 08003KT 020V090 9999 NSC 10/09 Q1021 KOLY 312355Z AUTO 32022G31KT 10SM BKN050 03/M04 A3025 RMK AO2 LFMP 010000Z AUTO VRB02KT 9999 OVC031 17/15 Q1023 LFLY 010000Z AUTO 00000KT 2900 BR NSC 08/07 Q1024 KPCZ 312355Z AUTO 36004KT 10SM SCT050 01/M08 A3043 RMK AO2 T00131082 10050 20013 KOLZ 312355Z AUTO 35008KT 10SM CLR 00/M07 A3045 RMK AO2 LEVS 311900Z 29001KT CAVOK 14/09 Q1023 KOOA 312355Z AUTO 35007KT 10SM CLR 01/M07 A3044 RMK AO2 T00111073 10060 20011 LFOA 010000Z AUTO 11006KT 9999 NSC 13/11 Q1021 LEVT 010000Z 22006KT 6000 FEW010 12/11 Q1023 KPDT 312353Z 31011KT 10SM SCT060 BKN070 11/08 A2981 RMK AO2 SLP091 60001 T01060078 10133 20106 55001 $ LFMT 010000Z AUTO VRB02KT 2800 BR NSC 11/10 Q1024 LFOB 010000Z AUTO 11005KT 9999 NSC 11/10 Q1019 LGEL 312350Z 02005KT 9999 FEW030 SCT070 13/05 Q1020 KONL 312355Z AUTO 14006KT 10SM CLR 02/M10 A3037 RMK AO2 T00211100 10066 20021 LFOC 010000Z AUTO VRB01KT 9999 NSC 09/08 Q1020 LFMU 010000Z AUTO 36007KT 6000 SCT030 12/12 Q1024 KONM 312355Z AUTO 14008KT 020V170 10SM CLR 19/02 A3020 RMK AO2 T01880023 10219 20185 LFMV 010000Z AUTO 00000KT 0200 R17/0900U FG SCT008 07/07 Q1025 ETAD 312358Z AUTO 00000KT 0400 R23/0200 FG VV001 07/ A3023 RMK AO2 SLP230 60001 10118 20075 57007 $ LFOE 010000Z AUTO 17004KT 9999 NSC 13/10 Q1019 LEVX 010000Z 00000KT 9999 SCT004 BKN012 16/16 Q1022 TEMPO 3000 RA BR BKN005 KPEO 312353Z AUTO 00000KT 10SM SCT039 BKN060 OVC070 07/03 A2995 RMK AO2 RAE04 SLP146 P0000 60000 T00720033 10106 20072 52014 KONO 312353Z AUTO 00000KT 10SM CLR 18/03 A2973 RMK AO2 SLP067 T01780033 10194 20089 58017 KPDX 312353Z 31012G18KT 10SM FEW020 SCT075 BKN230 13/09 A2984 RMK AO2 SLP106 60000 T01280089 10150 20117 55001 KNXF 312356Z AUTO 24004KT 9SM OVC055 A2987 RMK AO2 SLPNO 58003 $ RCKH 010000Z 03004KT 300V100 3500 HZ FEW016 26/22 Q1013 NOSIG RMK A2993 KONP 312355Z AUTO 21005KT 7SM CLR 13/10 A2986 RMK AO2 LFMY 010000Z AUTO 02002KT 3100 BR NSC 09/08 Q1025 KPEQ 312355Z AUTO 09009KT 10SM CLR 20/00 A3026 RMK AO2 T02000000 10232 20200 LFOH 010000Z AUTO 16008KT 9999 NSC 16/11 Q1017 LEXJ 312200Z 27011KT 240V300 CAVOK 22/09 Q1018 KPGA 312353Z AUTO 00000KT 10SM CLR 21/M03 A2994 RMK AO2 SLP097 T02061033 10217 20150 56022 LFOJ 010000Z AUTO 15006KT 9999 NSC 13/10 Q1020 KONT 312353Z 25010KT 10SM FEW047 OVC060 19/12 A2987 RMK AO2 SLP107 T01940117 10228 20183 56005 LFOK 010000Z AUTO 15007KT 9999 NSC 12/09 Q1021 LFPB 010000Z AUTO 13004KT 9999 NSC 13/11 Q1020 KNYC 312351Z AUTO 07008KT 030V110 10SM BKN070 OVC080 12/04 A2991 RMK AO2 SLP121 T01220039 10128 20117 58003 $ LFPC 010000Z AUTO 16006KT 9999 NSC 14/12 Q1020 KPGD 312353Z 31009KT 10SM CLR 20/12 A2991 RMK AO2 SLP127 T02000117 10278 20200 53023 WIHH 310700Z 36010KT 6000 FEW017 35/22 Q1007 NOSIG PTTP 312350Z 02008KT 15SM SCT018 BKN130 OVC300 32/26 A2985 RMK SLP108 8/171 T03170256 10328 20231 57003 KOPF 312353Z 30012KT 10SM FEW045 25/18 A2983 RMK AO2 SLP102 60002 T02500183 10311 20250 53019 $ KPEX 312354Z AUTO 08003KT 10SM CLR M01/M10 A3048 RMK AO2 T10081096 10021 21011 KONX 312335Z AUTO 36007KT 4SM HZ OVC036 13/04 A2981 RMK AO2 T01260043 KNXP 312356Z 19014KT 10SM BKN180 26/03 A2984 RMK AO2 SLP073 T02560033 10289 20228 56010 $ KNYG 312356Z AUTO 36005KT 10SM OVC060 11/03 A2986 RMK AO2 SLP114 T01060028 10139 20106 58002 $ VQPR 310850Z 11012KT 9999 SCT030 20/02 Q1018 NOSIG LFPG 010000Z 16007KT CAVOK 14/11 Q1020 NOSIG LFOP 010000Z AUTO 16010KT 9999 NSC 15/11 Q1019 KONZ 312354Z AUTO 34016G22KT 10SM -RA BKN018 OVC024 03/01 A3000 RMK AO2 P0001 KPEZ 312355Z AUTO 02003KT 10SM CLR 22/05 A3022 RMK AO2 T02170054 10261 20217 ETAR 010005Z AUTO 08002KT 0400 R26/0200 FG VV001 09/09 A3024 RMK AO2 LFQA 010000Z AUTO 09011KT 9999 NSC 10/09 Q1021 LFQB 010000Z AUTO VRB03KT 7000 NSC 09/08 Q1021 LFOT 010000Z 12005KT CAVOK 13/11 Q1020 NOSIG KOPL 312355Z AUTO 35005KT 10SM CLR 16/09 A3015 RMK AO2 T01640088 10229 20164 KNYL 312357Z 19015KT 10SM FEW300 31/12 A2974 RMK AO2 SLP067 T03060117 10328 20278 56008 KPHD 312353Z AUTO 00000KT 6SM -RA BR SCT022 BKN029 OVC038 07/05 A2989 RMK AO2 SLP127 P0005 60012 T00670050 10089 20067 53011 KOPM 311555Z AUTO 03013G20KT 10SM SCT055 SCT065 BKN090 25/18 A3014 RMK A01 LFPM 010000Z AUTO 12002KT 9999 NSC 11/10 Q1020 LFOV 010000Z AUTO 16004KT 9999 NSC 13/11 Q1019 KOPN 312355Z AUTO 31008KT 10SM SCT075 BKN090 14/07 A2992 RMK AO2 LFPN 010000Z AUTO 18003KT 9999 NSC 12/11 Q1020 ESKN 312350Z 05002KT 9999 FEW035 03/02 Q1024 KPHF 312354Z AUTO 35003KT 10SM FEW050 09/06 A2984 RMK AO2 SLP102 T00890056 10167 20083 53003 TSNO LFPO 010000Z VRB01KT CAVOK 12/10 Q1020 NOSIG LFQG 311800Z AUTO 00000KT 9999 NSC 12/10 Q1022 WIII 010000Z VRB03KT 7000 FEW022 28/22 Q1010 NOSIG LEZG 010000Z 15002KT 8000 SCT011 13/11 Q1024 LGHI 311950Z 04017KT 9999 FEW020 SCT035 14/10 Q1017 KPIA 312354Z 01007KT 10SM BKN050 04/M07 A3037 RMK AO2 SLP289 T00441072 10078 20039 51025 KORB 312353Z AUTO 00000KT 10SM CLR M03/M09 A3044 RMK AO2 KPIB 312355Z AUTO 32010G18KT 10SM CLR 16/06 A3011 RMK AO1 10220 20160 402200060 52030 LFRB 010000Z 23010KT 200V270 9999 -RA BKN008 OVC013 16/14 Q1016 NOSIG LFPT 010000Z AUTO 12002KT 9999 NSC 11/10 Q1019 GAMB 312100Z 36004KT CAVOK 29/14 Q1012 LEZL 010000Z 05003KT 020V090 CAVOK 15/12 Q1021 NOSIG KPHL 312354Z 03011KT 10SM FEW050 SCT060 OVC075 11/02 A2988 RMK AO2 SLP117 T01060017 10122 20106 58006 $ KORC 312355Z AUTO 00000KT 10SM CLR 03/M10 A3046 RMK AO2 LFRC 010000Z AUTO 19012KT 9999 NSC 15/13 Q1016 KORD 312351Z 35022G30KT 10SM BKN043 OVC050 03/M07 A3030 RMK AO2 PK WND 34038/2302 SLP267 T00281072 10050 20028 51028 KPGV 312350Z AUTO 00000KT 10SM CLR 10/06 A2985 RMK AO2 LFPV 010000Z AUTO 17004KT 9999 NSC 14/11 Q1020 LFRD 010000Z AUTO 18009KT 9999 NSC 15/13 Q1017 KORE 312352Z AUTO VRB05KT 10SM BKN035 OVC044 08/02 A3000 RMK AO2 SLP162 T00830022 10106 20083 53012 KPIE 312353Z 30008KT 10SM CLR 19/11 A2990 RMK AO2 SLP124 T01940106 10233 20194 53014 KPHN 312356Z AUTO 36014G30KT 5SM -RA OVC012 03/02 A3000 RMK AO2 KORF 312351Z AUTO 01011KT 10SM BKN042 13/04 A2981 RMK AO2 SLP094 T01280044 10156 20128 58001 TSNO RCMQ 010000Z 01003KT 1200 R36/1200N BR SCT004 BKN050 23/20 Q1013 NOSIG RMK A2994 KPHP 312355Z AUTO 13013KT 10SM CLR 07/M09 A3015 RMK AO2 SLP222 T00721094 10111 20050 56021 KORG 312355Z AUTO 33004KT 10SM CLR 19/08 A3017 RMK AO2 T01850081 10239 20185 LFRG 010000Z AUTO 20009KT 9999 NSC 16/11 Q1018 GAKY 311200Z 04006KT CAVOK 37/20 Q1012 KPIH 312353Z 16007KT 10SM CLR 17/M02 A2985 RMK AO2 SLP093 T01671022 10228 20167 56007 KORH 312354Z 07007KT 10SM OVC039 07/02 A2999 RMK AO2 SLP162 T00670017 10094 20067 53009 LFQQ 010000Z 16007KT CAVOK 13/12 Q1019 NOSIG LFRH 010000Z AUTO 21010KT 9999 BKN015 BKN020 BKN025 17/16 Q1017 LFRI 010000Z AUTO 18005KT 130V260 9999 NSC 14/10 Q1019 KOSA 312355Z AUTO 33007KT 10SM CLR 13/04 A3031 RMK AO1 T01300043 10195 20130 LFRJ 010000Z AUTO 24012KT 9999 SCT012 BKN017 BKN022 16/15 Q1016 KOQT 312353Z AUTO 10SM FEW035 OVC065 07/01 A2998 RMK AO2 RAE03 SLP160 P0000 60001 T00670011 10117 20067 53023 KPHT 312355Z AUTO 34006KT 10SM CLR 04/M05 A3023 RMK LFSB 010000Z AUTO VRB01KT 7000 NSC 06/05 Q1024 LFRK 010000Z AUTO 18006KT 9999 NSC 13/10 Q1017 KOQU 312350Z 06020KT 15SM SCT030 OVC045 11/05 A2996 ESMK 312350Z AUTO 12005KT 1500NDV BR VV001 11/11 Q1021 REDZ RERA KORL 312353Z 30007KT 10SM CLR 21/09 A2985 RMK AO2 SLP112 T02110094 10261 20211 53017 KPIL 312353Z AUTO 01007KT 8SM CLR 23/16 A3016 RMK AO2 SLP212 60019 T02280156 10261 20211 53013 KOSC 312354Z AUTO 36017G25KT 5SM -SN SCT017 BKN025 OVC030 00/M01 A3020 RMK AO2 T00031014 ETEB 312358Z AUTO 16004KT 8000 BR CLR 08/08 A3028 RMK AO2 SLP271 T00810081 10100 20080 58006 LFRL 010000Z AUTO 22006KT 9999 -RA BKN015 BKN120 OVC150 16/15 Q1016 LFSD 010000Z AUTO 00000KT 0150 R35/0600U FG OVC004 06/06 Q1024 LFRM 010000Z AUTO 00000KT 9999 NSC 11/10 Q1019 LFRN 010000Z AUTO 18004KT 9999 NSC 14/12 Q1018 LGIO 312350Z AUTO 05012KT 360V090 //// // ////// 12/03 Q1020 RE// KPHX 312351Z 18009KT 10SM FEW120 33/06 A2976 RMK AO2 SLP058 T03330056 10350 20289 58016 LFRO 010000Z AUTO 19006KT 9999 FEW022 SCT034 BKN110 16/14 Q1016 KNZY 312352Z 00000KT 10SM SCT023 SCT035 BKN060 21/14 A2988 RMK AO2 SLP118 T02110144 10217 20206 55002 LFSG 010000Z AUTO 00000KT 0200 R26/1000U FG BKN001 07/07 Q1023 KOSH 312353Z 01010KT 10SM SCT049 01/M07 A3040 RMK AO2 SLP306 T00111072 10050 20011 52018 ESNG 312350Z AUTO 30007KT 9999 NCD M11/M13 Q1024 LFRQ 010000Z AUTO 23007KT 9999 BKN007 BKN011 OVC220 16/15 Q1016 PTYA 312350Z 17012G20KT 12SM FEW016CB FEW140 BKN300 28/25 A2973 RMK CB W MOV N SLP069 60002 8/372 T02840253 10284 20251 51017 ESMQ 312350Z AUTO 12005KT 9999 OVC043/// 09/08 Q1023 KPIR 312353Z AUTO 14018KT 10SM CLR 04/M11 A3024 RMK AO2 PK WND 14027/2325 SLP261 T00391111 10067 20022 56028 LGIR 312350Z 36011KT 9999 FEW018TCU BKN025 16/11 Q1017 NOSIG LFSI 312330Z AUTO 10005KT 9999 NSC 10/09 Q1022 KORS 312355Z AUTO 18004KT 10SM BKN050 11/09 A2981 RMK AO2 KQAJ 312255Z 31006KT 9999 CLR 22/11 A2983 RMK SLP094 T02190109 LFRS 010000Z 14005KT CAVOK 12/10 Q1018 NOSIG LFRT 311700Z AUTO 19008KT 140V220 9999 NSC 18/15 Q1016 KPIT 312351Z 06003KT 8SM -RA OVC041 06/04 A2988 RMK AO2 SLP131 P0001 60006 T00560044 10067 20056 53006 ESMS 312350Z 14005KT 0150 R17/0700V1100N R35/0600N FG VV002 11/11 Q1021 KPKB 312353Z 00000KT 4SM -RA BR SCT007 SCT012 OVC023 07/06 A2990 RMK AO2 SLP128 P0005 60014 T00670056 10083 20067 52007 LGKC 311550Z /////KT 9999 SCT012 FEW014TCU BKN080 12/10 Q1018 ESNK 312350Z AUTO VRB01KT 9999 FEW020/// SCT027/// BKN035/// M02/M03 Q1025 ESMT 312350Z AUTO 13006KT 6000 BR BKN004/// OVC007/// 10/08 Q1021 LHBC 311745Z 29002KT CAVOK 04/04 Q1027 LFSL 010000Z AUTO 12005KT 9999 NSC 08/07 Q1022 ESNL 312350Z AUTO 00000KT 9999 NCD M10/M12 Q1025 KPKD 312353Z AUTO 16004KT 10SM CLR 00/M10 A3044 RMK AO2 SLP331 T00001100 10033 20000 56010 TSNO LFRV 010000Z AUTO VRB03KT 0250 FG VV/// 15/15 Q1018 LFSN 010000Z AUTO 00000KT 0050 R03/0450N FG VV/// 09/09 Q1023 LGKF 312350Z AUTO 02005KT 330V120 //// // ////// 16/09 Q1018 RE// ESNN 312350Z AUTO 00000KT 9999 FEW019/// BKN024/// OVC043/// M01/M02 Q1025 R16/09//95 ESOE 312350Z AUTO 09004KT 6000NDV -RA OVC023/// 05/04 Q1023 REDZ LFSO 010000Z AUTO 14005KT 2200 BR NSC 11/10 Q1023 ESNO 312350Z AUTO 35003KT 9999 NCD M05/M05 Q1025 ESMX 312350Z AUTO 13004KT 090V180 9999 FEW008/// SCT010/// OVC013/// 08/06 Q1022 KOTG 312355Z AUTO 10005KT 10SM CLR M01/M09 A3046 RMK AO1 10040 21010 57003 KOTH 312355Z 28006KT 10SM FEW033 BKN070 16/12 A2984 RMK AO1 10160 20120 401600110 52003 LFRZ 010000Z AUTO 00000KT 0900 R26/P2000 FG NSC 12/12 Q1018 LFTH 010000Z AUTO 33003KT 300V040 9000 NSC 12/11 Q1024 ESNQ 312350Z AUTO 20006KT 9999 NCD M10/M13 Q1023 GANR 312100Z 14004KT CAVOK 30/10 Q//// ESNS 312350Z AUTO 28002KT 9999 NCD M07/M08 Q1026 ESPA 312350Z AUTO 33003KT 9999NDV NCD M06/M07 Q1026 LFST 010000Z AUTO 00000KT 0250 R23/1800U R05/0750D FG VV/// 07/06 Q1024 LGKL 312350Z 33004KT 9999 FEW025 SCT090 12/08 Q1017 ESOK 312350Z AUTO 09007KT 5000 -RA SCT002/// BKN005/// OVC008/// 05/05 Q1021 REDZ KOSU 312353Z 33007KT 10SM FEW010 BKN015 OVC037 05/03 A2990 RMK AO2 RAE53 SLP131 P0000 60003 T00500028 10072 20044 51015 KQBL 312356Z AUTO 33003KT 10SM CLR 19/08 A2996 RMK AO2 SLP152 T01910082 10240 20191 52013 ESNU 312350Z 30004KT CAVOK M06/M06 Q1026 R14/09//70 KOTM 312353Z AUTO 34007KT 10SM CLR M01/M07 A3044 RMK AO2 SLP316 60000 T10061072 10061 21006 53010 LGKO 312350Z 34006KT 9999 FEW020 15/10 Q1014 ESPE 312350Z AUTO 28003KT 9999NDV NCD M10/M11 Q1026 LFSX 010000Z AUTO 00000KT 0150 R11/0650N // VV/// 08/07 Q1023 LGKP 312350Z AUTO 31009KT //// // ////// 17/10 Q1015 RE// ESNX 312350Z AUTO 31003KT 9999NDV NCD M10/M10 Q1024 KQAY 312355Z AUTO 29006KT 9999 CLR 23/10 A2979 RMK AO2 SLP085 T02270102 10361 20276 403690222 54000 $ LHBP 010000Z VRB01KT 1000 R13L/1300N R31R/0150N BCFG BR SCT001 M01/M02 Q1027 TEMPO 0500 FG SCT001 KQAZ 312100Z AUTO 08003KT 9999 CLR 27/00 A2989 RMK CDP03565 CLR ETGG 312320Z 19005KT 4000 BR BKN190 12/11 Q1020 GRN ESNZ 312350Z AUTO 13014KT 9999 SCT029/// OVC046/// 00/M01 Q1019 LGKR 312350Z 00000KT 9999 FEW018 11/08 Q1019 NOSIG ETHA 312320Z AUTO 27004KT //// // ////// 06/06 Q1025 /// VRMM 312300Z 28009KT 9999 -RA SCT016 FEW017CB OVC090 25/23 Q1010 CB SW NW TEMPO 4000 SHRA WIMM 312330Z 25004KT 5000 FEW017CB SCT018 25/24 Q1008 NOSIG KS39 312355Z AUTO 25004KT 10SM OVC046 09/05 A2984 RMK AO2 ETHB 312320Z 19009KT 9999 SCT250 14/10 Q1021 BLU+ LHDC 311545Z 04005KT 9999 BKN036 09/04 Q1027 ETHC 312320Z AUTO 00000KT 0100 // ////// 11/11 Q1022 /// LGKV 312350Z 07005KT 9999 FEW025 07/06 Q1022 LGLM 312350Z AUTO 05016KT //// // ////// 12/05 Q1021 RE// KPMD 312353Z 22026G33KT 10SM CLR 17/09 A2980 RMK AO2 PK WND 22034/2307 SLP077 T01670094 10217 20167 58017 KPKV 312355Z AUTO 02009KT 10SM CLR 22/06 A3018 RMK AO2 T02190060 10272 20219 KOVE 312353Z AUTO 00000KT 7SM -RA FEW007 SCT023 OVC036 14/14 A2977 RMK AO2 SLP082 P0034 60067 T01440139 10161 20144 56019 KPLN 312354Z AUTO 02015G26KT 10SM OVC040 M01/M07 A3035 RMK AO2 PK WND 01026/2350 SLP287 T10061067 10006 21006 53025 KOUN 312355Z AUTO 03005KT 10SM CLR 08/M01 A3039 RMK AO2 LFTW 010000Z AUTO 08002KT 1500 BR OVC026 11/08 Q1024 ETHE 312320Z AUTO 13004KT //// // ////// 12/11 Q1021 /// ESOW 312350Z AUTO 36001KT 9999NDV BKN055/// 01/01 Q1025 RERA REUP ETHF 312320Z 17004KT 9999 BKN200 09/08 Q1024 BLU+ LGKZ 312350Z AUTO 33009KT 310V010 //// // ////// 06/03 Q1023 RE// ETGQ 312320Z AUTO 15003KT //// // ////// 11/10 Q1023 /// LGLR 312350Z 00000KT 9999 FEW030 SCT035 BKN080 11/08 Q1023 BLU KOWA 312355Z AUTO 00000KT 10SM CLR M03/M08 A3047 RMK AO2 KPNA 312355Z AUTO 17005KT 10SM CLR 12/M06 A3002 RMK AO2 LGMK 312350Z 35016G26KT 9999 SCT018 SCT080 14/10 Q1017 KOWB 312356Z 32014KT 10SM BKN050 OVC100 04/M01 A3016 RMK AO2 51017 60000 T00441005 10083 20038 RAE13 P0000 PK WND 33026/2306 SLP216 KQEB 312355Z AUTO 12SM FEW028 16/15 Q1021 RMK AO2 SLP142 T01630149 10267 20209 402670152 56007 KPNC 312353Z AUTO 06007KT 10SM CLR 07/M07 A3041 RMK AO2 SLP299 T00721072 10128 20072 58001 KOVL 312354Z AUTO 00000KT 10SM CLR 01/M08 A3047 RMK AO2 ETHL 312320Z 27002KT 0100 FG 06/06 Q1025 RED ETIC 010001Z AUTO 14001KT 1200 BR FEW003 SCT007 05/05 A3029 RMK AO2 VIS 1200V5000 RVRNO KOWD 312353Z 06008KT 10SM OVC055 10/03 A2999 RMK AO2 SLP155 T01000028 10111 20094 50005 KPNE 312354Z AUTO 01007KT 10SM BKN043 BKN050 OVC070 11/01 A2989 RMK AO2 SLP122 T01060011 10117 20106 58005 TSNO ETHN 312320Z AUTO 13003KT 8000 // ////// 09/08 Q1025 /// LFVP 312100Z 28005KT 9999 BKN033 08/02 Q1018 NOSIG KPMP 312353Z 30008KT 10SM CLR 26/18 A2982 RMK AO2 SLP099 T02610178 10306 20261 53020 KQEI 010000Z AUTO 00000KT 8000 HZ OVC041 13/10 A3001 RMK A02 TSNO ETIH 312358Z AUTO 00000KT 9999 CLR 06/05 A3031 RMK AO2 SLP272 57006 KOVS 312353Z AUTO 01005KT 10SM CLR 02/M09 A3044 RMK AO2 SLP317 T00221089 10067 20022 51012 KQEJ 010000Z AUTO 00000KT 9999 OVC040 14/10 A2996 RMK A02 TSNO PWAK 010003Z AUTO VRB04KT 9999 BKN021 29/24 A2988 RMK AO2 BKN V SCT ETHS 312320Z 22004KT 9999 MIFG SCT230 11/10 Q1022 BLU+ LGMT 312050Z 03003KT 9999 SCT025 BKN080 13/09 Q1018 ESSA 312350Z 08004KT CAVOK M00/M00 Q1025 NOSIG KOXB 312353Z AUTO 34006KT 10SM BKN055 09/06 A2982 RMK AO2 SLP097 T00940056 10133 20094 56009 TSNO KPOB 312358Z AUTO 05002KT 10SM BKN070 11/08 A2980 RMK AO2 SLP095 T01070079 10183 20104 58000 KPOC 312147Z 24005KT 10SM OVC041 20/11 A2991 ESSB 312350Z AUTO 00000KT 8000 BKN074/// BKN100/// OVC130/// 02/01 Q1025 KQEL 010000Z AUTO 08001KT 4800 HZ OVC039 13/10 A3002 RMK A02 TSNO KOXC 312348Z 06008KT 10SM OVC030 09/02 A2995 ETIK 312358Z AUTO 16001KT 9999 CLR 09/09 A3027 RMK AO2 SLP254 T00880088 10123 20084 57006 WIOO 311500Z 00000KT 6000 FEW011CB SCT012 26/25 Q1009 KPNM 312354Z AUTO 00000KT 10SM CLR M01/M09 A3050 RMK AO2 KPMV 312355Z AUTO 00000KT 10SM CLR 03/M09 A3046 RMK AO2 T00311092 10060 20029 ESSD 312350Z AUTO 09002KT 7000 UP FEW037/// BKN042/// 00/M00 Q1023 KPOE 312358Z AUTO 36007KT 10SM CLR 17/08 A3019 RMK AO2 SLP225 T01670083 10221 20167 52023 KPOF 312353Z AUTO 35009KT 10SM CLR 06/M07 A3030 RMK AO2 SLP263 T00611072 10128 20061 51025 KQEP 010000Z AUTO 17002KT 9999 CLR 14/11 A2992 RMK A02 TSNO KQFG 312355Z AUTO 09002KT 9999 CLR 13/06 A3010 RMK AO2 SLP178 T01340058 10236 20165 402550131 57005 KOWP 312355Z AUTO 04004KT 10SM CLR 08/M06 A3041 RMK AO2 T00811059 10133 20081 KQEQ 010000Z AUTO 09002KT 9999 CLR 16/09 A2983 RMK A02 TSNO RCSS 010000Z 10003KT 050V140 9999 FEW030 25/19 Q1014 NOSIG RMK A2996 KQER 010000Z AUTO 04003KT / /CLR 15/09 A2995 RMK A02 TSNO KOXI 312355Z AUTO 02013G18KT 10SM BKN032 OVC038 02/M01 A3019 RMK AO1 T00181011 10273 21016 KQGA 312259Z AUTO 02008KT 9000 HZ CLR 33/02 A2986 RMK CDP03659 CLR LGPA 312350Z AUTO 34016KT //// // ////// 15/09 Q1017 RE// KQES 010000Z AUTO 9999 FEW055 15/12 A3000 RMK A02 TSNO KPNS 312353Z 32011KT 10SM FEW090 19/07 A2996 RMK AO2 SLP146 T01890067 10239 20189 53017 KPPA 312355Z AUTO 13006KT 10SM CLR 10/M05 A3036 RMK AO2 6//// T01001049 10145 20100 PNO ESTA 312350Z AUTO 12006KT 3500 BR OVC003/// 10/09 Q1021 KPNT 312355Z AUTO 35017G25KT 10SM OVC050 04/M06 A3032 RMK AO2 T00351061 10063 20034 ESSL 312350Z AUTO 14003KT 9999NDV OVC028/// 05/05 Q1024 KQEV 010000Z AUTO 09001KT 3200 BR CLR 13/12 A2997 RMK A02 TSNO WIPP 312330Z 18003KT 0900 FU SCT012 25/24 Q1009 BECMG FM 01302000 KQEW 010000Z AUTO 18001KT 6000 OVC008 13/12 A2996 RMK A02 TSNO FKKD 010000Z 00000KT 6000 SCT013 FEW016CB 23/22 Q1012 BECMG 4000 BR RCTP 010000Z VRB02KT 4000 BR FEW018 25/20 Q1014 NOSIG RMK A2996 LGNX 311050Z 35014G24KT 9999 SCT020 18/12 Q1017 KPPF 312352Z AUTO 03004KT 10SM CLR 05/M06 A3043 RMK AO2 SLP308 T00501061 10106 20050 50002 KQEX 010000Z AUTO 03003KT 2000 -SHRA BR CLR 13/11 A2999 RMK A02 TSNO KQEY 010000Z AUTO 20001KT 4800 OVC003 13/11 A2998 RMK A02 TSNO KQFQ 312255Z AUTO VRB03KT 3SM BR FEW036 BKN060 14/11 A2994 RMK AO2 SLP138 T01390112 $ ESSP 312350Z AUTO 08003KT 9999 OVC044/// 05/04 Q1024 WIPT 312330Z VRB02KT 6000 BKN018 24/24 Q1010 KOXR 312359Z AUTO 20007KT 10SM BKN025 BKN029 OVC060 19/13 A2986 RMK AO2 T01940133 TSNO KOZA 312355Z AUTO 06007KT 10SM CLR 20/00 A3032 RMK AO2 KQFT 010000Z AUTO 01002KT 9999 FEW008 SCT011 BKN013 OVC015 15/10 A2995 RMK A02 TSNO KQFU 010000Z AUTO 34001KT 6000 // CLR 15/09 A2997 RMK A02 TSNO KPOU 312353Z 03004KT 10SM OVC041 10/03 A2993 RMK AO2 SLP132 T01000033 10128 20100 53006 KQFV 010000Z AUTO 15003KT 9999 CLR 13/09 A2997 RMK A02 TSNO ESTL 312350Z AUTO 11003KT 0100NDV R29L/0600 FG VV001 10/10 Q1021 KPOV 312359Z AUTO 00000KT 5SM -RA OVC023 06/ A2988 RMK AO2 P0001 T0060 KOXV 312355Z AUTO 36009KT 10SM CLR 03/M09 A3044 RMK AO2 ESUD 312350Z AUTO 00000KT 9999 NCD M11/M13 Q1024 ESSV 312350Z AUTO 12002KT 9999 OVC057/// 04/04 Q1025 FKKN 311500Z 02008KT 9999 SCT020TCU FEW023CB BKN300 28/14 Q1014 KQFX 010000Z AUTO 11001KT 3200 BR FEW001 BKN008 BKN009 13/11 A2998 RMK A02 TSNO KPPO 312355Z AUTO 03014KT 10SM SCT028 BKN033 OVC041 02/00 A3021 RMK AO2 P0002 6//// T00220000 KPOY 312355Z AUTO 10010KT 10SM CLR 15/M05 A2985 RMK AO2 KPPQ 312355Z AUTO 33009KT 10SM CLR 04/M05 A3038 RMK AO2 T00371053 10078 20037 KPQI 312355Z AUTO 07003KT 10SM OVC050 04/M02 A3011 RMK AO1 10070 20040 400701010 52017 LFYR 010000Z AUTO 10003KT 9999 NSC 11/11 Q1020 FKKR 010000Z 00000KT CAVOK 26/23 Q1010 NOSIG KPRB 312353Z AUTO 22009KT 10SM OVC038 18/11 A2979 RMK AO2 SLP082 T01780106 10211 20178 56014 TSNO $ KPQL 312353Z 31006KT 10SM CLR 18/08 A3002 RMK AO2 SLP167 T01780083 10244 20178 53027 KPRC 312353Z 14012G19KT 10SM CLR 22/01 A3000 RMK AO2 SLP096 T02220011 10244 20222 56008 KQGV 312255Z 28006KT 9999 CLR 20/10 A2980 RMK SLPNO QNH1010 PA +576 KPQN 312354Z AUTO 14004KT 10SM CLR 01/M09 A3044 RMK AO2 KQGX 312358Z AUTO 12007KT 9999 CLR 25/15 A2985 RMK AO2 SLPNO T02490149 10295 20247 55002 KPRG 312355Z AUTO 34016G27KT 10SM SCT042 SCT050 OVC060 04/M03 A3022 RMK AO2 T00361031 10058 20026 LGPZ 312350Z 10007KT 9999 FEW025 13/06 Q1020 KOZR 312358Z AUTO 31004KT 10SM FEW060 SCT110 16/09 A2992 RMK AO2 SLP134 T01630091 10228 20163 52014 RVRNO LGSA 312350Z 02004KT 7000 RA SCT010 FEW018TCU OVC025 13/12 Q1017 VTBD 010000Z 02003KT 330V060 9000 FEW020 BKN300 26/25 Q1010 NOSIG KRAC 312353Z AUTO 01022G33KT 10SM OVC041 03/M06 A3035 RMK AO2 PK WND 35034/2327 SLP282 60000 T00331056 10039 20028 51024 ESUT 312350Z AUTO 35003KT 9999 NCD M10/M10 Q1022 KPSC 312353Z 24006KT 10SM OVC090 13/08 A2980 RMK AO2 RAB24E34 SLP091 P0000 60000 T01330078 10144 20117 51012 ETML 312320Z AUTO 17006KT //// // ////// 11/11 Q1021 /// ETND 311120Z 18007KT 9999 SCT110 SCT230 BKN270 17/13 Q1022 BLU+ KOZW 312355Z AUTO 35012G23KT 7SM BKN016 OVC022 00/00 A3010 RMK AO2 T00001001 10030 20000 KPRN 312356Z AUTO 32007KT 10SM CLR 16/08 A2997 RMK AO2 SLP146 60001 T01610083 10228 20161 53023 ETMN 312320Z 19005KT 9999 SCT090 BKN220 13/12 Q1020 BLU+ KPSF 312354Z AUTO 06007KT 10SM FEW040 OVC060 07/02 A2994 RMK AO2 SLP145 T00670022 10089 20067 51008 KPRO 312355Z AUTO 01005KT 10SM CLR 01/M05 A3047 RMK AO2 T00061055 10055 20006 LGRP 312350Z 30009KT 9999 FEW018 SCT080 18/13 Q1013 NOSIG KQHY 312356Z AUTO 33004KT 10SM CLR 19/08 A2996 RMK AO2 SLP152 T01900082 10233 20190 52013 KQL5 312355Z 25002KT 9999 CLR 13/05 A3006 RMK SLP171 T01270048 10202 20136 402680126 57003 ETNG 311450Z 21003KT CAVOK 21/12 Q1022 NOSIG ETNH 312320Z AUTO 16004KT 3000 // ////// 11/11 Q1020 /// KQIR 312358Z 14005KT 9999 CLR 25/21 A2980 RMK AO2A SLP092 T02460212 10275 20246 55009 $ VTCC 010000Z 36002KT 9999 FEW035 24/22 Q1014 A2994 NOSIG LIBA 311755Z 34008KT CAVOK 11/10 Q1022 RMK SKC VIS MIN 9999 WIND THR29 30004KT BLU KPRS 312355Z AUTO 05013G21KT 10SM CLR 24/07 A3018 RMK AO2 T02380067 10265 20230 LGSK 311850Z 03007KT 8000 DZ FEW015 BKN025 OVC070 13/10 Q1021 KPTB 312355Z AUTO 00000KT 10SM SCT049 06/05 A2984 RMK AO2 T00590046 10156 20059 KT20 312355Z AUTO 02005KT 10SM CLR A3022 RMK AO2 KPSK 312355Z AUTO 26004KT 5SM -RA OVC023 06/05 A2985 RMK AO2 P0002 60011 T00590052 10115 20059 LIBC 311850Z 36011KT 9999 FEW020 14/07 Q1020 KRAL 312353Z 25008KT 10SM BKN037 OVC060 19/12 A2987 RMK AO2 SLP103 T01940122 10222 20178 56006 VTBO 311100Z 00000KT 9999 FEW015 BKN028 25/24 Q1008 ETNL 312343Z 00000KT 0200 R28/0350N FG VV001 08/08 Q1021 RED LGSM 311450Z 36012KT 9999 FEW018 SCT160 16/09 Q1014 LIBD 312350Z 28008KT 9999 SCT040 11/09 Q1022 KRBD 312353Z AUTO 02009KT 10SM CLR 16/02 A3030 RMK AO2 SLP258 T01610022 10200 20161 53007 KPSM 312358Z 06003KT 10SM OVC060 08/01 A3002 RMK AO2A SLP170 T00810012 10106 20080 51006 LHKE 312345Z 00000KT 0400 FG NSC M00/M00 Q1027 NOSIG RMK RED KPSN 312355Z AUTO 34004KT 10SM CLR 14/06 A3027 RMK AO2 T01450066 LIBF 311450Z 34011KT 9999 FEW030 15/11 Q1022 ETNN 312320Z 11002KT 9999 SCT230 12/10 Q1021 BLU+ VTCH 311100Z 11004KT 080V150 9999 FEW028 29/21 Q1008 A2977 LGRX 312250Z VRB03KT CAVOK 14/09 Q1018 LGSO 312350Z AUTO 33013KT 320V040 //// // ////// 14/08 Q1018 RE// KPRX 312355Z 35008KT 10SM CLR 12/02 A3032 RMK AO1 10160 20120 52007 KPSO 312355Z AUTO 00000KT 10SM CLR 14/M03 A3026 RMK AO2 T01371035 10166 20129 LIBG 311850Z 00000KT CAVOK 09/08 Q1020 LGTG 312350Z 00000KT 8000 DZ FEW008 BKN025 OVC080 12/07 Q1021 BLU KRAP 312352Z 16017G24KT 10SM CLR 08/M02 A3005 RMK AO2 PK WND 16031/2256 SLP194 T00831017 10117 20044 56016 KRBG 312353Z AUTO 33005KT 4SM HZ FEW070 15/07 A2982 RMK AO2 SLP098 T01500067 10156 20128 56003 KPSP 312353Z 32014G22KT CLR 24/11 A2976 RMK AO2 SLP075 T02440106 10283 20244 56012 LIBH 312255Z 00000KT CAVOK 11/09 Q1022 RMK SKC QUK / QUL / VIS MAR 20 KM VIS MIN 9999 VTBS 010000Z 35004KT 300V010 9999 FEW020 SCT300 26/24 Q1010 NOSIG LGSR 312350Z AUTO 35015KT //// // ////// 16/10 Q1016 RE// VTCL 312300Z 00000KT 5000 BR FEW025 23/23 Q1010 A2987 LICA 312350Z 10005KT 9999 FEW030 09/06 Q1021 VTBU 010000Z 33004KT 5000 BR FEW020 BKN300 25/24 Q1009 A2981 KRCA 312358Z AUTO 18018G27KT 10SM CLR 09/M01 A3003 RMK AO2 PK WND 19031/00 SLP188 60000 T00911015 10119 20040 56015 $ KRAS 312355Z AUTO 02004KT 10SM CLR 23/10 A3016 RMK AO2 T02250098 10266 20225 LICB 312150Z 05004KT CAVOK 09/07 Q1021 ETNS 312320Z AUTO 17006KT 3600 // ////// 12/11 Q1020 /// KPTK 312353Z 35016G27KT 5SM -SN SCT013 OVC017 02/M01 A3004 RMK AO2 PK WND 35030/2320 DZE14 SLP180 P0000 60018 T00171006 10044 20011 51031 KPUB 312353Z AUTO 30006KT 10SM CLR 13/M02 A3015 RMK AO2 SLP199 T01281022 10161 20083 56016 ETNT 312320Z 18007KT 9999 BKN200 11/10 Q1020 BLU+ VTCN 311400Z 00000KT 9999 FEW025 25/25 Q1010 A2985 RWY/02 INFO/K LICC 312350Z 26006KT 9999 SCT050 11/08 Q1020 KPUC 312353Z AUTO 10005KT 10SM CLR 16/M06 A3006 RMK AO2 SLP166 T01561061 10178 20144 56011 TSNO KRBL 312354Z AUTO 36006KT 10SM OVC100 13/11 A2979 RMK AO2 SLP084 60017 T01280106 10133 20117 56014 LICD 312050Z 36010KT 9999 SCT040 20/11 Q1020 VTCP 310800Z 00000KT 9999 FEW018CB 35/22 Q1007 A2976 RWY01 INFO H LIBN 311755Z 34007KT CAVOK 14/11 Q1020 RMK FEW FEW100 VIS MIN 9999 WIND THR14 34007KT BLU KPTN 312355Z AUTO 35008KT 10SM CLR 18/09 A3013 RMK AO1 10240 20180 402400090 52020 KRCE 312355Z AUTO 03008KT CLR 07/M04 A3041 RMK AO2 KRBO 312335Z AUTO 35006KT 7SM +RA CLR 23/13 A3017 RMK AO2 T02260130 ETNW 312320Z AUTO 20008KT 9000 // ////// 10/09 Q1021 /// LICF 312255Z 35005KT 9999 FEW030 16/09 Q1019 RMK FEW QUK / QUL / VIS MAR 12 KM MON INVIS NC VIS MIN 9999 KPSX 312353Z AUTO 36011KT 10SM CLR 22/06 A3017 RMK AO2 SLP216 T02170056 10272 20217 53011 LICG 311755Z 02011KT 9999 FEW020 18/15 Q1020 LIBP 312350Z 24004KT 7000 NSC 09/06 Q1025 LGSY 311750Z 03015KT 9999 BKN020 SCT080 14/07 Q1019 WHT KT35 312355Z AUTO 36005KT 10SM CLR 17/06 A3026 RMK AO2 T01740055 10229 20174 LIBQ 312355Z 03022KT 0000 FG VV/// 01/01 Q1019 RMK MON INVIS VAL INVIS VIS MIN 0000 VTCT 311400Z 25003KT CAVOK 25/22 Q1012 A2989 RMK/RWY03 INFO O LIBR 312345Z /////KT CAVOK 16/11 Q1021 NOSIG LGTS 312350Z 34007KT 9999 FEW010 12/05 Q1023 NOSIG LICJ 312350Z 07006KT 9999 SCT040 19/10 Q1021 KPUJ 312355Z AUTO 31013G19KT 10SM BKN016 OVC024 11/09 A2993 RMK AO2 KPTS 312355Z AUTO 03004KT 10SM CLR 05/M06 A3042 RMK AO2 T00521063 KPTT 312355Z AUTO 09005KT 10SM CLR 05/M07 A3041 RMK AO2 KPVB 312355Z AUTO 01007KT 10SM CLR 00/M07 A3042 RMK AO1 T00001071 10051 20000 LICL 311755Z 06005KT CAVOK 20/13 Q1019 RETS RMK SCT SCT070 QUK / QUL / VIS MAR 18 KM VIS MIN 9999 KPVC 312355Z 05013G19KT 10SM SCT060 10/M19 A3000 RMK AO1 10120 20100 401300090 52003 KRCM 312355Z AUTO 32004KT 10SM CLR 03/M07 A3043 RMK AO2 LIBV 312355Z 33010KT 9999 SCT017 SCT030 10/07 Q1020 RMK BKN VIS MIN 9999 WIND THR32 35009KT WIND THR14 33008KT BLU KPVD 312351Z 04010KT 10SM BKN046 OVC055 10/03 A2998 RMK AO2 SLP152 60000 T01000033 10128 20100 50006 ETOU 010005Z AUTO 00000KT 1200 R25/1400 BR CLR 08/08 A3024 RMK AO2 VIS 1200V2000 KRDD 312353Z 04003KT 10SM FEW080 OVC100 13/11 A2978 RMK AO2 RAB02E15 SLP081 P0000 60009 T01330111 10133 20122 56018 KPTV 312355Z AUTO 26005KT 10SM CLR 23/08 A2976 RMK AO1 10230 20200 402700090 57020 GCGM 311800Z VRB01KT 9999 FEW035 SCT048 23/17 Q1018 RMK CAB09 VRB01KT GCFV 312300Z 35009KT 9999 FEW025 23/19 Q1017 KPTW 312354Z AUTO 00000KT 10SM OVC035 09/02 A2990 RMK AO2 SLP123 T00890022 10111 20089 58001 KPVE 312355Z AUTO 36007KT 320V030 10SM CLR 05/M05 A3020 RMK KRBW 312355Z AUTO 00000KT 10SM SCT070 BKN120 14/11 A2980 RMK AO2 KPVF 312355Z AUTO 18007KT 8SM FEW035 SCT044 BKN055 10/10 A2982 RMK AO1 P0003 LIBY 312255Z 32017KT CAVOK 14/10 Q1018 RMK SKC QUK / QUL / VIS MAR 20 KM VIS MIN 9999 KPVG 312355Z AUTO 36004KT 10SM SCT046 08/04 A2984 RMK AO1 10160 20060 401700010 54000 KRDG 312354Z 09005KT 10SM FEW048 OVC060 10/02 A2989 RMK AO2 SLP127 T01000017 10128 20100 50008 KQLP 311955Z AUTO RMK AO2 SLPNO PWINO PNO TSNO $ LICR 312250Z 02005KT 9999 FEW030 13/08 Q1020 KRCR 312355Z AUTO 35018G26KT 10SM SCT024 BKN041 OVC047 02/00 A3015 RMK AO2 GCHI 311800Z 35014KT 9999 FEW022 BKN034 23/19 Q1018 LIEA 312350Z 01005KT CAVOK 11/08 Q1024 KPWA 312353Z 02008KT 10SM CLR 09/M04 A3039 RMK AO2 SLP293 T00891039 10144 20089 53002 KPVJ 312355Z AUTO 02005KT 10SM CLR 10/M02 A3036 RMK AO2 T01041020 10163 20104 LIEB 312155Z 31014KT CAVOK 14/06 Q1022 RMK SKC QUK / QUL / VIS MAR 20 KM MON INVIS VIS MIN 9999 LICT 312355Z 13005KT CAVOK 11/09 Q1021 KRDK 312355Z AUTO 01006KT 10SM CLR 01/M08 A3047 RMK AO2 LIEC 312255Z 02011KT 9999 FEW020 16/11 Q1022 RMK FEW QUK / QUL / VIS MAR 20 KM VIS MIN 9999 KPWC 312353Z AUTO 00000KT 10SM CLR M02/M07 A3048 RMK AO2 LIED 312255Z 03002KT CAVOK 12/10 Q1022 RMK SKC VIS MIN 9999 WIND THR35 02004KT WIND THR17 05003KT BLU KRDM 312356Z 34003KT 10SM BKN055 OVC100 09/04 A2983 RMK AO2 SLP098 60003 T00890039 10094 20072 53009 KRCV 312350Z AUTO 23004KT 10SM CLR 12/M05 A3027 RMK AO2 T01221055 10136 20092 LIEE 312320Z 35003KT CAVOK 13/10 Q1023 KPUW 312353Z AUTO 27012KT 5SM HZ SCT013 BKN020 OVC110 11/08 A2982 RMK AO2 SLP101 T01110083 10161 20111 51020 FLHN 311600Z 11013KT CAVOK 34/01 Q1012 NOSIG KRCX 312355Z AUTO 02003KT 10SM CLR M01/M06 A3049 RMK AO2 T10131061 10032 21017 KPWG 312355Z AUTO 35006KT 10SM CLR 17/03 A3030 RMK AO1 10210 20170 52010 LICZ 312355Z 26003KT 9999 SCT050 10/10 Q1020 RMK SCT VIS MIN 9999 WIND THR28 24006KT A3015 BLU KRCZ 312355Z AUTO 00000KT 10SM SCT095 13/08 A2980 RMK AO2 T01250079 10178 20125 KRDR 312358Z AUTO 15009KT 10SM CLR M01/M07 A3038 RMK AO2 SLP310 T10111070 10040 21011 57021 KPWK 312352Z 35018G26KT 10SM OVC044 03/M07 A3034 RMK AO2 PK WND 34031/2254 SLP279 T00331072 10050 20033 51027 ETSA 312358Z 01001KT 0400 FG BKN260 06/06 Q1025 RED ETSB 312320Z AUTO 28005KT 1500 // ////// 10/10 Q1023 /// KRDU 312351Z 05004KT 10SM BKN070 OVC200 12/07 A2981 RMK AO2 SLP095 T01170067 10167 20117 58006 KPVU 312356Z 18004KT 15SM SCT120 21/M02 A2985 KPWM 312351Z 00000KT 10SM SCT200 08/02 A3005 RMK AO2 SLP176 T00780017 10111 20067 51010 KRFD 312354Z 36016G20KT 10SM BKN055 03/M08 A3039 RMK AO2 PK WND 02026/2255 SLP297 T00331078 10056 20033 51020 KPXE 312355Z AUTO 30005KT 10SM BKN100 16/05 A2991 RMK AO2 T01620052 10230 20162 KPVW 312355Z AUTO 12004KT 10SM CLR 13/M01 A3034 RMK AO2 T01271006 10170 20127 ETSE 312320Z AUTO 12004KT 0500 // ////// 06/06 Q1026 /// LIEO 312350Z 22005KT CAVOK 09/07 Q1024 KREO 312352Z AUTO 03007KT 17/M01 A2971 RMK AO1 SLP049 T01671011 10200 20156 58018 KT65 312355Z AUTO 04004KT 10SM CLR 22/16 A3018 RMK AO2 60001 T02200159 10260 20210 ETSH 312320Z 21004KT 9000 BKN120 11/11 Q1023 BLU KRFI 312355Z AUTO 34004KT 10SM CLR 15/07 A3027 RMK AO2 T01520067 10204 20152 ETSI 312320Z AUTO 07004KT //// // ////// 07/07 Q1026 /// LHPA 312345Z 17002MPS 0800 R16/0900D FG NSC 02/02 Q1027 NOSIG RMK AMB KPWT 312355Z AUTO 15004KT 10SM FEW014 FEW036 BKN044 12/09 A2985 RMK AO1 60003 10130 20100 401300100 52007 ETSL 312320Z 01002KT 0200 FG VV000 06/06 Q1026 RED ETSN 312320Z AUTO VRB02KT //// // ////// 07/07 Q1026 /// LGZA 312350Z AUTO 05005KT 010V080 //// // ////// 16/11 Q1018 RE// GCLA 312300Z 36012KT 320V030 9999 FEW025 SCT050 22/16 Q1019 WS ALL RWY KRGK 312351Z AUTO 36004KT 10SM 00/M09 A3048 RMK AO2 FLKK 311600Z 10007KT CAVOK 30/08 Q1014 KPYM 312352Z AUTO 05009G17KT 10SM OVC050 10/04 A2998 RMK AO2 SLP153 T01000039 10111 20100 50003 KT82 312355Z AUTO 03003KT 10SM CLR 16/05 A3027 RMK AO2 T01590052 10217 20159 LHPP 312345Z 04001KT CAVOK 03/02 Q1027 FMCH 312300Z VRB02KT 9999 FEW020 27/22 Q1012 NOSIG KRHI 312353Z AUTO VRB04KT 10SM OVC030 M02/M06 A3043 RMK AO2 SLP329 60000 T10171061 10000 21017 53009 LHPR 312345Z 00000KT 0400 FG NSC 00/00 Q1027 FLLI 311600Z 11013KT CAVOK 34/01 Q1012 NOSIG AGGH 010000Z 09010KT 9999 -SH FEW018 FEW020CB SCT050 BKN110 27/24 Q1012 KQRB 312355Z AUTO 02002KT 8000 BR SCT013 24/23 A2994 RMK AO2 SLP136 T02410233 10314 20272 403140223 51005 KRIC 312354Z 00000KT 10SM FEW060 BKN140 BKN200 11/03 A2984 RMK AO2 SLP112 T01060028 10167 20106 55001 KPYX 312355Z AUTO 12008KT 10SM CLR 10/M06 A3035 RMK AO2 T00951061 10135 20095 KRHP 312355Z AUTO 30003KT 10SM RA BKN027 OVC038 08/06 A2988 RMK AO2 T00760057 10123 20076 GCLP 010000Z 36014KT 9999 FEW020 SCT035 23/18 Q1017 NOSIG KQRH 312355Z AUTO 24002KT 5SM BR CLR 26/22 A2986 RMK AO2 SLP109 T02590220 10294 20271 403310239 56007 KPZQ 312325Z AUTO 00012G21KT 10SM OVC032 00/M04 A3031 RMK AO2 KSAA 312355Z AUTO 24008KT 10SM CLR 13/M04 A3009 RMK AO2 KQSA 312358Z VRB02KT 9999 FEW120 08/02 A3016 RMK AO2A SLP155 T00780022 10125 20067 55004 KRIL 312353Z AUTO 20005KT 10SM CLR 16/M02 A3007 RMK AO2 SLP160 T01611022 10211 20122 56010 KSAC 312353Z AUTO 28005KT 8SM -RA FEW014 BKN042 OVC060 14/13 A2977 RMK AO2 SLP082 P0003 60012 T01440133 10189 20144 56012 TSNO KSAD 312351Z AUTO 11012G21KT 10SM CLR 26/08 A3000 RMK AO2 SLP114 T02610083 10272 20244 56008 KRHV 312350Z 00000KT 8SM SCT024 BKN044 OVC075 16/14 A2983 FMEE 010000Z AUTO 12009KT 9999 FEW076 21/15 Q1018 KSAF 312353Z 14014KT 10SM FEW065 16/M03 A3027 RMK AO2 SLP192 T01561028 10183 20139 58009 KQQY 311655Z AUTO VRB03KT 9999 FEW170 30/22 A2992 RMK AO2 SLP108 T03000218 $ KU16 312258Z AUTO 02009KT 10SM CLR 18/M01 A2982 RMK AO2 SLP731 T01781006 $ FMCZ 010000Z AUTO 03007KT 9999 BKN018/// 26/23 Q1012 KSBA 312353Z 15011KT 10SM OVC029 20/14 A2983 RMK AO2 SLP101 T02000139 10222 20194 56012 KQTC 312355Z AUTO 08006KT 10SM CLR 25/M02 A2990 RMK AO2 SLP088 T02461021 10361 20269 403610203 58009 KSBD 312350Z 23010KT 7SM OVC040 19/11 A2988 KRKD 312355Z AUTO 36003KT 10SM OVC050 08/M01 A3004 RMK AO1 10100 20080 401000000 52010 KRIV 312358Z AUTO 27007KT 10SM SCT040 SCT050 18/13 A2988 RMK AO2 CIG 040 RWY14 SLP113 T01840130 10210 20168 55005 LHSM 311545Z 28002KT 8000 BKN040 10/07 Q1028 NOSIG ETWM 312320Z AUTO 14002KT 0400 // ////// 10/09 Q1020 /// LHSN 312345Z 00000MPS 0800 FG NSC 03/03 Q1027 TEMPO 1500 BR RMK AMB KSAN 312358Z 28005KT 10SM FEW015 BKN027 OVC060 21/14 A2990 RMK AO2 KRIW 312353Z AUTO 07004KT 10SM CLR 11/M03 A2995 RMK AO2 SLP130 T01061033 10156 20100 56011 FMEP 010000Z AUTO 08007KT 9999 BKN074/// 21/14 Q1018 KQTH 312355Z AUTO 17003KT 9999 CLR 22/12 A2997 RMK AO2 SLP124 T02220118 52002 $ KSAR 312355Z AUTO 34012G18KT 10SM SCT060 05/M06 A3032 RMK AO2 T00491059 10073 20049 KSAT 312351Z 02009KT 10SM FEW250 22/02 A3023 RMK AO2 SLP223 T02220022 10261 20222 53006 KQTM 312259Z AUTO 05004KT //// CLR 26/00 A2966 RMK CDP03569 CLR KSBM 312353Z AUTO 01011G18KT 10SM OVC049 02/M07 A3038 RMK AO2 PK WND 01026/2326 SLP296 T00171072 10028 20017 51024 KSAV 312353Z 00000KT 10SM FEW060 16/10 A2981 RMK AO2 SLP094 T01610100 10239 20144 53008 KSCD 312355Z AUTO 34012G20KT 10SM SCT023 BKN032 OVC040 12/08 A3002 RMK AO2 T01210076 10178 20121 KQUD 310555Z AUTO 06002KT 10SM SCT100 21/17 A3020 RMK AO2 SLP185 T02080171 10214 20199 52012 $ LHUD 312345Z 34001KT 0800 FG BKN026 02/02 Q1027 KSBN 312354Z 01018G26KT 10SM OVC040 02/M03 A3021 RMK AO2 PK WND 35033/2303 SLP236 60004 I6001 T00171028 10050 20011 53038 $ GBYD 010000Z 36008KT CAVOK 27/24 Q1011 KSAW 312349Z 36010KT 10SM SCT029 OVC035 M01/M05 A3040 LJCE 010000Z AUTO 00000KT 4400 BR OVC030/// 08/07 Q1028 KSBO 312355Z AUTO 30009KT 10SM OVC110 18/07 A2985 RMK AO2 KSCF 312355Z AUTO 35010G24KT 10SM CLR 22/10 A3010 RMK A01 KRKP 312353Z AUTO 01005KT 10SM CLR 22/07 A3016 RMK AO2 SLP216 T02220072 10289 20222 53013 KSBP 312356Z 19010G14KT 10SM BKN028 BKN042 OVC070 18/12 A2979 RMK AO2 SLP088 T01780122 10206 20178 58016 KSCH 312250Z 03004KT 10SM OVC049 08/02 A2997 KSAZ 312353Z AUTO 00000KT 7SM CLR M02/M10 A3046 RMK AO2 KRKR 312355Z AUTO 35009KT 10SM CLR 10/M01 A3035 RMK AO2 T00951014 10160 20095 LIMA 311550Z 00000KT 3000 BR NSC 14/07 Q1025 KRKS 312354Z AUTO 19009KT 10SM CLR 13/M07 A3001 RMK AO2 SLP126 T01331072 10183 20089 56005 KSBS 312355Z AUTO 23005KT 10SM CLR 15/M05 A3012 RMK AO1 T01541055 10185 20100 KSDA 312355Z AUTO 35004KT 10SM CLR 01/M06 A3048 RMK AO2 KSDB 010006Z AUTO 20013G24KT 10SM BKN008 OVC024 12/08 A2989 RMK AO2 CIG 005V012 T01220078 KSCK 312355Z 26015G21KT 4SM -RA BKN030 OVC070 15/12 A2979 RMK AO2 PRESRR SLP088 P0011 60024 T01500122 10200 20150 56006 LIMC 312350Z 03001KT 2500 R35L/P1500N R35R/0600V1000D BCFG NSC 03/03 Q1026 NOSIG LIME 312350Z 01004KT 5000 BR NSC 08/06 Q1026 KRME 312353Z 03004KT 10SM OVC055 06/02 A2998 RMK AO2 SLP155 T00610022 10094 20056 53009 LIMF 312350Z 30003KT 3500 BR NSC 07/06 Q1026 KSDF 312356Z 30016G25KT 10SM -RA BKN025 BKN035 OVC037 03/01 A3005 RMK AO2 RAB44 SLP179 P0000 60004 T00330006 10072 20033 51015 KQVF 311855Z AUTO VRB02KT 9999 CLR 26/23 A2995 RMK AO2 SLP142 T02630231 LIMG 311650Z 29003KT 8000 NSC 13/10 Q1024 KRMG 010000Z AUTO 32010KT 10SM BKN025 BKN032 OVC060 10/07 A2997 RMK AO2 T01000067 KSBY 312354Z 36006KT 10SM BKN041 OVC048 11/05 A2983 RMK AO2 SLP103 T01110050 10144 20111 56009 KQTZ 312355Z 33004KT 9999 FEW080 17/10 A2985 RMK SLP105 WND DATA ESTMD ALSTG/SLP ESTMD 52003 LIMJ 312350Z 04005KT 320V130 CAVOK 15/06 Q1024 KSEA 312353Z 19004KT 10SM FEW020 BKN050 BKN110 12/08 A2985 RMK AO2 SLP115 60003 T01170083 10128 20106 53005 LIMK 312355Z 00000KT 4000 BR NSC 11/07 Q1026 RMK SKC VAL FOSCHIA SKC SUP VIS MIN 4000 FKYS 010000Z 25004KT 220V290 9999 FEW003 BKN006 20/19 Q1015 NOSIG LIML 312350Z 00000KT 1000 R36/0150V0275N BCFG NSC 07/07 Q1026 NOSIG KSDL 312353Z 18005KT 10SM CLR 32/07 A2980 RMK AO2 SLP067 T03170067 10333 20289 58014 KRNC 312355Z AUTO 00000KT 10SM CLR 03/00 A3008 RMK KSDM 010000Z 26007KT 10SM FEW022 OVC050 19/14 A2989 RMK AO2 T01940139 KRND 312358Z AUTO 02004KT 10SM CLR 21/03 A3024 RMK AO2 SLP235 T02100029 10252 20210 53008 LIMN 311755Z 00000KT 1600 BR NSC 10/09 Q1025 RMK SCT SCT200 VIS MIN 1600 YLO KRMN 312355Z AUTO 00000KT 10SM SCT060 06/03 A2989 RMK AO2 T00600030 10135 20060 KSEE 312355Z AUTO 26005KT 10SM OVC050 21/12 A2991 RMK AO2 LIMP 312150Z 22005KT 3000 BR NSC 09/06 Q1026 KSEG 312353Z AUTO 00000KT 10SM OVC055 09/03 A2990 RMK AO2 SLP127 T00890033 10117 20089 53005 KRNH 312355Z AUTO 32004KT 10SM CLR M01/M08 A3050 RMK AO2 T10151082 10037 21020 LIMS 311755Z 22003KT 2000 BR FEW010 10/10 Q1025 KROA 312354Z 27006KT 8SM -RA BKN015 BKN022 OVC035 08/06 A2986 RMK AO2 SLP113 P0003 60004 T00780061 10122 20078 51008 KSFB 312353Z 30007KT 10SM CLR 19/10 A2985 RMK AO2 SLP105 T01890100 10267 20189 53017 LIMU 312355Z 16002KT CAVOK 15/12 Q1026 RMK SKC QUK / QUL / VIS MAR 15 KM VIS MIN 9999 KROC 312354Z 09008KT 10SM -RA BKN027 OVC037 07/04 A2997 RMK AO2 SLP154 P0001 60004 T00720044 10094 20072 53015 LIMV 311755Z /////KT 2000 BR NSC 09/07 Q1025 RMK SKC MON INVIS VAL FOSCHIA SKC SUP VIS MIN 2000 KRNM 312353Z 28009KT 10SM BKN027 OVC035 18/13 A2990 RMK AO2 SLP115 T01780128 10211 20178 50000 KQWM 312255Z 31011KT 9999 CLR 21/10 A2981 RMK SLP088 QNH1009 KSEM 312355Z AUTO 32009KT 10SM FEW031 SCT048 BKN065 13/11 A3001 RMK AO2 VTPH 311200Z 09004KT 050V120 9999 BKN028 29/27 Q1008 NOSIG KSFF 312353Z 00000KT 7SM BKN040 OVC055 11/08 A2981 RMK AO2 SLP095 T01110083 10117 20106 52016 KRNO 312355Z 24010KT 10SM SCT070 SCT100 BKN140 19/M02 A2968 RMK AO2 SLP009 VIRGA ACSL DSNT S NW-N T01891017 10211 20167 56016 LIMY 311755Z 23005KT 2500 BR NSC 12/08 Q1026 RMK SKC VAL FOSCHIA SKC SUP VIS MIN 2500 KRMY 312354Z AUTO 35011G19KT 310V010 10SM BKN028 OVC033 01/M03 A3014 RMK AO2 T00081032 KSDY 312355Z AUTO 14014G19KT 10SM CLR 08/M03 A2995 RMK AO1 10110 20070 401100010 57014 KRNP 312354Z AUTO 35016G23KT 10SM OVC026 01/M02 A3014 RMK AO2 T00101021 KSEP 312355Z AUTO 03003KT 10SM CLR 15/04 A3033 RMK AO2 T01490035 10192 20149 KROG 312357Z 36007KT 10SM CLR 05/M07 A3038 RMK AO2 SLP293 T00501067 10100 20050 51014 $ LIMZ 312050Z 22003KT 3000 BR NSC 06/04 Q1026 GCRR 010000Z 34016KT 320V020 9999 FEW025 23/19 Q1016 LIPA 312055Z 06005KT CAVOK 07/07 Q1025 RMK SKC VIS MIN 9999 A3027 BLU KU68 312355Z AUTO 01006KT 10SM CLR 15/M03 A2983 RMK AO2 PWINO LIPB 312150Z VRB02KT CAVOK 06/05 Q1027 KRNT 312353Z 15004KT 10SM FEW022 BKN033 OVC060 13/09 A2984 RMK AO2 SLP109 60006 T01280089 10133 20111 53005 KSET 312354Z AUTO 33010KT 10SM CLR 05/M06 A3036 RMK AO2 SLP283 T00501056 10083 20050 53020 FLSK 311200Z 00000KT CAVOK 32/12 Q1014 LIPC 312355Z 26005KT 4000 BR NSC 07/06 Q1025 FNBC 311500Z 29004KT 9999 BKN016 27/26 Q1010 VTPO 312300Z 03003KT 9999 FEW022 FEW120 25/24 Q1009 KSFM 312355Z AUTO 04003KT 10SM CLR 04/M01 A3003 RMK AO1 10100 20040 401001020 52003 KRNV 312355Z AUTO 36013KT 10SM SCT060 13/04 A3022 RMK AO2 T01250037 10171 20124 KRPD 312355Z AUTO 00000KT 10SM CLR 00/M07 A3050 RMK AO2 T00001075 10035 20000 VTPP 312300Z 00000KT 9999 FEW024 26/24 Q1009 LIPE 312350Z 21006KT 7000 NSC 08/05 Q1026 LIPF 311755Z 00000KT 1500 BR NSC 10/08 Q1025 KSGF 312352Z 36009KT 10SM CLR 04/M07 A3038 RMK AO2 SLP292 T00391072 10089 20033 51013 KSFO 312356Z 27006KT 10SM FEW015 SCT021 BKN085 OVC160 16/13 A2979 RMK AO2 SLP087 60005 T01560133 10161 20144 58009 FNBG 311600Z 27014KT 9999 SCT020 BKN100 25/22 Q1011 LIPH 312145Z /////KT 8000 NSC 09/09 Q1025 KSGH 312356Z AUTO 31008KT 8SM BKN014 OVC019 04/03 A2994 RMK AO2 53013 60008 T00440033 10055 20038 RAE10B43E51 P0001 SLP145 KSFQ 312355Z AUTO 00000KT 10SM 07/05 A2983 RMK AO2 T00710054 10158 20071 KSEZ 312355Z AUTO 17012G18KT 10SM CLR 23/02 A3000 RMK AO2 KRPH 312350Z AUTO 36003KT 10SM CLR 14/03 A3033 RMK AO2 T01400033 10188 20140 LIPI 311755Z 01004KT CAVOK 09/07 Q1025 RMK FEW FEW200 VIS MIN 9999 WIND THR06 32004KT BLU KSGJ 312358Z 29004KT 10SM CLR 18/13 A2985 RMK AO2 SLP108 T01830128 10239 20183 53016 KROS 312354Z AUTO 00000KT 10SM CLR M01/M09 A3051 RMK AO2 T10121086 10034 21016 KRPJ 312355Z AUTO 36008KT 10SM OVC050 02/M07 A3037 RMK AO2 T00201069 10044 20020 LIPK 311650Z 00000KT 3500 BR NSC 11/03 Q1025 FNCA 311600Z 20007KT 9999 SCT010 BKN020 25/23 Q1010 KRQB 312355Z AUTO 03013G20KT 10SM OVC037 00/M04 A3025 RMK AO2 T00011039 10012 20001 KQXT 312255Z 03003KT 9999 CLR 11/M04 A3008 RMK SLP173 WND DATA ESTMD ALSTG/SLP ESTMD Q1018 LIQC 312255Z ///05KT CAVOK 16/09 Q1023 RMK SKC QUK / QUL / VIS MAR 18 KM VIS MIN 9999 LIPL 311855Z /////KT 3000 BR FEW006 09/08 Q1026 RMK SCT VIS MIN 3000 WIND THR31 00000KT YLO KSHD 312355Z AUTO 00000KT 10SM -DZ BKN046 OVC050 09/03 A2984 RMK AO2 T00900029 10111 20087 KROW 312351Z 17007KT 10SM CLR 17/01 A3029 RMK AO2 SLP227 T01720011 10206 20172 56007 KRQE 312353Z AUTO 23008KT 10SM BKN075 BKN095 21/02 A3014 RMK AO2 SLP136 T02060022 10233 20172 56009 TSNO LIPO 312350Z 36003KT 4000 BR NSC 09/07 Q1026 KROX 312355Z AUTO 17005KT 10SM CLR M02/M06 A3042 RMK AO2 KSFY 312355Z AUTO 36006KT 10SM CLR 02/M08 A3041 RMK AO2 T00211082 10071 20021 LIPQ 312350Z VRB01KT CAVOK 06/03 Q1025 KSFZ 312355Z 06007KT 10SM OVC044 08/00 A2997 RMK AO1 10110 20080 401200020 52003 VTSB 312300Z 00000KT 4000 BR SCT018 BKN300 24/24 Q1008 A2989 LIPR 312345Z /////KT 3500 BR NSC 10/09 Q1025 KSGR 312353Z AUTO 35009KT 10SM CLR 20/06 A3018 RMK AO2 SLP220 T02000061 10267 20200 53013 VTSC 310500Z 03003KT 9999 SCT018 BKN200 29/25 Q1009 A2980 RWY20 INFO E LIPS 312355Z 00000KT CAVOK 07/06 Q1025 RMK SKC VIS MIN 9999 WIND THR26 00000KT WIND THR08 00000KT BLU LIRA 312345Z 02002KT CAVOK 09/06 Q1022 KSGS 312350Z AUTO 00000KT 10SM CLR 02/M08 A3050 RMK AO2 T00191085 GCTS 010000Z 01008KT 9999 FEW035 21/15 Q1018 NOSIG KSGT 312355Z AUTO 34012KT 10SM CLR 10/M01 A3028 RMK AO1 10170 20100 401700100 52030 LIPU 311450Z VRB01KT CAVOK 18/07 Q1025 KSGU 312355Z AUTO 27006KT 10SM CLR 26/02 A2981 RMK AO1 10280 20210 402800110 57020 KSHL 312355Z AUTO 00000KT 10SM CLR M00/M09 A3045 RMK AO2 VTSF 312300Z 25004KT 210V280 8000 -RA SCT018 BKN022 OVC300 24/24 Q1008 A2978 INFO P / RWY 19 KSHM 312356Z AUTO 19005KT 10SM CLR 07/M03 A3021 RMK AO2 SLP245 T00681027 10106 20051 57011 LIQN 311550Z 29007KT CAVOK 15/06 Q1021 LIRE 312255Z 03009KT CAVOK 12/08 Q1021 RMK SKC VIS MIN 9999 WIND THR31 /////KT BLU VTSG 312300Z 00000KT 5000 BR BKN015 BKN020 23/22 Q1009 A2979 INFO L RWY32 KSHN 312353Z AUTO 24004KT 10SM CLR 12/08 A2982 RMK AO2 SLP098 60001 T01170078 10133 20100 53004 TSNO VTSH 311000Z 02004KT 9000 FEW020CB BKN300 30/24 Q1006 A2972 LIPX 312345Z 29004KT 4000 BR NSC 09/06 Q1026 LIRF 312350Z 05005KT 030V090 CAVOK 11/06 Q1022 NOSIG KRQO 312355Z AUTO 01008KT 10SM CLR 07/M02 A3039 RMK AO2 KSIF 312355Z AUTO 00000KT 10SM BKN060 OVC075 09/08 A2981 RMK AO2 T00870075 10132 20082 LIRG 311755Z 05004KT CAVOK 13/07 Q1022 LIPY 312350Z 17004KT 8000 NSC 10/08 Q1025 WMBA 010000Z 04001KT 9999 FEW002 FEW017CB FEW018TCU BKN280 24/24 Q1009 LIRH 311755Z 02002KT CAVOK 12/02 Q1021 LIPZ 312350Z VRB01KT CAVOK 08/07 Q1025 LIRI 311550Z 04010KT 9999 FEW030 17/08 Q1020 KSHR 312353Z AUTO 00000KT 10SM CLR 06/01 A2985 RMK AO2 SLP123 T00610006 10111 20061 56009 TSNO FMMI 010000Z 08005KT 9999 FEW017 SCT020 14/14 Q1022 NOSIG VTSM 312300Z 000000KT 9999 FEW020 BKN300 26/24 Q1009 A2981 LIRL 311755Z 01002KT CAVOK 14/10 Q1021 KSJC 312353Z 00000KT 10SM FEW006 SCT055 BKN100 13/12 A2980 RMK AO2 RAE01 SLP091 P0000 60051 T01330122 10172 20128 56008 KRRL 312355Z AUTO 03009G14KT 10SM OVC037 00/M06 A3044 RMK AO2 T10041059 10020 21007 LIRM 312355Z 03005KT CAVOK 08/06 Q1023 KTAD 312354Z AUTO 26004KT 10SM CLR 14/M03 A3018 RMK AO2 SLP197 T01391028 10189 20133 56007 KSHV 312356Z 36008KT 10SM FEW055 17/06 A3023 RMK AO2 SLP235 T01670061 10211 20167 52015 LIQW 311755Z 31003KT CAVOK 09/09 Q1023 VTSP 010000Z 00000KT 9999 FEW020 SCT120 BKN300 25/23 Q1009 A2981 NOSIG LIRN 312350Z 03005KT CAVOK 13/07 Q1022 VTSR 311100Z 00000KT 7000SW BKN022 BKN120 27/26 Q1008 A2976 VOR DME RWY02 INFO G LIRP 312345Z 02004KT CAVOK 08/07 Q1025 NOSIG VTSS 010000Z 00000KT 9999 FEW020 BKN120 BKN300 25/24 Q1009 A2981 NOSIG LIRQ 312350Z 00000KT CAVOK 07/03 Q1025 VTST 311200Z 00000KT 9999 FEW020 BKN300 26/25 Q1007 RWY0 8 INFO O WMAU 010000Z 24004KT 7000 FEW000 SCT140 BKN270 25/24 Q//// QFF1009 LIRS 312355Z /////KT CAVOK 08/04 Q1023 KSKA 010003Z AUTO 00000KT 9SM BKN025 OVC039 09/09 A2980 RMK AO2 CIG 023V041 FMMS 311500Z 04023KT 9999 FEW020CB 24/20 Q1014 VTUD 312300Z 00000KT 9999 FEW035 BKN300 24/23 Q1011 A2986 INFO A RWY30 LIRT 312355Z 33006KT 0000 FG VV/// 06/03 Q1022 RMK MON INVIS VAL INVIS VIS MIN 0000 KRRT 312354Z AUTO 15004KT 10SM CLR M01/M06 A3042 RMK AO2 LIRU 311550Z VRB02KT CAVOK 19/05 Q1021 FMMT 312300Z 00000KT 9999 FEW017 17/16 Q1017 KRSL 312353Z AUTO 10008KT 10SM CLR 03/M07 A3040 RMK AO2 SLP310 T00281072 10078 20028 58012 LIRV 311755Z 04009KT CAVOK 13/06 Q1022 FMNM 312300Z 12006KT 9999 FEW040 25/19 Q1013 KTAN 312352Z AUTO 04003KT 10SM OVC050 10/03 A2998 RMK AO2 SLP151 T01000033 10117 20100 50005 KSJN 312354Z AUTO 13012KT 10SM BKN085 21/06 A3008 RMK AO2 LTG DSNT N AND NE SLP123 60000 T02110056 10250 20211 55005 KRSN 312355Z AUTO 36003KT 10SM SCT055 14/09 A3026 RMK AO2 T01380086 10203 20138 FMNN 311500Z 03012KT 9999 SCT020CB BKN100 29/20 Q1013 LIRX 311855Z 36005KT CAVOK 13/06 Q1022 RMK SKC VIS MIN 9999 VIS MAR 20 KM KSKF 312358Z 03008KT 7SM CLR 22/03 A3022 RMK AO2A SLP229 53007 $ VTUI 311500Z 12008KT CAVOK 28/23 Q1012 A2989 RWY05 INFO L KRSP 312254Z AUTO 10SM OVC044 07/M01 RMK AO2 SLPNO T00671006 $ KSIY 312353Z AUTO 36008KT 10SM FEW060 10/05 A2980 RMK AO2 SLP094 60001 T01000050 10106 20083 58017 LIRZ 312050Z 35011KT CAVOK 11/07 Q1024 VTUK 312300Z 01002KT 9999 FEW025 24/22 Q1011 A2985 RWY 03 INFO A VTUL 312100Z 00000KT 9999 FEW028 FEW300 24/23 Q1009 A2981 NOSIG KSJS 312355Z AUTO 33008G17KT 10SM -RA OVC012 04/03 A2990 RMK AO2 T00430032 10075 20043 KSJT 312351Z 05008KT 10SM CLR 19/M01 A3030 RMK AO2 SLP251 T01891006 10233 20189 53002 KRST 312354Z 34006KT 10SM CLR M02/M08 A3046 RMK AO2 SLP336 T10221083 10039 21022 53002 KSLB 312355Z AUTO 04004KT 10SM CLR M00/M09 A3047 RMK AO2 KSLC 312353Z 18013G19KT 10SM FEW095 FEW140 SCT190 BKN240 23/M06 A2982 RMK AO2 SLP054 SCSL DSNT ALQDS ACSL DSNT NE-S T02281056 10250 20200 58014 KTCC 312353Z AUTO 17009KT 10SM CLR 16/M02 A3028 RMK AO2 SLP235 T01611017 10194 20139 56009 VTUO 310800Z 34004KT 9999 FEW018 32/24 Q1007 A2975 INFO J RWY 04 KRSV 312355Z AUTO 33019G32KT 10SM OVC048 06/M02 A3021 RMK AO2 T00561025 10070 20037 KRSW 312353Z AUTO 32007KT 10SM CLR 21/13 A2988 RMK AO2 SLP116 T02060128 10272 20206 53022 KRTN 312353Z AUTO 19017G24KT 10SM CLR 12/M03 A3026 RMK AO2 SLP226 T01221028 10161 20122 56002 KRUE 312353Z AUTO 02004KT 10SM CLR 11/M05 A3032 RMK AO2 SLP266 T01061050 10178 20106 53030 KTBN 312358Z AUTO 32006KT 10SM CLR 03/M07 A3036 RMK AO2 SLP290 T00341074 10078 20034 52015 KSLE 312356Z 14005KT 10SM CLR 14/09 A2983 RMK AO2 SLP100 T01440089 10150 20117 55002 KSJX 312355Z AUTO 01008G20KT 10SM OVC041 01/M06 A3036 RMK AO2 T00111063 10022 20010 GCXO 312300Z 32010KT 290V350 9999 FEW007 SCT020 17/15 Q1021 NOSIG VVCR 010000Z 31004KT 9999 FEW015 SCT023 29/20 Q1010 NOSIG KSLG 312355Z AUTO 02005KT 10SM CLR 05/M06 A3039 RMK AO1 10110 20050 401600050 52014 KRUG 312355Z AUTO 15014G20KT 10SM CLR 01/M08 A3020 RMK AO2 KSLH 312357Z AUTO 01014G22KT 10SM OVC038 00/M06 A3035 RMK AO2 T10011068 KTAZ 312355Z AUTO 36012KT 10SM CLR 02/M05 A3033 RMK AO2 VVCT 010000Z 07004KT 9999 FEW015 28/25 Q1009 NOSIG KSLI 312358Z 23002KT 10SM OVC047 20/16 A2986 RMK AO2A SLP114 T02000156 10215 20200 57010 KTBR 312355Z AUTO 29004KT 10SM OVC110 14/10 A2982 RMK AO2 T01430100 10220 20139 FNGI 311500Z 18006KT 9999 FEW010 SCT020 22/12 Q1009 VTUU 312330Z 03003KT 9999 FEW022 SCT300 24/23 Q1010 A2984 NOSIG KRTS 312355Z AUTO 24024G30KT 10SM BKN120 15/M02 A2972 RMK AO2 LJLJ 010000Z 26002KT 4000 BR OVC020 05/04 Q1028 NOSIG VTUV 312300Z 04003KT 8000 NSC 23/22 Q1010 A2984 INFO M RWY 36 KSLK 312351Z AUTO 05009KT 10SM SCT043 BKN055 OVC070 03/M02 A2999 RMK AO2 SLP172 T00281022 10078 20028 53012 $ LJMB 010000Z AUTO 32001KT 0050 R32/0200 FG VV001 02/02 Q1027 VTUW 310900Z 11005KT 9999 FEW022 33/21 Q1007 A2975 RWY15 INFO I VVDN 010000Z 23001KT 4000 BR SCT013 SCT050 26/25 Q1012 NOSIG KTCL 312353Z 34013G20KT 10SM BKN038 OVC050 13/07 A3009 RMK AO2 SLP187 60001 T01330067 10211 20128 51039 LIVD 311655Z 00000KT CAVOK 06/02 Q1027 RMK FEW FEW200 VIS MIN 9999 KTCM 312358Z AUTO 19003KT 10SM OVC050 13/10 A2984 RMK AO2 SLP109 60000 T01300099 10132 20104 53004 $ LIVE 312355Z 01003KT CAVOK 06/03 Q1028 RMK SKC VIS MIN 9999 KSLN 312353Z 09004KT 10SM CLR 07/M09 A3045 RMK AO2 SLP319 T00671089 10089 20061 55005 KSME 312355Z AUTO 29003KT 10SM BKN019 BKN023 OVC045 02/02 A3003 RMK AO2 LIVF 312355Z 23004KT 3000 BR BKN010 09/08 Q1025 RMK BKN MON INVIS VAL INVIS VIS MIN 3000 KSMF 312353Z 00000KT 2 1/2SM RA BR FEW022 BKN039 OVC049 13/12 A2977 RMK AO2 SLP080 P0005 60041 T01330122 10167 20133 56011 KSKX 312355Z AUTO 24007KT 10SM CLR 13/M03 A3030 RMK AO1 10160 20110 401701060 57010 KSLO 312355Z AUTO 35012G21KT 10SM CLR 06/M03 A3030 RMK AO2 T00561034 10091 20056 KTBX 312355Z AUTO 11009KT 10SM CLR 10/M06 A3009 RMK AO2 KTDF 312350Z AUTO 00000KT 10SM BKN060 08/07 A2984 RMK AO2 KRUQ 312355Z AUTO 00000KT 10SM -RA BKN065 BKN100 11/07 A2980 RMK AO2 T01080072 10150 20107 KSLR 312355Z AUTO 01005KT 10SM CLR 13/04 A3033 RMK AO2 T01340040 10183 20134 KTCS 312353Z AUTO 16008KT 10SM CLR 20/03 A3020 RMK AO2 SLP177 T02000033 10217 20178 56006 TSNO KSNA 312353Z 20003KT 10SM BKN048 OVC055 22/12 A2986 RMK AO2 SLP109 T02220122 10228 20217 58009 EVRA 312350Z 17003KT 8000 SCT002 M03/M03 Q1025 R18/190095 NOSIG KTEB 312351Z 02003KT 10SM OVC070 12/03 A2990 RMK AO2 SLP123 60000 T01220028 10128 20117 50001 KRUT 312355Z 32003KT 10SM OVC050 08/00 A2999 RMK AO1 10090 20070 400900010 52010 KSNC 312335Z AUTO 04006KT 9SM SCT013 OVC023 08/07 A2995 RMK AO2 P0002 LIVM 311055Z 32007KT 6000 NSC 15/08 Q1026 RMK FEW FEW200 QUK 1 QUL 0 VIS MAR 6 KM VIS MIN 6000 LKCV 010000Z 12002KT 8000 NSC 10/10 Q1025 NOSIG KSMN 312355Z AUTO 00000KT 10SM BKN120 15/02 A2974 RMK AO1 10170 20090 401701020 57007 LIVO 311755Z 00000KT CAVOK 05/04 Q1026 RMK SKC VIS MIN 9999 KSMO 312358Z 22009KT 10SM SCT013 BKN021 OVC055 19/14 A2987 RMK AO2 T01940144 KRWF 312353Z AUTO 14004KT 10SM CLR 02/M09 A3048 RMK AO2 SLP336 T00171094 10050 20017 58006 LIVP 311655Z 36012KT CAVOK 06/M01 Q1028 RMK SCT SCT190 MON LIB VA KSMQ 312353Z AUTO 33003KT 10SM SCT055 OVC080 10/03 A2988 RMK AO2 SLP119 T01000028 10111 20100 58003 KSNH 312355Z AUTO 35011KT 10SM CLR 06/M04 A3020 RMK LIVR 312355Z 35005KT CAVOK 05/01 Q1027 RMK SKC MON LIB VIS MIN 9999 KRWI 312353Z AUTO 00000KT 10SM CLR 09/07 A2982 RMK AO2 SLP097 T00890067 10183 20067 56001 KTDR 312356Z AUTO M 10SM FEW075 FEW100 20/11 A2991 RMK AO2 SLP132 T02000107 10220 20195 $ KRVS 312353Z 01004KT 10SM CLR 08/M05 A3042 RMK AO2 RAB02E13B40E47 SLP305 P0000 60000 T00781050 10122 20078 53008 KSMS 312355Z AUTO 00000KT 9SM -DZ FEW026 SCT039 BKN060 13/11 A2981 RMK AO2 KSOA 312355Z AUTO 03006KT 10SM CLR 20/M02 A3033 RMK AO2 LIVT 312355Z 04012KT CAVOK 13/06 Q1024 RMK SKC QUK / QUL / VIS MAR 20 KM VIS MIN 9999 KSNK 312355Z AUTO 07006KT 10SM CLR 15/01 A3034 RMK AO2 T01520008 KRWL 312353Z AUTO 22018G27KT 10SM CLR 16/M08 A3005 RMK AO2 PK WND 22032/2258 SLP149 T01561078 10194 20156 56004 FNHU 311600Z 18008KT 9999 FEW010 BKN070 20/17 Q1019 FMSD 312300Z 06019KT 9999 FEW016 21/19 Q1014 KRXE 312353Z AUTO 24009KT 10SM CLR 16/M03 A2987 RMK AO2 SLP100 T01611028 10211 20150 57004 KSMX 312351Z 18015KT 10SM BKN032 BKN060 21/12 A2980 RMK AO2 SLP093 T02060117 10233 20200 56016 KTDZ 010005Z AUTO 35021G31KT 7SM -SN BKN013 BKN019 OVC025 03/01 A3001 RMK AO2 PK WND 35031/0002 RAE2356SNB2356 P0000 T00280006 TSNO KSPA 312335Z AUTO 34006KT 10SM SCT060 15/09 A2979 RMK AO2 KSNS 312353Z 01005KT 7SM -RA OVC070 16/14 A2979 RMK AO2 SLP098 P0026 60058 T01560139 10222 20150 58003 KSNT 312351Z AUTO 17006KT 12/M03 A2989 RMK AO1 SLP073 T01171033 10156 20061 58001 KSPB 312353Z AUTO 00000KT 10SM CLR 12/09 A2984 RMK AO2 SLP104 60004 T01220089 10139 20106 50002 KSPD 312356Z AUTO 15017KT 10/M02 A3026 RMK AO1 SLP240 T01001022 10139 20100 56012 KRWV 312355Z AUTO 34008KT 10SM CLR 18/02 A3027 RMK AO2 KTEW 312352Z AUTO 36014G23KT 10SM OVC025 01/M02 A3013 RMK AO2 T00051023 KTEX 312355Z AUTO 15008KT 10SM CLR 12/M06 A3030 RMK AO2 T01191057 10135 20117 KSPF 312355Z AUTO 19004KT 10SM CLR 09/02 A2993 RMK AO2 KSNY 312353Z AUTO 16017G22KT 10SM CLR 07/M03 A3016 RMK AO2 PK WND 16028/2302 SLP233 T00721028 10111 20061 58016 KSPG 312353Z AUTO 32005KT 10SM CLR 21/11 A2988 RMK AO2 SLP118 T02110106 10233 20211 53015 KSOP 312355Z AUTO 00000KT 10SM OVC085 12/06 A2980 RMK AO1 10170 20110 401700040 57003 KTFP 312355Z AUTO 04003KT 10SM CLR 23/08 A3016 RMK AO2 T02320075 KSPI 312352Z 36013KT 10SM CLR 04/M06 A3035 RMK AO2 SLP282 T00391061 10083 20039 53024 KTHA 312355Z AUTO 33014KT 10SM FEW050 03/M03 A3009 RMK KSPL 312355Z AUTO 02015KT FEW040 FEW050 24/17 A3015 RMK AO1 KRYN 312348Z 18011G17KT 10SM CLR 33/09 A2988 KSOW 312355Z AUTO 19021G24KT 10SM CLR 18/05 A3015 RMK AO2 KSQE 312355Z AUTO 35020G29KT 10SM FEW048 23/09 A3007 RMK A01 KSQI 312355Z AUTO 36007KT 10SM FEW050 02/M08 A3039 RMK AO1 10070 20020 52024 KSPR 312355Z AUTO 36026KT 9SM CLR 22/10 A3005 RMK A01 KSPS 312352Z 02008KT 10SM CLR 12/00 A3034 RMK AO2 SLP272 T01220000 10172 20122 50001 MBGT 312300Z 12008KT 9000 SCT015 27/21 Q1011 FNMA 311600Z 28011KT 9999 FEW009CB BKN057 26/24 Q1016 EVVA 312350Z AUTO 00000KT 3800 BR NSC M01/M01 Q1025 KSRB 312355Z AUTO 33004KT 10SM FEW042 03/01 A3006 RMK KRYT 312353Z AUTO 00000KT 10SM OVC055 A2985 RMK AO2 SLPNO 57003 $ KSQL 312350Z 00000KT 10SM SCT023 BKN090 OVC160 15/12 A2980 KSRC 312356Z AUTO 34009KT 10SM CLR 09/M07 A3032 RMK AO2 SLP276 T00941072 10161 20094 51035 TSNO KRZL 312355Z AUTO 35016G27KT 10SM SCT018 BKN036 OVC060 02/01 A3021 RMK AO2 FNKU 311500Z 29004KT 9999 FEW014 SCT100 27/18 Q1016 KRYV 312355Z AUTO 36009G15KT 10SM BKN050 01/M07 A3038 RMK AO2 T00121073 10035 20012 KSPW 312353Z AUTO 36003KT 10SM CLR 01/M08 A3047 RMK AO2 SLP337 T00111083 10050 21011 56002 TSNO KRYW 312355Z AUTO 02006KT 10SM CLR 18/03 A3027 RMK AO2 T01820031 10235 20182 LIYW 312358Z AUTO 03003KT 9999 CLR 07/06 A3028 RMK AO2 SLP258 T00650059 10097 20059 401760035 58001 KRZN 312355Z AUTO 00000KT 10SM CLR M02/M08 A3051 RMK AO2 T10231085 10032 21025 KTIF 312355Z AUTO 16012KT 10SM CLR 05/M10 A3028 RMK AO2 T00511105 10090 20036 KRYY 312347Z 30007G15KT 260V350 7SM -RA SCT030 BKN040 11/06 A2993 LJPZ 010000Z AUTO VRB02KT 9999 NCD 08/06 Q1025 WMKA 010000Z 07001KT 8000 FEW000 FEW017CB BKN280 26/25 Q1009 WMKB 010000Z 11002KT 8000 FEW017CB BKN280 25/24 Q1008 NOSIG KRZR 312355Z AUTO 32010KT 280V010 10SM BKN025 OVC045 06/01 A3001 RMK WMKC 010000Z 08001KT 6000 RA FEW010 FEW017CB SCT020 OVC200 24/24 Q1009 WMKD 010000Z 12001KT 9999 FEW024 SCT160 BKN280 26/24 Q1009 NOSIG KRZT 312354Z AUTO 34008KT 10SM RA BKN022 OVC026 04/03 A2991 RMK AO2 P0001 KTIK 312358Z AUTO 02007KT 10SM CLR 09/M04 A3038 RMK AO2 SLP299 T00861041 10153 20086 52004 $ WMKE 010000Z 31003KT 9999 FEW009 FEW016CB BKN270 26/25 Q1009 KSSC 312359Z AUTO 03005KT 10SM FEW024 SCT055 BKN080 13/11 A2978 RMK AO2 RAE2358 $ GEML 311830Z 08005KT 040V120 9999 BKN022 21/16 Q1022 FNLU 312300Z 21006KT 9999 BKN025 24/21 Q1012 NOSIG KTHV 312353Z AUTO 27003KT 10SM OVC055 08/03 A2987 RMK AO2 SLP119 T00780033 10117 20078 58001 KW13 312355Z AUTO 00000KT 10SM SCT040 OVC047 08/04 A2982 RMK AO1 T00790036 10105 20079 KSSF 312353Z 03005KT 10SM CLR 22/04 A3021 RMK AO2 SLP225 T02220039 10267 20222 53007 FNMO 311600Z 26012KT 9999 OVC012 23/18 Q1011 WMKI 010000Z 04003KT 9999 FEW008 FEW017CB BKN280 25/23 Q1009 KTIP 312350Z AUTO 35017G27KT 10SM OVC050 04/M05 A3026 RMK AO2 T00441051 10066 20044 WMKJ 010000Z 32001KT 6000 FEW023 SCT140 BKN280 26/24 Q1009 KSRQ 312353Z AUTO 33007KT 10SM CLR 19/11 A2988 RMK AO2 SLP119 T01940106 10250 20194 53015 WMKK 010000Z 15001KT 6000 FEW010 FEW017CB SCT140 BKN280 26/24 Q1009 NOSIG KSSI 312353Z AUTO 26003KT 10SM CLR 18/10 A2983 RMK AO2 SLP100 T01780100 10233 20178 53011 KSRR 312355Z AUTO 12010KT 10SM CLR 10/M01 A3037 RMK AO2 WMKL 010000Z 07003KT 9999 FEW017CB BKN270 26/25 Q1008 WMKM 010000Z 33002KT 3000 VCSH HZ FEW017CB SCT028 BKN270 26/25 Q1010 LKKB 010000Z 23003KT 6000 NSC 08/08 Q1025 WMKN 010000Z 25004KT 220V280 9999 FEW018 SCT140 BKN250 25/24 Q1009 KSTC 312353Z 00000KT 10SM CLR 01/M09 A3048 RMK AO2 SLP346 T00061094 10056 20006 56004 KTKC 312353Z AUTO 00000KT 10SM CLR 00/M08 A3047 RMK AO2 T10021077 10042 21007 KW22 312355Z AUTO 00000KT 6SM -RA BKN017 OVC023 05/04 A2986 RMK AO2 WMKP 010000Z 35001KT 8000 FEW017CB SCT140 BKN280 26/25 Q1009 NOSIG KTIW 312353Z 18005KT 10SM FEW015 BKN050 12/08 A2984 RMK AO2 SLP106 60001 T01220083 10122 20106 53002 KUBE 312355Z AUTO 34004KT 10SM CLR M02/M07 A3049 RMK AO2 KSTE 312355Z AUTO 36005KT 10SM CLR M01/M08 A3043 RMK AO2 T10131084 10022 21014 KTIX 312350Z 30005KT 7SM SKC 19/10 A2984 KUAO 312353Z AUTO 17004KT 10SM CLR 14/09 A2984 RMK AO2 SLP103 60000 T01390089 10144 20106 56006 KSTF 312355Z AUTO 32004KT 10SM CLR 11/05 A3014 RMK AO2 LLBG 312350Z 18006KT 9999 SCT030 18/15 Q1015 NOSIG KTKI 312353Z 03007KT 10SM CLR 14/02 A3032 RMK AO2 SLP271 60000 T01440022 10183 20144 53010 KSTJ 312353Z AUTO 01007KT 10SM CLR 01/M07 A3046 RMK AO2 SLP321 T00111072 10083 20011 56006 KSUA 312047Z 32012KT 7SM SCT025 BKN045 27/18 A2977 KSTK 312355Z AUTO 17011KT 10SM CLR 11/00 A3016 RMK AO2 KW29 312357Z AUTO 05003KT 10SM 10/03 A2986 RMK AO1 KSTL 312351Z 33010KT 10SM CLR 06/M06 A3035 RMK AO2 SLP282 T00561061 10089 20056 53020 KW31 312355Z AUTO 00000KT 10SM SCT045 BKN060 09/07 A2982 RMK AO1 T00920071 10145 20085 KSUE 312355Z AUTO 02021G24KT 10SM BKN035 OVC041 02/M06 A3040 RMK AO1 10020 20010 52020 KSTP 312353Z 02004KT 10SM CLR 02/M08 A3052 RMK AO2 SLP341 T00171083 10039 20017 55001 KTLH 312353Z 27003KT 10SM FEW050 15/06 A2990 RMK AO2 SLP123 T01500061 10244 20150 53013 $ VVNB 010000Z 07006KT 3100 BR NSC 25/24 Q1012 NOSIG KSTS 312353Z 23007KT 10SM SCT025 SCT050 OVC200 16/11 A2975 RMK AO2 SLP068 60000 T01610106 10189 20144 56020 KTMA 312350Z AUTO 31007KT 10SM CLR 17/05 A2988 RMK AO2 T01730048 10302 20075 KTMB 312353Z 28009KT 10SM CLR 25/18 A2984 RMK AO2 SLP105 T02500183 10317 20250 53019 LKKU 311500Z 36001KT 9999 BKN031 11/06 Q1026 RMK REG QNH 1023 KSVC 312355Z AUTO 13016G22KT 10SM CLR 18/07 A3022 RMK AO2 KTKV 312355Z AUTO 00000KT 10SM OVC033 M01/M06 A3044 RMK AO2 T10081064 10014 21008 LKKV 010000Z 27005KT 0300 R29/0400N FG VV001 08/08 Q1025 LKLN 312300Z AUTO 25001KT //// HZ NSC 08/// Q1026 KSUN 312348Z 00000KT 10SM BKN120 14/M04 A2987 KW43 312355Z AUTO 21010G22KT 10SM CLR 11/00 A2993 RMK AO2 KTME 312355Z AUTO 35009KT 10SM CLR 18/ A3021 RMK AO2 KUDG 312355Z AUTO 00000KT 10SM FEW085 10/06 A2980 RMK AO1 10190 20100 401900060 57003 KUCP 312356Z AUTO 00000KT 5SM BR 05/05 A2991 RMK AO2 TSNO 53010 60006 T00500050 10083 20050 RAE17 P0001 SLP149 $ KSVH 312355Z AUTO 34007KT 5SM +RA BKN028 OVC038 09/08 A2981 RMK AO2 P0006 60006 T00880078 10134 20088 LKNA 010000Z VRB02KT 5000 BR OVC015 08/08 Q1026 KSUS 312354Z 33010KT 10SM CLR 05/M07 A3036 RMK AO2 SLP285 T00501067 10083 20050 53017 KSUT 312355Z AUTO 34003KT 10SM CLR 13/08 A2980 RMK AO2 T01270080 10203 20126 KTMK 312355Z AUTO 04004KT 10SM SCT029 BKN036 BKN044 14/11 A2985 RMK AO2 KTNB 312355Z AUTO 29010G20KT 10SM BKN008 OVC017 04/03 A2981 RMK AO2 60004 T00400032 10102 20040 KSUU 312358Z AUTO 24008KT 10SM CLR 14/14 A2976 RMK AO2 SLP084 60021 T01400140 10166 20139 57016 $ KSVN 312358Z AUTO 19003KT 10SM FEW085 15/11 A2980 RMK AO2 SLP094 T01460112 10227 20140 52008 KSUW 312355Z AUTO 00000KT 10SM CLR M01/M07 A3050 RMK AO2 T10121075 10042 21021 KSUX 312352Z AUTO 09003KT 10SM CLR M01/M08 A3047 RMK AO2 SLP333 T10061078 10067 21006 58009 KSWF 312345Z 02006KT 10SM OVC040 09/04 A2994 KUCY 312355Z AUTO 35007KT 10SM CLR 04/M05 A3025 RMK VVPB 312300Z VRB02KT 9999 SCT015 BKN050 24/24 Q1012 NOSIG KTOA 312347Z 27005KT 10SM SCT025 OVC040 20/15 A2987 FNSA 311500Z 18008KT 9999 BKN015 24/17 Q1014 KTOB 312353Z AUTO 36004KT 10SM SCT100 01/M07 A3046 RMK AO2 LKMT 010000Z 20002KT 4000 BR NSC 03/03 Q1026 NOSIG KTOC 312355Z AUTO 31006G14KT 10SM SCT060 SCT075 SCT120 12/04 A2984 RMK AO2 T01180042 10178 20118 KW63 312355Z AUTO 00000KT 10SM OVC060 09/08 A2982 RMK AO1 KSWO 312353Z AUTO 04006KT 10SM CLR 07/M06 A3040 RMK AO2 SLP295 T00721056 10150 20072 53002 KTOI 312353Z AUTO 35005KT 10SM CLR 14/08 A2996 RMK AO2 SLP143 T01390083 10228 20139 53021 KTPA 312353Z 31005KT 10SM CLR 19/09 A2990 RMK AO2 SLP124 T01890094 10239 20189 53016 KUES 312345Z 36010G21KT 10SM BKN050 01/M08 A3037 LLET 311450Z 03006KT CAVOK 28/10 Q1014 RMK FEW060 KTOL 312352Z 35015G23KT 5SM -SN BR BKN008 OVC015 02/01 A3002 RMK AO2 PK WND 36030/2326 RAE43FZRAB43E48SNB27 SLP171 P0005 60020 T00170006 10061 20017 51037 KTNU 312355Z AUTO 36008KT 10SM CLR 02/M07 A3046 RMK AO2 LKPD 010000Z 07002KT 6000 SCT032 BKN100 08/07 Q1025 KSWW 312355Z AUTO 04005KT 10SM CLR 15/00 A3036 RMK AO2 T01521005 10190 20152 VVPQ 312330Z VRB02KT 9999 FEW017 25/23 Q1009 NOSIG KSYF 312355Z AUTO 15010KT 10SM CLR 06/M07 A3027 RMK AO2 T00571073 10101 20048 FNSO 311600Z 20008KT 9999 BKN019 ///// Q1010 KTOP 312353Z 36004KT 10SM CLR 04/M07 A3046 RMK AO2 SLP320 T00441072 10089 20039 56005 KW75 312355Z AUTO 33006KT 10SM CLR 11/03 A2983 RMK AO1 T01070031 10143 20107 KTPH 312356Z AUTO 17026G34KT 10SM CLR 17/M03 A2980 RMK AO2 PK WND 17034/2347 SLP050 T01721033 10183 20161 58022 KSYI 312355Z AUTO 33015KT 10SM FEW060 04/M02 A3012 RMK KTOR 312353Z AUTO 15012KT 10SM CLR 12/M01 A3006 RMK AO2 SLP182 T01171011 10150 20089 56009 LLHA 311650Z 15009KT 9999 BKN035 18/15 Q1014 KW78 312355Z AUTO 00000KT 10SM SCT065 08/06 A2982 RMK AO1 T00770059 10136 20077 KSXT 312356Z AUTO 00000KT 10SM FEW008 BKN015 07/05 A2980 RMK AO2 SLP090 T00670050 10078 20056 58002 KTPL 312355Z AUTO 34009KT 10SM CLR 17/03 A3027 RMK AO1 10220 20170 52010 FNUB 311400Z 27004KT 9999 FEW025 SCT057 24/15 Q1020 KW81 312355Z AUTO 00000KT 10SM SCT060 08/06 A2982 RMK AO1 T00800060 10148 20079 KSYM 312350Z AUTO 29007G13KT 7SM -RA BKN008 OVC011 03/02 A2997 RMK AO2 P0001 KSYN 312353Z AUTO 35005KT 10SM CLR 00/M08 A3048 RMK AO2 T10021082 10047 21002 KTQE 312354Z AUTO 01003KT 4SM HZ CLR 02/M09 A3047 RMK AO2 SLP324 T00221089 10072 20022 58008 KUGN 312355Z 33015G24KT 10SM BKN041 OVC047 02/M07 A3032 RMK AO2 PK WND 33026/2300 UPB44E54 SLP277 P0000 60000 T00221067 10033 20022 51026 FNUE 311600Z 00000KT 9999 SCT033 29/18 Q1017 FNUG 311600Z 28008KT 9999 SCT020 BKN080 25/18 Q1012 WMSA 010000Z 00000KT 7000 FEW017CB BKN140 26/24 Q1009 KTQH 312355Z AUTO 01006KT 10SM CLR 06/M02 A3039 RMK AO2 KSYR 312354Z 04003KT 10SM OVC075 08/01 A2996 RMK AO2 SLP146 T00830011 10100 20083 53008 LKPR 010000Z 21005KT CAVOK 08/08 Q1025 NOSIG LLIB 311450Z 29008KT 8000 RA VCTS FEW///CB BKN020 15/14 Q1015 RMK CB OBS N OF AD KSZL 312358Z AUTO 35007KT 9SM CLR 03/M08 A3042 RMK AO2 SLP310 T00291077 10075 20029 401580025 52003 $ GFLL 312100Z 06011KT 1500 TSRA OVC008 FEW025CB 22/22 Q1014 RMK CB-NE/SW MBPV 312300Z 00000KT 9999 SCT015TCU SCT050 28/24 Q1010 KW96 312355Z AUTO 00000KT 10SM CLR 09/04 A2984 RMK AO1 T00860039 10140 20086 KTRI 312353Z 27007KT 7SM -RA FEW011 FEW021 OVC044 07/06 A2986 RMK AO2 SLP107 P0004 60010 T00720061 10100 20072 56001 MDAB 312200Z 12006KT 9999 FEW017CB SCT020 SCT300 28/26 Q1010 CB/SE/W KSZT 312355Z AUTO 20004KT 10SM OVC055 10/08 A2979 RMK AO2 KW99 312355Z AUTO 36004KT 10SM DZ BKN040 OVC048 09/04 A2986 RMK AO2 T00850035 10115 20085 KTRK 312345Z 21009G21KT 10SM SCT046 BKN050 09/01 A2980 RMK NOSPECI 10140 KTRL 312353Z AUTO 02007KT 10SM CLR 15/03 A3031 RMK AO2 SLP261 T01500033 10200 20150 53012 KUIL 312353Z AUTO 00000KT 6SM -RA BR SCT025 BKN043 BKN110 11/10 A2982 RMK AO2 RAE01B44 SLP098 P0000 60018 T01110100 10144 20094 51007 KTRM 312352Z AUTO 12005KT 10SM CLR 29/04 A2971 RMK AO2 SLP061 T02890044 10300 20261 56012 TSNO KVAD 312358Z AUTO 28005KT 10SM CLR 17/06 A2987 RMK AO2 SLP117 T01670057 10225 20165 52015 $ KUIN 312354Z AUTO 36010KT 10SM CLR 03/M07 A3039 RMK AO2 SLP296 T00281067 10067 20028 53014 KVAF 312355Z AUTO 32012G19KT 10SM CLR 23/10 A3013 RMK A01 KTTA 312355Z AUTO 06003KT 10SM SCT060 SCT075 12/09 A2980 RMK AO2 T01210094 10171 20120 LKTB 010000Z 14002KT 3500 BR OVC026 06/06 Q1026 NOSIG KTTD 312353Z 09004KT 10SM FEW025 14/10 A2983 RMK AO2 SLP102 60000 T01390100 10156 20122 55002 KTTF 312356Z AUTO 35021G29KT 4SM RA BKN014 OVC021 02/01 A3000 RMK AO2 KUKF 312355Z AUTO 00000KT 10SM -DZ OVC065 07/07 A2987 RMK AO2 LTG DSNT S P0002 KVBG 312355Z 18010KT 10SM FEW020 BKN033 BKN055 18/12 A2982 RMK AO2A SLP088 T01830122 10211 20183 56013 LAST KTSP 312355Z AUTO 08014KT 10SM CLR 17/06 A2983 RMK AO2 MDBH 312300Z 11010KT 9999 -TS FEW016CB FEW016 SCT300 28/24 Q1011 CB/W/NW/N FOOG 312300Z /////KT 9999 SCT008 BKN030 26/23 Q1013 VVTS 312330Z VRB03KT 5000 BR FEW017 BKN040 26/24 Q1009 NOSIG KUKI 312356Z AUTO VRB04KT 10SM CLR 16/07 A2976 RMK AO2 SLP072 T01610072 10183 20139 56015 KVCB 312353Z AUTO 00000KT 10SM BKN090 BKN110 14/12 A2978 RMK AO2 SLP082 60026 T01440122 10172 20144 56015 TSNO FOOL 310649Z VRB01KT 8000 SCT009 FEW016CB OVC033 24/23 Q1013 NOSIG KTTN 312353Z 35005KT 10SM BKN046 OVC075 09/02 A2987 RMK AO2 SLP111 T00940022 10106 20089 58005 FOON 311900Z /////KT 7000 +TSRA BKN015 FEW023CB 21/21 Q1012 KVAY 312354Z AUTO 35004KT 10SM OVC075 09/03 A2987 RMK AO2 SLP114 T00890028 10111 20089 58006 KVBS 312355Z AUTO 05023KT 10SM CLR 22/08 A3013 RMK A01 KTTS 312358Z AUTO 29005KT 10SM CLR 20/11 A2983 RMK AO2 SLP104 T01990114 10263 20199 52020 VISNO RWY33 CHINO RWY33 $ KVBT 312355Z AUTO 02008KT 10SM CLR 06/M07 A3038 RMK AO1 10110 20060 401700060 52014 KUKT 312355Z AUTO 02003KT 10SM BKN034 BKN050 OVC060 09/02 A2990 RMK AO1 KTUL 312353Z 35007KT 10SM FEW250 06/M04 A3040 RMK AO2 SLP296 T00611044 10128 20061 51007 KTVC 312353Z 02020G30KT 9SM -SN OVC039 03/M06 A3031 RMK AO2 PK WND 03030/2345 SLP269 P0000 60000 T00281056 10028 20022 51024 KULM 312346Z AUTO 00000KT 10SM CLR 02/M09 A3048 RMK AO2 KVBW 312355Z AUTO 00000KT 10SM OVC042 08/04 A2983 RMK AO2 T00800041 10105 20079 KVDF 312355Z AUTO 00000KT 10SM CLR 17/11 A2990 RMK AO2 KTVF 312355Z AUTO 15005KT 10SM CLR 00/M07 A3041 RMK AO1 10030 20000 57020 KTUP 312353Z AUTO 02019G29KT 10SM FEW050 10/M03 A3017 RMK AO2 PK WND 03031/2323 SLP217 T01001033 10178 20100 53033 RJAA 010000Z 33006KT 4000 -RA BR FEW015 SCT035 BKN045 16/14 Q1019 NOSIG KVDI 312355Z AUTO 31007KT 10SM OVC110 18/07 A2985 RMK AO2 KTVI 312355Z AUTO 00000KT 10SM CLR 16/07 A2989 RMK AO2 KTUS 312353Z 20012G20KT 10SM CLR 32/07 A2989 RMK AO2 SLP079 T03170067 10328 20294 56008 KVCT 312351Z 01008KT 10SM CLR 22/03 A3019 RMK AO2 SLP221 T02170033 10283 20217 53013 KTVK 312355Z AUTO 34004KT 10SM CLR 00/M07 A3045 RMK AO2 KTVL 312353Z AUTO 19012G16KT 10SM SCT049 11/01 A2978 RMK AO2 SLP045 60000 T01060006 10150 20106 56010 KVCV 312355Z AUTO 18017G22KT 7SM SCT110 18/08 A2984 RMK AO2 RJAF 010000Z 02002KT 3000 -RA BR FEW001 SCT025 OVC040 11/09 Q1019 LKVO 311500Z 10005KT 5000 BR SCT029 10/08 Q1026 KTWF 312353Z 08005KT 10SM CLR 17/01 A2978 RMK AO2 SLP044 T01720011 10206 20172 58010 MDCY 312300Z 11010KT 9999 SCT018 SCT300 28/25 Q1010 RJAH 010000Z VRB01KT 0800 R03/1300VP1800U -RA FG SCT001 BKN002 OVC080 16/15 Q1019 KTVR 312353Z AUTO 35008KT 10SM FEW060 15/06 A3019 RMK AO2 SLP230 T01500056 10206 20150 53024 KUNI 312355Z AUTO 00000KT 7SM -RA SCT008 OVC027 06/04 A2988 RMK AO2 P0001 60003 T00550042 10075 20055 RJAK 310135Z 20003KT 5000 -SHRA BR FEW030 BKN040 BKN060 18/14 Q1024 RMK 2CU030 5SC040 6SC060 A3026 RJBB 010000Z 06004KT 4500 R06R/P1800N R06L/1200VP1800D -SHRA BR FEW005 SCT020 BKN040 18/16 Q1015 NOSIG RJBD 010000Z 01008KT 1800 +SHRA BR FEW000 SCT010 FEW020CB BKN025 17/16 Q1014 KVEL 312353Z AUTO 13004KT 10SM CLR 15/M03 A3003 RMK AO2 SLP152 T01501028 10172 20111 58011 SABE 010000Z 14016KT 9999 SCT020 BKN100 18/14 Q1018 RJBE 010000Z 05012KT 9999 -SHRA FEW007 SCT015 BKN030 18/16 Q1015 KTWM 312354Z AUTO 00000KT 10SM CLR M01/M05 A3046 RMK AO2 SAAP 311725Z 09008KT 9999 SCT018 BKN100 16/15 Q1013 RERA KUNO 312353Z AUTO 35008KT 10SM CLR 05/M08 A3034 RMK AO2 SLP278 T00501083 10100 20044 53018 SAAR 010000Z 18002KT CAVOK 18/16 Q1015 RJCA 310248Z VRB01KT 9999 BKN035 BKN130 OVC200 11/03 Q1020 RMK 5CU035 5AC130 8CI200 A3013 KVER 312355Z AUTO 34005KT 10SM CLR 04/M08 A3041 RMK AO2 T00441084 10100 20032 RJAT 310636Z 15003KT 9999 -RA FEW005 SCT012 BKN080 14/14 Q1024 RMK 1ST005 3SC012 6AC080 A3026 RJCB 010000Z VRB01KT 8000 FEW015 SCT/// 09/05 Q1022 KVES 312355Z AUTO 36019G27KT 7SM -RA OVC010 02/01 A2999 RMK AO2 P0001 RJCC 010000Z VRB02KT 5000 BR FEW010 BKN/// 07/06 Q1020 EYKA 312350Z AUTO VRB01KT 1600 BR OVC001/// 04/03 Q1026 KTXK 312353Z 35005KT 10SM CLR 14/03 A3027 RMK AO2 SLP248 T01390033 10200 20139 51018 SAAV 311430Z 14012KT 9999 FEW003 OVC040 19/16 Q1013 RERA KUNU 312355Z AUTO 35009KT 10SM BKN050 01/M07 A3040 RMK AO2 T00071073 10035 20006 RJAW 010000Z 12012KT 9999 FEW010 27/25 Q1014 RMK 2CU010 A2997 KUNV 312353Z 00000KT 10SM OVC055 07/02 A2988 RJCH 010000Z 07007KT 9999 FEW018 BKN/// 13/09 Q1019 RJCK 010000Z 05004KT 020V080 9999 FEW040 10/05 Q1021 RJBT 010000Z 18007KT 150V210 9999 -RA FEW003 SCT050 BKN070 16/15 Q1014 RJDC 010000Z 08008KT 9999 -SHRA FEW008 BKN010 BKN015 20/18 Q1014 RJCM 010000Z VRB02KT 7000 FEW020 09/07 Q1022 RJCN 010000Z 05006KT CAVOK 11/07 Q1021 RJCO 312329Z 10006KT 2000 R14/P1800 BR FEW002 SCT005 BKN250 06/06 Q1021 RMK 2ST002 4ST005 6CI250 A3016 SADF 312300Z 14010KT 9999 SCT020 BKN100 OVC200 19/14 Q1016 SACO 010000Z 20008KT 9999 SCT010 BKN015 14/07 Q1020 KUOX 312355Z AUTO 36012G22KT 10SM CLR 08/M04 A3023 RMK AO2 PWINO PNO KTYQ 312355Z AUTO 35020G30KT 10SM -SN BKN016 OVC021 02/M01 A3011 RMK AO2 60005 T00161009 10037 20016 FQCH 311800Z 12012KT CAVOK 22/19 Q1016 KTYR 312353Z 35006KT 10SM CLR 15/06 A3028 RMK AO2 RAE01 SLP251 P0000 60000 T01500061 10206 20150 53016 RJCT 312132Z 26001KT 8000 FEW010 02/01 Q1022 RMK 2ST010 A3019 W/E FQBR 312100Z 06008KT 9999 FEW018 24/21 Q1013 RJEB 010000Z 09004KT 050V130 9999 FEW040 10/06 Q1021 KTYS 312353Z 31013G25KT 10SM -RA SCT036 BKN045 OVC050 06/02 A2994 RMK AO2 PK WND 32028/2334 SLP143 P0001 60001 T00560017 10111 20056 53014 $ RJEC 010000Z 21003KT 140V290 1400 R34/1100VP1800N BCFG BR FEW001 BKN002 05/05 Q1020 KVGT 312353Z 16018KT 10SM CLR 28/M02 A2973 RMK AO2 SLP067 T02781017 10283 20228 56023 RJDM 310711Z 35001KT 9999 -RA FEW040 BKN080 BKN100 22/15 Q1016 RMK 2SC040 5AC080 7AC100 A3001 RJCW 010000Z VRB02KT 8000 FEW004 05/05 Q1021 SADP 311535Z 27010KT 9999 RA SCT016 BKN035 17/11 Q1012 KVIH 312353Z AUTO 34008KT 10SM CLR 02/M08 A3035 RMK AO2 SLP282 T00221078 10072 20022 53013 KTZR 312355Z AUTO 31008KT 10SM RA OVC014 04/03 A2991 RMK AO2 P0001 60001 T00400032 10071 20040 RJDT 010000Z 28003KT 220V310 9999 FEW010 SCT015 BKN050 20/18 Q1013 MDJB 312300Z 00000KT 9999 FEW020 29/25 Q1010 NOSIG RJFE 311018Z VRB02KT 8000 -SHRA FEW006 SCT010 BKN015 20/20 Q1015 RMK 1ST006 4CU010 5CU015 A2999 LLSD 311950Z 26015KT 9999 BKN045 23/15 Q1013 RJFF 010000Z 16007KT 130V260 9999 -RA FEW020 SCT030 BKN070 21/17 Q1013 KUSE 312355Z AUTO 35013G26KT 10SM BKN015 OVC021 02/00 A3004 RMK AO2 RJFG 010000Z 17009KT 140V210 4000 -SHRA PRFG BR FEW001 SCT003 BKN005 20/20 Q1015 KVJI 312355Z AUTO 00000KT 5SM -RA BKN007 OVC016 06/06 A2985 RMK AO2 P0007 60022 T00640058 10082 20062 RJFK 010000Z VRB01KT 3500 -SHRA BR FEW001 SCT004 BKN006 19/18 Q1015 KVIS 312355Z 25012KT 10SM 23/11 A2974 RMK AO1 10240 20180 40270 0110 57024 KUTA 312355Z AUTO 36014G21KT 10SM CLR 09/M03 A3027 RMK AO2 KY19 312355Z AUTO 14017G23KT 10SM CLR 02/M12 A3018 RMK AO2 RJFM 010000Z VRB01KT 4000 SHRA BR FEW002 SCT010 BKN015 20/19 Q1014 KWAL 312354Z AUTO 36006KT 10SM OVC036 10/06 A2982 RMK AO2 SLP096 T01000061 10139 20100 56008 RJFO 010000Z VRB02KT 9999 FEW010 SCT020 BKN045 20/18 Q1014 KY23 312355Z AUTO 34003KT 10SM CLR 01/M06 A3049 RMK AO2 T00051065 10039 20003 RJGG 010000Z 10015KT 6000 -SHRA FEW003 BKN004 BKN015 18/17 Q1016 BECMG FEW005 SCT008 BKN020 SAEZ 010000Z 15014KT 120V190 9999 FEW018 SCT025 BKN100 15/12 Q1019 RJFR 010000Z VRB01KT 9999 FEW015 SCT025 BKN035 19/18 Q1013 RJFS 010000Z 36003KT 6000 -SHRA FEW030 SCT040 BKN100 19/15 Q1014 RJFT 010000Z 15004KT 140V210 3000 R07/P1800N BR PRFG FEW001 SCT090 BKN110 19/19 Q1014 RJFU 010000Z 14010KT 8000 -RA FEW015 SCT050 BKN090 20/19 Q1013 EYPA 312350Z AUTO VRB01KT 9000 BKN120/// 04/03 Q1025 KVLD 312353Z 00000KT 10SM CLR 13/05 A2988 RMK AO2 SLP126 T01330050 10233 20133 53017 RJFY 312110Z 06004KT 5000 -SHRA BR FEW002 SCT005 BKN030 20/19 Q1013 RMK 2ST002 4ST005 5CU030 A2993 VIS VRB KUTS 312353Z AUTO VRB05KT 10SM -RA CLR 19/06 A3023 RMK AO2 RAB44 SLP233 P0000 60000 T01890056 10233 20183 53013 KUVA 312355Z AUTO 08004KT 10SM CLR 23/06 A3024 RMK AO2 T02270063 10255 20227 KVKS 312355Z AUTO 36008G14KT 10SM SCT047 OVC055 15/07 A3018 RMK A01 KVLL 312355Z AUTO 35016G24KT 10SM -RA BKN017 OVC023 03/01 A3004 RMK AO2 T00280005 10063 20028 GGOV 311900Z VRB01KT 9999 FEW014 BKN100 30/24 Q1011 NOSIG KVKY 312355Z AUTO 34024KT 10SM FEW060 22/09 A2999 RMK A01 KWDG 312350Z 01007KT 10SM SKC 07/M05 A3040 MDLR 010000Z 00000KT 9999 FEW018CB FEW018 26/25 Q1011 CB/W KY50 312356Z AUTO 36005KT 10SM CLR 01/M08 A3042 RMK AO2 TSNO 51014 T00051083 10038 20005 SLP310 KY49 312355Z AUTO 00000KT 10SM CLR M01/M07 A3045 RMK AO2 T10061073 10020 21006 LMML 312345Z AUTO 05005KT 020V090 CAVOK 17/10 Q1020 KUUU 312353Z AUTO 05010KT 10SM BKN044 OVC060 11/04 A2995 RMK AO2 SLP141 60000 T01060044 10128 20106 50003 KVNC 312355Z AUTO 34009G14KT 10SM 22/11 A2990 RMK AO2 TSNO KY51 312355Z AUTO 35005KT 10SM CLR 00/M07 A3042 RMK AO1 T00001066 10046 20000 SBAF 312300Z 03007KT 8000 SCT030 29/20 Q1013 RJKA 010000Z 22008KT 9999 FEW015 SCT045 BKN050 26/22 Q1014 KWDR 312355Z AUTO 32009G14KT 10SM BKN110 13/07 A2990 RMK AO2 T01320070 10198 20132 KVOA 312355Z AUTO 32027G34KT 10SM SCT060 BKN075 23/10 A2996 RMK A01 EYSA 312350Z 25004KT 0700 R32R/0800V1000N FZFG SCT001 M02/M02 Q1025 SBAN 312300Z 00000KT CAVOK 19/16 Q1018 SBBE 010000Z 07011KT CAVOK 26/21 Q1011 KY63 312356Z AUTO 16006KT 10SM CLR M02/M06 A3044 RMK AO2 T10181057 10030 21019 SBBG 312100Z 20006KT 9999 BKN020 OVC087 24/20 Q1013 FQIN 312100Z 00000KT 9999 FEW020 23/19 Q1017 SBAQ 312200Z 20003KT CAVOK 29/18 Q1014 SBBH 312300Z 10005KT CAVOK 24/17 Q1018 SBBI 312300Z 08003KT 7000 FEW006 SCT020 23/19 Q1016 SBAR 010000Z 11009KT 9999 FEW017 26/20 Q1016 SBCA 312300Z 00000KT 9999 FEW015 25/21 Q1014 SBAT 312100Z 03005KT 8000 -TSRA FEW025 SCT030 FEW040CB 24/23 Q1009 SBCB 312000Z 06019KT CAVOK 27/25 Q1012 SBCC 311900Z 09009KT 9999 SCT030 FEW033TCU 28/21 Q1010 SBAU 312300Z 18006KT 9999 FEW045 SCT100 25/21 Q1012 KVOK 312358Z AUTO 00000KT 10SM CLR M02/M07 A3043 RMK AO2 SLP320 T10161067 10050 21016 51007 KY70 312354Z AUTO 01011G19KT 10SM OVC031 02/M03 A3020 RMK AO2 T00151033 KVPC 312353Z AUTO VRB06KT 8SM -RA FEW013 BKN027 OVC050 10/08 A2995 RMK AO2 RAB33 SLP138 P0001 60001 T01000078 10161 20100 53013 KUXL 312355Z AUTO 34008KT 10SM CLR 18/08 A3017 RMK AO2 T01840075 10250 20184 MDPC 010000Z 00000KT 9999 FEW021 27/24 Q1012 SBAX 312100Z 14004KT 9999 FEW018 BKN035 22/16 Q1017 SBCF 010000Z 08006KT CAVOK 23/17 Q1019 SBCG 010000Z 05010KT 9999 VCTS FEW040 FEW050CB SCT100 25/20 Q10 12 KUYF 312355Z AUTO 33008KT 10SM DZ OVC011 03/02 A2991 RMK AO2 SBBQ 312200Z 03005KT 9999 BKN030 22/17 Q1020 SBCH 312300Z 17005KT 9999 FEW025 FEW030TCU SCT090 25/20 Q1014 KVNY 312351Z AUTO 16007KT 10SM OVC044 19/12 A2985 RMK AO2 SLP103 T01890117 10200 20189 56013 TSNO SBCI 312100Z 00000KT 9999 TS FEW020 FEW023CB SCT090 ///// Q1012 SBBR 010000Z 09006KT CAVOK 22/17 Q1019 SBCJ 312130Z 00000KT 9999 FEW008 22/20 Q1015 KUZA 010003Z AUTO VRB03KT 3SM TSRA SCT039 BKN050 OVC080 12/09 A2978 RMK AO2 LTG DSNT W-N TSB2357 P0003 T01220094 SBBU 312300Z 00000KT CAVOK 27/21 Q1013 SBCM 312300Z 14005KT 9999 FEW010 BKN020 22/20 Q1013 FPST 312300Z 23006KT 9999 FEW020CB SCT110 24/22 Q1013 NOSIG SBBV 010000Z 08005KT 9999 SCT045 28/20 Q1008 SBBW 312200Z 06002KT 9999 FEW020 BKN090 26/22 Q1012 FQLC 311300Z 10009KT 9999 BKN015 27/09 Q1019 SAME 010000Z 11003KT CAVOK 16/M01 Q1017 SBCO 312300Z 15009KT 9999 BKN025 22/20 Q1014 SBCP 010000Z 07020KT CAVOK 25/22 Q1015 MDPP 010000Z 00000KT 9999 FEW014CB BKN018 26/25 Q1010 CB/E/SE/S/W SBCR 312300Z 08006KT 9999 FEW025 31/25 Q1006 KVPS 312355Z 32007KT 10SM FEW070 18/08 A2993 RMK AO2A SLP142 T01820078 10243 20179 52013 $ SBCT 010000Z 15005KT 7000 FEW001 BKN002 19/18 Q1018 FQMA 312300Z 22010KT 9999 BKN020 21/18 Q1018 NOSIG KVRB 312353Z 29009KT 10SM CLR 18/11 A2983 RMK AO2 SLP101 T01830106 10278 20183 53021 $ SBDN 312300Z 07005KT CAVOK 24/19 Q1011 SBCX 311800Z 26006KT 9999 BKN020 24/20 Q1014 RJNG 312320Z 01004KT 4000 -SHRA BR FEW020 BKN030 BKN045 14/14 Q1017 RMK 2CU020 5CU030 7SC045 A3004 SBEG 010000Z 07002KT CAVOK 27/23 Q1007 SBCY 010000Z 09003KT 9999 FEW020 SCT100 27/22 Q1010 KWHP 312347Z 11008KT 10SM OVC035 18/12 A2989 SBCZ 312300Z 00000KT 9999 TS SCT030 FEW040CB 26/25 Q1007 KVPZ 010003Z AUTO 35014G24KT 10SM SCT026 SCT034 OVC048 03/M01 A3021 RMK AO2 T00281006 TSNO KVQQ 312350Z VRB03KT 10SM CLR 12/10 A2985 RJOA 010000Z 11002KT 2000 -RA BCFG BR FEW000 SCT003 BKN005 16/16 Q1015 SBEK 312100Z 10005KT CAVOK 33/24 Q1005 RJNK 010000Z 18003KT 9999 -RA FEW020 BKN080 BKN120 15/15 Q1014 RJOB 010000Z 11003KT 060V150 0800 R07/0650V1300D -RA FG FEW000 SCT002 BKN003 16/16 Q1015 EYVI 312350Z VRB01KT 2300 BR BKN008 01/01 Q1025 TEMPO 1500 BR SAOC 312300Z 05005KT CAVOK 15/13 Q1017 RJOC 010000Z VRB02KT 9999 FEW005 SCT050 BKN080 19/17 Q1013 KVQT 312355Z AUTO 36025KT 10SM CLR 23/09 A3009 RMK A01 RJOE 310204Z VRB02KT 4000 -SHRA BR FEW010 SCT015 BKN025 19/15 Q1023 RMK 2ST010 3CU015 5CU025 A3023 MDSD 010000Z VRB03KT 9999 SCT018 28/24 Q1011 NOSIG RJOF 311046Z 09008KT 060V120 9999 -RA FEW020 BKN030 OVC080 19/16 Q1016 RMK 1CU020 5CU030 8AS080 A3003 KVSF 312354Z AUTO 00000KT 10SM OVC055 07/03 A3001 RMK AO2 SLP167 T00670028 10094 20067 53009 KWJF 312356Z 23017G26KT 10SM CLR 17/09 A2982 RMK AO2 PK WND 22033/2302 SLP093 T01670094 10194 20161 56018 RJOH 010000Z 19002KT 9999 FEW003 BKN050 OVC080 18/16 Q1013 KVSH 312355Z AUTO 35010G19KT 320V020 10SM CLR 21/07 A3008 RMK AO1 10240 20210 402400160 52024 SBFI 010000Z 09005KT 9999 SCT020 25/23 Q1011 RJOI 312355Z 29004KT 8000 BR FEW007 BKN010 OVC015 18/15 A2998 RMK SLP150 60000 T01780150 10178 20172 50005 SBES 312200Z 05017G27KT CAVOK 24/20 Q1013 RJNS 010000Z 36005KT 9999 -SHRA FEW005 SCT030 BKN045 17/15 Q1018 RJOK 010000Z 31006KT 9999 FEW020 SCT030 BKN045 19/18 Q1015 RJNT 010000Z 11007KT 020V180 9999 -RA FEW005 SCT070 OVC080 16/13 Q1014 SANT 010000Z 36006KT 6000 SCT025 BKN030 23/22 Q1010 KVTA 010002Z AUTO 33003KT 10SM -RA BKN028 OVC060 06/03 A2988 RMK AO2 P0000 T00560033 SBFL 010000Z 11004KT 9999 FEW030 23/22 Q1013 RJOM 010000Z 34003KT 290V010 9999 FEW025 SCT080 BKN120 20/18 Q1014 SBFN 312200Z 11013KT 9999 SCT019 26/22 Q1014 RJNW 010000Z 11005KT 4000 -RA BR FEW010 SCT035 BKN060 15/15 Q1015 LOAN 311600Z 36006KT 12KM FEW025CU BKN050SC RMK BKN RJOO 010000Z 06005KT 030V090 9999 -SHRA FEW005 SCT025 BKN040 17/16 Q1016 RJNY 312237Z 03006KT 9999 FEW015 BKN045 OVC080 18/14 Q1018 RMK 1CU015 6SC045 8AS080 A3007 RJOP 312138Z 23010KT 5000 -SHRA BR FEW005 BKN012 OVC025 19/18 Q1014 RMK 2ST005 5CU012 8CU025 A2995 FQNP 312300Z 04005KT 9999 SCT020 24/19 Q1014 RJOR 010000Z 15009KT 9999 FEW015 SCT030 BKN070 19/15 Q1013 SBFS 312000Z 07022KT CAVOK 24/20 Q1013 RJOS 312228Z 26006KT 220V280 6000 -SHRA FEW005 SCT008 BKN015 18/17 Q1015 RMK 2ST005 4ST008 7CU015 A2997 KVTI 312355Z AUTO 36008KT 10SM CLR 03/M07 A3045 RMK AO2 T00261071 10060 20026 RJOT 010000Z VRB02KT 9999 FEW002 SCT015 BKN050 17/16 Q1015 SAOU 310730Z 14002KT 9999 SCT040 FEW045CB 13/08 Q1013 RETSRA VYMD 312230Z 00000KT 5000 BR FEW025 21/20 Q1010 SBGL 010000Z 24005KT 9999 SCT025 28/19 Q1013 MDST 010000Z 08004KT 9999 FEW020CB SCT020 SCT300 27/22 Q1011 CB/NE/NW/N SBGM 312300Z 19002KT 9999 FEW020 27/26 Q1007 FQPB 010000Z 07005KT 9999 FEW020 24/21 Q1015 LOAV 311600Z VRB03KT 15KM BKN030CU 12/06 Q1028 RMK BKN RJOW 010000Z 15011KT 9999 FEW008 SCT035 BKN070 19/17 Q1013 KWLD 312354Z AUTO 04006KT 10SM CLR 07/M08 A3043 RMK AO2 SLP309 T00671083 10111 20067 51003 KVTN 312352Z AUTO 15012KT 10SM CLR 06/M11 A3026 RMK AO2 SLP275 T00561106 10083 20033 56018 SBGO 010000Z 35005KT CAVOK 23/17 Q1017 RJOY 010000Z VRB01KT 9999 VCSH FEW005 SCT040 BKN050 18/16 Q1015 RJOZ 312132Z 35002KT 5000 -SHRA BR FEW005 BKN007 OVC030 19/18 Q1013 RMK 2ST005 5ST007 8CU030 A2994 KVTP 312351Z AUTO 19006KT 10SM CLR 06/M04 A3037 RMK AO2 SBFZ 010000Z 09009KT 9999 FEW020 26/20 Q1013 KXBP 312355Z AUTO 01005KT 10SM CLR 14/04 A3035 RMK AO2 T01410036 10187 20141 SBGR 010000Z 11003KT 9999 TS SCT040 FEW050CB BKN070 23/18 Q1017 KVUJ 312355Z AUTO 00000KT 10SM SCT080 SCT110 10/08 A2983 RMK AO2 LTG DSNT W T00950078 10163 20095 SBIC 312200Z 07003KT 9999 FEW020 31/23 Q1007 SBGU 311900Z 30006KT 9999 BKN020 OVC081 26/17 Q1015 SARC 010000Z 11008KT 9999 BKN030 BKN100 24/21 Q1009 KWMC 312356Z AUTO 32004KT 10SM CLR 21/M07 A2969 RMK AO2 SLP030 T02061072 10211 20122 57023 SBGW 312200Z 21002KT 9999 FEW025 SCT080 24/16 Q1015 SARE 010000Z 11008KT 7000 NSC 25/20 Q1009 SARF 312300Z 14014KT 9999 FEW040CB 25/22 Q1007 KVUO 010003Z AUTO 01004KT 1 3/4SM RA SCT027 BKN039 OVC060 11/08 A2984 RMK AO2 P0006 T01110083 SBIH 312300Z 09003KT 8000 FEW018 31/25 Q1008 KVVG 312355Z AUTO 25006KT 10SM 18/10 A2978 RMK A01 SARI 312300Z 00000KT 9999 FEW030 FEW050CB 26/24 Q1011 SASA 010000Z 11006KT 9999 SCT017TCU FEW030CB BKN200 26/16 Q1012 RJSA 010000Z 04003KT 010V080 9999 FEW030 SCT170 BKN/// 11/09 Q1018 SBHT 312300Z 00000KT 9999 SCT025 25/25 Q1010 RKJB 010000Z 35004KT 6000 FEW010 BKN025 OVC080 16/16 Q1015 NOSIG SBIL 312300Z 09012KT 9999 SCT025 BKN070 25/21 Q1017 RJSC 010000Z VRB02KT 3500 -RA BR FEW002 SCT050 BKN080 11/10 Q1019 SARL 010000Z 09008KT CAVOK 22/20 Q1011 FQQL 311800Z 11004KT 9999 FEW020 26/23 Q1012 SBJF 312100Z 06008KT 9999 BKN030 27/17 Q1017 RJSF 010000Z 14001KT 1500 R01/P1800N -RA BCFG BR FEW002 BKN006 BKN025 14/14 Q1020 SBIP 312200Z 00000KT 9999 FEW030 25/16 Q1014 SARP 010000Z 09008KT 9999 -TSRA SCT009 BKN040 FEW050CB 22/21 Q1011 RJSI 010000Z 03003KT 9999 FEW003 SCT025 BKN060 08/05 Q1021 SASJ 010000Z VRB02KT 9999 FEW030 FEW040CB 29/19 Q1008 SCBA 010000Z AUTO 19003KT 9999 BKN100 04/M05 Q1027 RJSK 010000Z 13007KT 9999 FEW030 SCT080 BKN120 10/08 Q1018 RKJK 312358Z AUTO 09002KT 7SM OVC008 14/14 A2997 RMK AO2 SLP153 60000 52011 $ RJTC 310730Z 20004KT 9999 -SHRA FEW030 SCT060 BKN100 19/14 Q1022 RMK 2CU030 4SC060 6AC100 A3018 HAAB 312200Z 09004KT 9999 FEW025 SCT080 16/05 Q1027 RJSN 010000Z 17008KT 9999 -RA FEW040 SCT080 OVC100 15/13 Q1017 KVVV 312354Z AUTO 14006KT 10SM CLR M01/M07 A3045 RMK AO2 RJTF 010000Z 36005KT 5000 -RA BR FEW015 SCT025 BKN100 16/13 Q1020 SBKG 312100Z 12012KT CAVOK 24/18 Q1016 SCAP 010000Z AUTO VRB03KT //// // NSC 07/M01 Q1031 SBJP 010000Z 11007KT 9999 BKN020 25/19 Q1016 SBIZ 312300Z 25003KT 9999 FEW030 SCT100 27/22 Q1011 SBJR 312300Z 02008KT 9999 FEW030TCU SCT050 30/22 Q1012 RJTI 010000Z 01007KT 5000 -SHRA BR FEW010 SCT040 BKN090 16/12 Q1019 RJSR 010000Z VRB01KT 9999 FEW010 BKN/// 06/06 Q1018 SCAR 010000Z 19004KT 9999 OVC033 19/13 Q1015 RJSS 010000Z 02004KT 2000 -RA BR FEW008 SCT010 BKN015 13/13 Q1020 SBLB 312030Z 04027KT CAVOK 24/21 Q1016 W///S6 SCAT 010000Z VRB03KT 9999 OVC009 14/10 Q1016 RJTL 312249Z VRB01KT 4500 R19/1800U -SHRA BR FEW030 SCT080 BKN120 15/14 Q1020 RMK 1CU030 4AC080 7AC120 A3013 SBJU 312300Z 00000KT 9999 FEW022 31/14 Q1015 KXFL 312250Z VRB05KT 7SM SCT035 --/-- A2978 SBJV 312300Z 10003KT 9999 BKN025 BKN050 24/22 Q1012 KVWU 312353Z AUTO 00000KT 10SM CLR M03/M06 A3045 RMK AO2 SBLE 312100Z 07004KT 9999 SCT040 29/14 Q1015 RJTO 010000Z 04008KT 5000 -RA BR FEW006 BKN012 BKN040 19/16 Q1018 SCCF 010000Z 29013KT CAVOK 17/M12 Q1024 RKJY 310820Z 07009KT 5000 -RA BR FEW010 BKN025 OVC080 13/11 Q1016 NOSIG RJSY 010000Z 09011KT 9999 FEW020 BKN100 15/11 Q1017 SBKP 010000Z 11008KT CAVOK 26/16 Q1016 SCCH 312300Z 19009KT CAVOK 16/02 Q1019 SATR 311135Z 16004KT 3000 BR-TSRA FEW035 FEW050CB OVC050 21/20 Q1010 SCCI 010000Z 24011KT CAVOK 05/M03 Q1027 NOSIG SBMA 010000Z 26004KT CAVOK 24/23 Q1011 SCDA 010000Z 20006KT 9999 OVC023 18/13 Q1015 RJTT 010000Z 36009KT 7000 -RA FEW020 SCT030 BKN100 17/14 Q1019 NOSIG SAVC 010000Z 18007KT 090V240 9999 FEW035 SCT045 08/M03 Q1029 SBMD 312300Z 11007KT CAVOK ///// Q1011 SBME 312300Z 04010KT 9999 SCT020 25/22 Q1015 SAVE 312300Z 14007KT 9999 BKN030 06/M06 Q1022 SBLO 010000Z 03005KT CAVOK 27/20 Q1014 SBLP 312100Z 00000KT 9999 FEW030 SCT100 30/19 Q1012 SBMG 312300Z 01001KT CAVOK 27/20 Q1012 RJTY 010004Z AUTO 01005KT 8SM FEW028 SCT045 16/14 A3016 RMK AO2 SBLS 312300Z 13007KT CAVOK 24/17 Q1018 SBMK 312300Z 00000KT CAVOK 24/21 Q1017 KVYS 312355Z AUTO 01015G22KT 10SM OVC050 04/M07 A3037 RMK AO2 T00351070 10056 20035 SBML 312300Z 23006KT 9999 FEW015 SCT040 27/18 Q1014 KWRB 312358Z AUTO 29007KT 10SM OVC095 15/06 A2989 RMK AO2 SLP124 T01520063 10221 20152 52020 FQTT 311800Z 14011KT CAVOK 36/15 Q1009 SAWE 312300Z 34008KT 9999 BKN018 05/01 Q1024 SBMN 010000Z 09005KT CAVOK 30/22 Q1007 SBNF 010000Z 12003KT 9999 FEW010 24/20 Q1013 SBMO 010000Z 11006KT CAVOK 25/23 Q1016 SCCY 010000Z 28003KT 9999 FEW040 SCT080 07/M03 Q1027 SAWG 010000Z 23010KT 9999 FEW040 BKN070 05/M04 Q1027 SBMQ 010000Z 04008KT 9999 FEW025 28/23 Q1011 SAWH 010000Z 25015KT 9999 VCSH OVC035 03/M05 Q1024 LOIH 311600Z 00000KT 35KM FEW100AC BKN300CI 14/11 Q1025 RMK BKN KXIH 312355Z AUTO 02024KT 10SM CLR 23/07 A3013 RMK A01 SBMS 312200Z 03008KT 9999 FEW030 29/22 Q1011 KWRI 312358Z AUTO 34005KT 10SM OVC080 09/04 A2985 RMK AO2 SLP112 60000 T00870040 10110 20086 58005 SCFA 010000Z 18007KT 9999 OVC017 15/10 Q1014 NOSIG SBMT 312300Z 11009KT 8000 TS BKN040 FEW050CB 24/17 Q1016 SCEL 010000Z 21014KT CAVOK 19/00 Q1015 NOSIG KWRL 312353Z AUTO 17011KT 10SM CLR 17/M04 A2982 RMK AO2 SLP094 T01721039 10233 20150 56013 FQVL 311800Z 12010KT 080V150 9999 FEW020 23/18 Q1015 SBMY 312200Z 00000KT 9999 FEW020 28/24 Q1005 RETS SBOI 312000Z 10008KT 9999 SCT025 31/22 Q1010 SBPA 010000Z 12008KT 9999 FEW015 SCT030 23/20 Q1014 SBPB 010000Z 09017KT CAVOK 28/23 Q1011 SBNT 010000Z 13010KT 9999 FEW021 25/20 Q1015 SBPC 312100Z 10006KT 6000 -RA SCT020TCU FEW020TCU BKN070 20/19 Q1019 RKPC 010000Z 33009KT 9999 FEW014 BKN025 18/15 Q1015 NOSIG SCGE 312100Z 18010KT CAVOK 19/04 Q1019 SBPF 312300Z 00000KT 9999 SCT045 25/18 Q1015 RKNY 010000Z 26005KT 2000 -RA BR SCT013 BKN020 OVC070 14/13 Q1014 NOSIG LPAR 311700Z 19006KT 9999 FEW025 22/18 Q1019 SBPJ 312300Z 00000KT 9999 FEW010 SCT020 FEW040TCU 22/21 Q1011 LPBJ 312300Z 00000KT 9999 FEW025 16/14 Q1021 RKPK 010000Z 34005KT 4800 BR FEW010 BKN030 BKN200 15/14 Q1013 NOSIG SBPK 010000Z 11006KT 9999 FEW012 20/20 Q1015 SCFT 010000Z AUTO VRB02KT CAVOK 06/01 Q1025 KWST 312353Z AUTO 04007G16KT 10SM FEW024 SCT040 OVC050 09/07 A2994 RMK AO2 SLP140 T00940067 10128 20094 50002 SBPL 010000Z 15008KT CAVOK 30/18 Q1014 SBPN 312100Z 02007KT 9999 FEW015 BKN100 25/21 Q1011 SBPP 312100Z 22002KT 9999 -TSRA SCT015 FEW025CB 26/22 Q1010 SBPR 312100Z 14011KT 9999 SCT030 26/18 Q1017 LPAZ 312330Z 03005KT 9999 FEW018 16/10 Q1030 SBPS 010000Z 07009KT 9999 SCT020 25/21 Q1018 SBRB 010000Z 10003KT 9999 SCT018 BKN100 23/22 Q1009 RKPU 312347Z 36007KT 5000 BR FEW010 BKN030 OVC100 16/16 Q1013 NOSIG SCIC 010000Z AUTO 21008KT 9999 NCD 16/03 Q1016 SAZM 010000Z 20008KT 9999 FEW020 SCT100 12/01 Q1023 SBPV 010000Z 17003KT 9999 FEW020 FEW023TCU 25/21 Q1008 RETS KXLL 312355Z AUTO 03004KT 10SM BKN044 OVC065 10/02 A2991 RMK AO2 SAZN 312300Z 14013KT 9999 SCT050 FEW200 16/M05 Q1019 SCIE 010000Z 22011KT CAVOK 13/06 Q1020 SBRF 010000Z 10007KT 9999 SCT023 26/21 Q1015 SBRJ 010000Z 28006KT 8000 -RA SCT035 28/22 Q1012 RETS KWVI 312353Z AUTO 00000KT 10SM -RA BKN005 BKN009 OVC014 16/ A2979 RMK AO2 SLP086 P0008 60058 T0156 10189 20150 58014 SAZS 010000Z 25003KT 9999 FEW012 BKN020 05/01 Q1023 KXNA 312353Z 36007KT 10SM CLR 06/M06 A3037 RMK AO2 SLP288 60000 T00561056 10111 20056 51012 SBSC 312300Z 19004KT 9999 FEW030TCU 25/21 Q1013 FSIA 312300Z 00000KT 9999 BKN017 25/23 Q1010 NOSIG SBQV 312300Z 09012KT 9999 SCT010 21/19 Q1020 KWVL 312355Z 01004KT 10SM CLR 06/M02 A3005 RMK AO1 10100 20060 401001010 52017 KWWD 312355Z AUTO 35009KT 10SM FEW030 BKN037 OVC065 10/03 A2984 RMK AO1 10130 20100 401300040 57010 RKSG 312358Z 15004KT 2SM BR OVC055 14/12 A2997 RMK AO2A SLPNO 10139 20128 401390106 52009 $ SCIP 010000Z 35007KT 310V040 8000 -RA FEW010 SCT017 BKN035 18/ 16 Q1017 NOSIG SBRP 010000Z 30005KT CAVOK 27/17 Q1014 SCIR 312000Z 16016KT 9999 OVC030 13/06 Q1025 RKSI 010000Z 35003KT CAVOK 16/09 Q1014 NOSIG SBTA 312300Z /////KT 7000 SCT020 BKN100 ///// Q1015 SBSJ 010000Z 05003KT 9999 BKN025 24/20 Q1017 KXMR 312358Z AUTO 31007KT 10SM CLR 21/12 A2983 RMK AO2 SLP105 T02080116 10267 20208 52019 $ SBTC 312135Z 09002KT 9999 SCT020 SCT100 25/22 Q1016 SBSL 010000Z 06010KT CAVOK 27/21 Q1011 SBSM 312300Z 26002KT 9999 SCT030 SCT100 23/20 Q1013 RKSM 312200Z 19002KT 9999 OVC030 14/12 A2996 SBTE 010000Z 00000KT CAVOK 31/17 Q1009 SBSN 010000Z 10005KT CAVOK 29/23 Q1009 SCJO 312200Z 17006KT 7000 -SHRA BKN027 09/08 Q1024 SBTF 312300Z 12002KT 9999 FEW020 31/26 Q1005 RKSO 312358Z AUTO 11003KT 5SM BR OVC031 14/14 A2996 RMK AO2 SLP149 T01410141 10141 20130 51009 $ SBSP 010000Z 04009KT FEW013 BKN060 OVC070 23/17 Q1017 SBSR 312300Z 00000KT 9999 FEW045 SCT100 28/17 Q1014 SBUA 312300Z 00000KT 9999 FEW025 FEW028TCU 30/27 Q1004 RKSS 010000Z 08001KT 9999 BKN045 16/08 Q1014 NOSIG SBTK 312300Z 25004KT 9999 FEW030 29/25 Q1007 SBST 312200Z 00000KT 5000 BR SCT030 24/21 Q1011 LPFL 311800Z VRB02KT 9999 FEW025 BKN035 18/10 Q1029 SBSV 010000Z 08010KT 9999 SCT017 FEW020TCU 25/20 Q1016 RKTN 010000Z 34002KT 2400 BR FEW000 BKN005 OVC010 14/13 Q1014 NOSIG SBUF 312200Z 13017KT CAVOK 28/19 Q1015 SBUG 312100Z 11008KT 9999 SCT020 SCT030 23/20 Q1011 LPFR 312330Z 08004KT 9999 FEW040 19/16 Q1020 SBTT 312300Z 31002KT 8000 NSC 26/23 Q1006 SBTU 312130Z 00000KT 9999 BKN020 FEW022TCU 29/24 Q1012 SBUL 312300Z 06006KT 9999 FEW030 20/18 Q1017 RKTU 010000Z 03003KT 3200 -DZ BR SCT005 BKN012 OVC030 13/12 Q1014 NOSIG VYYY 312330Z 32003KT 6000 FEW020 SCT110 25/23 Q1010 NOSIG SBVH 312300Z 32001KT 9999 FEW020 SCT100 22/21 Q1011 SBUR 312300Z 02007KT 9999 FEW045 BKN090 22/18 Q1016 SCMK 312100Z 20009KT 9999 FEW023 10/00 Q1024 KWYS 312350Z AUTO 16003KT 10SM FEW120 12/M04 A2994 RMK AO2 SBUY 312300Z 00000KT CAVOK 26/25 Q1005 KXPY 312105Z AUTO 32015KT 10SM CLR 24/07 A3003 RMK A01 YABA 010000Z 04012KT CAVOK 15/07 Q1020 LPHR 312200Z 36006KT 9999 FEW020 SCT040 15/10 Q1030 KXSA 312355Z AUTO 00000KT 10SM CLR 09/01 A2985 RMK AO2 T00860012 10151 20073 SBVT 010000Z 04011KT 9999 BKN020 23/19 Q1018 WSAP 010000Z 29003KT 7000 FEW018CB BKN300 27/24 Q1009 KYIP 312353Z AUTO 35020G27KT 10SM -RA BKN019 OVC026 04/00 A3004 RMK AO2 PK WND 34029/2306 SLP174 P0001 60004 T00390000 10078 20039 51035 TSNO SBYA 311900Z 00000KT 9999 FEW020 35/26 Q1004 MHAM 010000Z 00000KT 9999 FEW030 SCT250 28/26 SCON 010000Z AUTO 21004KT 180V240 CAVOK 08/01 Q1026 LPLA 010000Z /////KT 9999 BKN032 15/13 Q1030 RMK ESTMD WND 00000KT MHCA 010000Z 00000KT 9999 BKN030CB SCT070 24/22 Q1013 CB N TCU TD HZ LQBK 010000Z 00000KT 6000 FEW040 06/05 Q1028 NOSIG KYKM 312353Z 00000KT 10SM BKN055 13/09 A2978 RMK AO2 SLP086 60002 T01330089 10139 20122 51011 KYKN 312355Z AUTO 10005KT 10SM CLR 02/M08 A3044 RMK AO1 10040 20020 57014 SCPQ 010000Z AUTO 17007KT //// FEW027 06/04 Q1025 MHCH 010000Z 00000KT 9999 SCT030TCU SCT080 30/23 TCU N NNE NW SBYS 312300Z 09006KT CAVOK 27/16 Q1014 LPMA 312330Z 01012G22KT 330V060 9999 SCT015 BKN030 19/16 Q1021 RS02011KT 0501013KT 2301013G23KT SCRD 312300Z 18012KT CAVOK 14/06 Q1016 SCQP 010000Z 23007KT CAVOK 10/06 Q1022 KXVG 312356Z AUTO 00000KT 10SM CLR M03/M08 A3046 RMK AO2 SCSE 010000Z 29006KT CAVOK 14/10 Q1014 LOWG 312350Z AUTO VRB01KT 2600 BR FEW022 BKN024 04/03 Q1027 KYNG 312351Z 11003KT 5SM -RA BR FEW005 SCT011 OVC034 06/05 A2989 RMK AO2 SLP127 P0001 60003 T00560050 10078 20056 53013 $ LPMR 312300Z VRB02KT 9999 -SHRA FEW010 SCT015 BKN030 18/15 Q1021 RETS LOWI 312350Z AUTO VRB02KT 9999 NCD 04/03 Q1028 SCTB 312300Z 23006KT 9999 FEW160 21/04 Q1016 LPMT 312300Z 16002KT 9999 SCT025 17/17 Q1021 LOWK 312350Z AUTO 31003KT 7000 0550E BCFG BKN002 02/01 Q1028 LOWL 312350Z AUTO VRB01KT 0300 R26/0325N FG VV000 05/05 Q1027 SCTE 010000Z 18003KT 9999 BKN033 07/06 Q1025 NOSIG SCSN 010000Z 26004KT CAVOK 12/08 Q1017 LOWS 312350Z AUTO 16008KT 9999 NCD 09/06 Q1026 LPPD 312330Z 33003KT 300V010 9999 FEW020 BKN035 15/11 Q1030 LOWW 312350Z VRB01KT 8000 BKN033 07/05 Q1027 NOSIG LOWZ 311600Z 00000KT 40KM FEW140AC 09/06 Q1027 RMK FEW LOXT 312050Z 00000KT 8000 BKN036SC 07/07 Q1027 RMK BKN SCVD 010000Z AUTO 22004KT CAVOK 10/06 Q1023 LPOV 312300Z 01002KT 9999 FEW018 BKN028 18/18 Q1021 LOXZ 312050Z 30003KT 20KM SCT300CI 03/03 Q1027 RMK SCT LPPR 312330Z 00000KT 9999 FEW015 SCT033 17/17 Q1021 LPPS 312330Z 03014KT 9999 BKN014 20/18 Q1021 LPPT 312330Z 24004KT 9999 FEW008 SCT017 19/18 Q1021 SCVM 010000Z 18010KT CAVOK 14/06 Q1017 YBAF 010000Z AUTO 32009KT 9999 // SCT036 27/16 Q1015 YBAS 010000Z 07007KT CAVOK 27/10 Q1016 YBBN 010000Z 36013KT 9999 SCT030 SCT170 27/18 Q1015 NOSIG LRBC 010000Z AUTO 36008KT 9000 FEW021 BKN026 07/04 Q1026 YBCG 010000Z AUTO 36018KT 9999 // SCT037 27/19 Q1014 YBCK 010000Z AUTO 35013KT //// // ////// 32/10 Q1013 YAMB 010000Z AUTO 02010KT 9999 // NCD 28/16 Q1014 LRAR 010000Z AUTO 00000KT 0050 R09////// R27/0150V0300N -FZDZ FEW031 01/01 Q1027 LPST 311700Z 18007KT 9999 FEW018 SCT028 20/18 Q1020 MHLC 010000Z 19003KT 5000 -RA FEW004 BKN018CB OVC080 24/22 Q1012 A2991 NOSIG LRBM 010000Z AUTO 11002KT 3100 BR SCT010 BKN013 05/04 Q1027 YBDG 010000Z AUTO 24015KT 9999 // BKN031 BKN038 15/08 Q1006 MHLE 010000Z 04008KT 9999 BKN018 BKN200 17/16 YBCS 010000Z 05010KT 9999 FEW028 28/21 Q1015 NOSIG LRBS 010000Z 15004KT 6000 NSC 06/03 Q1025 NOSIG YBCV 010000Z AUTO 34016KT 9999 // NCD 33/09 Q1011 SEGU 010000Z 16006KT 9999 SCT030 SCT100 27/20 Q1009 NOSIG RMK A2982 LRCK 010000Z 33009KT 5000 BR NSC 04/03 Q1023 NOSIG LRCL 010000Z 26004KT 6000 BKN025 04/02 Q1026 MHLM 010000Z 36010KT 8000 -RA FEW007 BKN020 BKN080 24/23 Q1013 A2991 TEMPO 5000 RA NOSIG YBDV 010000Z AUTO 23016KT //// // ////// 30/11 Q1013 LRCT 312300Z 00000KT 4000 BR SKC 01/M00 Q1026 GRN GRN LRCV 010000Z 26002KT 4000 BR NSC 03/02 Q1024 LQMO 010000Z 11003KT 040V160 CAVOK 06/03 Q1023 ROAH 010000Z 16003KT 100V210 9999 VCSH FEW012 SCT020 26/23 Q1014 BGBW 312350Z 00000KT 9999 FEW200 M03/M11 Q1006 SFAL 311800Z 20018KT 9999 SCT010CB BKN060 BKN020 XX/XX Q1011 GMAD 010000Z 10007KT CAVOK 22/04 Q1015 NOSIG MHNO 010000Z 32013KT 9999 FEW040 SCT090 22/18 Q1015 HZ GMAG 311800Z 10010KT CAVOK 29/00 Q1013 NOSIG FTTA 312300Z 00000KT CAVOK 22/20 Q1011 FTTC 311500Z 28004KT CAVOK 35/04 Q1010 FTTD 311500Z 12004KT CAVOK 35/16 Q1009 HDAM 311500Z 00000KT CAVOK 30/25 Q1010 YBHI 010000Z AUTO 22020KT 9999 // BKN035 20/09 Q1013 KZPH 312355Z AUTO 28005KT 10SM CLR 16/08 A2990 RMK AO2 FTTJ 312300Z 03005KT 8000 NSC 24/12 Q1010 NOSIG YBHM 010000Z AUTO 11013KT 9999 // NCD 27/18 Q1016 MHPL 010000Z 36012KT 9999 SCT026 BKN250 27/24 Q1012 TCU TD HZ GMAT 311800Z 36017KT CAVOK 24/16 Q1013 NOSIG YARG 010000Z AUTO 11008KT 9999 // NCD 34/17 Q1012 BGGH 312350Z AUTO 12003KT 9999NDV SCT150/// M04/M12 Q1006 SELT 010000Z 36005KT 9999 BKN030 15/10 Q1027 LRIA 010000Z 31008KT 280V340 8000 OVC023 06/03 Q1026 YARM 010000Z AUTO 35019KT 9999 // NCD 23/10 Q1014 FVBU 311800Z 12008KT CAVOK 25/06 Q1018 NOSIG RODN 312358Z AUTO 20003KT 9999 CLR 26/24 A2997 RMK AO2 SLP154 60001 T02620240 10262 20218 52016 $ YCBA 010000Z AUTO 28011KT //// // ////// 27/12 Q1007 YCBB 010000Z AUTO 36024G35KT //// // ////// 26/14 Q1009 SEMT 010000Z 20012KT 9999 FEW023 24/20 Q1010 LQSA 010000Z VRB02KT 6000 OVC030 06/04 Q1028 WSSL 010000Z VRB02KT 3000 HZ FEW018 BKN280 27/25 Q1009 RMK 2330Z Q1009 YBKE 010000Z AUTO 33009KT 290V350 //// // ////// 30/13 Q1006 MHSC 010003Z AUTO 35014KT 330V090 9999 SCT070 BKN080 OVC140 22/22 A2995 RMK AO2 MHRO 010000Z 36006KT 7000 -RA BKN020CB OVC070 24/22 Q1015 A2992 NOSIG YCAR 010000Z AUTO 17015KT 9999 // NCD 22/13 Q1014 YCAS 010000Z AUTO 34010KT //// // ////// 27/17 Q1013 WSSS 010000Z 33003KT 280V010 5000 HZ FEW018 FEW020TCU BKN300 27/25 Q1009 TEMPO FM0130 SHRA FVCZ 310300Z 00000KT CAVOK 19/10 Q1017 FVFA 311500Z 09010KT 050V130 CAVOK 35/03 Q1011 NOSIG MHTE 010000Z 04008KT 6000 DZ BKN028CB OVC080 24/24 Q1010 6 KM TD PCPN CB N SE SW TCU TD YCBP 010000Z AUTO 19019KT //// // BKN031 19/09 Q1018 MHTG 010000Z 36010KT 8000 VCSH BKN028CB SCT220 23/19 Q1016 A3000 BECMG 6000 -RA GMFF 010000Z 15004KT 130V200 CAVOK 15/04 Q1021 NOSIG YBMA 010000Z AUTO 31015KT 9999 // NCD 36/12 Q1013 YBKT 010000Z AUTO 36014KT //// // ////// 32/22 Q1013 MHSR 010000Z 36004KT 9999 FEW007 OVC020 19/18 REDZ YBLN 010000Z AUTO 07011KT //// // ////// 17/07 Q1018 GMFK 010000Z 28003KT 9999 FEW026 17/04 Q1024 NOSIG GMFM 010000Z 17003KT CAVOK 16/07 Q1020 NOSIG BGJN 312350Z AUTO 08002KT 9999NDV NCD M07/M17 Q1011 GMFO 010000Z 22004KT 9999 FEW040 12/08 Q1022 NOSIG YBNA 010000Z AUTO 35008KT 9999 // NCD 26/17 Q1013 MHTR 010000Z 00000KT 9999 SCT020CB BKN080 25/24 Q1012 CB PCPN NE E TCU TD HZ YBMK 010000Z AUTO 05012KT 9999 // SCT035 27/17 Q1015 FVHA 010000Z 07008KT CAVOK 16/06 Q1020 NOSIG YCEE 010000Z AUTO 22017KT //// // ////// 15/04 Q1018 SEQM 010000Z 02006KT 9999 FEW030 BKN100 16/10 Q1024 NOSIG RMK A3026 YCDO 010000Z AUTO 29015KT //// // ////// 28/12 Q1005 BGKK 312350Z AUTO VRB02KT 9999NDV NCD M01/M13 Q1006 YCCY 010000Z AUTO 35014KT //// // ////// 36/14 Q1012 ROIG 010000Z 05004KT 9999 FEW014 27/23 Q1013 LQTZ 311900Z VRB02KT 7000 BKN035 08/07 Q1027 YCDU 010000Z AUTO 19017KT 9999 // SCT044 18/05 Q1020 YCEM 010000Z AUTO 24013KT //// // ////// 14/08 Q1005 GLRB 010000Z 00000KT 9999 SCT012 FEW023 CB 24/23 Q1013 RMK CB-SW/W SESG 311700Z 00000KT 9999 FEW035 BKN200 12/02 Q1019 YBNS 010000Z AUTO 24010KT //// // SCT008 BKN015 OVC048 13/13 Q1002 YBOK 010000Z AUTO 03012KT 9999 // NCD 25/15 Q1015 YCFL 010000Z AUTO 13015KT //// // ////// 29/22 Q1014 YAYE 010000Z AUTO 15012KT 9999 // NCD 21/12 Q1018 LROD 010000Z AUTO 13002KT 3400 BR OVC035 05/04 Q1027 YCFS 010003Z AUTO 34021G31KT 9999 -SHRA SCT100 26/16 Q1010 SGAS 010000Z VRB06KT 9999 TS FEW040CB SCT080 BKN200 29/24 Q1006 HEBA 312300Z 00000KT CAVOK 17/15 Q1016 NOSIG FVKB 311500Z 23001KT 9999 FEW050 38/10 Q1006 NOSIG YBPN 010000Z AUTO 08007KT 9999 // NCD 29/16 Q1015 LSGC 312350Z AUTO 00000KT 9999 NSC 05/03 Q1025 LSGG 312350Z VRB02KT 6000 NSC 06/06 Q1025 NOSIG LROP 010000Z 17005KT 3000 BR NSC 04/03 Q1025 NOSIG YCHK 010000Z AUTO 12013KT 9999 // NCD 28/04 Q1013 YAYT 311650Z 20004KT 9999 SCT035 BKN100 19/M05 Q1017 HEAR 312300Z 00000KT 9999 SCT020 18/16 Q1015 NOSIG HECA 312330Z 00000KT CAVOK 19/13 Q1016 NOSIG HEAT 311800Z 03002KT CAVOK 22/11 Q1017 NOSIG HEBL 312300Z 36005KT CAVOK 20/06 Q1015 NOSIG HEAX 312300Z 00000KT CAVOK 16/14 Q1015 NOSIG MHYR 010000Z 09002KT 9999 SCT023 BKN080 22/21 HZ YBRK 010000Z 09008KT 9999 FEW045 28/16 Q1015 YBRL 010000Z AUTO 01010KT //// // ////// 32/20 Q1011 LSGS 311650Z VRB02KT CAVOK 13/06 Q1024 YBRM 010000Z 19006KT CAVOK 32/18 Q1008 YCIN 010000Z AUTO 06005KT //// // NCD 31/23 Q1009 GMMB 010000Z AUTO 14004KT //// NCD 15/11 Q1019 FWCL 310800Z 08015KT 9999 FEW025 28/12 Q1019 NOSIG GMMC 312200Z /////KT CAVOK 20/18 Q1016 YBSG 010000Z AUTO 08009G19KT 050V110 //// // BKN037 30/19 Q1012 GMME 010000Z VRB02KT 0600 R21/0800VP1500N FG SCT006 SCT200 15/14 Q1018 NOSIG GMMH 312100Z 34008KT 8000 R03///// FEW016 21/19 Q1017 NOSIG GMMI 312000Z AUTO VRB01KT 9000NDV NCD 23/04 Q1017 NOSIG LTAB 310901Z 26004KT 230V320 9999 SCT035 BKN090 11/07 Q1015 RESHRA NOSIG RMK RWY06 VRB02KT LRSB 010000Z 24002KT 9999 OVC015 05/03 Q1026 LTAC 312350Z 01003KT 9999 -SHRA BKN035 BKN090 07/05 Q1016 NOSIG LTAD 310710Z 24008KT 9999 FEW017 SCT040 BKN100 10/08 Q1015 RERA NOSIG RMK RWY29 24006KT SGEN 312000Z VRB20G40KT 0500 +TSRA OVC005 FEW040CB 23/22 Q1009 KZZV 312353Z AUTO 30003KT 7SM -RA OVC020 06/04 A2988 RMK AO2 SLP121 P0004 60009 T00560039 10078 20056 53010 GMML 312300Z 36007KT 6000 SCT010 20/20 Q1016 NOSIG YBRY 010000Z AUTO 13016KT 9999 // NCD 28/05 Q1015 LTAE 311612Z VRB02KT 9999 BKN035 BKN080 10/07 Q1015 RESHRA NOSIG RMK RWY21 VRB02KT YBTH 010000Z AUTO 31027KT 9999 // SCT054 26/13 Q1007 ROMY 010000Z 08003KT 040V130 9999 FEW011 26/22 Q1014 LTAF 312350Z 29003KT 5000 BR SCT035 14/12 Q1012 NOSIG GMMN 010000Z 11004KT 9999 4700 NSC 16/09 Q1019 NOSIG LTAG 312350Z 01004KT 9999 FEW035 SCT100 12/11 Q1012 NOSIG SGES 010000Z 12004KT CAVOK 26/23 Q1010 LTAI 312350Z 31011KT 9999 FEW030 15/06 Q1013 NOSIG YBSU 010000Z AUTO 03014KT 9999 // SCT036 BKN047 27/19 Q1016 YBTL 010000Z AUTO 06012KT 9999 // SCT035 28/19 Q1015 LTBA 312350Z 02010KT 9999 FEW018 BKN030 12/08 Q1021 RESHRA NOSIG LTAJ 312350Z 00000KT 9999 SCT040 10/08 Q1012 NOSIG YBUD 010000Z AUTO 01014KT 9999 // BKN029 OVC037 26/17 Q1016 YCKN 010000Z AUTO 08014KT 9999 // SCT022 SCT027 30/21 Q1014 LTAL 311035Z 04003KT 3000 RA BR FEW010 BKN020 OVC070 10/09 Q1014 LRTC 010000Z AUTO 33016KT 4000 BR NCD 05/03 Q1024 LRSM 010000Z AUTO 11002KT 0100 R19/0400N FG VV001 00/00 Q1026 FVMV 310900Z 19010KT CAVOK 32/04 Q1018 NOSIG LTAN 312350Z VRB01KT CAVOK 04/03 Q1016 TEMPO FM0100 4000 BR GMMW 312200Z 26005KT 9999 FEW016 13/12 Q1022 NOSIG LTBF 312350Z 35005KT 9999 SCT015 SCT035 BKN100 11/07 Q1020 NOSIG LTBG 311918Z 36009KT 6000 -RA SCT010 SCT030 OVC100 11/10 Q1020 REDZ NOSIG RMK RWY18 01010KT LTAP 312350Z 12004KT 9999 SCT030 BKN090 10/09 Q1013 NOSIG GMMX 010000Z 08001KT CAVOK 22/04 Q1019 NOSIG LTBH 310820Z 05008KT 8000 FEW015 BKN030 OVC080 09/09 Q1021 REDZ BGSF 312350Z AUTO 06008KT 9999NDV NCD M18/M21 Q1011 LTBI 311312Z 27011KT 9999 -SHRA FEW012 BKN030 BKN100 09/07 Q1016 NOSIG RMK RWY09 28012KT LTAR 312050Z 35006KT 9999 -RA SCT006 BKN030 OVC080 05/04 Q1014 GMMZ 010000Z 00000KT CAVOK 17/06 Q1023 NOSIG LTAS 311225Z 36004KT 6000 -SHRA FEW012 SCT021 BKN080 13/12 Q1016 RMK RWY18 34005KT LTBJ 312350Z 35013KT CAVOK 12/07 Q1016 NOSIG LTCA 312350Z 27004KT 9999 SCT035 BKN100 07/06 Q1013 NOSIG LTAT 312350Z 24002KT 9999 SCT040 BKN100 08/08 Q1013 NOSIG LTBL 310910Z 36012KT 280V060 9999 SCT040 17/09 Q1016 NOSIG RMK RWY17 02013KT LTAU 312350Z 27005KT 9999 BKN035 BKN090 08/06 Q1015 NOSIG LTCC 312350Z 00000KT 1200 0400S R34/0400D R16/1200D BCFG SCT040 10/10 Q1012 NOSIG LTCD 312350Z 00000KT 9999 SCT028 BKN080 08/05 Q1012 NOSIG LRTM 010000Z 07002KT 2000 BR NSC M00/M00 Q1027 LRSV 010000Z AUTO 34008KT 8000 BKN026 OVC031 04/04 Q1026 LTAW 311328Z 25007KT 4000 -SHRA BR SCT005 BKN030 BKN080 13/10 Q1012 RMK RWY22 32007KT 270V350 YDBY 010000Z AUTO 04004KT 350V080 //// // ////// 32/21 Q1009 LTCE 312350Z 00000KT 9999 SCT030 BKN080 04/04 Q1012 NOSIG BIBD 311600Z 05024G38KT 9999 BKN025 OVC030 07/// Q0990 LTCF 312350Z 00000KT 9999 BKN030 BKN070 05/05 Q1012 LTAY 312144Z 25003KT 4000 BR FEW035 SCT100 06/05 Q1017 RMK RWY06 27004KT LTCG 312350Z 26007KT 9999 -SHRA SCT013 BKN028 16/13 Q1011 NOSIG LTAZ 312150Z 21005KT 9999 SCT040 08/06 Q1015 LTBQ 312350Z VRB02KT 6000 -SHRA SCT007 BKN016 OVC070 10/10 Q1020 NOSIG LTBR 312350Z 16003KT 9999 -SHRA BKN025 BKN080 10/10 Q1019 NOSIG LTCI 312350Z 06006KT 9999 SCT040 BKN080 07/04 Q1012 NOSIG LRTR 010000Z 03001KT 1500 BR NSC 02/02 Q1027 LSMA 312350Z AUTO VRB01KT 3200NDV BR NCD 05/05 Q1025 RMK GRN LTDA 312029Z 22007KT 190V270 9999 -TSRA BKN020CB 15/12 Q1013 RETS RMK RWY04 VRB03KT LTBS 312350Z 02009KT CAVOK 14/09 Q1013 NOSIG LTCJ 312350Z 05005KT 7000 SCT040 BKN100 12/12 Q1011 YCMM 010000Z AUTO 22017KT //// // ////// 16/02 Q1019 LTCK 311350Z 12011KT 9999 FEW025CB BKN035 BKN070 11/07 Q1013 BIAR 010000Z 30006KT 9999 -DZ SCT022 BKN026 OVC048 04/02 Q0987 RERA LTCL 311234Z 00000KT 9000 SCT015 BKN035 BKN090 13/13 Q1013 RESHRA LTBU 312350Z 34015KT 9999 SCT035 BKN080 08/06 Q1021 LSMD 312350Z AUTO 00000KT 0750NDV R11/0500V0900D R29/P2000N BR NCD 06/06 Q1025 RMK RED LTCN 310717Z VRB01KT 9999 SCT033 BKN100 13/13 Q1013 RESHRA LSME 312350Z AUTO 00000KT 1500NDV BCFG NCD 05/05 Q1025 RMK AMB BGTL 312358Z AUTO 12008KT 090V150 9999 CLR M10/M13 A3013 RMK AO2 SLP191 T11021126 11050 21135 53000 LTCO 311326Z 22007KT 7000 -SHRA SCT030 BKN060 08/05 Q1013 RMK RWY34 24007KT HEGN 312300Z 29015KT CAVOK 22/14 Q1015 NOSIG LTCP 310828Z 02003KT 9000 FEW017 BKN035 BKN080 12/11 Q1013 RESHRA RMK RWY23 VRB02KT LTBY 311931Z 28008KT 250V320 9999 FEW017 BKN030 BKN090 08/05 Q1018 RESHRA RMK RWY27 30008KT 270V330 LTBZ 311439Z 36008KT 9999 -SHRA SCT017 BKN035 08/06 Q1017 RMK RWY13 /////KT YCMT 010000Z AUTO 36009KT //// // ////// 28/14 Q1015 LTCR 311703Z 05004KT 9999 TS FEW025CB SCT035 BKN090 12/11 Q1013 RMK RWY21 06005KT LTCS 311114Z 32008KT 7000 -TSRA FEW020CB BKN030 12/11 Q1013 RMK RWY22 34007KT YCNM 010000Z AUTO 35021G32KT //// // ////// 29/15 Q1007 YCOE 010000Z AUTO 08011KT //// // ////// 30/18 Q1014 LTCU 310520Z 31004KT 2300 R12/1900D -SHRA BR BKN030 OVC080 10/10 Q1016 LSMM 312350Z AUTO 00000KT 9999NDV BCFG NCD 03/03 Q1025 RMK BLU YBWP 010000Z AUTO 09010KT 9999 // SCT035 30/18 Q1012 LSMP 312350Z AUTO 19003KT 0400NDV R05/0700VP2000U R23/P2000N BR NCD 07/06 Q1025 RMK RED RORS 010000Z 10003KT 9999 FEW010 27/23 Q1014 LTFA 310630Z 03010KT 9999 SCT040 14/10 Q1017 RMK RWY17 02014KT LSMS 312350Z AUTO VRB02KT 9999NDV NCD 07/04 Q1026 RMK BLU YCOM 010000Z AUTO 29015G26KT 9999 // SCT047 BKN058 20/10 Q1002 LTFC 312350Z 36011KT 9999 SCT035 07/05 Q1016 YBWX 010000Z AUTO 20016KT //// // ////// 24/17 Q1011 YCNY 010000Z AUTO 33011KT //// // ////// 36/10 Q1013 LTFE 312350Z VRB02KT CAVOK 10/08 Q1015 NOSIG LTFH 312350Z 29012KT 9999 -RA SCT012 BKN028 BKN080 13/11 Q1014 NOSIG BIEG 010000Z 01004KT 7000 -SHRA BR FEW004 BKN023 OVC050 03/03 Q0986 R04/290095 LTFJ 312350Z 03006KT 9999 BKN030 BKN090 10/09 Q1020 NOSIG RPLB 010000Z VRB01KT 9999 FEW020 29/23 Q1008 NOSIG RMK A2977 RPLC 010000Z 33004KT 9999 FEW042 SCT300 27/23 Q1010 NOSIG RMK A2983 GMTA 010000Z VRB02KT CAVOK 16/13 Q1022 NOSIG ROTM 312358Z VRB03KT 9000 BR SCT030 BKN050 BKN120 26/24 A2998 RMK SLP137 T02610239 10261 20239 52014 RPLI 010000Z 09002KT 9999 FEW019 27/22 Q1010 NOSIG RMK A2983 FWKI 311400Z 10012KT CAVOK 29/08 Q1016 NOSIG RPLL 010000Z 01003KT 300V050 9999 FEW023 SCT100 29/24 Q1009 NOSIG RMK A2980 RPMD 010000Z VRB02KT 3800 FEW016 SCT290 28/24 Q1009 A2980 GMTN 010000Z AUTO 09009KT 9000NDV /// 20/16 Q1021 HEMA 312300Z 32012KT CAVOK 22/10 Q1014 NOSIG GMTT 010000Z 09019KT CAVOK 20/14 Q1019 NOSIG HEMM 312300Z 16003KT 9999 BKN020 18/15 Q1015 NOSIG BIHN 312043Z 32003KT 9999 -RA FEW015 SCT030 OVC060 07/// Q0986 HELX 312300Z 00000KT CAVOK 21/11 Q1015 NOSIG RPMZ 010000Z 00000KT 9999 FEW018 SCT300 29/26 Q1010 RMK A2983 NCAI 312100Z AUTO 11010KT //// ///// 26/21 Q1016 MKJP 010000Z 15005KT 9999 SCT022TCU 29/25 Q1011 MKJS 010000Z 14003KT 9999 FEW022CB 27/25 Q1011 YCUN 010000Z AUTO 08014KT //// // ////// 18/06 Q1020 BIIS 311700Z 02037G52KT 9000 BKN022 OVC035 07/02 Q0993 LUBL 010000Z AUTO 30010KT 7000 ///026 04/03 Q1025 YDLQ 010000Z AUTO 26021KT //// // ////// 16/11 Q1007 YCWA 010000Z AUTO 11014KT 9999 // NCD 26/02 Q1015 GOGG 312300Z VRB02KT CAVOK 27/25 Q1015 BIKF 010000Z 07008KT 9999 FEW019 SCT120 BKN200 06/05 Q0980 GOGK 311800Z 28004KT CAVOK 33/21 Q1010 GOGS 312300Z 34004KT CAVOK 27/24 Q1013 HEPS 312300Z 25006KT CAVOK 20/16 Q1015 NOSIG YCWR 010000Z AUTO 32021KT //// // ////// 26/14 Q1005 HESC 312300Z 00000KT CAVOK 11/06 Q1022 NOSIG HESH 312300Z 35008KT CAVOK 24/12 Q1014 NOSIG YDPO 010000Z AUTO 28018KT 9999 // SCT040 SCT085 15/07 Q0997 HESN 312300Z 35006KT CAVOK 20/06 Q1015 NOSIG LSZA 312350Z AUTO VRB02KT 3200 BR NCD 06/06 Q1026 LSZB 312350Z AUTO VRB01KT 0250 R14/0600N FG VV001 04/04 Q1025 LSZC 312350Z AUTO 26002KT 9999 NCD 07/06 Q1025 LSZG 312350Z AUTO VRB01KT 0300 FG VV001 05/05 Q1025 LSZH 312350Z 26001KT 0350 R14/0550U R16/0550N R28/1400D R34/0800D PRFG NSC 05/05 Q1025 NOSIG LSZL 312350Z AUTO 09001KT 0400NDV R08/P2000N R26/P2000N FG NCD 06/05 Q1027 RMK RED RPVM 010000Z 34008KT 9999 FEW018CB SCT300 30/26 Q1008 RMK A2977 LSZR 312350Z AUTO VRB01KT 4700 BR NSC 06/06 Q1025 MMAA 312348Z 21001KT 6SM SCT015 BKN300 29/26 A2979 RMK SLP094 52018 918 8/108 HZY TCU N AC LSZS 311650Z 04007KT CAVOK 06/00 Q1027 YELD 010000Z AUTO 36008KT //// // ////// 28/// Q//// CAHR 312300Z AUTO 00000KT 05/01 RMK AO1 SLP200 T00460005 51012 BIRK 010000Z 07010KT 9999 FEW019 07/04 Q0981 GOOD 311800Z 32004KT CAVOK 35/21 Q1010 MMAN 312341Z 01007KT 12SM SCT035 BKN070 21/15 A3024 RMK SLP212 52002 942 8/570 YFBS 010000Z AUTO 31015KT //// // ////// 26/14 Q1005 GOOG 312100Z 30004KT 8000 NSC 31/19 Q//// MMAS 312341Z 09010G20KT 10SM SKC 18/M01 A3028 RMK SLP175 ISOL CI MMCB 312347Z 21004KT 10SM BKN030 BKN100 BKN250 24/12 A3007 RMK 8/538 HZY LUKK 010000Z 33006KT 5000 BR FU BKN019 06/02 Q1023 R26/CLRD65 NOSIG GOOK 312300Z 34008KT 8000 NSC 28/21 Q1014 FYGB 312300Z AUTO 21001KT //// // ////// 21/08 Q1019 YFDF 010000Z AUTO 12014KT 9999 // NCD 29/04 Q1013 MMCE 312342Z 01015KT 6SM FEW015 SCT070 BKN100 OVC300 27/21 A2996 RMK SLP143 52014 929 8/577 HZY CBBC 010009Z AUTO 00000KT 9SM FEW020 OVC029 08/07 A2983 RMK SLP101 FYGF 312300Z AUTO 20002KT //// // ////// 23/08 Q1017 YEML 010000Z AUTO 01011KT 9999 // NCD 28/16 Q1015 MMBT 312340Z 00000KT 5SM FEW030 SCT100 OVC200 27/23 A2984 RMK 8/417 HZY MMCL 312350Z 28010KT 10SM BKN230 35/23 A2978 RMK SLP082 55000 978 8/004 HZY MMCM 312341Z 33010KT 7SM SCT020 BKN100 27/23 A2991 RMK SLP130 5//// 917 8/520 RTS MMCN 312351Z 25008KT 10SM BKN200 32/16 A2978 RMK SLP085 8/008 HZY MMCP 312352Z 36010G20KT 7SM BKN100 27/22 A2994 RMK SLP140 52010 927 8/030 TCU DSNT N STN GOOY 010000Z 35012KT 9999 SCT008 26/22 Q1013 NOSIG MMCS 312346Z 12020KT 10SM SCT080 SCT200 22/11 A3013 RMK SLP118 57018 905 8/082 MMCT 312144Z 01008KT 8SM SCT020TCU BKN200 24/22 A2992 RMK 8/208 CB SW MSGTX MMMD MMCU 312351Z 10007KT 10SM SCT030 BKN200 22/05 A3021 RMK SLP163 57017 910 8/402 MMCV 312342Z 01012KT 8SM SCT030 BKN100 23/17 A3017 RMK SLP204 54000 941 8/460 HZY PRESRR MMDO 312343Z 06010KT 14SM BKN200 22/M05 A3026 RMK SLP149 55002 916 8/008 HZY RTS MMCZ 312345Z 35008KT 7SM SCT015 SCT100 25/21 A2994 RMK SLP131 55001 917 8/550 RTS BIVM 311800Z 11010KT 5000 RA SCT008 BKN020 08/07 Q0982 MMEP 312352Z 10004KT 10SM SKC 30/14 A2995 RMK SLP099 57001 961 MSGTX MMGL GOSM 312300Z 00000KT CAVOK 31/19 Q1011 GOSP 312300Z 15004KT CAVOK 24/22 Q1013 GOSS 312300Z 15004KT CAVOK 24/22 Q1013 GOTK 311800Z 04006KT 9999 FEW030CB SCT230 34/22 Q1009 MMGL 312350Z 05005KT 10SM SKC 24/03 A3013 RMK SLP121 52002 908 MMGM 312347Z 18005KT 10SM BKN090 29/19 A2977 RMK 8/020 HZY FYKM 310700Z 14004KT CAVOK 29/10 Q1016 MMIA 312346Z 27008KT 8SM SKC 26/23 A2992 RMK HZY DSNT TCU S YERN 010000Z AUTO 17011KT //// // ////// 15/11 Q1020 GOTT 312300Z 16002KT CAVOK 30/19 Q1011 FYKT 312300Z AUTO 22008KT //// // ////// 23/04 Q1013 MMHO 312340Z 19006KT 10SM BKN090 OVC200 32/12 A2985 RMK SLP109 52008 900 8/037 BINOVC HZY NCPY 312000Z AUTO 07003KT //// ///// 31/25 Q1012 NCRG 312100Z 12011KT 9999 SCT025 26/19 Q1017 FYML 312300Z AUTO 36003KT //// // ////// 27/M04 Q1017 YESP 010000Z AUTO 03006KT 9999 // OVC031 16/09 Q1023 MMIO 312340Z 36012KT 8SM SCT040 17/14 A3031 RMK 8/500 HZY CI YGBI 010000Z AUTO 10005KT //// // ////// 29/21 Q1013 YEST 010000Z 03007KT 9999 BKN046 16/09 Q1023 FYLZ 312300Z AUTO 21016KT //// // ////// 13/10 Q1012 FYOA 312300Z AUTO 20004KT //// // ////// 27/09 Q1012 YGAY 010000Z AUTO 01005KT 320V090 //// // ////// 28/15 Q1015 YFLI 010000Z AUTO 26027KT 9999 // SCT026 SCT061 14/09 Q0998 MNBL 312300Z 05004KT 9999 FEW019CB SCT070 28/24 Q1009 CB/S/SW YGDH 010000Z AUTO 35019KT //// // ////// 31/12 Q1008 FYOO 312300Z AUTO 22004KT //// // ////// 26/05 Q1014 MNCH 312300Z 23004KT 9999 FEW025 SCT300 31/22 Q1007 MMMA 312340Z 36012KT 8SM SCT070 24/19 A3017 RMK SLP213 53017 941 8/030 DSNT CB 2 QUAD ISOL CI MMLM 312351Z 32010KT 10SM BKN220 30/13 A2981 RMK SLP095 8/008 MMMD 312346Z 05006KT 7SM SCT025CB 24/21 A2997 RMK SLP152 52012 923 8/300 -RAB15E20 MMLO 312341Z 03011KT 10SM SKC 19/04 A3029 RMK SLP161 52007 921 FYOW 312300Z AUTO 18002KT //// // ////// 22/22 Q1015 MMLP 312340Z 32006KT 10SM SCT200 31/18 A2982 RMK SLP097 57009 970 8/006 YGEL 010000Z 16009KT CAVOK 20/08 Q1016 MMLT 312347Z 00000KT 8SM BKN100 29/19 A2980 RMK SLP091 8/020 MMML 312351Z 13012KT 10SM SKC 30/10 A2972 RMK SLP064 57017 991 MSGTX MMUN MMMM 312343Z 04010KT 8SM FEW080 20/07 A3020 RMK SLP134 52006 921 8/030 HZY MMMT 312349Z 36010KT 5SM DZ OVC020 22/22 A2999 RMK SLP231 55006 934 60015 8/9// MMNL 312342Z 00000KT 10SM SKC 25/12 A3021 RMK SLP245 57016 941 ISOL AS YGFN 010000Z AUTO 28004KT 240V340 9999 // ////// 24/19 Q1013 MMMV 312340Z 00015KT 8SM BKN030 OVC040 18/// A3024 RMK 8/5// HZY FYRN 310700Z 06013KT CAVOK 28/05 Q1016 MMMX 312345Z 04017KT 12SM SCT080 16/04 A3033 NOSIG RMK SLP148 52016 914 8/030 HZY SKBG 010000Z 31004KT 9999 SCT005 BKN070 20/20 A2992 REDZ RMK LTNG/SW MMMY 312350Z 13004KT 15SM BKN040 BKN100 22/16 A3021 RMK SLP227 52010 941 8/570 SKAR 312300Z 00000KT 9999 SCT027 SCT100 24/18 A3000 MMMZ 312341Z 27008KT 14SM BKN220 29/21 A2975 RMK SLP079 57003 967 8/004 HZY MMPA 312349Z 00000KT 6SM SCT020 OVC160 23/20 A3016 RMK SLP209 52020 949 8/46/ HZY MMPB 312342Z 01010KT 11SM SCT025 14/05 A3032 RMK 8/400 CI SKCC 010000Z 28004KT 9999 SCT018 SCT090 28/23 A2986 SKBO 010000Z 28004KT 9999 VCSH SCT015 SCT080 14/12 A3027 RETSRA RMK VCSH/NE SKCG 010000Z 00000KT 5000 -RA BKN013 SCT070 27/26 A2981 RETSRA RMK AD OPER IMC MMPG 312243Z 00000KT 8SM SKC 25/10 A3024 RMK 8/500 HZY ISOL CU SKBQ 010000Z VRB02KT 9999 SCT015CB BKN070 25/25 A2984 RMK CB/LTNG/NW SKCL 010000Z 35011KT 9999 FEW017 SCT200 24/18 A2993 MMPN 312345Z 00000KT 15SM SKC 23/16 A3013 RMK HZY CU-AC MMOX 312345Z 33008KT 10SM SCT025 SCT100 OVC240 18/10 A3021 RMK SLP132 52024 919 8/737 BINOVC MMPQ 312348Z 00000KT 5SM DZ BKN020 BKN100 23/21 A2988 RMK 8/420 HZY MSGTX MMMD MMPR 312352Z 19005KT 10SM SKC 29/25 A2978 RMK SLP082 54004 960 HZY CU/E MMPS 312341Z 18010KT 12SM FEW015 SCT070 OVC260 39/23 A2996 RMK SLP123 57019 969 8/137 HZY YHBA 010000Z AUTO 36014KT 9999 // SCT023 SCT029 BKN038 26/19 Q1016 SKEJ 312300Z 01003KT 9999 FEW015 SCT200 28/24 A2981 YFRT 010000Z AUTO 14011KT //// // ////// 17/04 Q1022 BKPR 010000Z VRB02KT 9999 SCT025 BKN050 06/02 Q1026 NOSIG MMQT 312345Z 07015KT 7SM BKN030 BKN250 17/05 A3035 RMK 8/502 HZY FYWB 312300Z AUTO 28003KT //// // ////// 13/09 Q1013 MMSD 312345Z 34007KT 15SM BKN250 31/19 A2982 RMK 8/008 FYWE 310700Z 00000KT CAVOK 22/M00 Q1023 MNJG 312300Z 00000KT 9999 FEW020 BKN200 22/18 Q1010 YGLA 010000Z AUTO 02008KT 340V070 9999 // BKN033 OVC039 26/17 Q1016 YGLB 010000Z AUTO 30021KT //// // BKN045 OVC053 22/13 Q1004 FYWH 312300Z AUTO /////KT //// // ////// ///// Q//// TAPA 010000Z 13005KT 9999 BKN018 28/24 Q1013 NOSIG GQNI 311800Z 08006KT CAVOK 37/02 Q1012 MMSL 312340Z 18003KT 10SM BKN250 29/22 A2989 RMK 8/008 HZY MSGTX MMSD MMTC 312343Z 06014KT 10SM FEW035 BKN200 25/05 A3017 RMK SLP145 57007 917 8/102 HZY ISOL AS YHAY 010000Z AUTO 24021KT //// // ////// 17/12 Q1009 MMRX 312341Z 02005KT 8SM BKN030 22/15 A3018 RMK SLP212 51009 941 8/500 HZY FU GQNN 010000Z 32004KT 290V010 8000 NSC 23/20 Q1013 NOSIG YGLI 010000Z AUTO 02005KT //// // ////// 18/15 Q1017 MMSP 312345Z 10011KT 15SM SCT025 18/03 A3032 RMK SLP184 52013 917 8/500 MMTG 312344Z 32019KT 10SM SCT018 BKN080 24/18 A2993 RMK SLP107 52016 919 8/550 MMTJ 312345Z 29008KT 7SM SCT030 OVC040 20/13 A2991 RMK SLP134 57004 969 8/5// HZY BINOVC GQPA 312100Z 00000KT 8000 30/08 Q1015 MNJU 312300Z 06006KT 9999 FEW020CB BKN080 28/23 Q1008 CB/NW MMTM 312355Z 03008KT 10SM SCT100 26/18 A3009 RMK SLP132 57003 953 8/030 DSTN TCU N YFTZ 010000Z AUTO 03008KT //// // ////// 33/16 Q1010 MMTO 312350Z 05016KT 7SM SCT015 SCT070 13/02 A3036 RMK SLP090 52004 907 8/530 FYWW 312300Z AUTO 23002KT //// // ////// 17/12 Q1020 MMTP 312349Z 00000KT 10SM SCT050 BKN120 OVC200 28/24 A2985 099 52013 920 8/468 YGLS 010000Z 13014KT CAVOK 22/09 Q1017 SKIB 312300Z 03004KT 9999 SCT023 24/21 A2995 MMVA 312347Z 00000KT 3SM -DZ HZ SCT007 BKN017 OVC030 23/22 A3001 RMK SLP160 52017 940 60035 8/7// VRBL CONDS K04V 312351Z AUTO 13007KT 10SM CLR 11/M06 A3026 RMK AO2 MMUN 312340Z 35003KT 7SM SCT015 25/21 A2994 RMK SLP131 52014 914 8/500 AC CI K06D 312355Z AUTO 17013G19KT 10SM FEW017 00/M10 A3022 RMK AO2 K04W 312344Z AUTO 00000KT 10SM CLR 00/M08 A3049 RMK AO2 MNMG 010000Z 12008KT 9999 FEW020CB 28/24 Q1008 2CU022 2AC070 2CI300 CB/E TCU/SE/S NOSIG GQPP 010000Z 35012KT 8000 NSC 21/17 Q1015 NOSIG SKIP 312200Z 25008KT 6000 TSRA FEW016CB BKN018 11/09 A3036 RMK CB/NW GQQP 310900Z 35010KT 8000 FEW006 21/19 Q1016 NOSIG GQPZ 311800Z 02008KT 9999 FEW040 32/09 Q1014 MMVR 312348Z 36010G20KT 6SM FEW015 BKN070 BKN090 25/18 A3003 RMK SLP142 52006 923 8/570 HZY K08D 312355Z AUTO 15017G24KT 10SM CLR 01/M08 A3003 RMK AO2 LWOH 311500Z 35008KT 330V080 9999 SCT050 10/01 Q1021 SLAS 312100Z 33006KT 9999 BKN020 FEW030CB OVC200 31/24 Q1006 SLCA 312300Z 36004KT 9999 SCT036 FEW040CB OVC080 31/20 Q1008 SLCB 010000Z 35004KT 9999 FEW027 BKN080 BKN200 20/04 Q1021 SKLC 312300Z 00000KT 9999 FEW020 OVC100 26/25 A2980 LXGB 312350Z AUTO 08015KT 9000 // FEW031/// 19/18 Q1022 MNPC 312300Z 07006KT 8000 SCT016 SCT300 29/26 Q1009 HZ NFFN 010000Z 26012KT 9999 FEW030 BKN300 30/22 Q1013 NOSIG YHID 010000Z AUTO 09016KT 9999 -SHRA NCD 29/22 Q1012 SKMD 312300Z 21005KT 9999 FEW030 BKN200 21/17 A3006 MMZC 312342Z 10015KT 10SM SKC 18/00 A3031 SLCO 312200Z 09006KT 6000 VCTSSH FEW020 FEW023CB SCT080 BKN200 28/25 Q1006 SLCP 312200Z 00000KT 9999 FEW020 BKN200 30/23 Q1010 MMZH 312345Z 00000KT 4SM SCT020CB BKN250 30/24 A2981 RMK SLP095 5//// 907 8/903 HZY SKLT 010000Z 00000KT 9999 SCT010 BKN080 25/25 A2975 MMZO 312345Z 22004KT 10SM FEW020 30/24 A2974 RMK SLP033 8/100 HZY SKMR 312300Z 00000KT 9999 FEW015 OVC090 26/24 A2975 K11R 312355Z AUTO 36005KT 10SM CLR 19/06 A3024 RMK AO2 T01880063 10250 20188 YGTE 010000Z AUTO 01011KT 9999 // NCD 30/20 Q1012 YGTH 010000Z AUTO 25013KT 9999 -SHRA SCT008 BKN020 OVC024 15/15 Q1008 RESHRA K12N 312354Z AUTO 00000KT 08/03 A2991 RMK AO1 SLP135 T00830028 10094 20078 50003 SKMZ 311600Z 28007KT 7000 VCFGFG SCT005 BKN090 19/XX A3031 RMK VCFG/W/SW/NW YHLC 010000Z AUTO 03001KT //// // ////// 27/19 Q1013 MNRS 312300Z 00000KT 9999 FEW018CB BKN018 29/25 Q1008 CB/4/C SLET 312300Z 31010KT 9999 FEW015 BKN200 25/23 Q1006 TBPB 010000Z 13009KT 9999 SCT018 28/25 Q1013 NOSIG SKPC 312300Z 00000KT 99999 VCSH FEW013 BKN070 25/24 A2973 RMK VCSH/W LWSK 010000Z 35010KT 9999 BKN036 09/03 Q1026 NOSIG YGTN 010000Z AUTO 30004KT //// // ////// 30/15 Q1015 SKNV 312300Z 00000KT 9999 FEW040 30/20 A2971 SKPE 010000Z 14003KT 9999 FEW016TCU BKN080 20/19 A3003 LYBE 312330Z 22003KT 180V260 7000 BKN035 08/05 Q1027 NOSIG MPBO 010000Z 00000KT 9999 SCT016 BKN090 Q1012 SKPS 312300Z 00000KT 9999 BKN020 17/16 3011 YHML 010000Z AUTO 26019KT 9999 // SCT032 SCT039 SCT044 12/06 Q1008 MPDA 010000Z 00000KT 3000 +TSRA SCT006 SCT010 OVC050 ///// Q1010 RWY WATER PATCHES LYBT 312330Z 27003KT 240V300 6000 BKN033 07/05 Q1027 NOSIG SKPV 312300Z VRB02KT 9999 FEW017 BKN200 28/25 A//// SKRG 010000Z 19004KT 9999 FEW015CB SCT200 15/13 A3023 RMK CB E LTNG SKRH 312300Z 36004KT 9999 SCT020 SCT200 26/25 A2978 K14Y 312343Z AUTO 00000KT 10SM CLR 00/M07 A3047 RMK AO2 NFNA 010000Z 12010KT 9999 BKN022 BKN048 27/23 Q1015 K0A9 312355Z AUTO 24003KT 6SM -RA BR FEW010 BKN014 OVC034 06/05 A2986 RMK SLJE 312200Z 00000KT 9999 SCT017 FEW027CB BKN200 32/24 Q1009 SKSM 312300Z 13006KT 9999 -TSRA SCT020CB BKN070 24/23 A2979 RMK CBS-E YHOO 010000Z AUTO 16005KT //// // ////// 25/20 Q1015 SLJO 312200Z 00000KT 9999 FEW017 FEW020CB BKN200 28/23 Q1004 SKSP 010000Z 03007KT 9999 FEW016 BKN200 28/25 A2981 YHOT 010000Z AUTO 31014KT 7000 // ////// 11/10 Q1003 SKUC 312300Z 00000KT 9999 SCT023 27/26 A2975 K19A 312355Z AUTO 30005KT 10SM SCT110 12/06 A2987 RMK AO2 TDCF 010000Z 08002KT 9999 FEW018 27/22 Q1012 SKUI 312300Z 00000KT 9999 SCT030 28/24 A2980 K0E0 312355Z AUTO 13013G20KT 10SM CLR 14/M02 A3030 RMK AO2 T01431016 10187 20143 NGFU 010000Z 09005KT 9999 SCT020TCU 31/24 Q1010 K21D 312351Z AUTO 36003KT 10SM CLR 00/M07 A3051 RMK AO2 SLMG 312300Z 00000KT 9999 FEW017 BKN200 28/24 Q1006 SLLP 010000Z 09008KT 9999 FEW015 BKN200 10/01 Q1034 YJAB 010000Z AUTO 31006KT //// // ////// 29/21 Q1013 K20U 312355Z AUTO 15021G30KT 10SM 06/M02 A2994 RMK AO2 K20V 312355Z AUTO 22006KT 10SM CLR 12/M09 A3017 RMK AO2 K0F2 312055Z AUTO 35010KT 10SM CLR 17/03 A3032 RMK AO2 T01710034 SKVP 312300Z 00000KT 9999 SCT015CB SCT200 28/25 A2984 RMK CB N/NE K0CO 312350Z AUTO 28008KT 10SM CLR 02/00 A3044 RMK AO2 YHSM 010000Z AUTO 23023KT //// // SCT037 SCT045 SCT051 14/06 Q1010 SKVV 312300Z 00000KT 9999 FEW023 28/22 A2978 HKEL 312000Z 07009KT 9999 -RA FEW018CB BKN080 15/13 Q1023 YHUG 010000Z AUTO 33010KT //// // ////// 34/05 Q1013 HKEM 312000Z 00000KT 9999 BKN017 19/13 NFTF 010000Z 10005KT 9999 FEW018 BKN290 27/21 Q1017 SLOR 010000Z 05006KT 9999 FEW017 OVC200 12/02 Q1032 HKGA 312000Z 16010KT CAVOK 28/22 Q1010 K24J 312355Z AUTO 00000KT 2SM CLR 15/08 A2990 RMK AO1 NFTL 010000Z 08010KT 9999 FEW009 BKN018 BKN280 27/23 Q1016 SLPO 312000Z 05010KT 9999 SCT020 FEW023CB BKN200 13/02 Q1033 SLPS 312300Z 07004KT 9999 FEW027CB 29/25 Q1006 SLRB 312300Z 00000KT 9999 FEW025CB SCT200 28/24 Q1008 NFTV 010000Z 12011KT 9999 FEW008 SCT017 BKN290 28/22 Q1014 LYKV 312330Z 00000KT 2000 BR BKN027 07/07 Q1028 NOSIG MPMG 010000Z VRB02KT 9000 VCSH FEW007 SCT015TCU BKN080 25/24 Q1010 TEMPO RA K0J4 312358Z AUTO VRB04KT 10SM CLR 17/08 A2996 RMK AO2 SLP144 T01720083 10233 20161 53014 $ SLRI 312300Z 00000KT 7000 SCT015 FEW020CB BKN200 28/23 Q1006 K1A5 312355Z AUTO 30007KT 10SM 08/03 A2988 RMK AO2 T00760032 10128 20075 SLSA 312300Z 00000KT 9999 FEW017 BKN200 27/25 Q1004 K1A6 312355Z AUTO 33005G19KT 7SM -RA OVC019 04/02 A2998 RMK AO2 P0002 60006 T00380016 10080 20038 K1A9 312355Z AUTO 32009G21KT 5SM RA SCT048 BKN060 OVC070 13/11 A2999 RMK AO2 P0003 60003 T01250107 10216 20125 SLRQ 312200Z 36006KT 9999 FEW020 BKN200 30/26 Q1004 SLSI 312300Z 00000KT 9999 SCT017 29/25 Q1007 LYNI 312300Z VRB04KT 9999 SCT013 OVC030 08/04 Q1027 K1B7 312106Z 33018KT 10SM SKC 23/09 A2998 RMK LAST SLRY 312200Z 34004KT 9999 NSC 29/24 Q1006 SMJP 010000Z 07008KT CAVOK 27/23 Q1011 NOSIG SLTJ 010000Z 25004KT 9999 -RA BKN033 FEW036CB OVC070 18/17 Q1015 MPPA 312300Z 00000KT 9999 FEW010 SCT030 BKN090 Q1010 SLSU 312300Z 05010KT 9999 FEW020 FEW033CB BKN200 18/09 Q1025 HKJK 312300Z 05011KT 9999 FEW018 18/17 Q1020 NOSIG LYPG 010000Z 02007KT CAVOK 12/02 Q1023 NOSIG HKKG 311600Z 00000KT 9999 FEW021CB SCT022 BKN090 20/18 RESHRA SLTR 312300Z 36005KT 9999 FEW020 FEW023CB BKN200 31/24 Q1005 HKKI 311700Z 21008KT 9999 FEW021CB SCT022 BKN090 24/18 Q1015 ZBAA 010000Z VRB01MPS 7000 NSC 08/06 Q1020 NOSIG HKKR 311700Z 00000KT 9999 -RA SCT018 BKN080 16/14 HKMA 311600Z 11004KT 9999 FEW028 SCT100 32/20 HKKS 312100Z 00000KT CAVOK 18/16 LZIB 010000Z 36001KT 3500 BR BKN035 04/03 Q1027 HKMB 310100Z 16022KT CAVOK 20/15 SLVM 312100Z 06004KT 9999 SCT025 FEW027CB SCT070 BKN200 37/20 Q1000 HKKT 312000Z 09003KT CAVOK 17/15 K1F0 312355Z AUTO 00000KT 10SM CLR 12/M01 A3034 RMK AO2 HKME 311900Z 21003KT 9999 FEW018 BKN080 18/16 RERA HKLO 311900Z 09005KT CAVOK 30/17 SLVR 010000Z 36004KT 9999 NSC 24/24 Q1007 HKLU 311300Z 16005KT 99 SCT026 31/24 HKNC 312300Z 07006KT 9999 BKN018 18/14 Q1021 HKML 312100Z 18012KT 9999 BKN022 26/24 Q1012 HKMO 312100Z 00000KT 9999 BKN020TCU 26/25 Q1013 NOSIG GUCY 010000Z 00000KT 8000 -TSRA BKN010 FEW020CB OVC100 22/22 Q1014 CB/NE-SE-SW-N NOSIG SLYA 010000Z 18008KT 8000 VCTS SCT020 FEW025CB OVC070 22/19 Q1006 YJLC 010000Z AUTO 33014KT //// // ////// 35/15 Q1012 HKNI 311900Z 26002KT 9999 FEW018 BKN080 17/15 TDPD 010000Z 11005KT 9999 BKN016 28/24 Q1014 RERA HKNK 312100Z 00000KT 9999 FEW018 14/13 HKMU 312100Z 12004KT 9999 SCT022 22/19 K1H2 312355Z AUTO 33017G24KT 10SM OVC050 04/M07 A3028 RMK AO2 T00411068 10065 20041 CERM 010000Z AUTO 28001KT 02/M00 RMK AO1 SLP207 T00211002 51013 HKNO 311900Z 09008KT CAVOK 20/09 HKMY 312100Z 34004KT CAVOK 22/18 K0R0 312355Z AUTO 10SM 16/07 A3010 RMK AO2 PWINO TSNO K33V 312355Z AUTO 21009KT 10SM CLR 12/M07 A3017 RMK AO2 HKNW 311800Z 09007KT 9999 FEW022 20/12 Q1019 MPTO 010000Z 00000KT 9999 FEW008 SCT016 SCT090 26/25 Q1009 NOSIG NGTT 312000Z 08007KT 9999 SCT020 30/27 Q1010 K1J0 312358Z AUTO 00000KT 10SM CLR 13/11 A2993 RMK AO2 RAB10E19 TSB11E26 SLP121 6//// T01330111 10228 20133 53013 PNO $ YIVO 010000Z AUTO 22015KT //// // ////// 20/12 Q1010 LYTV 312330Z VRB01KT CAVOK 07/05 Q1021 LZKZ 010000Z 04003KT CAVOK 00/M00 Q1026 K1K1 312355Z AUTO 00000KT 5SM HZ CLR 05/M10 A3043 RMK AO2 T00461096 10093 20046 LYUZ 311800Z 25003KT 210V280 2000 BR SCT005 BKN015 03/03 Q1026 LYVR 010000Z 35002KT 6000 BKN033 07/06 Q1027 NOSIG K1II 312355Z AUTO 34019G29KT 7SM -RA BKN013 BKN018 OVC023 03/01 A3005 RMK AO2 K1L0 312355Z AUTO 35010G14KT 10SM CLR 20/08 A3009 RMK AO2 T01950076 10252 20194 GVAC 010000Z 06007KT 9999 FEW013 25/21 Q1015 NOSIG K36U 312355Z AUTO 14006KT 10SM CLR 17/M03 A2992 RMK AO2 SOCA 010000Z AUTO 08005KT 9999 NCD 27/24 Q1012 GVBA 311900Z 05011KT 9999 BKN015 27/21 Q1014 NOSIG K2C8 312355Z AUTO 16010G15KT 10SM CLR 02/M07 A3034 RMK AO2 ZBHH 010000Z 14001MPS 9999 FEW040 00/M01 Q1023 NOSIG K1M4 312356Z AUTO 34015G21KT 10SM CLR 07/M01 A3013 RMK AO2 53025 60001 T00721011 10155 20072 SLP214 K0V4 312355Z AUTO 00000KT 10SM OVC055 09/08 A2982 RMK AO1 T00930079 10149 20089 K2D5 312355Z AUTO 13009KT 10SM M02/M07 A3037 RMK AO2 K40J 312355Z AUTO 00000KT 10SM CLR 15/08 A2990 RMK AO2 T01460078 10230 20144 LZPP 010000Z AUTO 02005KT 0900 R01/1900U FG FEW100/// 02/01 Q1027 HLLM 312050Z 36006KT CAVOK 21/09 Q1020 AYGN 310500Z 14009KT 9999 SCT020 SCT150 31/23 Q1008= K0VG 312355Z AUTO 33007G18KT 10SM BKN019 BKN023 OVC049 05/03 A2993 RMK AO2 P0002 YLBD 010000Z AUTO 29006KT 9999 // NCD 31/25 Q1009 K42J 312355Z AUTO 31003KT 10SM 13/12 A2986 RMK AO1 TSNO MSAC 312050Z 32004KT 4000 TSSH FEW037 FEW040CB 31/26 Q1008 A2978 K1P1 010015Z AUTO 00000KT 10SM OVC060 05/05 A3002 RMK AO2 T00500050 TFFF 010000Z AUTO 11011KT 080V160 0750 R10/2000D +RA FG FEW012/// BKN017/// BKN022/// ///CB 26/25 Q1013 HKVO 312000Z 18010KT 9999 BKN020 24/21 K2G4 312355Z AUTO 00000KT 3SM BR SCT001 OVC013 02/ A2982 RMK AO1 K2DP 312356Z AUTO 36011G17KT 10SM OVC022 14/09 A2978 RMK AO2 SLPNO T01360093 10172 20135 50003 LZSL 010000Z VRB01KT 0100 R36/0150N FZFG OVC001 M00/M01 Q1027 TFFR 010000Z AUTO 11003KT 9999 ///CB 26/24 Q1013 MRLB 010000Z 14003KT 9999 VCSH SCT020 BKN100 24/23 A2984 K2I0 312355Z AUTO 33010G17KT 10SM BKN060 OVC065 06/M01 A3018 RMK AO2 T00551007 10087 20055 YLEC 010000Z AUTO 19019KT //// // ////// 18/09 Q1015 K1R7 312355Z AUTO 36011G20KT 10SM CLR 15/08 A3016 RMK AO2 LZTT 010000Z 29007KT 7000 FEW008 M01/M01 Q1026 MRLM 010000Z 00000KT 9999 BKN010 26/24 A2984 RERA YKMP 010000Z AUTO 36010KT //// // ////// 29/14 Q1007 SMZO 010000Z 03008KT CAVOK 28/23 Q1011 NOSIG K46D 312355Z AUTO 15013G18KT 10SM CLR 00/M09 A3029 RMK AO2 K2J9 312335Z AUTO 10SM CLR 14/08 A2992 RMK AO1 YLEO 010000Z AUTO 09015KT 9999 // NCD 17/05 Q1021 YKNT 010000Z AUTO 14012KT //// // ////// 29/13 Q1014 MROC 010000Z 00000KT 8000 RA FEW010 SCT020 OVC100 20/19 A2997 NOSIG YKOW 010000Z AUTO 05008KT 010V090 //// // NCD 30/18 Q1013 K3D2 312355Z AUTO 36020G28KT 10SM BKN033 OVC040 01/M05 A3038 RMK AO2 T00101054 10020 20007 SPAY 311727Z 26017KT 2000 TSRA BKN011 FEW017CB OVC090 24/23 Q1013 K1V4 312354Z AUTO 07/M01 A3001 RMK AO1 SLP169 T00671011 10094 20067 51011 K1V6 312355Z AUTO 00000KT 10SM CLR 11/M01 A3018 RMK AO2 SPCL 010000Z 05004KT 9999 SCT015 22/21 Q1008 RMK PP000 YLHR 010000Z AUTO 09011KT //// // SCT022 SCT048 29/22 Q1013 LZZI 010000Z 06004KT 030V090 0100 R06/0350N FG OVC001 02/01 Q1027 YKSC 010000Z AUTO 23020KT 9999 // SCT051 16/03 Q1016 AYNZ 310600Z 09018KT 9999 FEW030 SCT080 BKN140 30/25 1006= MRPV 010000Z VRB02KT 4000 RA BR BKN010 20/20 A2999 NOSIG YMBA 010000Z AUTO 01007KT //// // ////// 27/16 Q1016 YLIS 010000Z AUTO 36009KT 9999 // NCD 26/17 Q1012 ZBSJ 010000Z 30003MPS 2700 BR NSC 11/08 Q1021 BECMG 3500 OAHR 311755Z 17003KT CAVOK 11/M05 Q1021 RMK FEW FEW200 VIS MIN 9999 BLU YMBD 010000Z AUTO 24023KT //// // ////// 16/01 Q1015 YKRY 010000Z AUTO 03007KT 330V040 //// // ////// 26/15 Q1017 ZBTJ 010000Z 34003MPS 0800 R34L/0900N FG NSC 11/10 Q1019 NOSIG AYPY 312300Z 36008KT 9999 BKN019 SCT280 30/23 Q1010 RMK YMAV 010000Z AUTO 25019KT 9999 // SCT034 SCT042 BKN050 14/08 Q1005 OAKB 312350Z 24002KT 6000 NSC 06/03 Q1023 NOSIG RMK WHT WHT YLLE 010000Z AUTO 20014KT //// // ////// 32/11 Q1010 YMAY 010000Z AUTO 29010KT 9000 // BKN010 BKN026 OVC081 15/14 Q1005 GVNP 312300Z 06008KT 9999 BKN022 26/23 Q1016 NOSIG OBBI 312300Z 14009KT 7000 FEW030 28/20 Q1008 NOSIG K54J 312355Z AUTO 30003KT 10SM CLR 17/09 A2994 RMK AO2 T01700085 10225 20170 SPGM 312100Z /////KT 9999 SCT040 OVC110 23/20 Q1012 RMK TMX./// PP000 YMCO 010000Z AUTO 20011KT //// // ////// 17/12 Q0999 NIUE 312000Z 11017KT 9999 BKN018 26/20 Q1016 YMDG 010000Z AUTO 35025KT //// // SCT057 30/15 Q1007 OAKN 312255Z VRB04KT 9000 SKC 09/M07 Q1019 RMK A3009 DA3476 BLU K3I2 312355Z AUTO 00000KT 4SM RA SCT005 BKN016 OVC034 07/07 A2990 RMK AO2 SPHI 010000Z 17014KT CAVOK 20/15 Q1012 RMK PP000 SPHO 312300Z 31007KT 9999 BKN070 OVC170 20/12 Q1023 RMK PP000 MSLP 312350Z VRB01KT 9999 VCSH SCT020 FEW033CB 27/25 Q1009 A2981 YMEK 010000Z AUTO 08015KT 9999 // NCD 23/23 Q1017 K4A6 312355Z AUTO 01013G24KT 10SM SCT046 BKN050 OVC070 06/01 A3007 RMK AO2 K3J7 312355Z AUTO 27004KT 10SM OVC090 16/07 A2983 RMK AO2 MSLU 312250Z 00000KT 9999 SCT033 30/25 Q1006 A2972 YMEN 010000Z AUTO 26021KT 9999 // SCT034 16/08 Q1005 SPIM 010000Z VRB02KT 9999 OVC025 19/16 Q1014 NOSIG RMK PP000 K1YT 312356Z AUTO 34002KT 10SM BKN050 12/08 A2979 RMK AO2 SLPNO 60006 T01240084 10126 20115 50013 K4A9 312355Z AUTO 33011G23KT 300V020 10SM SCT026 BKN035 OVC041 06/02 A3003 RMK AO2 SPHY 311900Z 01013KT 9999 VCSH SCT040 OVC080 15/07 Q1036 RMK PP000 K3K3 312355Z AUTO 13011KT 10SM CLR 08/M01 A3030 RMK AO2 YMER 010000Z AUTO 13011KT 9999 // NCD 19/13 Q0998 YMES 010000Z AUTO 26016KT 9999 // SCT011 BKN040 OVC088 13/12 Q1002 SPJI 312100Z 00000KT 9999 SCT040 31/26 Q1014 RMK T.MAX 31.7 PP000 YMGB 010000Z AUTO 09006KT //// // ////// 30/20 Q1013 OAMS 312350Z 20002KT 8000 FEW120 07/M05 Q1018 BLU+BLU+ YMGD 010000Z AUTO 35007KT 9999 // SCT026 29/21 Q1013 SPJL 010000Z 13007KT CAVOK 13/04 Q1033 RMK PP000 AYVN 310500Z 02006KT 9999 FEW020 BKN300 31/24 Q1006= SPJR 312300Z VRB04KT CAVOK 19/08 Q1025 RMK PP000 YMHB 010003Z 30024G34KT 9999 FEW045 16/01 Q0991 ZBYN 010000Z 22001MPS 5000 BR SCT040 06/04 Q1024 NOSIG AYWK 312000Z 15002KT 9999 FEW020 25/23 Q1008= YMIA 010006Z AUTO 24015G26KT 9999 // SCT050 17/03 Q1012 K2V5 312355Z AUTO 13013G18KT 10SM CLR 08/M03 A3024 RMK AO2 T00761027 10120 20069 YLRE 010000Z 35016KT CAVOK 36/12 Q1011 SPME 010000Z 28003KT 9999 SCT017 23/20 Q1011 RMK BIRD HAZARD RWY 32/14 PP000 SPLO 312100Z 17005KT 9999 OVC025 19/14 Q1011 RMK PP000 GVSV 312300Z 05014KT 9999 SCT018 26/21 Q1017 NOSIG K3LF 312355Z AUTO 34009KT 10SM CLR 03/M05 A3033 RMK AO2 T00261053 10069 20026 K2W6 312356Z AUTO 00000KT 10SM CLR 06/01 A2986 RMK AO1 YMHU 010000Z AUTO 01006KT 9999 // NCD 33/18 Q1011 SPNC 311530Z 07005KT 3000 RA OVC040 18/15 Q1020 RMK K3N8 312355Z AUTO 16004KT 10SM CLR M02/M06 A3042 RMK AO2 T10191065 10041 21020 YMIN 010000Z AUTO 23021KT //// // ////// 16/04 Q1017 SPMS 312300Z 00000KT 9999 FEW020 28/24 Q1008 RMK BIRD HAZARD 09/27 PP000 MSSA 312250Z 33002KT CAVOK 26/19 Q1014 A2996 YNAR 010000Z AUTO 27012KT //// // ////// 16/14 Q1007 YLST 010000Z AUTO 07015KT 9999 // NCD 20/09 Q1019 YLTN 010000Z AUTO 09014KT //// // ////// 17/05 Q1022 MSSM 312250Z 00000KT 9999 FEW033 FEW040CB 28/22 Q1006 A2972 DAAD 311800Z 00000KT 9999 FEW030 18/07 Q1021 YNBR 010008Z AUTO 01029G39KT //// // ////// 28/15 Q1008 DAAE 010000Z 24004KT CAVOK 14/13 Q1023 YMMB 010000Z AUTO 27013KT 9999 // BKN069 15/08 Q1005 DAAG 010000Z VRB01KT CAVOK 12/09 Q1023 MSSS 312350Z 00000KT 9999 VCSH FEW040CB BKN043 24/23 Q1013 A2993 DAAJ 010000Z 35020KT 3000 DRSA NSC 22/11 Q1016 DABB 010000Z 21005KT 9999 FEW023 14/13 Q1022 DABC 010000Z 00000KT CAVOK 08/06 Q1025 K4I3 312355Z AUTO 32003KT 7SM DZ OVC017 05/04 A2988 RMK AO2 MUCF 312350Z 26004KT 9999 FEW025 BKN200 26/20 Q1012 K2WX 312356Z AUTO 13020G28KT 07/M03 A2990 RMK AO1 PK WND 14031/2346 SLP146 T00721028 10094 20044 58016 DAAP 010000Z 09012KT 6000 -RA BKN046 20/04 Q1016 YMLT 010000Z AUTO 30020KT 9999 // NCD 14/02 Q0995 YMML 010000Z 24017KT 9999 BKN038 16/05 Q1005 INTER 0015/0300 25025G38KT 5000 SHRAGS BKN030 FM0001 MOD TURB BLW 5000FT K4I7 312355Z AUTO 34019G25KT 7SM -RA SCT012 BKN016 OVC021 01/00 A3014 RMK AO2 P0001 K3R7 312355Z AUTO 34004KT 10SM CLR 17/09 A3015 RMK AO2 T01720090 10231 20172 YMNE 010000Z AUTO 08015KT 9999 // NCD 19/09 Q1019 MUCL 312354Z 27005KT 9000 FEW018 26/19 Q1012 DAAS 010000Z 04002KT CAVOK 06/03 Q1025 DAAT 010000Z 35004KT CAVOK 16/M03 Q1018 MUCM 312350Z 34005KT 310V030 9000 FEW025 25/18 Q1013 YMNG 010000Z AUTO 18014KT 9999 // BKN026 OVC034 14/11 Q1005 DAAV 010000Z 16004KT CAVOK 14/11 Q1022 TGPY 010000Z 11012KT 9999 FEW020 28/26 Q1012 NOSIG DAAY 311800Z 00000KT 9999 FEW030 19/06 Q1024 AZUH 311953Z 31004KT 7000 SKC 10/07 Q1011 SPQT 010000Z 24003KT 9999 SCT020 SCT040 BKN100 24/23 Q1008 NOSIG RMK TS S PPTRZ K65S 312355Z AUTO 18005KT 10SM OVC060 10/07 A2976 RMK AO2 SPQU 010000Z 27004KT CAVOK 14/03 Q1026 RMK PP000 YNEN 010000Z AUTO 03006KT 9999 // OVC245 28/22 Q1011 DABS 010000Z 00000KT 9999 FEW040 12/08 Q1024 MUCU 312352Z 24006KT 9000 FEW020 28/21 Q1011 DABT 010000Z 00000KT CAVOK 10/07 Q1025 YMOG 010000Z AUTO 08017KT //// // ////// 23/06 Q1018 K3T5 312355Z AUTO 36005KT 10SM CLR 21/06 A3022 RMK AO2 T02060059 10253 20206 K66R 312355Z AUTO 35006KT 10SM CLR 20/05 A3020 RMK AO2 T01950051 10255 20195 SPRU 010000Z 14007KT 9000 OVC025 18/16 Q1013 RMK PP000 K5C1 312355Z AUTO 01004KT 10SM CLR 18/01 A3027 RMK AO1 SPSO 010000Z VRB02KT 9999 OVC020 19/15 Q1014 RMK PP000 YMOR 010000Z AUTO 02020KT 9999 // NCD 28/17 Q1010 DAEF 311800Z 05018KT CAVOK 20/10 Q1017 SPST 010000Z 00000KT 9999 SCT020 SCT100 28/22 Q1008 RMK BIRD HAZARD RWY 17/35 PP000 SPTN 010000Z 20005KT 170V240 9999 OVC020 16/13 Q1014 RMK PP000 DAEN 311700Z 05008KT 9999 SCT040 24/05 Q1017 YMRB 010000Z AUTO 07007KT 9999 // NCD 28/14 Q1015 YNHL 010000Z AUTO 25025KT //// // ////// 16/03 Q1010 DAFH 311800Z 15008KT 9999 BKN033 20/09 Q1022 MUHA 312355Z 33007KT 9000 SCT035 24/19 Q1013 SPTU 312300Z 00000KT 8000 BKN007 OVC020 26/25 Q1003 RMK BIRD HAZARD RWY 01/19 PP030 K4M9 312355Z AUTO 35009KT 10SM CLR 07/M05 A3032 RMK AO2 MUGM 312356Z 23010KT 9999 SCT030 SCT280 28/24 A2987 RMK SLP114 T02830244 10306 20283 53016 MTPP 311300Z 09004KT 9000 FEW024 28 Q1011/8 A2988 MUHG 312350Z 03005KT 9999 SCT020 25/21 Q1011 K4O4 312355Z AUTO 33008KT 10SM CLR 11/03 A3031 RMK AO2 YMRY 010000Z AUTO 33014KT 280V340 9999 // NCD 29/15 Q0998 YMTG 010000Z AUTO ///17KT 9999 // SCT028 SCT037 SCT050 11/06 Q1010 YMTI 010000Z AUTO 01011KT //// // ////// 30/21 Q1013 K4MR 312356Z AUTO 14010KT 10SM CLR 15/M01 A3032 RMK AO2 SLP248 T01451011 10184 20143 55004 K5H4 312355Z AUTO 15014G19KT 10SM CLR 00/M09 A3022 RMK AO2 SPZA 312230Z 210011KT 9999 SCT080 23/13 Q1014 SPYL 312100Z 21013KT CAVOK 25/17 Q1009 RMK BIRD HAZARD RWY 17/35 PP000 DBBB 312300Z 23008KT 9999 SCT012 27/26 Q1011 NOSIG K6A2 312355Z AUTO 31006KT 10SM SCT043 BKN055 OVC085 13/06 A2991 RMK AO2 SPZO 010000Z 00000KT 9999 FEW050 BKN100 12/03 Q1029 RMK PP000 UAAA 010000Z 18002MPS 2400 BR FU NSC M03/M04 Q1020 R88/CLRD65 NOSIG K6B0 312355Z AUTO 35003KT 10SM OVC060 06/01 A3001 RMK AO2 T00600006 10106 20060 UAAH 311100Z 09004MPS 9999 SCT026 05/M02 Q1032 R23/0///60 NOSIG RMK QFE734/0979 YMYB 010000Z AUTO 35011KT 9999 // OVC038 27/17 Q1016 DAMH 311800Z 36016KT 8000 FEW040 SCT100 24/07 Q1018 UACC 010000Z 20004MPS CAVOK M01/M03 Q1025 R22/0/0070 NOSIG RMK QFE737/0983 DAOB 010000Z 00000KT CAVOK 07/02 Q1023 TJBQ 312350Z 18003KT 10SM SKC 25/24 A2991 RMK RWY08 ATIS Y DAOF 010000Z 09012KT 9999 SCT046 23/01 Q1017 UACK 010000Z 22006MPS 9999 BKN023 03/01 Q1020 R20/390054 NOSIG RMK QFE741/0988 DAOI 010000Z 06011KT CAVOK 18/10 Q1022 K79J 312356Z AUTO 35008KT 10SM CLR 19/08 A2995 RMK AO2 RAB13E23 SLP139 P0000 60000 T01940078 10250 20194 53018 UADD 010000Z VRB01MPS 5000 BR OVC011 M01/M03 Q1019 NOSIG RMK MT OBSC QFE707/0943 K5M9 312355Z AUTO 34012G17KT 10SM OVC065 05/M04 A3021 RMK AO2 T00521043 10085 20050 UACP 311130Z 21003MPS CAVOK 02/01 Q1021 R23/2/0556 NOSIG RMK QFE753/1004 DAON 010000Z 14003KT CAVOK 11/08 Q1023 DAOO 010000Z 00000KT CAVOK 14/13 Q1022 YPAD 010000Z 23021G32KT 9999 VCSH FEW033 BKN055 14/04 Q1016 NOSIG DAOR 010000Z 00000KT CAVOK 16/M04 Q1023 YPAG 010000Z AUTO 19021KT //// // NCD 19/04 Q1017 DAOV 010000Z 00000KT CAVOK 09/04 Q1023 YNSM 010000Z AUTO 05008KT //// // ////// 15/06 Q1023 OEAB 312300Z 00000KT CAVOK 15/07 Q1023 NOSIG OEAH 312300Z 19006KT CAVOK 23/13 Q1008 NOSIG YPCC 010000Z 12014KT 9999 FEW020 BKN450 26/21 Q1012 OEBA 312300Z 23004KT CAVOK 18/08 Q1019 NOSIG YOLD 010000Z AUTO 19020KT 9999 // NCD 19/06 Q1017 YNTN 010000Z AUTO 01008KT //// // ////// 32/18 Q1013 YPBO 010000Z AUTO 10011KT 9999 // NCD 30/01 Q1013 K82V 312355Z AUTO 17009KT 10SM CLR 08/M01 A3012 RMK AO2 OEAO 312100Z 33002KT CAVOK 23/05 Q1015 OEBH 312300Z 03002KT CAVOK 18/10 Q1016 NOSIG MWCB 010000Z 02004KT 9999 FEW018 SCT030 27/23 Q1012 YPEA 010000Z AUTO 07017G27KT 9999 // NCD 19/07 Q1018 YPED 010000Z AUTO 22022KT 9999 // SCT041 BKN055 16/04 Q1016 K5R8 312355Z AUTO 35007KT 10SM CLR 18/08 A3018 RMK AO2 T01760078 10228 20175 YOLW 010000Z AUTO 19012KT //// // ////// 26/13 Q1012 YPDN 010000Z 05006KT 9999 FEW025 31/21 Q1012 DAUA 010000Z 04010KT CAVOK 20/03 Q1019 DAUB 010000Z /////KT CAVOK 16/08 Q1021 TJIG 312245Z 17004KT 10SM SCT060 27/23 A2990 RMK RY09 IN USE ATIS N TWR CLSD 2300Z-1100Z DATM 311200Z 36020KT CAVOK 34/01 Q1014 OEDF 312300Z 18007KT CAVOK 26/21 Q1007 NOSIG DAUE 010000Z 05008KT CAVOK 19/09 Q1012 UAII 010000Z 14003MPS 5000 BR NSC 01/M02 Q1019 R28/0///70 NOSIG RMK QFE727/0969 MWCR 010000Z 02003KT 9999 FEW018 27/22 Q1012 NOSIG DAUG 010000Z 00000KT CAVOK 16/07 Q1023 DAUH 010000Z 02005KT CAVOK 17/09 Q1021 YOOD 010000Z AUTO 18013KT //// // ////// 21/11 Q1018 DAUI 010000Z 02012KT CAVOK 22/01 Q1018 YNWN 010000Z AUTO 11013KT //// // NCD 27/05 Q1015 OEDM 311800Z 20010KT CAVOK 25/03 Q1013 DAUK 010000Z 09006KT CAVOK 16/08 Q1022 DAUL 010000Z 00000KT 9999 FEW033 13/08 Q1023 DAUO 010000Z /////KT CAVOK 15/07 Q1022 OEDR 312300Z 14015KT 9999 FEW040 28/21 Q1006 NOSIG MUVR 312352Z 28006KT 8000 FEW025 23/19 Q1012 UBBB 010000Z 14003KT 9999 SCT013 BKN023 13/12 Q1011 88CLRD70 NOSIG YOOM 010000Z AUTO 21013KT //// // ////// 27/15 Q1011 UAKD 311400Z 09003MPS 7000 SCT100 M02/M05 Q1030 R22/0///65 RMK QFE739/0985 K5T9 312350Z AUTO 12004KT 10SM CLR 23/05 A3021 RMK A01 DAUT 010000Z ///08KT CAVOK 18/03 Q1020 ZGGG 010000Z 00000MPS 3200 BR NSC 24/22 Q1014 NOSIG DAUU 312300Z 02004KT CAVOK 15/07 Q1022 UBBG 010000Z 00000KT 9999 OVC026 10/08 Q1012 R30/CLRD70 NOSIG K6L4 312355Z AUTO 00000KT 5SM BR OVC034 05/05 A2985 RMK AO2 ZGHA 010000Z 33004MPS 1800 -RA BR FEW003 BKN006 OVC050 16/14 Q1018 NOSIG TIST 311953Z AUTO 00000KT 10SM FEW055 SCT100 28/24 A2987 RMK AO2 RAE15 SLP114 P0011 T02780244 TSNO $ DAUZ 312300Z ///06KT 9999 SCT033 BKN080 19/12 Q1017 UAKK 010000Z 18005MPS 9999 BKN014 OVC086 M02/M02 Q1026 R23/510560 NOSIG RMK QFE722/0963 UBBL 312300Z 00000KT 9000 OVC028 13/11 Q1012 R33/CLRD70 NOSIG RMK MT OP UBBN 312030Z 08006KT 9999 BKN050 11/08 Q1011 R14R/290050 NOSIG RMK MT OP QFE683 TISX 312253Z 12008KT 10SM FEW024 SCT030 28/23 A2990 K5SM 312359Z AUTO 00000KT 10SM SCT100 SCT120 06/M06 A3035 RMK AO2 UBBQ 010000Z 00000KT 9999 OVC025 11/09 Q1011 R16/CLRD70 NOSIG RMK MT OBSC YPGV 010000Z 05008KT 9999 FEW026 29/19 Q1013 OEGN 312300Z 00000KT CAVOK 28/22 Q1009 NOSIG K7BM 312354Z AUTO 00000KT 10SM CLR 10/M07 A3031 RMK AO2 UBBY 312300Z 00000KT 9999 BKN050 10/07 Q1015 33/////// NOSIG RMK MT OP OEGS 312300Z 35009KT CAVOK 20/09 Q1013 OEGT 312300Z 27010KT CAVOK 13/09 Q1016 NOSIG K5W8 312355Z AUTO 00000KT 10SM SCT060 OVC085 10/09 A2980 RMK AO2 T01030086 10151 20102 OEHL 312300Z 36004KT CAVOK 17/07 Q1016 NOSIG UBEE 311400Z 00000KT CAVOK 14/08 Q1014 R30/CLRD70 NOSIG YPKA 010000Z AUTO 25005KT 9999 // NCD 30/11 Q1010 YPKG 010000Z AUTO 07010KT 9999 // NCD 15/04 Q1022 TJMZ 312250Z 17004KT 10SM SCT040 26/24 A2988 RMK LAST TJNR 312353Z AUTO 24003KT 10SM FEW028 SCT038 A2993 RMK AO2 SLP137 60004 53014 $ YPJT 010000Z AUTO 05013KT 9999 // NCD 19/06 Q1018 YPLC 010000Z AUTO 21015KT 9999 // BKN049 16/05 Q1018 ZHCC 010000Z 30005MPS 5000 HZ SCT033 15/07 Q1020 NOSIG ZGKL 010000Z VRB01MPS 5000 -RA BR FEW020 BKN040 OVC053 17/16 Q1016 NOSIG UAOO 010000Z 07002MPS CAVOK M02/M03 Q1020 NOSIG RMK QFE753/1004 OEJN 010000Z 35006KT CAVOK 25/18 Q1010 NOSIG YPKS 010000Z AUTO 33020KT //// // ////// 27/14 Q1005 YPKT 010000Z AUTO 25001KT //// // ////// 33/23 Q1011 YPKU 010000Z AUTO 11005KT 9999 // NCD 32/24 Q1011 OEKJ 312300Z 17014KT CAVOK 25/03 Q1011 OEKK 311800Z 36009KT CAVOK 23/10 Q1011 NOSIG YPLM 010000Z AUTO 20012KT 9999 // NCD 23/15 Q1013 OEKM 312300Z 00000KT CAVOK 15/09 Q1023 NOSIG K6R3 312355Z AUTO 00000KT 7SM CLR 16/10 A3020 RMK AO2 T01630098 10244 20163 K6R6 312353Z AUTO 10008KT 23/M01 A3025 RMK AO1 SLP214 T02281006 10256 20222 56003 TJPS 311650Z 17008KT 10SM FEW030 FEW060 32/25 A2984 OEMA 010000Z 14004KT CAVOK 22/08 Q1015 NOSIG K8A0 312355Z AUTO 35013G25KT 10SM SCT017 SCT025 OVC043 05/04 A3005 RMK AO2 P0003 K96D 312355Z AUTO 15012KT 10SM 02/M08 A3033 RMK AO2 YPMQ 010000Z AUTO 01015KT 9999 // NCD 30/17 Q1006 SUAA 312000Z 13006KT 9999 FEW011 22/09 Q1012 OEMK 312300Z 00000KT CAVOK 26/17 Q1011 ZGNN 010000Z 13002MPS 090V160 7000 SCT010 BKN033 25/24 Q1014 NOSIG SUAG 311500Z 05006KT 9999 FEW020 OVC080 25/19 Q1011 OENG 312300Z 00000KT CAVOK 20/M01 Q1016 NOSIG UARR 010000Z 15005MPS CAVOK M05/M08 Q1019 R88/////// NOSIG RMK QFE760/1014 TJSJ 312356Z 13003KT 10SM FEW060 28/24 A2990 RMK AO2 SLP124 T02780239 10300 20272 52015 UASK 010000Z VRB01MPS 9999 FEW100 M04/M07 Q1032 R12/000060 NOSIG RMK QFE748/0997 YPPD 010000Z AUTO 18007KT 9999 // NCD 32/M01 Q1009 YPPF 010000Z AUTO 24019KT 9999 // SCT043 BKN048 BKN056 15/05 Q1016 UATE 010000Z 09006MPS CAVOK 02/M06 Q1014 R12/0///70 NOSIG RMK QFE759/1012 K7L2 312355Z AUTO 14017G23KT 10SM CLR 01/M09 A3021 RMK AO2 PWINO PNO YPPH 010000Z 07017KT CAVOK 19/06 Q1018 UATG 010000Z 10005MPS CAVOK 01/M04 Q1017 R14/CLRD70 NOSIG RMK QFE765/1020 UASP 010000Z 17004MPS CAVOK M02/M04 Q1026 R21/350155 NOSIG RMK QFE758/1011 SUCA 312100Z XXXXX 9999 FEW026 20/11 Q1013 UASS 311030Z 20003MPS 9999 SCT043 BKN090 03/00 Q1034 R08/75//55 NOSIG RMK QFE754/1006 OEPA 312300Z 00000KT CAVOK 21/16 Q1010 NOSIG ZGOW 010000Z VRB01MPS 4000 BR NSC 23/21 Q1015 NOSIG ZHHH 010000Z 04002MPS 350V070 1800 BR NSC 16/14 Q1019 NOSIG K8D3 312356Z AUTO 16006KT M01/M06 A3042 RMK AO1 SLP330 T10111061 10039 21011 56014 UATT 010000Z 16003MPS CAVOK M06/M08 Q1022 R13/0///60 NOSIG RMK QFE746/0995 CMGB 312345Z AUTO 03004KT 04/M03 RMK AO1 SLP186 T00411029 53014 CMFM 010000Z AUTO 06004KT M01/M02 RMK AO1 3016 SLP200 T10061022 50002 UAUU 010000Z 20003MPS CAVOK M05/M08 Q1019 R15/CLRD60 NOSIG RMK QFE748/0997 OERF 312300Z 28006KT CAVOK 18/05 Q1012 SUDU 312000Z 11010KT 9999 FEW020 SCT080 BKN200 18/14 Q1012 OERK 010000Z 00000KT CAVOK 22/03 Q1012 NOSIG OESH 312300Z 09005KT CAVOK 23/04 Q1012 NOSIG OERR 312300Z 28008KT CAVOK 16/10 Q1013 NOSIG OETB 312300Z 36003KT CAVOK 15/05 Q1016 NOSIG OESK 312300Z 32009KT 4000 DU SKC 17/08 Q1015 NOSIG YPTN 010000Z AUTO 26006KT 9999 // NCD 32/17 Q1012 UCFM 010000Z 22003MPS 5000 BR FU SKC M00/M02 Q1019 R08/CLRD70 NOSIG UCFO 010000Z 18002MPS 7000 NSC 01/M01 Q1020 R12/CLRD70 NOSIG OETF 312300Z 29005KT CAVOK 17/08 Q1019 NOSIG ZGSZ 010000Z 27002MPS 240V300 5000 BR SCT018 SCT024 26/23 Q1014 NOSIG TKPK 010000Z 10005KT 9999 FEW022 28/24 Q1013 TKPN 010000Z 12005KT 9999 FEW021 28/24 Q1013 K7R3 311800Z 32012KT 10SM SKC 24/10 A3006 K7R4 311245Z 30004KT 7SM SKC 13/04 A3008 OETR 312300Z 28010KT CAVOK 12/11 Q1015 SVAC 312300Z /////KT 9999 FEW027 ///// Q1009 YREN 010000Z AUTO 23020KT //// // ////// 17/04 Q1013 OEWD 312200Z 12004KT CAVOK 22/11 Q1012 NOSIG YPWR 010000Z AUTO 19021KT 9999 // NCD 17/04 Q1017 OEWJ 312300Z 04003KT CAVOK 22/17 Q1012 NOSIG SVBC 010000Z 00000KT 9999 FEW010 29/24 Q1009 SVBI 312300Z 36002KT 9999 FEW020 28/22 Q1007 SVCB 312200Z 11005KT 9999 FEW013 31/// Q1006 SVBM 312300Z 14007KT 9999 FEW016 BKN300 26/21 Q1011 MYGF 010000Z 21003KT 9000 +TSRA SCT015CB BKN020 25/21 A2977 RMK TS/CB W-NW/OHD MOV E FRQNT LTGICCG RAB56 SVBS 312300Z 00000KT 9999 SCT013 28/23 Q1011 HTAR 312100Z 09015KT 9999 FEW020 20/17 Q1019 K9D7 312355Z AUTO 15016G21KT 10SM CLR 00/M08 A3025 RMK AO2 SVCN 312100Z 00000KT 7000 OVC030 ///// Q1014 OEYN 312300Z 00000KT CAVOK 21/17 Q1010 NOSIG K7W4 312355Z AUTO 00000KT 10SM CLR 07/04 A2984 RMK AO1 T00660038 10141 20066 SVCR 312300Z /////KT 9999 FEW013CBW 30/25 Q1008 SULS 010000Z 12005KT CAVOK 16/12 Q1017 SVCU 312300Z 05010KT 9999 FEW013 30/23 Q1010 HTDA 312100Z 09003KT 9999 FEW024 25/24 Q1014 NOSIG HTBU 312100Z 00000KT 9999 FEW015 FEW017CB 19/17 Q1015 K9F2 311005Z 01005KT 7SM SKC 18/14 A3002 SUMU 010000Z 14008KT CAVOK 18/16 Q1016 NOSIG HTDO 312100Z 08015KT CAVOK 23/16 Q1016 NOSIG YSBK 010000Z AUTO 33019KT 9999 // NCD 33/11 Q1000 YSCB 010004Z 33025G35KT 9999 BKN045 25/13 Q1003 TLPC 010000Z 11004KT 9999 FEW017CB 27/26 Q1013 TEMPO SHRA SVFM 311700Z /////KT 9999 BKN040 ///// Q1015 SVGD 312300Z 00000KT 9999 FEW020 28/23 Q//// YRMD 010000Z AUTO 34013KT //// // ////// 34/13 Q1012 TLPL 010000Z 10012KT 9999 FEW018CB 29/25 Q1013 NOSIG YSCR 010000Z AUTO 06012KT //// // ////// 15/05 Q1021 SVGU 312300Z /////KT 9999 FEW017 30/22 Q1006 MZBZ 010000Z 06007KT 9999 FEW018 SCT042 27/23 A2993 Q1013 NOSIG YSDU 010000Z AUTO 34027G37KT 9999 // NCD 31/15 Q1006 HRYR 010000Z 32003KT 9999 FEW026 17/17 Q1017 NOSIG SVJC 312200Z 06003KT 9999 FEW013 XX/XX Q1006 SVJM 312300Z /////KT CAVOK 27/18 Q1009 SUSO 010000Z 21006KT CAVOK 19/18 Q1013 MYNN 010000Z 24007KT 9999 SCT020 26/25 A2985 K9L2 312355Z AUTO 24019G25KT 10SM CLR 17/08 A2980 RMK AO2 PK WND 24030/2323 SLP085 T01720083 10217 20172 56013 $ TNCA 010000Z 07011KT 9999 FEW020 29/25 Q1009 A2980 NOSIG HTIR 312000Z 13006KT 9999 FEW016 20/14 Q1020 TNCB 312300Z 07015KT 9999 FEW019 29/24 Q1008 HTKA 312100Z 00000KT 9999 FEW020 FEW022CB BKN090 21/19 Q1016 TNCC 312300Z 09010KT 9999 FEW019 29/25 Q1009 NOSIG TNCE 312300Z AUTO VRB01KT //// ////// ///// Q1013 SVLF 311900Z 00000KT 9999 SCT040 XX/XX Q1008 DFFD 312300Z 20004KT 170V230 9999 FEW023 BKN130 30/19 Q1012 NOSIG YSHK 010000Z AUTO 17013KT //// // ////// 22/10 Q1015 ZJHK 010000Z 00000MPS 5000 BR NSC 23/23 Q1013 NOSIG HTKJ 312100Z 09015KT 9999 SCT024 23/18 Q1016 NOSIG HSSS 010000Z 33010KT CAVOK 27/03 Q1010 NOSIG SVMD 312300Z 18003KT 4000 BR OVC010 20/18 Q1017 TNCM 312300Z 13007KT 9999 FEW022 28/23 Q1012 A2991 NOSIG K8W2 312355Z AUTO 36003KT 10SM SCT050 BKN070 OVC100 09/03 A2983 RMK AO1 T00850026 10108 20085 SVMG 010000Z /////KT 9999 FEW010 29/25 Q1011 NOSIG SVMI 010000Z 05002KT 9999 BKN016 28/25 Q1010 NOSIG YSHT 010000Z AUTO 25015KT //// // ////// 16/12 Q1005 YSHW 010000Z AUTO 33012G23KT 9999 // NCD 33/14 Q1001 HTMB 311400Z 09010KT 9999 -SHRA BKN021 FEW022CB 22/13 Q//// SVMN 312100Z 27005KT 9999 BKN013 32/// Q1006 UEEE 010000Z 35002MPS 9999 -SN BKN016 OVC100 M19/M21 Q1012 NOSIG RMK QFE750 23490150 HTMG 312100Z 00000KT 9999 SCT022 25/18 Q1014 SVMT 311400Z 11008KT 9999 BKN010 30/18 Q1012 OIAA 010000Z 00000KT CAVOK 18/13 Q1008 K9MN 312354Z AUTO 30004KT 10SM CLR 02/M09 A3047 RMK AO1 T00171090 10041 20017 YTAR 010000Z AUTO 19015KT //// // ////// 18/05 Q1020 YRTI 010000Z AUTO 06018KT //// // ////// 18/08 Q1017 OIAG 312000Z 10017KT 9999 TS SCT035CB SCT040 24/12 Q1009 OIAH 312300Z 12014KT 6000 -TSRA FEW035 SCT040CB OVC090 17/12 Q1013 SVPA 312100Z /////KT 9999 BKN013 25/25 Q1010 OIAI 312000Z 12008KT 9999 SCT030CB SCT035 OVC070 21/14 Q1008 OIBA 311500Z 03008KT 8000 SKC 29/20 Q1011 SVPC 311700Z 30006KT 9999 SCT035 XX/XX Q1010 OIBB 312352Z 13008KT 9000 SCT030CB BKN040 OVC090 27/17 Q1006 A2971 DGAA 010000Z 23008KT 9999 FEW012 BKN025 27/24 Q1012 NOSIG HTMT 312100Z 00000KT 9999 FEW021 25/23 Q1014 HTMU 312100Z 00000KT 9999 FEW020CB SCT250 22/18 Q1015 OIAM 312300Z 08006KT CAVOK 21/16 Q1007 HUEN 312000Z 33003KT 9999 FEW020 FEW022CB BKN140 21/19 Q1015.6=HUEN 311900Z 36003KT 9999 FEW021 FEW023CB BKN200 21/20 Q1016.0 HTMW 312100Z 00000KT 9999 FEW022 FEW023CB BKN090 23/20 Q1014 NOSIG OIBJ 311500Z 21006KT CAVOK 25/11 Q1015 OIBK 312350Z 10008KT 7000 SKC 28/16 Q1009 SVPM 312000Z 18010KT 9999 SCT030 XX/XX Q1011 OIBL 312350Z 08006KT CAVOK 23/21 Q1012 OICC 312353Z 15008KT 9999 FEW035CB SCT040 BKN100 10/08 Q1015 A2998 OIAW 010000Z 15004KT CAVOK 22/15 Q1008 YSMH 010000Z AUTO 04011KT 9999 // NCD 27/16 Q1015 OIBP 311700Z 00000KT CAVOK 27/18 Q1011 A2987 SVPR 312200Z 07006KT 9999 SCT060 ///// Q1010 OIBQ 311500Z 18014KT CAVOK 29/24 Q1008 OICI 010000Z 12004KT 9999 FEW035CB SCT040 BKN090 10/08 Q1013 A2993 OIBS 311500Z 07014KT CAVOK 30/20 Q1011 OICJ 311650Z 18016KT 9999 FEW035CB SCT040 BKN090 08/05 Q1020 OICK 312350Z 14004KT 9999 FEW035CB SCT040 BKN080 11/09 Q1014 YTEE 010000Z AUTO 27016KT 9999 // NCD 35/14 Q1012 KMG 010000Z AUTO 24014KT 9999 // SCT027 BKN039 OVC045 12/09 Q1006 YSNF 010000Z 07015KT 9999 FEW025 SCT038 20/14 Q1022 OIBV 311400Z 11010KT CAVOK 29/22 Q1010 YTEF 010000Z AUTO 12017KT //// // ////// 31/07 Q1011 SVSA 312300Z /////KT 9999 BKN020 30/22 Q1009 OICS 312353Z 03004KT 9999 SCT035CB SCT040 10/07 Q1013 RESHRA YTEM 010000Z AUTO 24010KT //// // ////// 25/09 Q1005 CPBT 312300Z AUTO 29011KT 17/02 RMK AO1 PK WND 30017/2236 T01690024 UDSG 010000Z 00000MPS 2600 BR OVC033 07/06 Q1011 R02/CLRD70 NOSIG YSNW 010000Z AUTO 31022G35KT 9999 // NCD 32/12 Q1000 SVSO 312300Z 00000KT 9999 FEW023 28/26 Q1012 SVSP 311400Z 00000KT 6000 +HZ FEW030 XX/XX Q1012 SVSR 312200Z /////KT 9999 SCT016 BKN300 30/// Q1006 SVST 312200Z 09010KT 9999 SCT060 ///// Q1010 HUJI 311200Z 18003KT 9999 SCT020 FEW023CB BKN120 23/20 CPEH 312300Z AUTO 17007KT 13/06 RMK AO1 T01250056 YTGM 010000Z AUTO 24010KT //// // ////// 33/04 Q1009 HUKA 311200Z 15020KT 7000 TSRA BKN020 FEW023CB BKN130 26/17 OIFK 312300Z 00000KT 9999 SCT040 OVC100 10/08 Q1017 HTTB 312100Z 12005KT 9999 FEW020 FEW021CB BKN070 22/19 Q1016 RERA OIFM 010000Z 00000KT 1000 BR SCT035 OVC090 08/07 Q1017 A3005 SVSZ 311900Z 00000KT 9999 SCT020 XX/XX Q1005 HTSO 311900Z 00000KT 9999 FEW021 22/16 Q1018 OIGG 010000Z VRB02KT 3000 BR SKC 11/11 Q1010 YTIB 010000Z AUTO 20016KT //// // ////// 28/11 Q1010 SVVA 312300Z 23002KT 9999 FEW016 27/21 Q1010 OIFS 312300Z 29002KT 9999 FEW035 SCT080 03/03 Q1019 OIGK 311650Z 00000KT CAVOK 04/M00 Q1017 CPFI 312300Z AUTO 15011KT 14/04 RMK AO1 PK WND 15017/2243 T01420037 K9V9 312355Z AUTO 14011KT 10SM CLR 01/M09 A3033 RMK AO2 T00111090 10050 20011 HTSU 312100Z 10006KT 9999 FEW018 BKN230 20/13 Q1021 SVVG 312300Z 00000KT 9999 SCT017 BKN100 28/27 Q1005 YSRI 010003Z AUTO 32024G34KT 9999 // NCD 33/14 Q1001 OIHH 312352Z 24002KT 9999 FEW040 BKN100 05/03 Q1015 DFOO 312300Z 18002KT CAVOK 27/21 Q1013 HULI 310900Z 00000KT 9999 BKN020 27/XX SVVL 312100Z 25003KT 9999 SCT027 SCT300 30/20 Q1011 YSRN 010000Z AUTO 27018KT 9999 // SCT020 BKN029 BKN039 07/05 Q0997 OIHM 312000Z 15008KT 9999 SCT030CB SCT035 BKN080 07/02 Q1017 OIIE 010000Z 13006KT 9999 FEW040 SCT100 BKN200 11/M01 Q1015 OIII 312330Z 00000KT 9999 FEW040 BKN100 12/M00 Q1015 A2999 NOSIG OIIK 312300Z 06004KT CAVOK 09/00 Q1015 PAAD 312355Z AUTO 05009KT 10SM BKN016 OVC021 M12/M15 A2996 RMK AO2 YSTH 010000Z AUTO 26009KT //// // ////// 17/07 Q0993 OIIP 311800Z 14008KT 9999 FEW035 BKN100 10/M04 Q1018 OJAI 010000Z 25004KT 6000 BKN030 SCT035 12/11 Q1017 NOSIG OIIS 312300Z 35002KT CAVOK 10/M04 Q1016 PABA 010001Z AUTO 02007KT 9SM -SN OVC014 M12/M14 A2996 RMK AO2 SNE2329B2350 SLP143 P0000 60000 T11171139 11094 21122 51009 FZRANO OIKB 010000Z 36006KT 6000 FEW030 24/19 Q1011 A2987 PAAK 312356Z 26020G26KT 10SM FEW030 BKN050 07/01 A2920 RMK AO1 10080 20050 401100050 54000 OJAM 010000Z 27010KT 5000 BR SCT030 SCT035 14/12 Q1016 YSSY 010000Z 34017KT CAVOK 33/11 Q1001 ZJSY 010000Z 00000MPS CAVOK 27/22 Q1012 NOSIG PABE 312353Z 03020KT 10SM BKN150 BKN210 M08/M11 A2903 RMK AO2 PK WND 03027/2257 SLP833 T10831111 11083 21111 58026 PAAP 312250Z VRB05KT 10SM -SHRA BKN020 BKN040 06/06 A2953 RMK 70050 400780028 NO SPECI OJAQ 010000Z 00000KT 9999 FEW030 19/13 Q1015 NOSIG PAAQ 312353Z 00000KT 10SM SCT070 M05/M08 A2919 RMK AO2 SLP890 T10501083 11050 21122 58008 PABI 312353Z 11012KT 10SM FEW050 FEW100 SCT200 M11/M14 A2933 RMK SLP973 T11061139 11106 21211 57015 VIA AUTODIAL CPIR 312300Z AUTO 23005KT 17/06 RMK AO1 T01690058 OIKK 010000Z 35004KT CAVOK 07/05 Q1020 A3014 PABL 312356Z AUTO 05024G31KT 10SM CLR A2953 RMK AO1 11080 21110 410801210 57030 YSTW 010000Z AUTO 35026G37KT 9999 // NCD 29/12 Q1009 PACD 312353Z 24025G35KT 10SM -RA BKN046 07/02 A2894 RMK AO2 PK WND 23035/2352 SLP799 P0001 60001 T00670022 10072 20061 58021 OIKO 311350Z 22004KT CAVOK 31/18 Q1011 OIKQ 312350Z 03004KT 8000 SKC 22/17 Q1011 PABR 312353Z 07009KT 10SM OVC012 M14/M16 A3002 RMK AO2 SNE15 SLP166 P0000 60000 4/005 T11391156 11139 21156 58001 HTZA 312100Z 12014KT 9999 FEW018 26/24 Q1013 NOSIG OIMB 312300Z 04006KT CAVOK 11/M08 Q1018 PABT 312353Z 03010KT 10SM FEW070 FEW100 M07/M18 A2958 RMK AO2 SLP034 4/003 T10721178 11072 21094 58007 OIMC 311700Z 10006KT CAVOK 12/M05 Q1020 YTMO 010000Z AUTO 30014KT //// // ////// 34/29 Q1012 OIMD 311700Z 00000KT 9999 FEW035 SCT200 13/M09 Q1016 PABV 312356Z AUTO 00000KT 10SM FEW080 SCT090 M03/M06 A2921 RMK AO1 11030 21110 400001110 57014 PACM 312356Z AUTO 10SM CLR M07/M09 A2925 RMK AO2 FZRANO TSNO 58024 60000 T10721094 11066 21105 SNE23 P0000 SLP900 $ YTNG 010000Z AUTO 03010KT 9999 // NCD 28/16 Q1016 PADE 312153Z AUTO 06019KT 10SM CLR M07/M13 A2960 RMK SLP024 T10721133 TSNO $ VIA AUTODIAL YSWG 010000Z 27017KT 9999 VCSH NSC 21/11 Q1004 PADG 311900Z 03021KT 15SM SKC M09/M16 A2968 UDYZ 010000Z 00000MPS 0600 R09/1200D FG SCT020 SCT100 09/08 Q1010 R09/290060 NOSIG YTNK 010000Z AUTO 11001KT 9999 // NCD 30/13 Q1014 OINB 312000Z 17004KT CAVOK 13/11 Q1011 PADK 312356Z AUTO 25031G39KT 10SM FEW029 SCT046 OVC050 07/01 A2930 RMK AO1 10070 20040 400900040 57007 PAEC 312246Z 35012KT 20SM SCT060 BKN070 M04/M09 A2918 RMK NOSPECI PADL 312310Z 34016G22KT 3SM -SN BLSN OVC020 M07/M09 A2900 OIMM 010000Z 07004KT CAVOK 08/M06 Q1015 A2999 PACV 312353Z 09004KT 10SM FEW050 BKN200 05/M03 A2927 RMK AO2 SLP913 60000 T00501033 10061 20033 58018 PADM 312356Z AUTO 04017G23KT 9SM OVC019 M07/M11 A2917 RMK AO2 TSNO 58028 60000 T10721111 11072 21111 SNB2259E08B38E41 P0000 SLP866 $ PAED 312358Z AUTO 07008KT 10SM BKN070 M03/M09 A2919 RMK AO2 SLP883 T10291090 11027 21065 57012 $ OINE 010000Z 00000KT CAVOK 10/03 Q1009 OIMN 010000Z 00000KT CAVOK 02/M01 Q1015 OING 010000Z 24004KT CAVOK 08/06 Q1011 PAEG 312353Z AUTO 00000KT 4SM -SN SCT040 OVC050 M09/M12 A2948 RMK AO2 SLP999 P0000 60000 T10891117 11083 21106 53003 TSNO $ OIMQ 311700Z 09004KT CAVOK 13/M10 Q1019 PAEH 312355Z 11026G33KT 1 3/4SM -FZDZ BR BKN039 M03/M04 A2882 RMK AO2A SLP768 6//// 5//// RCRNR PACZ 312355Z AUTO 04032G40KT 030V110 10SM FEW006 M08/M09 A2912 RMK AO2 SLP873 T10771094 11073 21102 58020 PADQ 312353Z 32003KT 7SM -RA SCT007 BKN012 OVC018 02/02 A2905 RMK AO2 SNE33 SLP838 P0002 60009 T00170017 10022 20006 56010 PAEI 312358Z AUTO 00000KT 10SM CLR M11/M14 A2937 RMK AO2 SLP960 T11101142 11103 21182 57012 CHINO RWY14 $ OIMS 312100Z 04010KT 9999 FEW030CB SCT035 SCT200 11/M01 Q1018 NSFA 312300Z 07006KT 9999 SCT023 30/24 Q1012 PAFA 312353Z 03004KT 10SM FEW090 FEW200 M09/M14 A2938 RMK AO2 SLP961 T10891139 11083 21172 58013 OINK 311400Z 28004KT CAVOK 19/00 Q1012 PAFB 312355Z 00000KT 85SM FEW060 FEW100 FEW150 M09/M13 A2937 RMK SLP957 4/004 58014 PAEL 312257Z 00000KT 7SM -SHRA OVC021 05/04 A2946 RMK SEA 0 SWELL 3 SW MAX 5.6 70101 NOSPECI PADU 312356Z 25017G31KT 210V290 10SM SCT033 OVC042 08/00 A2900 RMK AO2 PK WND 22043/2324 RAB16E51 SLP825 OBS PK WND 21049/2318 BLK WTR NE-SE AND SW-NW CS P0000 60001 T00830000 10083 20072 58015 PAEM 312356Z 04015G22KT 10SM BKN026 OVC050 M05/M11 A2924 RMK AO1 11040 21110 410301110 57024 OINN 010000Z 00000KT CAVOK 12/08 Q1010 PAEN 312353Z 36007KT 10SM BKN055 OVC065 M02/M04 A2919 RMK AO2 SLP888 T10171044 11011 21056 55010 PAFE 312356Z AUTO 13011G15KT 10SM FEW017 BKN024 OVC034 A2960 RMK AO1 P0005 60022 57003 OINR 010000Z 23004KT CAVOK 12/10 Q1009 PAGA 312358Z AUTO 04009G14KT 10SM CLR M05/M11 A2940 RMK AO2 SLP962 T10501111 11050 21089 57015 FZRANO PAFM 310556Z AUTO 00000KT 10SM M21/M24 A2984 RMK AO1 57007 OINZ 010000Z VRB02KT CAVOK 08/07 Q1010 PAGH 312357Z AUTO 00000KT 10SM CLR M19/M23 A2962 RMK AO2 SNB41E51 SLP067 P0000 60000 T11891228 11172 21261 58009 FZRANO SYCJ 010000Z 04004KT CAVOK 25/23 Q1011 NOSIG PAFS 312356Z AUTO 04017G24KT 10SM CLR M07/M13 A2923 RMK AO2 TSNO 55005 60000 T10661127 11066 21088 PK WND 04029/2316 SLP913 $ PAGK 312353Z AUTO 16004KT 10SM OVC007 M09/M11 A2931 RMK AO2 SLP968 T10891106 11078 21117 58005 TSNO PAGL 312341Z 03021G27KT 10SM CLR M07/M12 A2940 RMK VIA PHONE PAHC 312356Z AUTO 05011G19KT 10SM -SN OVC034 M08/M12 A2916 RMK AO2 TSNO 58025 60000 T10771116 11077 21122 UPE45SNB54 P0000 SLP879 $ YTRE 010000Z AUTO 32011KT //// // ////// 33/14 Q1005 PAGM 312356Z AUTO 04025G30KT 10SM BKN029 OVC034 M02/M08 A2949 RMK AO1 11020 21030 410101030 57014 ZKPY 310200Z 0000MPS 5000 BR SCT200 17/06 Q1019 NOSIG PAGN 312356Z AUTO 13004KT 10SM FEW035 06/04 A2953 RMK AO2 TSNO 58003 60002 T00550038 10066 20050 RAB2259E50 P0001 SLP002 $ PAGS 312317Z AUTO 14010KT 10SM FEW034 BKN045 OVC050 06/04 A2947 RMK VIA PHONE PAHL 312356Z AUTO 06015G20KT 10SM CLR M06/M14 A2947 RMK AO1 11060 21090 410601130 57014 PAHN 312354Z AUTO 10012G22KT 10SM -RA BKN015 OVC029 05/03 A2945 RMK AO2 SLP975 P0001 60005 T00500033 10061 20044 58006 TSNO PAHO 312353Z 00000KT 10SM SCT040 OVC100 02/M06 A2915 RMK AO2 SLP873 T00171061 10017 21017 55006 PAGY 312353Z AUTO 20018G31KT 10SM -RA BKN045 OVC055 06/03 A2944 RMK AO2 PK WND 21031/2345 SLP968 P0000 60000 T00610028 10072 20056 55003 TSNO PAHP 312356Z AUTO 04024G33KT 10SM CLR M06/M12 A2918 RMK AO1 11060 21090 410301090 57024 PAIG 312356Z AUTO 00000KT 10SM UP OVC050 M02/M06 A2902 RMK AO2 TSNO 58012 60000 T10161055 11016 21061 UPB53 P0000 SLP832 $ PAII 312356Z AUTO 13017G21KT 10SM FEW008 OVC014 01/00 A2893 RMK AO1 P0007 60013 10010 21070 400101090 57024 OISA 312250Z 00000KT 7000 RA FEW035CB FEW040 BKN090 07/07 Q1021 NTAA 010000Z 20006KT 9999 SCT020 SCT033 BKN160 29/22 Q1012 WS ALL RWY NOSIG PAIK 010001Z AUTO 04010KT 10SM CLR M07/M16 A2963 RMK AO2 SLP077 T10721161 11067 21089 58010 FZRANO PAIL 312353Z 09014G21KT 10SM FEW040 BKN055 OVC070 03/M04 A2908 RMK SLP851 T00281044 10028 21094 56010 $ VIA AUTODIAL PAJC 312356Z AUTO 33006KT 3SM SCT005 OVC012 04/02 A2901 RMK AO1 P0001 60014 10060 20030 400600020 57007 PAIM 312355Z AUTO 10023G36KT 10SM -SHSN BKN029 M08/M13 A2943 RMK AO2 SNB2257E2258SHSNB2258 SLP997 P0000 60000 T10821135 11083 21093 58010 PAIN 312356Z AUTO 00000KT 10SM CLR M09/M13 A2919 RMK AO1 11080 21210 410801220 57020 OISF 312350Z 00000KT 9999 FEW040 11/06 Q1015 PAHX 312356Z AUTO 06014G20KT 8SM -SN SCT034 OVC041 M07/M10 A2921 RMK AO2 SLP893 P0000 60000 T10671100 11067 21117 58017 FZRANO YTTI 010000Z AUTO 30005KT //// // ////// 29/29 Q1011 PAHY 312356Z AUTO 11006G16KT 10SM SCT030 BKN037 OVC080 06/01 A2967 RMK AO1 P0002 52003 YTST 010000Z AUTO 29006KT 9999 // NCD 30/22 Q1010 OISL 010000Z 00000KT CAVOK 13/05 Q1013 PAJN 312353Z 11018G24KT 6SM -RA BR FEW015 BKN030 OVC040 05/03 A2952 RMK AO2 SLP996 P0005 60017 T00500033 10056 20050 55001 PAIW 312358Z AUTO 07018KT 10SM CLR M09/M11 A2958 RMK AO2 SLP018 T10891111 11078 21100 58014 FZRANO DIAD 311700Z 18004KT 9999 BKN013 28/24 Q1009 NOSIG PAKF 010001Z AUTO 19017G25KT 10SM FEW025 BKN060 OVC095 09/M01 A2896 RMK AO2 PK WND 17031/2305 RAB2303E2351 SLP899 P0000 60000 T00941011 10094 20067 58019 $ CPRO 312300Z AUTO 18010KT 12/06 RMK AO1 T01180057 PAKH 312356Z AUTO 35003KT 03/01 RMK AO2 PWINO TSNO 5//// 60014 T00270005 10033 20011 P0003 SLPNO $ OISR 310900Z 00000KT CAVOK 32/12 Q1013 PAKI 312356Z AUTO 03024G30KT 10SM CLR M09/M11 A2897 RMK AO2 TSNO 58023 T10881111 11088 21105 PK WND 02031/2258 SLP813 $ ZLLL 010000Z 16001MPS 2500 -SN BR SCT010 OVC030 M01/M02 Q1030 NOSIG OISS 010000Z 29008KT 7000 FEW035CB SCT040 OVC090 13/10 Q1018 A3008 RERA OKBK 312300Z 34007KT CAVOK 24/13 Q1008 NOSIG PAKK 312356Z AUTO 01013G20KT 10SM CLR A2936 RMK AO1 57024 OITL 312354Z 20023KT CAVOK 10/02 Q1011 OITM 010000Z 13004KT 9999 FEW040 OVC090 10/09 Q1012 SYGO 312200Z 07012KT 9999 FEW018CB BKN300 28/22 Q1010 CB W NOSIG PAKN 312354Z 08007KT 1/2SM -SN FZFG FEW006 OVC016 M01/M02 A2896 RMK AO2 TWR VIS 1 SLP808 P0004 60006 4/001 T10111017 11011 21078 56016 $ OISY 010000Z 31019KT 3000 +TSRA FEW030CB SCT035 OVC070 08/07 Q1021 PAKP 312356Z AUTO 02011KT 6SM OVC026 M14/M21 A2962 RMK AO1 11140 21140 411101140 57003 PALG 312356Z AUTO 06008KT 10SM FEW028 M09/M13 A2910 RMK AO2 TSNO 58026 60000 T10881127 11088 21133 SNE2258B16E21 P0000 SLP860 $ PALH 312353Z 04006KT 10SM BKN070 M02/M09 A2921 RMK AO2 SLP892 T10221089 11022 21056 56011 PAJZ 312356Z AUTO 36009KT 3SM -SN FEW006 BKN028 OVC050 M07/M11 A2909 RMK AO2 TSNO 58023 60000 T10721105 11072 21122 UPB38E55SNB55 P0000 SLP842 $ YTWB 010000Z AUTO 04010KT 9999 // BKN110 23/13 Q1017 CPRY 312300Z AUTO 25011KT 20/01 RMK AO1 T02030010 OITR 010000Z 26006KT 4000 BR FEW035CB FEW040 06/05 Q1011 DIAP 010000Z 23007KT 8000 SCT012 27/25 Q1011 TEMPO BKN011 PALJ 312250Z 00000KT 30SM OVC120 M04/M06 A2907 RMK EST PASS OPN NOSPECI OITT 312350Z VRB02KT 4000 BR FEW035 OVC080 10/09 Q1013 A2992 PAKT 312353Z 16006KT 10SM FEW021 BKN026 OVC050 08/05 A2970 RMK AO2 RAB2259E27 SLP058 P0000 60013 T00780050 10078 20044 55003 PAMB 312356Z AUTO 03021G26KT 1/2SM -SN FZFG BKN012 OVC080 M08/M09 A2891 RMK AO2 TSNO 58028 60000 T10771094 11077 21088 UPB14E47SNE14B15E18B19E21B53BLSNB47E53 P0000 PK WND 03028/2301 SLP793 $ PAKU 312245Z 05012KT 10SM R06/P6000FT -SHSN OVC018 M12/M14 A2998 OITU 311950Z 00000KT 8000 SCT030CB FEW035 OVC080 08/06 Q1012 PAMC 312353Z 01004KT 9SM -SN BKN026 M07/M12 A2925 RMK SLP915 P0000 60000 T10671117 11061 21094 56009 VIA AUTODIAL CPST 010000Z AUTO 35011KT 06/03 RMK AO1 PK WND 34017/2338 T00640026 PAKV 312353Z AUTO 04016G24KT 10SM FEW070 SCT085 M06/M11 A2939 RMK AO2 PK WND 06026/2335 SLP957 T10611111 11061 21072 58016 TSNO PAMD 312356Z 13018G28KT 10SM SCT018 BKN027 OVC041 04/02 A2919 RMK AO1 60006 10050 20030 400700030 57024 PAKW 312353Z AUTO 17009KT 4SM RA BR OVC029 06/04 A2963 RMK AO2 RAE06B48 SLP033 P0001 60008 T00610039 10067 20050 58005 TSNO $ CPSV 010000Z AUTO 20008KT 11/03 RMK AO1 T01050033 PALP 312352Z 01006KT 7SM -SN OVC017 M12/M15 A2998 OITZ 311500Z 11014KT 9999 SCT035 11/M01 Q1015 PAMH 312356Z AUTO 04004KT 10SM M07/M13 A2929 RMK AO1 11070 21090 410701120 54000 PANA 312356Z AUTO 05013G23KT 10SM CLR M08/M11 A2901 RMK AO2 SLP825 T10781111 11078 21106 58025 FZRANO PAMK 312356Z AUTO 06024G30KT 10SM BKN025 OVC034 M06/M09 A2926 RMK AO2 TSNO 58026 60000 T10551094 11055 21061 SNE41 P0000 PK WND 04033/2322 SLP912 $ PALU 312355Z AUTO 08024KT 10SM BKN011 M08/M10 A2985 RMK AO2 PK WND 08029/2346 SLP108 T10841097 11072 21084 57009 PANC 312353Z 04010KT 10SM FEW060 SCT095 BKN200 M02/M09 A2919 RMK AO2 SNE07 SLP887 P0000 60000 T10221089 11017 21061 57012 PAMM 312356Z AUTO 00000KT 10SM BKN110 08/03 A2973 RMK AO1 60007 10090 20060 400900020 52003 DIBU 311700Z 00000KT CAVOK 31/22 Q1009 NOSIG PAMO 312356Z AUTO 03018G23KT 10SM OVC024 M08/M13 A2919 RMK AO2 TSNO 58026 T10831127 11083 21127 SLP771 $ PAMR 312353Z 01008KT 10SM BKN075 BKN085 M02/M09 A2919 RMK AO2 SLP888 T10221089 11017 21056 57013 PANI 312356Z AUTO 07006KT 10SM BKN022 M09/M13 A2912 RMK AO1 11090 21130 410601160 57027 UHBB 010000Z 06003MPS 1500 SHSN VV002 M06/M06 Q1012 TEMPO 0800 +SHSN VV003 RMK QBB070 QFE741/0989 36490835 DIDK 311700Z ///// 9999 SCT013 SCT100 29/25 Q//// NOSIG DIDL 311700Z ///// 9999 FEW013 BKN100 26/23 Q1011 NOSIG PANN 312353Z AUTO 09011KT 10SM CLR M08/M14 A2935 RMK AO2 SLP950 T10831139 11083 21144 56012 TSNO PAMY 312356Z AUTO 07022G30KT 10SM OVC014 M06/M12 A2908 RMK AO1 11060 21070 410201070 57020 PAOH 312356Z AUTO 00000KT 10SM BKN037 BKN047 06/04 A2950 RMK AO2 TSNO 54000 60003 T00550044 10066 20038 SLP992 $ PANT 312353Z 16004KT 10SM FEW027 SCT100 BKN200 09/04 A2971 RMK AO2 SLP061 60001 T00890039 10100 20061 51001 PAPB 312353Z AUTO 02034G46KT 1 3/4SM -SN BR BKN009 OVC014 02/02 A2867 RMK AO2 PK WND 03047/2256 SLP697 P0000 6//// T00220017 10056 20022 50025 TSNO $ PAOM 312353Z 01008G15KT 10SM SCT063 M06/M14 A2945 RMK SLP973 SCSL OVHD AND SW 4/001 T10561139 11050 21089 56027 $ VIA AUTODIAL PANV 312356Z AUTO 05020G26KT 10SM BKN019 BKN025 OVC040 M07/M12 A2916 RMK AO1 11070 21110 410501120 57024 PANW 312356Z AUTO 01013KT 10SM OVC046 M08/M12 A2903 RMK AO2 TSNO 58024 60000 T10771116 11077 21122 SNB05E22 P0000 SLP813 $ UGKO 010000Z 00000KT 9999 SCT027CB OVC048 13/09 Q1008 R07/19//60 NOSIG PAOO 312056Z AUTO 01015G32KT 340V040 10SM FEW004 M09/M13 A2915 RMK AO2 TSNO 56013 60000 T10941127 SNE47 P0000 PK WND 36038/2014 SLP872 $ PAPG 312356Z 19003KT 7SM BKN025 OVC030 05/03 A2961 RMK AO1 -RA P0008 10060 20040 400600020 PAPH 312356Z AUTO 22020G26KT 10SM FEW023 BKN033 OVC055 06/01 A2897 RMK AO1 60001 10060 21010 400601030 57003 PAOR 312353Z 08004KT 10SM FEW025 BKN065 BKN170 M09/M13 A2935 RMK AO2 SLP983 4/004 T10891128 11089 21117 58003 OIZB 010000Z 11006KT CAVOK 10/M03 Q1016 PAOT 312353Z 05011KT 10SM CLR M07/M14 A2962 RMK AO2 SLP031 T10721144 11072 21111 58015 DIGA 311700Z 14002KT 9999 FEW013 SCT100 31/24 Q1009 NOSIG PAOU 312356Z AUTO 21019G28KT 8SM -RA CLR 06/03 A2895 RMK AO2 TSNO 58011 60002 T00610027 10072 20055 RAB29 P0002 PK WND 23029/2333 SLP805 $ PAPM 312356Z AUTO 10SM -SN OVC036 M02/M04 A2888 RMK AO2 TSNO 58028 60000 T10221044 11022 21038 SNB2258E08B34 P0000 SLP780 $ CPXL 010000Z AUTO 15009KT 09/03 RMK AO1 PK WND 16017/2341 T00930034 PAPN 010003Z AUTO 20016KT 4SM BR OVC018 03/01 A2897 RMK AO2 PWINO TSNO P0001 $ OIZH 010000Z 15004KT CAVOK 07/M09 Q1019 A3011 PAQH 312356Z AUTO 36014KT 10SM OVC065 M04/M07 A2893 RMK AO2 SLP799 T10391072 11033 21094 58027 FZRANO OIZI 010000Z 04006KT CAVOK 17/M00 Q1015 OIZJ 312350Z 00000KT 6000 SKC 25/21 Q1011 OIYY 312350Z 33004KT 6000 FEW030CB FEW035 OVC080 12/11 Q1018 PASA 312342Z 05024G29KT 10SM OVC025 M03/M08 A2946 RMK VIA PHONE PAQT 312353Z AUTO 06009KT 10SM OVC018 M12/M15 A2998 RMK SLP155 60000 T11171150 11117 21122 58003 TSNO VIA AUTODIAL PASC 312353Z 03007KT 6SM -SN OVC021 M11/M15 A2995 RMK AO2 SLP142 P0000 60000 T11061150 11106 21111 58001 PASD 312356Z 22017G26KT 10SM FEW026 SCT034 BKN045 09/04 A2902 RMK AO1 WEA YWCA 010000Z AUTO 20017KT //// // ////// 21/12 Q1011 PASH 312356Z AUTO 08008KT 10SM CLR M08/M12 A2965 RMK AO1 11070 21090 410301100 57014 PASI 312353Z 09010KT 3SM BR BKN030 OVC035 04/03 A2952 RMK AO2 SLP994 P0010 60047 T00440033 10050 20033 56008 OLBA 312300Z 08005KT 040V120 7000 TSRA FEW020CB BKN023 19/13 Q1014 PATA 312352Z 06013G22KT 10SM SCT015 SCT030 M06/M13 A2943 RMK AO2 SLP971 T10561128 11050 21111 56004 PARS 312356Z AUTO 04011G18KT 10SM -SN FEW023 OVC030 M08/M11 A2913 RMK AO2 TSNO 58026 60000 T10771111 11077 21111 SNE28B48 P0000 SLP870 $ PASK 312356Z AUTO 04008KT 10SM CLR M13/M13 A2961 RMK AO1 11130 21220 410901220 57014 PATC 312355Z AUTO 05017KT 10SM CLR M12/M14 A2954 RMK AO2 SLP010 T11161139 11092 21118 57017 PASL 312356Z AUTO 22003KT 10SM CLR M09/M17 A2922 RMK AO1 11090 21110 410401120 57014 PASM 312356Z AUTO 03012G19KT 10SM OVC022 M08/M13 A2915 RMK AO1 11080 21140 410401150 57027 PASN 312353Z 02026G42KT 4SM -RASN BR BKN015 OVC022 02/M01 A2879 RMK AO2 PK WND 03042/2338 SLP751 P0003 931000 60003 T00171006 10033 20017 51010 $ PATE 312358Z AUTO 09011KT 10SM CLR M10/M13 A2952 RMK AO2 SLP009 T11001128 11094 21122 58020 FZRANO PASO 312353Z AUTO 01007KT 10SM BKN060 OVC080 02/M03 A2914 RMK AO2 SLP868 T00171028 10022 21017 56007 TSNO $ YWBR 010000Z AUTO 11015KT //// // ////// 22/10 Q1018 PATG 312356Z AUTO 02015KT 1 3/4SM OVC015 M04/M06 A2892 RMK AO1 11040 21060 400001090 57027 PARY 312356Z AUTO 08017G23KT 10SM CLR M07/M12 A2935 RMK AO2 TSNO 58014 T10721116 11066 21094 SLP952 $ PATK 312353Z 35005KT 10SM OVC085 00/M09 A2920 RMK AO2 SLP896 T00001089 10000 21100 56012 PATL 312355Z AUTO VRB06KT 10SM -SN BKN017 M09/M10 A2923 RMK AO2 SNB2154 SLP925 P0000 60000 T10911098 11109 21131 57009 $ PASV 312355Z AUTO 31001KT 10SM CLR M10/M11 A2903 RMK AO2 SLP877 T10961115 11141 21163 58005 MUI 010000Z AUTO 33025KT //// // SCT053 25/12 Q1010 PASW 312250Z 29005KT 20SM -SN FEW018 OVC040 M06/M10 A2926 RMK PCPN VRY LGT NOSPECI PATO 010003Z AUTO 11013G25KT 2 1/2SM RA BR BKN020 BKN033 OVC042 02/00 A2920 RMK AO2 VIS 1 1/4V5 P0002 T00220000 TSNO PASX 312356Z AUTO 05007KT 10SM OVC065 M02/M07 A2918 RMK AO1 11020 21100 400101130 57010 UHHH 010000Z 07002MPS 9999 FEW033CB BKN100 M01/M03 Q1016 NOSIG PASY 312356Z AUTO 27013KT 10SM FEW023 SCT038 BKN085 06/03 A2944 RMK AO2 RAE00 SLP970 T00610033 10061 20039 51016 TSNO $ PATQ 312356Z AUTO 09010KT 10SM -SN OVC010 M15/M17 A2998 RMK AO2 TSNO 58005 60000 T11501166 11144 21155 SNB2257 P0000 SLP160 $ PAVA 312357Z AUTO 03022G26KT 10SM CLR M06/M09 A2921 RMK AO2 PK WND 04031/2312 SLP892 T10611089 11061 21106 58027 FZRANO PAVC 312356Z AUTO 24021G27KT 10SM 07/02 A2898 RMK AO2 TSNO 58018 60000 T00660022 10077 20055 RAB03E22 P0000 PK WND 23034/2304 SLP816 $ NSTU 312250Z 10008KT 12SM SCT019 BKN040 31/25 A2989 RMK SLP122 T03080252 PAVD 312356Z 00000KT 10SM FEW005 BKN080 BKN150 02/M05 A2931 RMK AO1 2347Z WEA PAUN 312356Z AUTO 07025G32KT 10SM FEW033 M06/M12 A2928 RMK AO1 11060 21120 410601160 57034 UIAA 010000Z 20003MPS 9999 SCT100 BKN200 M09/M12 Q1015 NOSIG RMK QFE702 29CLRD70 UGSB 010000Z 25012KT 7000 -TSRA FEW016 BKN024CB 15/14 Q1011 R13/29//55 NOSIG PAUT 312355Z AUTO 10SM BKN041 BKN050 BKN070 09/01 A2899 RMK AO2 T00850010 10091 20066 PAVL 312353Z AUTO 04009KT 8SM CLR M10/M14 A2968 RMK AO2 SLP050 T11001144 11094 21144 56013 TSNO PAWD 312353Z AUTO 00000KT 3SM -SN BR BKN005 BKN028 OVC036 01/M01 A2919 RMK AO2 SLP884 P0001 60005 T00061006 10011 21011 56002 TSNO PAWG 312356Z 12011G17KT 8SM FEW028 BKN045 OVC080 07/02 A2966 RMK AO1 WEA PAWI 312353Z AUTO 10010KT 1 1/2SM HZ OVC006 M14/M17 A2997 RMK AO2 SNE24 SLP149 P0000 60000 T11441172 11111 21144 58006 TSNO UIBB 010000Z 28008G13MPS 9999 -SHSN BKN022CB M02/M06 Q1015 NOSIG RMK QFE718/0957 30820545 UGTB 010000Z 05005KT 9999 -DZ OVC032 SCT050CB 09/07 Q1014 R31L/CLRD80 NOSIG PAWM 312358Z AUTO 04012G23KT 9SM CLR M07/M13 A2941 RMK AO2 SLP965 T10671133 11067 21111 56030 FZRANO PAWN 312356Z AUTO 02014G18KT 10SM CLR M07/M16 A2966 RMK AO1 11070 21120 57020 YWHA 010000Z AUTO 21020KT 9999 // SCT050 19/06 Q1017 PAWS 312356Z AUTO 00000KT 10SM CLR M03/M10 A2918 RMK AO1 11020 21140 410101150 57010 PAYA 312353Z 07004KT 4SM -RA BR BKN019 OVC030 03/03 A2935 RMK SLP938 P0009 60028 T00280028 10039 20017 56007 $ VIA AUTODIAL ZLXY 010000Z 26003MPS 9999 OVC070 10/07 Q1027 NOSIG UHMA 010000Z 04006MPS 9999 SCT030 BKN080 M05/M09 Q1007 NOSIG RMK QFE752/1002 YWGT 010000Z AUTO 27006KT //// // ////// 14/13 Q1005 YVRD 010000Z AUTO 25005KT //// // ////// 36/13 Q1010 UHMD 010000Z 36010G15MPS 9999 -SHSN DRSN BKN023CB M03/M06 Q1001 RMK QBB690 MT OBSC QFE750/1001 PAZK 312356Z AUTO 08005KT 2SM OVC003 M11/M12 A2916 RMK AO1 11100 21110 410501130 57003 UHMM 010000Z 05001MPS 9999 -SN SCT039 OVC100 M10/M13 Q1005 NOSIG RMK QFE739 88490545 YWIS 010000Z AUTO 08011KT 010V090 //// // ////// 27/15 Q1016 OMAA 010000Z 11006KT CAVOK 25/15 Q1009 A2982 NOSIG OMAD 010000Z 09003KT CAVOK 26/16 Q1010 A2983 NOSIG ZMUB 010000Z VRB02MPS CAVOK M15/M17 Q1020 NOSIG RMK QFE657.7 80 OMAL 010000Z 12011KT CAVOK 26/16 Q1012 A2990 NOSIG YWLG 010000Z AUTO 35016KT 9999 // NCD 28/18 Q1007 TQPF 312000Z 13010KT 9999 FEW020 SCT280 29/// Q1012 YWLM 010000Z AUTO 31008KT 9999 // NCD 32/14 Q1003 DITB 311700Z 00000KT 8000 BKN013TCU 25/24 Q1010 NOSIG UHPP 010000Z 30010MPS 9999 NSC 03/M11 Q1008 NOSIG RMK QFE753/1004 SC070 EBBE 312325Z AUTO 19009KT 9999 NCD 14/10 Q1020 BLU DISP 311900Z 20004KT 9999 SCT013CB 26/24 Q1011 NOSIG OMDB 010000Z 08005KT 060V120 CAVOK 27/19 Q1010 NOSIG DISS 311700Z VRB02KT 9999 FEW013 SCT100 27/24 Q1009 NOSIG EBBL 312355Z AUTO 20005KT 9999 NCD 14/10 Q1020 BLU EBAW 312350Z AUTO 14004KT CAVOK 10/08 Q1019 UIII 010000Z 17003MPS CAVOK M06/M08 Q1021 NOSIG RMK QFE721/0961 30CLRD60 EBCI 312350Z 16009KT CAVOK 14/10 Q1021 NOSIG EBBR 312350Z 18009KT CAVOK 14/10 Q1019 NOSIG VAAH 312340Z 04004KT 4000 FU BKN080 24/14 Q1011 NOSIG YWOL 010000Z AUTO 31015KT 9999 // NCD 33/13 Q0999 VABB 312340Z 00000KT 2500 HZ NSC 26/20 Q1010 NOSIG OMDW 010000Z 08005KT CAVOK 22/18 Q1011 NOSIG EBCV 312325Z AUTO 17007KT 9999 NCD 14/11 Q1020 BLU UHSS 010000Z 00000MPS 3500 BR NSC 01/00 Q1022 NOSIG RMK QFE765/1020 19CLRD70 OMFJ 010000Z 30003KT 7000 NSC 26/20 Q1011 A2988 EBDT 312325Z AUTO 17006KT 9999 NCD 13/10 Q1020 BLU EBFN 312355Z 16004KT 9999 FEW240 14/12 Q1018 BLU EBFS 312355Z 17008KT 9999 FEW250 14/10 Q1021 BLU DIYO 312000Z 00000KT 9999 FEW011 FEW020CB 24/23 Q1013 NOSIG YWUD 010000Z AUTO 19017KT //// // ////// 18/06 Q1019 YWTN 010000Z AUTO 33017KT //// // ////// 36/16 Q1011 UHWW 010000Z 00000MPS 4300 -RA BR OVC013 05/03 Q1016 NOSIG RMK QFE761/1014 2529//60 TRPG 312200Z 12008KT 9999 HZ SCT022 SCT240 27/23 Q1013 EBLB 010003Z AUTO 24003KT 2900 NCD 09/08 Q1023 YLO EBLG 312350Z 16010KT CAVOK 15/09 Q1021 NOSIG YWWL 010000Z AUTO 24013KT //// // ////// 24/09 Q1006 UKBB 010000Z 33005MPS 9000 OVC020 03/00 Q1022 88CLRD95 NOSIG YWYM 010000Z AUTO 27001KT //// // ////// 34/20 Q1010 CTNK 010000Z AUTO 05002KT 01/M01 RMK AO1 2PAST HR 2018 SLP200 P0001 T00051011 50028 UKDD 010000Z 36004MPS 4800 BR SCT050 05/02 Q1016 08090070 NOSIG UKDE 010000Z 31003MPS CAVOK 04/01 Q1016 02CLRD70 NOSIG YWYY 010000Z AUTO 27020KT 9999 // SCT034 SCT045 BKN055 12/08 Q0997 TTCP 010000Z 09010KT 9999 FEW015 28/25 Q1012 NOSIG UIUU 010000Z VRB01MPS 9999 SCT100 M10/M12 Q1020 NOSIG RMK QFE720/0961 26CLRD60 EBOS 312350Z 18008KT CAVOK 14/11 Q1018 NOSIG UKDR 010000Z 34004MPS 1900 BR SCT020 02/00 Q1018 3609//70 BECMG 0400 FG OVC002 OMRK 010000Z 13009KT CAVOK 28/14 Q1010 A2985 CTRA 010000Z AUTO 20003KT M02/M06 RMK AO1 SLP325 T10171060 58014 VANP 312340Z 00000KT 4000 HZ NSC 18/14 Q1014 NOSIG OMSJ 010000Z 10006KT CAVOK 26/19 Q1011 EDAC 311520Z 19006KT CAVOK 15/11 Q1024 EDAH 311550Z 14007KT 5000 BR OVC027 10/09 Q1024 EDBC 311650Z 23009KT CAVOK 14/13 Q1023 UKHH 010000Z 33002MPS 5000 BR NSC 04/M01 Q1016 250///65 NOSIG PFCL 010000Z AUTO 04019G27KT 3/4SM -SN BR SCT008 BKN019 OVC026 M07/M09 A2895 RMK AO2 PK WND 04027/2358 P0000 FZRANO YYNG 010000Z AUTO 32017KT //// // ////// 24/13 Q1005 ULAA 312330Z VRB01MPS 9999 SCT030 OVC/// M01/M02 Q1016 NOSIG RMK QFE760/1014 SC037 EDDB 312350Z 17004KT 6000 NSC 10/10 Q1022 TEMPO 2500 BCFG EDDC 312350Z 19004KT 4700 BR NSC 09/08 Q1023 EDDE 312350Z 19004KT CAVOK 11/09 Q1024 EDDF 312350Z VRB02KT 5000 BCFG MIFG BR NSC 09/08 Q1024 BECMG 3000 EDDG 312350Z 11003KT 9999 MIFG NSC 11/11 Q1021 NOSIG EDDH 312350Z VRB02KT 0800 R23/0800VP2000D R15/0350N FG NSC 09/09 Q1021 NOSIG KAAA 312355Z AUTO 36010G17KT 10SM CLR 04/M05 A3035 RMK AO2 T00371055 10081 20036 KC09 312355Z AUTO 36012G20KT 10SM OVC050 03/M06 A3031 RMK AO2 T00301058 10064 20030 PFEL 312358Z AUTO 02025G36KT 10SM FEW065 M07/M13 A2938 RMK AO2 PK WND 02039/2312 SLP952 60000 T10721133 11072 21089 58023 FZRANO EDDK 312350Z 11005KT CAVOK 12/10 Q1022 NOSIG EDDL 312350Z 15011KT CAVOK 14/11 Q1021 NOSIG EDDM 312350Z VRB02KT 0700 R08L/0350V0500U R08R/0500VP2000U FG SCT002 BKN240 04/04 Q1026 BECMG 0500 BKN002 KAAF 312353Z AUTO 29004KT 10SM CLR 18/09 A2992 RMK AO2 SLP131 T01780094 10250 20178 52015 TSNO $ EDDN 312350Z 10004KT 5000 BR NSC 07/07 Q1025 VCBI 312310Z VRB02KT 7000 SKC 24/22 Q1009 NOSIG EDDP 312350Z 20007KT CAVOK 12/10 Q1023 NOSIG UKKK 010000Z 33004MPS 300V010 5000 BR OVC018 04/M01 Q1022 26CLRD70 NOSIG EDDR 312350Z 06003KT 6000 MIFG NSC 09/08 Q1023 UKKM 010000Z AUTO 33005MPS 7000 ///018 04/00 Q1023 EDDS 312350Z VRB01KT CAVOK 09/08 Q1024 EDDT 312350Z 03002KT CAVOK 11/10 Q1022 ZPPP 010000Z 21004MPS 9999 SCT020 BKN036 14/14 Q1023 NOSIG KABE 312351Z 03004KT 10SM OVC045 09/02 A2990 RMK AO2 SLP128 T00890022 10122 20089 50004 EDDV 312350Z 17004KT CAVOK 12/10 Q1021 EDDW 312350Z 15003KT 0900 R27/1000N FG NSC 10/09 Q1021 KAAO 312354Z AUTO 06005KT 10SM CLR 04/M10 A3043 RMK AO2 SLP313 T00391100 10100 20039 50001 UKLI 010000Z 27002MPS 9999 OVC019 04/03 Q1027 28190068 NOSIG KABH 312356Z AUTO 15006KT 10SM CLR 08/M02 A3019 RMK AO2 SLP231 T00781022 10122 20061 57008 $ KABI 312352Z 04006KT 10SM CLR 17/M01 A3033 RMK AO2 SLP262 T01671006 10206 20167 53002 EDFH 312357Z 15008KT 9999 BCFG FEW001 08/08 Q1023 UKLL 010000Z 35002MPS 9000 OVC022 04/00 Q1026 31CLRD80 NOSIG KAAT 312355Z AUTO VRB03KT 10SM -RA BKN024 OVC030 07/05 A2981 RMK AO2 RAE13B55 SLP079 P0001 60015 T00720050 10156 20067 58004 KACB 312355Z AUTO 02010G18KT 10SM OVC041 01/M06 A3033 RMK AO2 T00081062 10016 20008 KC29 312355Z AUTO 36006KT 10SM CLR 00/M07 A3040 RMK AO1 T00011075 10050 20001 UKLN 311600Z 30004MPS 270V340 3200 BR OVC026 06/04 Q1026 3309//70 TEMPO 1000 BR BKN005 EDFM 312020Z 00000KT 6000 NSC 10/10 Q1024 UKLR 311500Z 32003MPS 290V350 9999 OVC023 04/02 Q1025 NOSIG KC35 312355Z AUTO 35005KT 10SM CLR 00/M08 A3042 RMK AO2 T00041076 10039 20004 KABQ 312352Z 18015KT 10SM SCT090 SCT200 19/01 A3021 RMK AO2 SLP177 T01940011 10211 20161 56012 KABR 312353Z AUTO 16007KT 10SM CLR M02/M09 A3038 RMK AO2 SLP309 T10221089 10050 21022 56017 UKLU 312000Z 36001MPS 9999 OVC030 04/03 Q1026 10090070 NOSIG KACJ 312355Z AUTO 33005KT 10SM OVC065 16/06 A2993 RMK AO2 KACK 312353Z 06012G21KT 10SM FEW018 OVC110 12/07 A2992 RMK AO2 SLP133 T01170072 10139 20117 58006 KADC 312353Z AUTO 14003KT 10SM CLR M02/M08 A3045 RMK AO2 KADF 312356Z AUTO 34004KT 10SM CLR 13/06 A3027 RMK AO2 51021 T01330055 10183 20133 SLP266 KABY 312353Z 33006KT 10SM BKN100 16/08 A2992 RMK AO2 SLP130 6//// T01560083 10228 20150 53016 PNO KADG 312353Z AUTO 01022G29KT 10SM SCT015 BKN024 OVC041 01/M01 A3006 RMK AO2 PK WND 01032/2342 UPB02E25SNE02 SLP186 P0000 60000 I6000 T00111011 10056 20011 51036 KACP 312355Z AUTO 34004KT 10SM CLR 15/10 A3018 RMK AO2 T01490095 10230 20149 KACQ 312354Z AUTO 00000KT 10SM CLR M01/M10 A3049 RMK AO2 KADH 312355Z AUTO 36007KT 10SM CLR 10/00 A3036 RMK AO2 EDHI 311920Z 15003KT CAVOK 13/13 Q1021 EDGS 311950Z 19008KT CAVOK 11/10 Q1024 KACT 312351Z 02008KT 10SM CLR 16/04 A3028 RMK AO2 SLP251 T01610044 10217 20161 53009 EDHK 311550Z 15004KT 3700 BR FEW007 OVC098 12/12 Q1021 EDHL 312120Z 17002KT 1300 R25/P2000N BR PRFG NSC 11/10 Q1021 RMK ATIS KIL KACV 312353Z AUTO 33008KT 10SM CLR 14/10 A2980 RMK AO2 SLP097 T01440100 10156 20128 56010 KADM 312355Z 01008KT 10SM SKC 13/00 A3035 KAEG 312349Z 17010G17KT 10SM SCT120 SCT180 17/02 A3024 KACY 312354Z 36008KT 10SM FEW070 09/05 A2983 RMK AO2 SLP103 T00890050 10133 20089 58007 KAEJ 312355Z AUTO 13015KT 10SM CLR 13/M07 A3021 RMK AO2 T01291070 10160 20093 KADS 312347Z 02008G14KT 13SM SKC 16/01 A3031 EDJA 312050Z 00000KT 1600 0450E R24/0400V0600N PRFG NSC 05/05 Q1026 UKON 311800Z 34003MPS 6000 FEW006 05/02 Q1020 NOSIG KAEL 312354Z AUTO 00000KT 10SM CLR M01/M08 A3047 RMK AO2 KADU 312355Z AUTO 00000KT 10SM CLR M01/M09 A3047 RMK AO2 UKOO 010000Z 35006MPS 2400 BR NSC 03/01 Q1021 34090060 TEMPO 0300 FG KADW 312358Z AUTO 02002KT 10SM OVC050 07/02 A2985 RMK AO2 SLP116 T00710015 10126 20070 57003 $ CWAE 010000Z 02005KT 15SM OVC018 06/05 A2979 RMK NS8 WND ESTD SLP095 KAFF 312358Z AUTO 17009KT 10SM CLR 07/M03 A3020 RMK AO2 SLP225 T00741034 10093 20042 57008 CWAF 010000Z AUTO 36007KT 04/02 RMK AO1 T00370018 KAFJ 312355Z AUTO 00000KT 7SM FEW009 OVC022 05/03 A2989 RMK AO1 P0001 60007 10070 20050 400800040 52007 CWBA 312300Z AUTO 35006KT M00/M01 RMK AO1 T10031010 50016 CWAJ 312300Z AUTO 33005KT 07/05 RMK AO1 SLP127 T00670049 53015 KAFK 312355Z AUTO 00000KT 10SM CLR 03/M11 A3046 RMK AO2 T00311114 10064 20030 KAGC 312353Z 01003KT 3SM -RA BR BKN005 OVC013 06/03 A2987 RMK AO2 SLP126 P0002 60012 T00560033 10067 20056 53006 TTPP 010000Z 08004KT 9999 FEW016 27/24 Q1012 NOSIG KAFN 312352Z AUTO 00000KT 10SM FEW050 OVC060 06/02 A3001 RMK AO2 SLP174 T00560022 10089 20050 53010 CWBE 010000Z AUTO 02010G18KT M02/M05 RMK AO1 PK WND 03021/2302 SLP255 T10181051 51031 KAEX 312353Z 35007KT 10SM CLR 17/08 A3018 RMK AO2 SLP222 T01670083 10228 20167 53025 KAFO 312355Z AUTO 00000KT 10SM CLR 13/M01 A2994 RMK AO2 KAFP 312355Z AUTO 00000KT 10SM SCT090 10/07 A2979 RMK AO2 T01000066 10189 20100 KC75 312355Z AUTO 36013G18KT 10SM OVC055 03/M07 A3036 RMK AO2 T00321075 10064 20031 CWAQ 010000Z AUTO 13010KT 06/M01 RMK AO1 PK WND 13023/2303 SLP121 T00601008 56010 CWAR 312300Z AUTO 21003KT 08/03 RMK AO1 SLP185 T00840026 51019 PFKT 312358Z AUTO 05018G25KT 10SM CLR M08/M12 A2955 RMK AO2 PK WND 04030/2333 SLP008 T10781117 11078 21100 56019 FZRANO CWCA 010000Z 20010KT 15SM BKN020 02/M03 A2993 RMK SC7 SLP135 CWBK 312300Z AUTO 02009KT 09/02 RMK AO1 SLP194 T00890015 51010 PFKW 312356Z AUTO 04016G24KT 10SM CLR M08/M12 A2903 RMK AO2 SLP830 T10781117 11078 21111 58026 FZRANO CWAV 010000Z AUTO 29007KT 07/02 RMK AO1 SLP062 T00710015 53008 KAFW 312353Z 36007KT 10SM CLR 14/03 A3032 RMK AO2 SLP266 T01440028 10189 20144 53007 CWCF 312300Z AUTO 16006KT 01/M05 RMK AO1 SLP268 T00071051 58021 CWBO 010000Z AUTO 18009KT 12/05 RMK AO1 SLP038 T01200050 56002 CWCI 312300Z AUTO 03010KT 01/M05 RMK AO1 PK WND 03022/2213 SLP303 T00061047 53011 KAIA 312353Z AUTO 16018KT 10SM CLR 06/M03 A3014 RMK AO2 PK WND 16028/2320 SLP220 T00611028 10089 20039 56019 KAGS 312353Z 30013G18KT 10SM SCT100 18/05 A2981 RMK AO2 SLP092 T01780050 10217 20178 53009 CWBS 010000Z AUTO 01013KT 05/M03 RMK AO1 T00521027 EDMA 311950Z VRB01KT CAVOK 08/08 Q1026 RMK ATIS MIK CWDA 312300Z AUTO 28021G28KT 03/M00 RMK AO1 PK WND 27028/2258 SLP158 T00341003 51015 CWCJ 312300Z AUTO 34002KT M01/M06 RMK AO1 3010 SLP315 T10111056 50002 KAIB 312355Z AUTO 16005KT 10SM CLR 19/M03 A3013 RMK AO2 CWBT 010000Z AUTO 31003KT M00/M02 RMK AO1 SLP198 T10021021 51024 KAID 311950Z 30015G25KT 4SM -RA OVC012 03/02 A2996 CWDC 312300Z AUTO 16006KT 01/M01 RMK AO1 SLP059 T00121006 58012 CWBU 010000Z AUTO 18015KT 02/M04 RMK AO1 PK WND 18026/2303 SLP129 T00151035 56013 CWCL 010000Z AUTO 11002KT 9SM 05/04 A2971 RMK SLP080 CWBV 312300Z AUTO 05016KT 10/02 RMK AO1 PK WND 05019/2252 SLP189 T01000023 53011 KAHN 312351Z AUTO 29005KT 10SM SCT100 13/05 A2986 RMK AO2 SLP113 T01280050 10200 20128 51011 EDLN 311920Z 13004KT 100V160 CAVOK 13/12 Q1022 RMK ATIS A CWCO 312300Z AUTO 05010G17KT 04/02 RMK AO1 3PAST HR 3035 PK WND 05017/2253 SLP173 P0001 T00370019 50033 KAIG 312355Z AUTO 02007KT 10SM OVC040 M02/M08 A3041 RMK AO2 T10191078 10012 21020 CWBY 010000Z AUTO 28001KT M01/M02 RMK AO1 SLP197 T10141019 51020 EDLP 312320Z 17008KT CAVOK 15/08 Q1022 RMK ATIS TAN KAHQ 312355Z AUTO 07005KT 10SM CLR 01/M08 A3045 RMK AO2 T00111081 10066 20011 CWBZ 312300Z AUTO 05006KT 05/M02 RMK AO1 SLP184 T00481022 52011 UMBB 311330Z 28002MPS CAVOK 08/00 Q1026 R29/190060 NOSIG KD07 312356Z AUTO 15020G30KT 06/M11 A3007 RMK AO1 PK WND 15031/2300 SLP212 T00561111 10072 20017 56024 OOMS 312350Z 24004KT 180V290 8000 NSC 26/20 Q1012 NOSIG CWDJ 312000Z AUTO 15022G30KT 04/M03 RMK AO1 PK WND 15032/1928 SLP165 T00441030 56042 KAIK 010015Z AUTO 00000KT 10SM SCT070 BKN080 OVC100 16/10 A2983 RMK AO2 LTG DSNT N PNO KBAB 312358Z AUTO 18004KT 9SM -DZ BKN025 OVC033 14/14 A2975 RMK AO2 RAE2348DZB2307 SLP150 P0002 60017 T01430143 10168 20142 57018 $ CWDK 010000Z AUTO 20005KT 13/02 RMK AO1 SLP057 T01260017 50006 CWCT 010000Z AUTO 15004KT 06/02 RMK AO1 SOG 00 1006 SLP041 T00610015 CWEB 010000Z AUTO 08005KT 10/09 RMK AO1 SLP093 T00970088 53007 KBAC 312355Z AUTO 15009KT 10SM BKN024 00/M06 A3036 RMK AO2 KBAD 312358Z AUTO 01007KT 10SM CLR 16/06 A3024 RMK AO2 SLP243 T01570056 10210 20157 52018 CWDM 010000Z AUTO 28008KT 01/M02 RMK AO1 SLP181 T00121015 51022 EDLV 312250Z 14007KT CAVOK 13/13 Q1021 PFNO 312358Z AUTO 02008KT 10SM CLR M10/M13 A2962 RMK AO2 SLP031 T11001133 11100 21133 58014 FZRANO CWEE 312300Z AUTO M03/M03 RMK AO1 SLP217 T10261034 53016 KBAF 312353Z 06004KT 10SM -RA BKN033 OVC040 09/04 A2999 RMK AO2 RAB21 SLP158 P0000 60000 T00890044 10111 20083 53014 EDLW 312150Z 17010KT CAVOK 14/09 Q1022 RMK ATIS J KAIO 312355Z AUTO 36003KT 10SM CLR 00/M08 A3046 RMK AO2 EDMO 311750Z VRB01KT CAVOK 08/07 Q1026 CWEF 312300Z AUTO 27010KT 08/02 RMK AO1 SLP191 T00750015 51017 CWDO 312300Z AUTO 24008KT 05/00 RMK AO1 SLP179 T00460000 53023 KAJG 312355Z AUTO 33019G28KT 10SM OVC050 06/M02 A3020 RMK AO2 CWEH 010000Z AUTO 14007KT 05/01 RMK AO1 SLP089 T00490013 58006 CWDQ 010000Z AUTO 01004KT 02/M03 RMK AO1 SLP217 T00191031 51013 EEEI 312250Z 28003KT 9999 BKN033 04/01 Q1024 KBAK 312345Z 33019KT G25 5SM -RABR OVC011 03/02 A3004 KAIT 312354Z AUTO 00000KT 10SM CLR M02/M07 A3046 RMK AO2 KBBB 312354Z AUTO 00000KT 10SM CLR M01/M07 A3048 RMK AO2 CWEK 312300Z AUTO 17011KT 09/ RMK AO1 5001 SLP065 T0094 50024 CWDT 312300Z AUTO 36002KT M01/M03 RMK AO1 SLP225 T10061030 53021 CWEL 010000Z AUTO 14004KT 11/08 RMK AO1 1012 SLP097 T01080075 50004 NWWW 010000Z AUTO 25010KT 210V280 9999 FEW041 BKN062 29/17 Q1016 KBBD 312355Z AUTO 01006KT 10SM CLR 17/00 A3029 RMK CWDV 312300Z AUTO 30003KT M03/M06 RMK AO1 SLP337 T10321055 55000 KBAN 312352Z AUTO 21010G23KT CLR 11/M03 A2976 RMK AO2 PK WND 24027/2255 SLP007 T01111033 10156 20111 56019 $ CWFD 010000Z AUTO 01008KT 4SM BKN035 OVC050 M05/ A2974 RMK SLP133 KAJO 312356Z AUTO 24006KT 10SM OVC001 20/12 A2987 RMK AO2 57006 T02000116 10216 20177 SLP111 $ KBBF 312355Z AUTO 03016KT 9SM CLR 24/07 A3014 RMK A01 CWFF 010000Z AUTO 18017G28KT 04/M02 RMK AO1 PK WND 18028/2356 SLP119 T00361018 56016 ULLI 010000Z 29002MPS 250V320 9999 FEW011 SCT043 OVC066 02/01 Q1022 28////// 78190060 NOSIG KD25 312355Z AUTO 35004KT 10SM BKN028 M03/M06 A3044 RMK AO2 T10321059 11004 21035 KBBG 312345Z 33008KT 10SM CLR 04/M07 A3037 CWEP 010000Z AUTO 33011KT 07/01 RMK AO1 SLP202 T00680005 50009 KAIZ 312355Z AUTO 33004KT 10SM CLR 04/M09 A3039 RMK AO1 10080 20040 401200040 52010 KAKH 010001Z AUTO 32007G18KT 280V010 10SM VCTS -RA BKN039 BKN075 OVC090 11/06 A2980 RMK AO2 LTG DSNT ALQDS P0001 T01060061 CWEQ 010000Z AUTO 18003KT 02/M07 RMK AO1 SLP192 T00231070 57029 CWDZ 010000Z AUTO 31007KT 10/04 RMK AO1 SLP026 T01030043 53009 CWER 312300Z AUTO 05016KT RMK AO1 PK WND 05019/2256 CWFJ 010000Z AUTO 20004KT 15/01 RMK AO1 T01460007 KALB 312351Z 00000KT 10SM SCT050 OVC060 09/02 A2997 RMK AO2 SLP152 BINOVC T00940017 10117 20089 51010 KBCB 312355Z AUTO 00000KT 7SM DZ OVC025 06/06 A2984 RMK AO2 CWGB 010000Z AUTO 14003KT 11/08 RMK AO1 SLP093 T01070082 51012 CWEU 010000Z 12002KT 15SM OVC160 M25/M29 A3013 RMK AC8 SLP206 CWGD 010000Z AUTO 02017G26KT 02/01 RMK AO1 4PAST HR 1034 PK WND 00027/2320 SLP167 P0002 T00190005 50027 KBCE 312353Z AUTO 14010KT 10SM CLR 13/M02 A3010 RMK AO2 SLP132 T01331017 10161 20122 58013 TSNO CWEW 312300Z AUTO 02004KT 04/M03 RMK AO1 SLP202 T00431026 53009 KAKO 312353Z AUTO 15016KT 10SM CLR 08/M03 A3018 RMK AO2 PK WND 15030/2312 SLP229 T00831028 10122 20083 56009 KBAX 312359Z AUTO 01017G28KT 7SM -SN BKN017 BKN026 OVC036 02/01 A3012 RMK AO2 T00150005 10034 20013 KBBP 312355Z AUTO 00000KT 10SM CLR 11/01 A2980 RMK AO2 KBAZ 312351Z AUTO 02008KT 10SM CLR 21/03 A3022 RMK AO2 SLP229 T02060028 10261 20206 53009 EDNY 312350Z AUTO 04004KT 010V070 5000 NSC 07/06 Q1025 KAKQ 312354Z AUTO 00000KT 10SM CLR 07/06 A2983 RMK AO2 SLP102 T00720056 10167 20072 53000 TSNO KAJZ 312355Z AUTO 36004KT 10SM CLR 17/01 A3008 RMK AO2 T01700006 10189 20128 CWFQ 010000Z AUTO 03001KT 03/ RMK AO1 T0032 CWEZ 010000Z AUTO 20004KT 11/10 RMK AO1 1008 SLP097 T01070097 50012 KALI 312353Z AUTO 35005KT 10SM CLR 21/11 A3018 RMK AO2 SLP218 T02110106 10278 20211 53008 $ KAKR 312354Z AUTO 00000KT 4SM -RA BKN013 OVC021 07/04 A2988 RMK AO2 SLP122 P0004 60012 T00720044 10094 20067 51009 KAMA 312353Z 15008KT 10SM CLR 13/M01 A3035 RMK AO2 SLP267 T01281011 10161 20128 55003 ULMM 312330Z 00000MPS 9999 SCT009 BKN080 M04/M05 Q1020 NOSIG RMK OBST OBSC QFE758 31590150 KD39 312353Z AUTO 00000KT 10SM CLR M01/M09 A3047 RMK AO2 T10101090 10032 21011 KALK 312356Z AUTO 14006KT 10SM FEW080 24/07 A3006 RMK AO2 SLP098 T02440067 10272 20228 56001 TSNO KBCK 312355Z AUTO 35004KT 10SM CLR 01/M08 A3046 RMK AO2 T00061080 10056 20006 CWGL 010000Z AUTO 03009KT 01/01 RMK AO1 SLP173 T00140006 53026 CWGM 010000Z AUTO 24006KT 13/M01 RMK AO1 T01261009 KBDE 312353Z AUTO 18004KT 10SM CLR M01/M08 A3044 RMK AO2 SLP329 T10111083 10033 21011 56011 TSNO KBBW 312353Z AUTO 14010KT 10SM CLR 03/M09 A3034 RMK AO2 SLP296 T00331089 10072 20033 58015 KALN 312150Z 32011G22KT 10SM SCT060 07/M11 A3030 KALO 312354Z 01009KT 10SM CLR M01/M07 A3045 RMK AO2 SLP323 60000 T10111072 10056 21011 51010 KAMG 312353Z AUTO 30005KT 10SM CLR 17/04 A2985 RMK AO2 SLP106 T01720044 10228 20167 53014 KBDG 312355Z AUTO 13010KT 10SM CLR 18/M02 A3016 RMK AO1 T01841024 10222 20005 KBDH 312356Z AUTO 00000KT 10SM CLR 01/M08 A3049 RMK AO2 NZAA 010000Z AUTO 24010KT 210V280 9999 NCD 18/14 Q1021 NOSIG OOSA 312250Z 01003KT CAVOK 25/20 Q1011 NOSIG CWHI 312200Z AUTO 33005KT 09/04 RMK AO1 T00870042 CWGR 010000Z AUTO 34002KT 03/M00 RMK AO1 SLP199 T00331002 51013 ZSAM 010000Z 06002MPS 5000 BR NSC 24/22 Q1014 NOSIG KALS 312352Z AUTO 16010KT 10SM CLR 13/M03 A3024 RMK AO2 SLP220 T01331028 10178 20111 58004 KBEA 312355Z AUTO 36005KT 10SM CLR 22/07 A3019 RMK AO2 60009 T02240065 10262 20224 KBCT 312153Z 32011KT 10SM FEW044 SCT055 BKN075 27/18 A2978 KANB 312353Z AUTO 34012G25KT 310V010 10SM FEW022 BKN047 OVC075 11/06 A3000 RMK AO2 PK WND 36032/2319 RAB17E46 SLP165 P0001 60001 T01060061 10167 20106 53021 KD50 312355Z AUTO 15013G20KT 10SM CLR 04/M06 A2999 RMK AO2 CWGT 010000Z AUTO 14004KT 11/08 RMK AO1 SLP092 T01060083 52009 KBDL 312351Z 06007KT 9SM -RA FEW027 BKN035 OVC050 09/05 A2997 RMK AO2 SLP150 P0001 60001 T00890050 10117 20089 53014 CWHL 010000Z AUTO 15007KT 09/04 RMK AO1 SLP069 T00910042 53003 KAND 312356Z AUTO 27013G19KT 10SM BKN075 BKN110 13/04 A2982 RMK AO2 SLP094 60000 T01330039 10183 20133 53006 KBED 312356Z 05008KT 10SM BKN055 08/02 A3000 RMK AO2 SLP172 T00830017 10106 20083 50006 EDQM 311850Z 20004KT 4000 BR NSC 09/07 Q1026 CWID 312300Z AUTO 21006KT 05/01 RMK AO1 SLP970 T00460014 53016 CWHM 010000Z AUTO 04006KT 04/M01 RMK AO1 T00401010 KALW 312353Z 16005KT 7SM OVC110 13/08 A2980 RMK AO2 SLP093 60000 T01280078 10161 20128 50000 KANE 312350Z 00000KT 10SM SKC 01/M08 A3050 KBDN 312355Z AUTO 00000KT 10SM FEW049 SCT060 08/03 A2984 RMK AO2 KAMN 312352Z AUTO 36018G23KT 10SM OVC028 01/M03 A3021 RMK AO2 T00121035 CWGW 010000Z AUTO 19006G15KT 12/03 RMK AO1 SLP073 T01220032 53003 CWHN 010000Z AUTO 07004KT 9SM CLR 03/01 A2963 RMK SLP062 KALX 312355Z AUTO 30005KT 10SM SCT080 SCT090 15/06 A2996 RMK AO2 T01510062 10207 20151 CWGX 010000Z AUTO 21007KT M00/M06 RMK AO1 SLP200 T10011064 58013 CWHO 010000Z AUTO 26012G18KT 01/M06 RMK AO1 PK WND 26020/2347 SLP102 T00101056 51019 KD55 312355Z AUTO 16015G19KT 10SM CLR 00/M09 A3028 RMK AO2 PFSH 312358Z AUTO 03023KT 10SM CLR M06/M10 A2935 RMK AO2 PK WND 02028/2339 SLP955 T10611100 11061 21100 58024 FZRANO CWHP 312300Z AUTO 31006KT M01/M03 RMK AO1 SLP193 T10131030 53022 CWIG 010000Z AUTO 05010KT RMK AO1 CWGY 010000Z AUTO 04004KT 09/03 RMK AO1 SLP046 T00920029 56002 KBEH 312353Z AUTO 04007G24KT 10SM BKN041 01/M05 A3023 RMK AO2 PK WND 01028/2311 SLP243 60010 T00111050 10039 20006 51037 CWGZ 312000Z 04004KT 10SM OVC006 M17/M19 A3021 RMK ST8 -15.4/- SLP238 CWHQ 312300Z AUTO 03003KT 04/M00 RMK AO1 T00361003 KBDR 010000Z 04013KT 10SM -RA BKN029 OVC041 11/06 A2993 RMK AO2 P0000 T01110056 KD57 312355Z AUTO 14015G20KT 10SM CLR 03/M12 A3010 RMK AO2 TSNO CWII 010000Z AUTO 16009KT 02/M04 RMK AO1 T00171043 KANJ 312355Z AUTO 02012G19KT 10SM OVC039 M01/M09 A3037 RMK AO2 SLP292 T10111094 10017 21011 53025 CWIJ 312300Z AUTO 16023KT M03/M04 RMK AO1 PK WND 16030/2201 SLP966 T10281036 56040 OPKC 010000Z 02010KT 6000 OVC090 22/18 Q1012 TEMPO TSRA FEW025CB KANK 312355Z AUTO 19013G23KT 10SM CLR 15/M07 A3027 RMK AO1 T01491075 10177 20100 KD60 312355Z AUTO 15013G22KT 10SM CLR 03/M07 A3003 RMK AO2 CWJB 010000Z AUTO 07007KT 04/01 RMK AO1 T00440009 CWHT 010000Z AUTO 30002KT 02/M02 RMK AO1 SOG 03 0000 SLP941 T00171023 CWIK 010000Z AUTO 14014G20KT 01/M07 RMK AO1 PK WND 15026/2326 SLP181 T00131073 56024 EDSB 312250Z 18002KT 0350 R21/0375N FG VV/// 08/07 Q1024 KBDU 312357Z AUTO 00000KT 10SM CLR 10/00 A3012 RMK AO2 ULOO 312200Z 25001MPS 4300 BR SCT022 01/M00 Q1022 19090070 NOSIG RMK QFE763 CWIL 010000Z AUTO 15023KT M07/ A2990 RMK SLP135 KBFD 312353Z AUTO 10004KT 6SM -RA BR FEW007 OVC027 03/02 A2989 RMK AO2 SLP135 P0003 60018 T00280017 10050 20028 53010 CWHV 010000Z AUTO 04001KT 03/M03 RMK AO1 SLP193 T00331032 53010 CWJD 312300Z AUTO 18010G15KT M00/M04 RMK AO1 PK WND 19018/2233 SLP223 T10041037 57032 KAMW 312353Z AUTO 01006KT 10SM CLR 01/M08 A3046 RMK AO2 SLP324 T00111078 10056 20011 50002 UMGG 3121000Z 30004MPS 9000 SCT075 BKN100 02/01 Q1023 R10/CLRD// NOSIG NZAP 312300Z 25007KT 30KM FEW023 12/07 Q1019 RMK ALT VATSIM USE ONLY KBFF 312353Z AUTO 12015KT 10SM CLR 09/M01 A3010 RMK AO2 SLP200 T00941006 10139 20072 56015 CXAF 312300Z AUTO 32004KT 04/02 RMK AO1 T00380019 TUPJ 312300Z 16006KT 8999 FEW019 SCT200 29/24 Q1012 RMK A2989 CXAG 312300Z AUTO 36005KT 06/02 RMK AO1 T00620023 CWIP 311600Z AUTO 28005KT 04/ RMK AO1 T0035 KAOH 312353Z AUTO 35017G23KT 5SM -SN BKN010 BKN015 OVC021 03/ A2998 RMK AO2 PK WND 35028/2338 RAE40SNB40 SLP157 P0003 60008 T0033 10056 20033 53028 $ KANQ 010015Z AUTO 01013KT 01/M11 A3010 RMK CWJH 312200Z AUTO 18005KT 02/M05 RMK AO1 SLP129 T00151046 56029 KBFI 312353Z 16006KT 10SM FEW015 SCT060 BKN200 14/08 A2984 RMK AO2 SLP105 60001 T01390078 10150 20122 53007 OPLA 010000Z 00000KT 3000 BR NSC 17/14 Q1014/A29.95 BECMG 2000 CWJI 010000Z AUTO 15011G17KT 07/M00 RMK AO1 PK WND 17020/2308 SLP113 T00691002 56013 KAPA 312353Z 16013KT 10SM FEW140 SCT160 SCT220 09/M01 A3012 RMK AO2 SLP193 ACSL DSNT W T00941011 10144 20094 58005 PHBK 312356Z AUTO 33011KT 10SM FEW037 BKN050 BKN075 28/22 A3000 RMK AO2 SLP159 60000 T02780217 10289 20239 58027 CXBA 312300Z AUTO 14007KT 11/04 RMK AO1 T01090036 CXAJ 312300Z AUTO 30003KT 04/02 RMK AO1 T00350023 CWIS 010000Z AUTO 03003KT M02/M03 RMK AO1 SLP206 T10171028 53017 EEKA 311650Z 27003KT 250V320 9999 FEW027 01/00 Q1024 CXAK 312300Z AUTO 31010KT 07/03 RMK AO1 T00690029 KBFL 312354Z 00000KT 10SM CLR 23/09 A2973 RMK AO2 SLP063 T02330089 10244 20206 56025 KAPC 312354Z AUTO 19005KT 10SM CLR 14/13 A2977 RMK AO2 SLP072 60009 T01390128 10144 20139 56014 KBGD 312351Z AUTO 12007KT 10SM CLR 14/M02 A3034 RMK AO2 SLP267 T01391022 10161 20122 56007 KBFM 312353Z 30010KT 10SM SCT060 19/08 A3002 RMK AO2 SLP165 T01940083 10256 20189 53026 CWKD 312300Z AUTO 31003KT M03/M08 RMK AO1 SLP224 T10301077 53022 KANW 312355Z AUTO 15011KT 10SM CLR 04/M11 A3029 RMK AO2 T00351115 10063 20027 KBGE 312355Z AUTO 31023G29KT 10SM -RA SCT005 SCT009 BKN075 18/09 A2992 RMK AO2 CWIW 010000Z AUTO 14018KT 04/M01 RMK AO1 PK WND 14023/2338 SLP111 T00411012 58025 EEKE 312350Z AUTO /////KT ////NDV // ////// ///// Q//// KAPF 312353Z 32010G17KT 10SM SCT030 22/16 A2988 RMK AO2 SLP117 T02220156 10272 20222 53019 KAOO 312353Z AUTO 06003KT 10SM SCT049 OVC060 07/02 A2986 RMK AO2 SLP120 T00720017 10083 20072 53004 KBGF 312355Z AUTO 35007KT 10SM FEW026 SCT034 BKN043 04/02 A3009 RMK KAPG 312055Z 09004KT 7SM SCT040 BKN120 13/01 A2988 CWIX 312300Z AUTO 33012KT 02/M03 RMK AO1 T00151032 CWJO 010000Z AUTO 32006KT 02/M04 RMK AO1 SLP229 T00231035 51015 NZCH 010000Z AUTO 08012KT 9999 NCD 19/07 Q1008 NOSIG NZCI 312158Z 01012KT 30KM NSC 19/07 Q1016 RMK NZNR VATSIM USE ONLY CWIY 312300Z AUTO 00000KT 03/M01 RMK AO1 SLP203 T00271014 51011 CWKG 010000Z AUTO 03004KT 07/05 RMK AO1 SLP181 T00740046 51006 EDRZ 312050Z 07002KT 9000 MIFG NSC 11/11 Q1024 CWIZ 010000Z AUTO 02003KT 03/M01 RMK AO1 T00331013 CWKH 010000Z AUTO 10/07 RMK AO1 3009 SLP088 T00960068 50002 CWJR 010000Z AUTO 30001KT 10/07 RMK AO1 SOG 00 1010 SLP090 T00980072 CXBI 010000Z AUTO 03011KT 01/01 RMK AO1 6PAST HR 3026 PK WND 04020/2319 SLP182 P0002 T00100006 50041 CXCA 312300Z AUTO 32003KT M01/M05 RMK AO1 SLP330 T10111054 53004 KBHB 312355Z AUTO 02006KT 10SM BKN032 BKN040 OVC048 08/04 A3005 RMK AO1 10110 20080 401100020 52010 NZCM 312355Z VRB03KT 9999 SCT023 BKN030 M13/M20 A2915 RMK SNE25 SLP878 FATA MORGANA SW-NW CXAT 312300Z AUTO 00000KT M26/M29 RMK AO1 SLP249 T12551290 CWKK 312300Z AUTO 31010KT M00/M03 RMK AO1 PK WND 32017/2210 SLP321 T10041029 52002 CXBK 010000Z AUTO 14017G23KT 06/M03 RMK AO1 SOG 00 6011 PK WND 15026/2325 SLP125 T00551030 CWJT 010000Z AUTO 07001KT 01/M04 RMK AO1 3015 SLP206 T00051039 50020 KBHC 312355Z AUTO 31003KT 10SM CLR 17/06 A2985 RMK AO2 EDTL 311850Z 36002KT CAVOK 10/09 Q1024 CWJU 312300Z AUTO 19008G20KT 07/05 RMK AO1 8004 PK WND 19020/2254 SLP049 T00690050 50019 CWLC 010000Z AUTO 16007KT 09/05 RMK AO1 T00900051 KBGM 312353Z 05007KT 10SM OVC050 07/M01 A2990 RMK AO2 SLP139 T00671011 10083 20067 53007 CXCD 312300Z AUTO 21001KT 05/M00 RMK AO1 T00501004 CWJV 010000Z AUTO 11002KT 09/09 RMK AO1 0PAST HR 3004 SLP055 P0008 T00940092 50027 CWKM 010000Z AUTO 34021KT M10/ A2990 RMK SLP130 KBFW 312354Z AUTO 00000KT 10SM CLR M02/M06 A3047 RMK AO2 KAPN 312354Z AUTO 01016G23KT 10SM OVC033 00/M05 A3027 RMK AO2 PK WND 01030/2302 SLP260 60000 T00001050 10011 20000 51031 $ DNKN 311600Z 09006KT CAVOK 34/12 Q1011 NOSIG CWLE 010000Z AUTO 17013KT 08/01 RMK AO1 PK WND 16018/2329 SLP083 T00780014 56012 CWJW 010000Z AUTO 02004KT 06/04 RMK AO1 3PAST HR 3009 SLP050 P0001 T00610044 50003 VCRI 312310Z VRB02KT 7000 FEW016 23/22 Q1009 NOSIG CXBO 010000Z AUTO 06009KT RMK AO1 CWJX 010000Z AUTO 17008KT 10/02 RMK AO1 SLP048 T00950024 56004 CWKO 010000Z AUTO 16015G22KT 06/M00 RMK AO1 PK WND 17026/2320 SLP124 T00591001 56009 UMII 311700Z 30003MPS P6000 OVC023 03/M01 Q1023 R23/CLRD// NOSIG UNAA 010000Z 20005MPS 9999 FEW033 BKN200 02/M02 Q1026 NOSIG RMK QFE746 20190055 CWKP 010000Z AUTO 07018KT M08/ A2923 RMK SLP934 CXCH 312300Z AUTO 02/01 RMK AO1 T00220006 KBGR 312353Z 01008KT 10SM OVC050 07/01 A3007 RMK AO2 SLP184 T00720011 10100 20072 52012 CXBR 312300Z AUTO 26015KT 17/01 RMK AO1 PK WND 26024/2225 T01650006 CWLI 010000Z AUTO 36031G37KT M10/ A2957 RMK SLP030 KARA 312353Z 35010KT 10SM CLR 19/09 A3013 RMK AO2 SLP203 T01890089 10244 20189 53022 KARB 312353Z AUTO 36018G28KT 9SM -SN SCT016 OVC022 02/M01 A3004 RMK AO2 PK WND 01030/2257 UPE02SNB29 SLP179 P0000 60002 T00221011 10056 20022 51038 KBHK 312351Z AUTO 14022G30KT 10SM CLR 08/M01 A2992 RMK AO2 PK WND 14032/2341 SLP147 T00781011 10094 20039 58014 CXDB 312300Z AUTO 24012KT 17/M02 RMK AO1 PK WND 24021/2214 T01721015 CXCK 010000Z AUTO 28005KT M03/M04 RMK AO1 SOG 03 1003 SLP964 T10291044 NZDN 312338Z 32015KT 30KM NSC 23/06 Q1002 RMK VATSIM USE ONLY KBHM 312353Z 34014KT 10SM BKN025 OVC030 11/06 A3006 RMK AO2 PK WND 35032/2304 SLP179 T01110061 10189 20111 51023 KBID 312355Z AUTO 05016G22KT 9SM FEW008 BKN016 OVC031 11/08 A2992 RMK AO1 P0001 60002 10130 20100 401300080 52003 CWLM 010000Z AUTO 18008KT 11/09 RMK AO1 3007 SLP099 T01120088 50004 KBIE 312355Z AUTO 07003KT 10SM CLR 03/M09 A3044 RMK AO2 T00341087 10067 20032 EDVE 312050Z 23004KT CAVOK 13/13 Q1022 CXBW 312200Z AUTO 15007KT 15/04 RMK AO1 T01460044 CWME 312300Z AUTO 06004KT 08/06 RMK AO1 5000 SLP076 T00780061 50002 KBIF 312358Z 14013KT 10SM SCT060 SCT210 22/08 A3018 RMK AO2A SLP176 T02210078 10239 20204 55004 $ CXDE 312300Z AUTO 30015G20KT M09/M11 RMK AO1 PK WND 29021/2213 SLP925 T10921107 52011 CWKW 010000Z AUTO ///// M04/ A2952 RMK SLP031 KAQO 312350Z AUTO 00000KT 10SM CLR 19/02 A3031 RMK AO2 CWKX 010000Z AUTO 25004KT 01/M01 RMK AO1 8001 SLP039 T00091013 50005 KAQP 312354Z AUTO 14003KT 10SM CLR 01/M07 A3047 RMK AO2 KD95 312354Z AUTO 36018G22KT 7SM UP OVC008 01/00 A3008 RMK AO2 T00100002 KARG 312355Z AUTO 35009KT 9SM CLR 06/M06 A3031 RMK AO1 10150 20060 401600060 52027 OPNH 312359Z 00000KT 1500M FU BKN030 SCT100 20/17 Q.1012 KAPY 312355Z AUTO 31003KT 10SM CLR 22/15 A3020 RMK AO2 T02280157 EDTY 311850Z 08005KT 7000 NSC 11/10 Q1025 CXCP 010000Z AUTO 20011KT 16/01 RMK AO1 PK WND 21023/2313 T01570005 CWLP 010000Z AUTO 14012KT 10/07 RMK AO1 SLP083 T01000073 53008 KBIH 312356Z AUTO 16022G27KT 10SM CLR 21/M03 A2970 RMK AO2 PK WND 16030/2321 SLP026 T02111028 10233 20194 56019 UNBB 010000Z 21006MPS 9999 BKN025 02/M01 Q1026 NOSIG RMK QFE747/0996 24290148 KAQR 312355Z AUTO 02007KT 10SM CLR 11/M04 A3035 RMK AO2 CXDI 312300Z AUTO 02002KT 06/05 RMK AO1 2PAST HR 3011 SLP125 P0001 T00560051 50014 OPMT 311455Z 00000KTS 4000 FU FEW120 23/14 Q1015 NOSIG KBIJ 312355Z AUTO 34006KT 10SM SCT065 SCT080 17/09 A2993 RMK AO2 CXCS 312300Z AUTO 16004KT 11/02 RMK AO1 T01120022 CWLS 312300Z AUTO 04004KT 04/04 RMK AO1 3021 SLP150 T00430035 50004 CXEA 312300Z AUTO 15001KT M00/M07 RMK AO1 SLP321 T10021068 56016 CWMJ 010000Z AUTO 02002KT 01/M04 RMK AO1 SLP209 T00141043 53013 CWNB 312200Z AUTO RMK AO1 CXDK 312300Z AUTO 28004KT 06/M04 RMK AO1 SLP967 T00581044 53006 KBJC 312345Z 35005KT 30SM SCT120 BKN200 10/M01 A3013 EDVK 312050Z 13003KT 100V170 CAVOK 12/10 Q1024 RMK ATIS H KBIL 312353Z 08004KT 10SM FEW120 SCT260 14/M01 A2980 RMK AO2 SLP094 ACSL DSNT N SE-W T01391006 10167 20083 56009 KE11 312355Z AUTO 11006KT 10SM CLR 16/01 A3033 RMK AO2 T01550006 10195 20155 CXEC 312300Z AUTO 04/ RMK AO1 T0037 CWNC 312300Z AUTO 06005KT 05/03 RMK AO1 3PAST HR 3012 SLP147 P0001 T00480027 50007 KASD 312353Z AUTO 33005KT 10SM CLR 19/07 A3007 RMK AO2 SLP182 T01890072 10244 20189 53027 KCAD 312355Z AUTO 01009KT 10SM OVC032 M01/M05 A3025 RMK AO2 T10171050 KAQV 312356Z AUTO 36003KT 10SM CLR 16/08 A3019 RMK AO2 SLP223 T01610078 10228 20161 51022 KARM 312355Z AUTO 35008KT 10SM CLR 20/04 A3019 RMK AO2 T02020036 10261 20202 CWND 312300Z AUTO 01021KT M10/M13 RMK AO1 PK WND 01027/2238 SLP040 T10991128 55002 CWMM 312300Z AUTO 16002KT 11/10 RMK AO1 3PAST HR 1014 SLP098 P0001 T01100099 50048 KASE 312353Z 29008KT 10SM CLR 15/M09 A3017 RMK AO2 SLP148 T01501089 10183 20133 56005 KAQW 312352Z AUTO 09005KT 10SM FEW037 BKN065 07/01 A2997 RMK AO2 SLP156 T00720011 10094 20072 51008 KCAE 312356Z 19008KT 10SM SCT070 BKN090 14/09 A2979 RMK AO2 LTG DSNT S SLP086 60000 T01440094 10206 20139 53001 CWNE 312300Z AUTO 15002KT 05/M01 RMK AO1 0010 SLP198 T00471012 50006 KASG 312348Z 36008KT 10SM SKC 06/M06 A3039 CWLX 010000Z AUTO 06013KT M07/ A2999 RMK SLP174 KCAG 312353Z AUTO 22007KT 10SM CLR 14/M04 A3008 RMK AO2 SLP174 T01441039 10211 20144 55002 CXDP 312300Z AUTO 29004KT 03/02 RMK AO1 T00340015 CXEG 312300Z AUTO 04/03 RMK AO1 SOG 00 T00370032 CWLY 010000Z AUTO 18010G16KT 9SM FEW065 BKN090 11/07 A2973 RMK SLP068 KASH 312351Z 13007KT 10SM OVC049 08/02 A3003 RMK AO2 53010 T00830022 10111 20083 SLP422 KE16 312355Z AUTO 00000KT 6SM -RA SCT021 BKN034 OVC065 14/13 A2980 RMK AO2 P0011 CWMQ 312300Z AUTO 19020G27KT 11/02 RMK AO1 PK WND 18032/2240 SLP051 T01090021 56002 UMKK 312300Z 25003MPS 3900 BR BKN023 OVC066 06/04 Q1025 R24/70D NOSIG RMK QFE768/1024 CWNH 010000Z AUTO 34002KT 03/M01 RMK AO1 SLP214 T00251014 51016 ZSHC 010000Z VRB01MPS 6000 BKN020 19/14 Q1018 NOSIG KARR 312352Z 35016G24KT 10SM BKN055 03/M08 A3033 RMK AO2 PK WND 36028/2323 SLP277 T00281078 10056 20022 51030 KBJI 312353Z AUTO 14005KT 10SM CLR M02/M09 A3044 RMK AO2 T10211091 PFWS 312356Z AUTO 06011KT 3/4SM -SN BR OVC012 M05/M06 A2899 RMK AO2 SLP821 P0000 60000 T10501061 11050 21094 58019 FZRANO KBIS 312352Z 13010KT 10SM CLR 02/M09 A3020 RMK AO2 SLP252 T00171094 10056 20017 56025 VECC 312350Z 00000KT 1200 R19L/P2000 R19LMD/P2000 R01R/P2000 R19R/P2000 BR NSC 22/21 Q1010 NOSIG KBJJ 312356Z AUTO 01003KT 6SM -RA BR OVC024 07/04 A2989 RMK AO2 SLP127 P0003 60009 T00670044 10089 20067 53012 TSNO KBKB 311454Z AUTO VRB06KT 10SM CLR 19/09 A3013 RMK AO2 SLP230 T01890089 KCAK 312351Z 00000KT 5SM -RA OVC016 07/04 A2988 RMK AO2 SLP124 P0005 60010 T00670039 10089 20067 53012 KART 312356Z AUTO 05011KT 10SM BKN060 OVC075 07/M01 A3002 RMK AO2 SLP168 60000 T00671006 10100 20067 53014 CWOB 010000Z AUTO 12023G31KT -SN M01/ A2970 RMK SLP095 CWMT 312300Z AUTO 20009KT 01/01 RMK AO1 SLP930 T00140008 53002 CWNK 312300Z AUTO 15013KT 02/M08 RMK AO1 PK WND 15021/2224 T00241083 KASL 312355Z AUTO 34006KT 10SM CLR 16/08 A3027 RMK AO1 T01600077 10216 20160 CWOC 012200Z AUTO 32003KT 01/M01 RMK AO1 SLP194 T00091011 52020 CWNL 312300Z AUTO 01007KT M00/M05 RMK AO1 PK WND 00018/2220 SLP253 T10041053 53031 KBIV 312353Z AUTO 01009G20KT 10SM OVC039 03/M04 A3026 RMK AO2 PK WND 02027/2318 SLP252 60001 T00281039 10039 20017 51033 KARV 312355Z AUTO 36005KT 10SM SCT030 M02/M06 A3044 RMK AO2 T10241060 10005 21030 KBKD 312355Z AUTO 02007KT 10SM CLR 16/01 A3033 RMK AO2 T01620012 10197 20162 CWOD 010000Z AUTO 31004KT M00/M02 RMK AO1 SLP209 T10041023 51012 CWNM 010000Z AUTO 23002KT 10/09 RMK AO1 7PAST HR 3005 SLP077 P0003 T00980089 50018 ZSFZ 010000Z 35002MPS 310V050 9999 FEW017 24/19 Q1015 NOSIG KARW 312355Z AUTO 00000KT 10SM BKN060 BKN070 OVC090 16/12 A2979 RMK AO2 KBKE 312353Z AUTO 31011KT 10SM OVC090 12/04 A2975 RMK AO2 SLP068 T01220044 10206 20122 53001 KCBE 312357Z AUTO 00000KT 10SM SCT016 BKN024 OVC037 09/04 A2990 RMK AO1 KASN 312355Z AUTO 32012KT 10SM SCT034 OVC043 11/08 A3002 RMK AO2 P0001 60001 T01110078 10176 20111 CXDW 010000Z AUTO 16014KT 02/M08 RMK AO1 PK WND 17021/2351 T00221080 CWOE 010000Z AUTO 09008KT 06/01 RMK AO1 SLP087 T00560010 56003 KCAO 312355Z AUTO 17013KT 10SM CLR 12/M02 A3029 RMK AO2 PK WND 19026/2258 SLP243 T01171022 10150 20111 56009 KBIX 312358Z AUTO 34011KT 10SM CLR 20/09 A3004 RMK AO2 SLP176 T01950087 10253 20195 52027 KCBF 312355Z AUTO 03004KT 10SM CLR 02/M07 A3045 RMK AO2 KBKF 312358Z 19006KT 10SM BKN200 10/M01 A3014 RMK AO2A SLP186 T00991011 10148 20099 55003 KCBG 312355Z AUTO 00000KT 10SM CLR M01/M08 A3049 RMK AO2 CWNP 010000Z AUTO 00000KT 08/08 RMK AO1 8PAST HR 3003 SLP068 P0003 T00780076 50038 CWMZ 312300Z AUTO 04032G37KT 02/M00 RMK AO1 PK WND 04040/2228 SLP186 T00201003 53033 CWNQ 010000Z AUTO 02006KT 05/M03 RMK AO1 SLP198 T00461031 53013 KCAR 312354Z AUTO 02004KT 10SM OVC055 04/M01 A3010 RMK AO2 SLP203 T00391011 10061 20039 51013 KAST 312355Z AUTO 19004KT 10SM CLR 13/07 A2983 RMK AO2 SLP101 60002 T01280072 10150 20111 53004 KCBK 312355Z AUTO 14010KT 10SM CLR 05/M03 A3032 RMK AO2 CXET 010000Z AUTO 04009KT 03/01 RMK AO1 3PAST HR 3029 SLP171 P0001 T00260014 50030 EFET 312350Z AUTO 29002KT CAVOK M16/M18 Q1023 KBKL 312353Z 00000KT 10SM -RA OVC032 A2990 RMK AO2 SLPNO 6//// 52013 PNO $ KATL 312352Z 28009G19KT 10SM FEW025 SCT040 BKN070 12/07 A2991 RMK AO2 RAB29E52 SLP128 P0000 60000 T01220072 10167 20122 53008 CWPC 010000Z AUTO 06007KT 07/05 RMK AO1 SLP145 T00660050 52017 KCBM 312358Z AUTO 34012KT 10SM -DZ BKN039 BKN048 OVC060 12/04 A3014 RMK AO2 SLP210 P0000 60000 T01210042 10190 20117 52037 $ KCAV 312355Z AUTO 36005KT 10SM CLR M01/M08 A3047 RMK AO2 CXFM 312300Z AUTO 12013KT 09/03 RMK AO1 PK WND 12020/2227 T00940031 CWPD 312300Z AUTO 03003KT M02/M03 RMK AO1 SLP191 T10181034 53015 UMMG 311300Z 30002MPS 9999 BKN023 BKN066 08/04 Q1026 R17/CLRD// NOSIG KBKN 312355Z AUTO 02007KT 10SM CLR 07/M08 A3040 RMK AO2 KASW 312355Z AUTO 36012G21KT 10SM BKN022 OVC026 01/M01 A3014 RMK AO2 CWPE 010000Z AUTO 04007KT 08/04 RMK AO1 SLP184 T00820039 53012 KASX 312353Z AUTO 00000KT 10SM CLR M03/M06 A3051 RMK AO2 SLP346 T10331061 10033 21033 53004 KBLF 312352Z AUTO 31003KT 10SM -RA OVC007 04/02 A2983 RMK AO2 CIG 005V010 SLP105 P0000 60009 T00390017 10072 20039 51003 KAUG 312353Z AUTO 35004KT 10SM CLR 06/M01 A3007 RMK AO2 SLP185 T00561011 10094 20056 52015 CWPF 010000Z AUTO 15005KT 11/09 RMK AO1 3008 SLP096 T01050089 50004 KATP 312355Z AUTO 32022KT 10SM CLR 24/10 A3004 RMK A01 KBLH 312352Z AUTO 17012KT 10SM CLR 31/12 A2973 RMK AO2 SLP061 T03060117 10317 20261 56015 PHHI 312358Z AUTO 07006KT 8SM -RA FEW016 23/21 A3003 RMK AO2 RAB2352DZB2339E2349 SLPNO P0000 60004 T02340210 10245 20224 57022 $ KAUH 312355Z AUTO 13004KT 7SM CLR 03/M10 A3042 RMK AO2 T00261105 10061 20020 NZGS 312325Z 10012KT 50KM NSC 19/09 Q1016 RMK VATSIM USE ONLY CWNZ 010000Z AUTO 30003KT M05/M06 RMK AO1 SLP314 T10521061 51010 CXGH 010000Z AUTO 16013KT 02/M03 RMK AO1 T00241034 KBLI 312353Z 16003KT 10SM SCT055 BKN070 OVC090 12/08 A2982 RMK AO2 RAE2257 SLP106 P0000 60014 T01170078 10117 20106 51007 OPPS 010000Z 00000KT 4000 BR FEW100 14/09 Q1016.3 NZHK 312300Z 09004KT 10KM SHRA SCT020 10/08 Q1018 RMK ALT VATSIM USE ONLY CXFR 312300Z AUTO 27006KT 06/02 RMK AO1 T00560016 ULWC 312000Z 25001MPS 9999 SCT026 OVC/// M00/M01 Q1017 TEMPO 4000 SHSN RMK QFE753/1004 SC045 KCDA 312355Z AUTO 34007KT 10SM OVC050 05/M02 A3004 RMK AO2 T00521025 10091 20051 KBKS 312355Z AUTO 00000KT 10SM CLR 22/14 A3017 RMK AO1 T02150139 10259 20208 KE38 312355Z AUTO 12008KT 10SM CLR 18/03 A3036 RMK AO2 T01770032 10214 20177 CXHA 312000Z AUTO 35004KT 06/05 RMK AO1 SLP112 T00630046 KBKT 312355Z AUTO 04003KT 10SM CLR 08/06 A2982 RMK AO1 T00790062 10150 20079 UMMM 311830Z 32003MPS 4500 BR BKN013 BKN100 04/02 Q1024 R30/190060 NOSIG RMK QFE748 EFHA 312350Z AUTO 33004KT CAVOK M03/M03 Q1024 KATT 312351Z AUTO 03006KT 10SM CLR 19/04 A3025 RMK AO2 SLP239 T01940044 10244 20194 53008 PFYU 312356Z 06011G17KT 10SM SCT060 M07/M13 A2960 RMK AO1 11070 21080 410701130 54000 UNEE 010000Z 17006MPS 9999 OVC011 01/01 Q1023 NOSIG RMK QFE744 23451035 CWPK 010000Z AUTO 02001KT M01/M06 RMK AO1 1015 SLP227 T10131057 50002 KCDC 312353Z AUTO 21014G18KT 10SM CLR 19/M02 A2991 RMK AO2 SLP072 60000 T01941022 10228 20194 56020 TSNO $ KAVC 312355Z AUTO 00000KT 10SM SCT060 09/09 A2987 RMK AO2 KBMC 312355Z AUTO 07003KT 10SM CLR 19/M01 A2985 RMK AO1 T01871006 10367 21020 NZHN 312329Z 25010KT 30KM FEW035 18/10 Q1019 RMK VATSIM USE ONLY KBKV 312353Z AUTO 29005KT 10SM CLR 16/09 A2990 RMK AO2 SLP123 T01560094 10233 20150 53016 KBLM 312355Z AUTO 04007KT 10SM OVC075 12/06 A2986 RMK AO1 10120 20100 401200020 57007 KCDD 312353Z AUTO 00000KT 10SM CLR M04/M06 A3049 RMK AO2 KAUM 312355Z AUTO 36004KT 10SM CLR M01/M07 A3046 RMK AO2 CXHD 312300Z AUTO 32008KT 06/03 RMK AO1 T00600031 KBKW 312351Z AUTO 29003KT 10SM -RA BKN008 OVC014 03/02 A2983 RMK AO2 SLP124 P0005 60015 T00330017 10078 20033 51004 TSNO KATW 312345Z 02012KT 10SM BKN048 01/M08 A3041 KAUN 312355Z AUTO 00000KT 4SM SCT002 BKN036 OVC060 13/13 A2980 RMK AO1 P0002 EDXW 311620Z 16010KT 2100 OVC003 12/11 Q1020 RMK ATIS SIE KAUO 312355Z AUTO 32007KT 10SM CLR 12/04 A2997 RMK AO1 10190 20120 401900050 52010 KCCO 312355Z AUTO 32009G21KT 290V360 10SM -RA SCT034 BKN070 OVC075 13/08 A2993 RMK AO2 T01260081 10172 20126 DNPO 311200Z 25005KT 9999 BKN012 FEW020CB 30/24 Q1010 NOSIG CWPO 010000Z AUTO 16017G22KT 01/M10 RMK AO1 PK WND 16023/2310 SLP279 T00121095 56023 KATY 312353Z AUTO 15006KT 10SM CLR 00/M08 A3040 RMK AO2 SLP322 T00001078 10039 21006 58012 EFHF 312350Z AUTO 34003KT 9999 OVC039 03/01 Q1024 KBMG 312353Z 34011G20KT 9SM -RA OVC016 03/01 A3010 RMK AO2 SLP195 P0001 60002 T00280006 10056 20022 53018 CWOY 010000Z AUTO 16011G19KT 03/M03 RMK AO1 PK WND 17022/2346 SLP137 T00341028 58013 UMMS 010000Z 34003MPS 9999 BKN025 02/01 Q1024 R31/CLRD// NOSIG KCDH 312355Z AUTO 01006KT 10SM CLR 12/04 A3025 RMK AO2 NZHS 312158Z 01012KT 30KM NSC 19/07 Q1016 RMK NZNR VATSIM USE ONLY CWQH 312300Z AUTO 02003KT 04/M02 RMK AO1 T00411019 KCCR 312353Z 21006KT 10SM SCT026 OVC085 14/12 A2978 RMK AO2 SLP070 60013 T01390122 10167 20133 56014 KBMI 312356Z 35019G29KT 10SM BKN048 03/M06 A3033 RMK AO2 51024 T00331055 10061 20033 PK WND 35029/2352 SLP282 NZHT 312300Z 12004KT 20KM SCT003 10/09 Q1016 RMK ALT VATSIM USE ONLY CWPR 010000Z AUTO 00000KT 08/07 RMK AO1 SOG 00 1013 SLP074 T00790070 50006 KAUS 312353Z 02010KT 10SM FEW120 19/05 A3024 RMK AO2 SLP237 T01890050 10244 20189 53009 KCDJ 312352Z AUTO 34003KT 04/M07 A3046 RMK AO1 SLP326 T00391067 10083 20039 53005 KBNA 312353Z 33013G22KT 10SM BKN065 06/M03 A3014 RMK AO2 PK WND 32028/2258 SLP208 60000 T00561033 10106 20056 51027 CWPS 312300Z AUTO 08/04 RMK AO1 SLP122 T00830037 53010 CWRA 312300Z AUTO 32005KT 07/ RMK AO1 SLP193 T0066 51021 KAVK 312350Z AUTO 09007KT 10SM CLR 07/M06 A3041 RMK AO2 CWQK 010000Z AUTO 19005KT 13/08 RMK AO1 SLP099 T01260079 51009 CXIB 010000Z AUTO 22003KT 02/M00 RMK AO1 SLP209 T00181001 51017 KBML 312352Z AUTO 35006KT 10SM OVC049 06/M01 A3003 RMK AO2 SLP180 T00561011 10100 20044 53011 KBLU 010000Z AUTO 17011KT 2 1/2SM RA BR BKN003 BKN008 OVC013 06/04 A2984 RMK AO2 VIS 1 1/2V5 P0001 T00560044 EFHK 312350Z 33004KT 9999 FEW017 BKN036 02/01 Q1024 NOSIG KAVL 312354Z 35010KT 10SM FEW050 OVC075 07/04 A2984 RMK AO2 RAE34 SLP106 P0000 60000 T00670044 10133 20067 51005 KCCU 312357Z AUTO 27011KT CLR 06/M12 A3041 RMK AO2 PWINO KCEC 312356Z AUTO 28004KT 10SM SCT016 14/11 A2982 RMK AO2 SLP098 T01440111 10156 20139 58007 EEPU 311350Z 28006KT 9999 FEW029 08/02 Q1023 KBLV 312358Z AUTO 34007KT 320V040 10SM CLR 05/M06 A3033 RMK AO2 SLP276 T00501059 10083 20050 52020 OPRN 312300Z 00000KT 4000 HZ SKC 14/10 Q1016.5/30.01 CXHM 010000Z AUTO 03002KT 07/06 RMK AO1 2017 SLP139 T00650055 50006 KCDN 312355Z AUTO 00000KT 10SM FEW065 SCT090 12/08 A2980 RMK AO2 TSNO PGRO 312350Z VRB05KT 7SM FEW035 BKN120 28/25 A2986 KAUW 312354Z AUTO VRB03KT 10SM BKN041 00/M07 A3042 RMK AO2 SLP322 T00001072 10028 20000 51010 KCEF 312358Z AUTO 06001KT 9SM -RA OVC042 09/04 A2998 RMK AO2 RAB2328DZB2319E2328B2343E2353 SLP160 P0000 60000 T00880040 10116 20088 53013 PHJH 312345Z 04014KT 15SM FEW020 SCT045 BKN100 27/22 A2998 CWQO 010000Z AUTO 29005KT 04/M00 RMK AO1 T00381002 CWPX 010000Z AUTO 12029KT M03/ A2953 RMK PRESFR SLP021 CWRF 010000Z AUTO ///// M13/ A3010 RMK SLP239 KAVP 312354Z VRB06KT 10SM OVC060 09/01 A2990 RMK AO2 SLP127 T00940006 10128 20094 51010 KCCY 312355Z AUTO 33005KT 10SM CLR M01/M08 A3047 RMK AO2 KAWG 312355Z AUTO 36006KT 10SM CLR 02/M07 A3043 RMK AO2 CWQP 010000Z AUTO 06014KT 06/04 RMK AO1 2PAST HR 3014 PK WND 06019/2332 SLP158 P0001 T00610036 50009 CXHP 312300Z AUTO 19005KT 05/03 RMK AO1 T00530032 KBMQ 312353Z AUTO 02006KT 10SM CLR 18/03 A3029 RMK AO2 SLP247 T01780033 10228 20178 53005 CWPZ 010000Z AUTO 19003KT 07/M00 RMK AO1 SLP069 T00681001 53002 CWRH 010000Z AUTO ///// M01/ A2959 RMK SLP051 KCDR 312353Z AUTO 17016G21KT 10SM CLR 09/M02 A3006 RMK AO2 SLP205 T00891017 10117 20078 56023 CXHR 312300Z AUTO 18011KT 11/05 RMK AO1 T01110050 CWQR 010000Z AUTO 29018KT 04/ RMK AO1 PK WND 29021/2308 T0036 OPSK 010000Z 00000KT 2000 HZ SCT100 21/18 Q1013 RH86 PC KCDS 312353Z AUTO 08004KT 10SM CLR 14/M03 A3037 RMK AO2 SLP280 T01391033 10178 20139 55001 KAXA 312355Z AUTO 04005KT 10SM CLR M00/M08 A3048 RMK AO2 CWQS 312300Z AUTO 20017KT 10/03 RMK AO1 PK WND 21020/2213 SLP062 T01020032 58003 CWRJ 010000Z AUTO 16008KT 08/02 RMK AO1 SLP062 T00840021 55012 CWSA 010000Z AUTO 07011G18KT 9SM OVC050 10/05 A3008 RMK SLP184 EGAA 312350Z 21007KT 9999 BKN011 12/11 Q1005 KBMT 312355Z AUTO 35007KT 10SM CLR 18/08 A3018 RMK AO2 T01800075 10244 20180 CYAB 312000Z VRB02KT 25SM FEW060 M21/M23 A3024 RMK SC1 -18.5/-22.8/TR/12 MEDIUM PACK LAST STFD OBS/NXT 011700Z SLP242 CWRK 312300Z AUTO 04005KT 01/M00 RMK AO1 6PAST HR 3015 SLP185 P0002 T00051004 50018 KBNL 010015Z AUTO 00000KT 10SM BKN065 16/11 A2980 RMK AO2 LTG DSNT NE EGAC 312220Z 21009KT 9999 -RA FEW010 13/11 Q1004 UMOO 311300Z 33003MPS 7000 HZ BKN019 04/M02 Q1024 R31/CLRD// NOSIG KAWM 312353Z AUTO 02012KT 10SM CLR 08/M04 A3027 RMK AO2 SLP249 T00781039 10150 20078 53037 PGSN 010001Z 21008KT 8SM -RA SCT026 BKN035 OVC042 26/24 A2987 RMK AO2 RAB2355 PNO $ KCFD 312355Z AUTO 36008KT 10SM CLR 17/06 A3026 RMK AO2 T01680060 10228 20168 CYAD 312000Z 32010KT 15SM FEW015 BKN025 BKN200 M01/M07 A3011 RMK SC2SC5CI0 LAST OBS/NEXT 031200 UTC SLP213 CWSD 010000Z AUTO 33002KT 05/01 RMK AO1 SLP200 T00490007 51006 CWQV 010000Z AUTO 27003KT 04/M04 RMK AO1 T00441036 CWRM 010000Z AUTO 31007KT 05/02 RMK AO1 SLP067 T00470023 52008 KCDW 312353Z AUTO 00000KT 10SM OVC070 10/02 A2991 RMK AO2 SLP134 T01000022 10122 20100 51002 TSNO KCFE 312355Z AUTO 00000KT 10SM CLR 00/M09 A3051 RMK AO2 T10011094 10040 21001 EGAE 311720Z 22010KT 9999 -RA FEW008 SCT017 BKN023 15/14 Q1002 CWRN 010000Z AUTO 02009KT 09/ RMK AO1 T0088 KAVX 312351Z AUTO 19005KT 10SM OVC032 16/12 A2989 RMK AO2 SLP112 60000 T01560122 10167 20150 57013 KBNO 312353Z AUTO 00000KT 10SM OVC100 12/02 A2979 RMK AO2 SLP079 T01170022 10183 20117 55004 KAWO 312355Z AUTO 00000KT 10SM SCT011 BKN018 OVC022 11/08 A2986 RMK AO1 60004 10120 20090 401400090 52010 CWRO 010000Z AUTO 17013KT 08/05 RMK AO1 PK WND 17017/2354 SLP060 T00750046 58002 CWSF 010000Z AUTO 17005KT M00/M04 RMK AO1 SLP212 T10041037 51023 NZKI 312300Z 02009KT 25KM SCT022 13/07 Q1012 RMK ALT VATSIM USE ONLY CWSG 010000Z AUTO 19007KT 00/M03 RMK AO1 SLP211 T00001032 51019 PHJR 312353Z VRB06G15KT 10SM SCT065 BKN080 BKN090 28/19 A3001 RMK AO2 SLP168 60000 T02780194 10289 20250 57021 ORBI 010000Z 33007KT CAVOK 16/10 Q1010 KAXH 312355Z AUTO 33007KT 10SM CLR 19/06 A3018 RMK AO2 T01930058 10232 20193 CYAH 010000Z AUTO 27005KT 9SM CLR M04/M07 A3013 RMK SLP224 PGUA 312358Z AUTO 31009KT 10SM SCT140 28/24 A2986 RMK AO2 SLP102 52006 KBOI 312353Z 00000KT 10SM CLR 18/03 A2973 RMK AO2 SLP054 T01830028 10183 20144 58005 NZKK 312300Z 20012KT 30KM FEW020 BKN023 19/14 Q1021 RMK NZAA VATSIM USE ONLY CXKA 010000Z AUTO 33006KT M04/M06 RMK AO1 SLP297 T10371057 52017 EFKA 312350Z AUTO 22003KT CAVOK M04/M04 Q1026 KBOK 312356Z AUTO 22003KT 10SM CLR 14/09 A2983 RMK AO2 58005 T01440094 10150 20127 SLP101 CYBB 312300Z 00000KT 15SM FEW120 M26/M29 A3026 RMK AS0 -23.0/-27.0/0/9/MEDIUM PACK LAST OB NEXT 011500Z SLP248 CWSK 010000Z AUTO 05001KT 10/09 RMK AO1 1019 SLP094 T00960090 50024 CWRT 010000Z AUTO 26004KT 13/01 RMK AO1 T01320009 EGBB 312350Z 17011KT 9999 SCT023 16/14 Q1011 KCEU 312354Z AUTO 33008KT 10SM BKN065 OVC085 14/03 A2983 RMK AO2 SLP098 T01390028 10189 20139 53009 KCGC 312355Z AUTO 31003KT 10SM CLR 17/10 A2989 RMK AO2 KBPC 312355Z AUTO 12006KT 10SM CLR 11/M03 A3035 RMK AO2 CWRU 312300Z AUTO 11017G26KT 10/06 RMK AO1 PK WND 13026/2256 SLP073 T00970064 53009 CWSL 010000Z AUTO 09004KT 10/10 RMK AO1 9PAST HR 5001 SLP054 P0007 T01040099 50034 CYBC 010000Z AUTO 32003KT 9SM OVC055 01/M01 A3015 RMK SLP212 CYBD 010000Z 00000KT 15SM FEW030 BKN080 09/07 A2977 RMK CF1AC5 FU W SLP081 VDPP 010000Z 32004KT 280V340 9000 SCT015 FEW017CB BKN040 26/25 Q1008 CB CYAM 010000Z 02014KT 15SM OVC042 M01/M09 A3039 RMK SC8 SLP300 KAXN 312353Z AUTO 13004KT 10SM CLR 00/M09 A3046 RMK AO2 SLP337 T00001094 10039 21006 56008 EFIV 312350Z AUTO 21001KT CAVOK M09/M10 Q1023 KCEW 312353Z AUTO 31007KT 10SM CLR 18/08 A2996 RMK AO2 SLP142 T01780083 10233 20178 53015 PHKO 312353Z 25011KT 10SM SCT075 29/21 A2994 RMK AO2 SLP138 T02940211 10300 20267 58025 KCGE 312355Z AUTO 03003KT 10SM CLR 11/05 A2984 RMK AO1 KBNW 312355Z AUTO 36007KT 10SM CLR 01/M07 A3045 RMK AO2 KCGF 312345Z 00000KT 5SM BR OVC030 08/07 A2991 KAXO 312130Z 35015G25KT 7SM SKC 24/11 A3000 RMK LAST EGBE 312350Z 19012KT 9999 FEW010 16/15 Q1011 CXKE 312100Z AUTO 07002KT 06/M01 RMK AO1 SLP171 T00611013 53003 EFKE 312350Z AUTO 36002KT CAVOK M10/M10 Q1025 CWRX 010000Z AUTO 32014KT M13/ A3006 EFJO 312350Z AUTO 32007KT 290V360 9999 OVC019 M02/M05 Q1023 KCEY 312355Z AUTO 34011G18KT 10SM FEW055 05/M05 A3023 RMK AO1 KBPG 312355Z AUTO 06005KT 10SM CLR 17/00 A3035 RMK AO2 T01651004 10205 20165 CWSP 010000Z AUTO 30005KT 13/09 RMK AO1 SLP099 T01270092 53007 CWRY 312300Z AUTO 17007KT 14/03 RMK AO1 SLP059 T01410028 55000 CWTG 312300Z AUTO 28006KT 03/M00 RMK AO1 SLP207 T00341004 53021 CYBG 010000Z 27005KT 25SM OVC050 02/M03 A3017 RMK SC8 SLP224 ZSNB 010000Z 32003MPS 5000 BR SCT040 19/16 Q1017 NOSIG KCEZ 312353Z AUTO 14012KT 10SM CLR 18/M02 A3013 RMK AO2 SLP156 T01831022 10217 20178 56014 PHLI 312353Z 06011KT 10SM SCT034 BKN045 OVC055 26/21 A3005 RMK AO2 PK WND 08030/2310 RAB10E19 SLP171 P0005 60023 T02610206 10267 20233 56025 CWRZ 010000Z AUTO 08010KT 04/M00 RMK AO1 SLP201 T00421001 51015 KCGI 312353Z AUTO 34012KT 10SM CLR 06/M06 A3030 RMK AO2 SLP260 T00611056 10100 20061 53021 TSNO KBPI 312353Z AUTO 20008KT 10SM CLR 13/M06 A3001 RMK AO2 SLP133 T01281056 10172 20089 56007 CWSR 312300Z AUTO 14011KT 06/01 RMK AO1 PK WND 15019/2206 SLP060 T00560007 56022 CXKI 312300Z AUTO M02/M06 RMK AO1 SLP265 T10241060 53016 EFKI 312350Z AUTO 00000KT 9999 OVC004 M05/M06 Q1024 KCHA 312353Z 32011G25KT 10SM BKN030 OVC050 06/00 A3006 RMK AO2 PK WND 32034/2318 RAB40E49 SLP178 P0000 60002 T00610000 10150 20061 53042 KBOS 312354Z 06012KT 10SM FEW030 BKN060 OVC250 10/03 A3001 RMK AO2 SLP161 T01000028 10111 20100 50007 KCFS 312355Z AUTO 36016G26KT 4SM -SN BKN008 OVC018 01/00 A3013 RMK AO2 T00100000 10035 20010 KAXS 312355Z AUTO 06006KT 10SM CLR 13/M04 A3039 RMK AO2 T01281042 10172 20128 NZMC 312300Z 12004KT 20KM SCT003 10/09 Q1016 RMK ALT NZHT VATSIM USE ONLY KE80 312355Z AUTO 15009KT 10SM CLR 19/01 A3021 RMK AO2 T01850010 10214 20165 EGBJ 311850Z 15012KT CAVOK 17/14 Q1012 CWSS 312300Z AUTO 03006KT 07/03 RMK AO1 SLP178 T00720028 53008 KBPK 312353Z AUTO VRB04KT 10SM CLR 06/M07 A3034 RMK AO2 SLP275 T00611072 10117 20061 53018 CWST 010000Z AUTO 00000KT 04/M01 RMK AO1 SLP206 T00361011 52016 CXLB 010000Z AUTO 08007KT 11/05 RMK AO1 SLP181 T01120050 53006 CYCB 010000Z 14019G24KT 12SM DRSN FEW005 BKN012 OVC020 M03/M03 A2969 RMK CF2SC3SC3 SLP058 PGUM 312354Z 28007KT 10SM CLR 28/25 A2986 RMK AO2 SLP102 T02830250 10289 20250 51007 EFKK 312350Z AUTO 00000KT CAVOK M07/M08 Q1026 CYBK 010000Z 15013KT 15SM -SN SCT009 OVC015 M14/M16 A3014 RMK ST4SC4 SLP207 KAZC 312355Z AUTO 20008KT 10SM CLR 25/01 A2994 RMK AO2 T02500014 10388 21015 CYBL 010000Z 14003KT 30SM FEW018 SCT060 BKN120 09/07 A2981 RMK CU1SC2AC2 SLP097 KCHD 312347Z 17010KT 40SM FEW200 32/08 A2978 KCFV 312352Z AUTO 02006KT 10SM CLR 05/M06 A3042 RMK AO2 SLP305 T00501056 10106 20050 50003 EGCC 312350Z AUTO 24012KT 9999 SCT013/// BKN018/// OVC023/// //////CB 16/13 Q1009 KAXV 312354Z AUTO 35019G25KT 7SM -RA OVC009 02/02 A2999 RMK AO2 NZMF 312324Z 22015KT 50KM SCT070 18/05 Q1007 RMK NZQN VATSIM USE ONLY CYCD 010000Z 07003KT 060V130 20SM FEW008 BKN015 BKN050 11/09 A2982 RMK SF1SC4SC2 SLP100 CXKM 312300Z AUTO 34005KT 09/03 RMK AO1 T00860030 KBOW 312355Z AUTO 29007KT 10SM CLR 19/09 A2989 RMK AO2 KAZE 312355Z AUTO 32008KT 10SM SCT100 19/06 A2985 RMK AO2 T01850063 10328 20080 CWSW 010000Z 18010KT 150V230 20SM BKN045 BKN075 12/03 A2970 RMK SC6AS1 SLP072 DENSITY ALT 4600FT CYAW 311755Z 13007KT 15SM FEW040 FEW160 BKN220 RMK SC2AC1CI2 CU ASOCTD LAST OBS/NEXT 031100 UTC CWTN 312300Z AUTO 06007KT 05/M00 RMK AO1 SLP204 T00491001 53008 CYBN 010000Z AUTO 01006KT 9SM -RA OVC008 03/02 A3003 RMK PCPN 0.5MM PAST HR SLP178 EETN 312350Z 36006KT 9999 FEW023CB BKN040 05/02 Q1024 R08/290195 KAXX 312355Z AUTO 20014KT 10SM CLR 09/M03 A3035 RMK AO2 T00861030 10146 20086 ZSNJ 010000Z 28002MPS 1500 BR BKN005 OVC033 17/16 Q1018 BECMG TL0130 3000 BKN010 OVC033 CYCG 312300Z 16006KT 8SM -RA FEW003 SCT018 OVC030 10/09 A2974 RMK SF1SC2SC5 SLP078 CYAY 010000Z AUTO 24012G17KT 9SM CLR 02/M00 A3002 RMK SLP167 EFJY 312350Z AUTO 31002KT CAVOK M04/M05 Q1024 CYAZ 010000Z 10002KT 15SM FEW018TCU FEW023 SCT140 12/09 A2981 RMK TCU1SC1AC1 SLP095 CYBQ 010000Z AUTO 14006KT 9SM CLR M01/M05 A2995 RMK SLP162 TVSC 311800Z 12007KT 9999 FEW018 32/25 Q1011 CYBR 010000Z 15013G18KT 15SM BKN150 BKN210 02/M09 A3019 RMK AC6CI1 SLP253 PHMK 312354Z 05014G26KT 10SM FEW012 SCT032 27/23 A3000 RMK AO2 PK WND 05026/2345 RAB30E39 SLP161 P0000 60005 T02720228 10272 20239 58019 KCGS 312355Z AUTO 00000KT 10SM OVC050 10/05 A2986 RMK AO1 KAYS 312355Z AUTO 29004KT 10SM CLR 18/08 A2985 RMK AO2 T01820075 10247 20179 CYDA 312300Z CCB 10002KT 10SM -SN FEW010 BKN035 OVC070 M07/M10 A2943 RMK ST1SC7AS1 ST TR CLIMAT -7.4/-8.9/1.8 CM/0.4 MWE LAST OBS/NXT 011400 UTC SLP995 VEIM 310600Z 00000KT 6000 FEW020 SCT100 26/19 Q1015 NOSIG EFKS 312350Z AUTO 31006KT 290V350 9999 SCT045 M05/M06 Q1022 EFMA 312350Z AUTO 00000KT 9999 OVC027 02/02 Q1025 KBPT 312353Z 36011KT 10SM CLR 19/08 A3016 RMK AO2 SLP213 T01940078 10256 20194 53020 KBQK 312355Z AUTO 00000KT 10SM CLR 14/11 A2984 RMK AO1 CWTT 312300Z AUTO 04004KT 04/M03 RMK AO1 T00421027 CXKT 010000Z AUTO 07002KT 06/03 RMK AO1 SLP189 T00620028 53009 ZSOF 010000Z 29003MPS 0500 R33/0700N FG BKN004 OVC026 15/15 Q1019 BECMG TL0100 0800 BKN005 CYCK 010000Z AUTO 36010KT 9SM -RA BKN017 OVC024 06/05 A2993 RMK SLP140 CYDB 010000Z AUTO 27006KT 9SM OVC011 M05/M07 A2926 RMK SLP957 EFKT 312350Z AUTO 24003KT CAVOK M09/M10 Q1024 KCIC 312356Z 33005KT 10SM BKN017 OVC030 13/13 A2977 CYDC 010000Z 00000KT 15SM FEW010 FEW025 BKN040 OVC150 08/07 A2975 RMK SF1CF2SC4AS2 SF TR SLP081 CXLL 312300Z AUTO 22004KT 04/01 RMK AO1 SLP951 T00380005 51011 CYBU 010000Z AUTO 15015G22KT 9SM FEW130 SCT180 OVC200 03/M04 A2986 RMK SLP133 CWTU 010000Z AUTO 28008KT M05/ A2973 RMK SLP105 EETU 312350Z AUTO 29005KT 9999 NCD 00/M01 Q1023 KCID 312352Z 36010KT 10SM CLR 02/M07 A3042 RMK AO2 SLP312 T00221067 10061 20017 51011 EFKU 312350Z AUTO 34006KT 9999 BKN007 M03/M04 Q1024 KBRD 312353Z AUTO 00000KT 10SM CLR M02/M09 A3047 RMK AO2 SLP340 T10221089 10033 21022 57005 CYBV 312100Z 19010G18KT 15SM SCT220 02/M05 A3034 RMK CS3 LAST OBS/NEXT 031300Z SLP288 CXMD 312300Z AUTO 17011KT 03/M08 RMK AO1 PK WND 16017/2232 SLP286 T00271082 56027 CWVD 010000Z AUTO ///// M05/ A2988 RMK SLP169 CYBW 010000Z AUTO 36010KT 9SM OVC100 08/01 A2963 RMK SLP067 DENSITY ALT 4300FT KAZO 312353Z 36022G29KT 10SM BKN027 OVC037 01/M03 A3018 RMK AO2 PK WND 36029/2347 SLP229 60003 T00111033 10033 20011 51036 EGCN 312350Z 18013KT CAVOK 16/14 Q1010 KCHO 312353Z 02004KT 10SM OVC060 10/04 A2984 RMK AO2 SLP103 T01000039 10133 20100 56001 PHNG 312357Z 06011KT 10SM FEW016 SCT028 BKN035 27/22 A3001 RMK AO2 RAB13E22 SLP158 P0000 60002 T02720222 10272 20233 58024 $ CYBX 010000Z 32005KT 15SM SKC 01/M02 A3003 RMK WND ESTD SLP172 CWVF 010000Z AUTO 10003KT 10/10 RMK AO1 T01040104 CYCO 010000Z CCA 11014KT 1/2SM -SN BLSN OVC015 M00/M01 A2922 RMK BLSN3ST5 SNW WET /SO4/ SLP899 CYDF 010000Z 26004KT 15SM BKN035 05/01 A3010 RMK SC7 SLP193 KBQP 312355Z AUTO 00000KT 10SM CLR 13/07 A3022 RMK AO2 T01300065 10203 20130 KF05 312356Z AUTO 02005KT 10SM CLR 14/M03 A3037 RMK AO2 CYCP 010000Z 00000KT 3SM -RA BR FEW002 FEW008 BKN018 OVC050 07/06 A2966 RMK SF1SF2SF2NS3 SLP063 CXMG 312300Z AUTO 24007KT 07/02 RMK AO1 T00680018 CWTY 010000Z AUTO 36007KT 05/M02 RMK AO1 SLP204 T00461018 53016 CWUP 010000Z AUTO ///// M04/ A2994 RMK SLP172 EFLP 312350Z AUTO 34003KT 9999 FEW011 M00/M02 Q1023 KCGZ 312355Z AUTO 00000KT 10SM CLR 32/08 A2980 RMK AO1 10330 20260 403300140 57014 CYCQ 010000Z VRB02KT 35SM FEW040 BKN050 OVC140 03/00 A2966 RMK SC1SC6AS2 SC TR VIRGA E SLP070 CWVH 010000Z AUTO 34023G30KT M11/ A2964 RMK SLP064 CXMI 010000Z AUTO 06007KT 09/04 RMK AO1 SLP187 T00880042 53008 CWVI 010000Z AUTO 32005KT 06/03 RMK AO1 SLP047 T00610027 53009 ZSPD 010000Z 29003MPS 3500 BR BKN020 19/16 Q1017 NOSIG EFMI 312350Z AUTO 31001KT CAVOK M04/M04 Q1024 KCHS 312356Z 00000KT 10SM FEW070 SCT100 15/07 A2980 RMK AO2 SLP090 T01500072 10222 20133 53002 KDAA 312358Z AUTO 00000KT 10SM CLR 06/04 A2986 RMK AO2 SLP115 T00610036 10132 20061 58002 CWWA 010000Z AUTO 16001KT 10/08 RMK AO1 1010 SLP095 T01030076 50103 CWUS 010000Z AUTO 05004KT 11/09 RMK AO1 2PAST HR 3015 SLP065 P0001 T01080087 50006 KDAB 312353Z 28004KT 10SM CLR 18/12 A2984 RMK AO2 SLP104 T01830117 10256 20178 53018 PHNL 312353Z 04012G22KT 6SM -RA SCT026 SCT037 BKN100 BKN240 27/22 A3000 RMK AO2 RAE2259B49 SLP159 P0000 60000 T02670217 10289 20261 58020 CWWB 010000Z AUTO 36006KT 07/06 RMK AO1 SLP144 T00730058 53016 KBRL 312353Z AUTO 35011KT 10SM CLR 04/M06 A3040 RMK AO2 SLP302 T00391061 10067 20033 53014 EGEC 312320Z 25005KT 210V270 9999 FEW009 SCT025 12/11 Q1003 CYDL 010000Z AUTO 26003KT 190V290 9SM CLR 01/00 A2954 RMK SLP024 CXMM 312300Z AUTO 13005KT 03/02 RMK AO1 SLP047 T00300020 56005 EGDM 312350Z AUTO 19011KT 9999 FEW015/// BKN021/// 16/15 Q1013 CYED 010000Z AUTO 33007KT 3SM BKN007 BKN030 OVC086 03/02 A2964 RMK SLP060 KCIN 312355Z AUTO 01004KT 10SM CLR M00/M07 A3047 RMK AO2 NZNP 312115Z 23015KT 35KM FEW025 15/11 Q1020 RMK VATSIM USE ONLY CWWE 010000Z AUTO 08013G19KT 11/06 RMK AO1 PK WND 08019/2328 SLP176 T01110062 51006 CWVN 010000Z AUTO 15007KT 07/01 RMK AO1 PK WND 15018/2306 SLP104 T00660012 56009 CYDN 010000Z AUTO 15006KT 110V180 9SM OVC130 02/M06 A3014 RMK SLP225 CWUW 010000Z AUTO 09017KT 9SM FEW004 OVC043 OVC068 OVC089 M05/ A2989 RMK SLP169 KBRO 312353Z 36004KT 10SM CLR 23/16 A3016 RMK AO2 SLP212 60000 T02330161 10272 20217 53015 PHOG 312354Z 06023G30KT 10SM FEW030 SCT040 SCT060 30/21 A2997 RMK AO2 PK WND 06031/2329 SLP153 T03000211 10306 20267 58022 NZOH 312142Z 26015KT 20KM BKN028 15/08 Q1018 RMK VATSIM USE ONLY CXMO 312300Z AUTO 36005KT 09/05 RMK AO1 T00850047 CWWF 010000Z AUTO 17019G24KT 04/M04 RMK AO1 PK WND 17026/2303 SLP160 T00431035 56014 CWUX 312300Z AUTO 26005KT 02/M02 RMK AO1 SLP216 T00191016 53017 VDSR 010000Z VRB02KT 9000 SCT020 27/24 Q1009 CYCX 010000Z 00000KT 15SM SCT039 OVC056 06/02 A3010 RMK SC4SC4 DA-1023FT SLP196 KDAG 312350Z AUTO 30015KT 10SM CLR 25/05 A2976 RMK AO2 SLP058 T02500050 10272 20217 56020 NZNR 312158Z 01012KT 30KM NSC 19/07 Q1016 RMK VATSIM USE ONLY VEJS 010000Z 00000KT 1500 HZ NSC 19/17 Q1012 CYDP 312300Z 28013G18KT 15SM -SHSN BKN075 M01/M05 A2976 RMK AS7 LAST STAFFED OB/ NEXT 010800 SLP078 CWVP 010000Z AUTO 18008KT 05/01 RMK AO1 SLP089 T00450011 53001 CYCY 010008Z AUTO 33018KT 5SM -SN OVC022 M03/M04 A3010 RMK SLP195 CYEG 010007Z 31006KT 3SM BR OVC007 03/02 A2965 RMK SC8 SLP065 ORER 010000Z 30005KT 6000 NSC 11/11 Q1009 NZNS 312323Z 21015KT 50KM NSC 19/04 Q1015 RMK VATSIM USE ONLY CWVQ 010000Z AUTO 05005KT 05/M03 RMK AO1 SLP196 T00491027 53017 CYDQ 010000Z AUTO 00000KT 9SM OVC150 03/01 A2965 RMK SLP067 KCIR 312355Z AUTO 34015G19KT 10SM CLR 07/M05 A3028 RMK AO2 T00711052 10113 20070 UNKL 010000Z 25004G08MPS 9999 SCT030CB OVC083 01/M03 Q1022 NOSIG RMK QFE740 29////42 ZSQD 010000Z 01004MPS 4500 BR BKN020 15/11 Q1018 NOSIG PGWT 312350Z 23003KT 5SM -RA FEW010 SCT015 BKN100 26/25 A2985 EGDR 312350Z 25008KT 1500 DZ FEW001 BKN002 BKN006 13/13 Q1014 AMB KBTA 312355Z AUTO 00000KT 10SM CLR 04/M09 A3045 RMK AO2 T00431090 10062 20033 TVSV 010000Z 09010KT 9999 BKN018 29/25 Q1013 CWXA 010000Z AUTO 27002KT 12/M00 RMK AO1 SLP036 T01231004 52009 KCKB 312353Z 32004KT 7SM -RA BKN006 OVC024 06/05 A2987 RMK AO2 SLP114 P0000 60000 T00560050 10094 20056 53007 NZNV 312250Z 31015KT 60KM FEW045 BKN065 17/08 Q1002 RMK VATSIM USE ONLY KCKC 312341Z AUTO 31004KT 10SM CLR M04/M08 A3044 RMK AO2 CWWK 312300Z AUTO 18001KT 11/10 RMK AO1 2PAST HR 3011 SLP101 P0001 T01090095 50030 CWVT 312300Z AUTO 13005KT 03/M00 RMK AO1 SLP086 T00271002 56005 CYFB 010000Z 09009KT 15SM BKN040 02/M01 A2974 RMK SC7 SLP072 CYEK 010000Z AUTO 35008KT 9SM -SN OVC003 M07/M07 A3009 RMK SLP190 KDAL 312353Z 02008G19KT 10SM CLR 17/03 A3031 RMK AO2 SLP260 T01670028 10194 20167 53007 KCIU 312355Z AUTO 02013G20KT 10SM OVC037 M01/M07 A3036 RMK AO1 10010 21010 52030 CWWL 312300Z AUTO 20004KT 11/04 RMK AO1 SLP068 T01060038 50001 CWXC 312300Z AUTO 05002KT M00/M04 RMK AO1 SLP204 T10031036 52015 CWVU 312300Z AUTO 04007KT 11/07 RMK AO1 SLP187 T01090066 53005 CYFC 010000Z AUTO 04006KT 9SM BKN040 OVC060 06/01 A3011 RMK SLP195 CXNM 010000Z AUTO 30007KT 02/M01 RMK AO1 T00171009 KDAN 312353Z AUTO 00000KT 10SM BKN050 BKN120 10/06 A2982 RMK AO2 SLP095 T01000061 10150 20100 56002 CYEN 010000Z 14013G22KT 15SM SCT140 OVC250 03/M07 A3001 RMK AC4CI1 SLP194 NZPG 312355Z 06010KT 9999 -SN FEW022 SCT025 BKN030 M19/M25 A2918 RMK SLP883 LSR10 FATA MORGANA GRID NE GRID23010KT SDF/HDG PHNY 312356Z AUTO RMK AO2 PWINO PNO TSNO 5//// 6//// SLPNO $ KCKF 312355Z AUTO 33003KT 10SM SCT085 16/06 A2991 RMK AO2 T01610063 10227 20161 EGEO 311350Z 16009KT 7000 -DZ SCT014 BKN020 16/14 Q1003 EGDX 312350Z AUTO 25007KT 9999 FEW017/// BKN022/// 14/13 Q1012 RERA EGFF 312350Z AUTO 25008KT 9999 BKN020 OVC030 14/13 Q1012 CXMY 312300Z AUTO 03/02 RMK AO1 T00320022 CXNP 010000Z AUTO 05002KT 05/02 RMK AO1 SLP202 T00540023 53011 EGDY 312350Z AUTO 20013KT 9999 BKN010/// 17/15 Q1013 KCKI 312355Z AUTO 00000KT 10SM CLR 12/11 A2980 RMK AO2 KCJR 312355Z AUTO 00000KT 10SM OVC060 11/03 A2986 RMK AO2 CWXI 010000Z AUTO 22013KT 04/01 RMK AO1 PK WND 23017/2312 SLP168 T00350012 53025 KDCA 312352Z 07006KT 10SM SCT055 BKN200 12/02 A2986 RMK AO2 SLP112 T01220017 10144 20122 58004 CYER 010000Z AUTO 21009KT 9SM OVC130 M04/M06 A3020 RMK SLP227 CWWS 312300Z AUTO 17025G31KT 04/M03 RMK AO1 PK WND 17031/2252 SLP239 T00351029 57032 CXPA 312300Z AUTO 28004KT 06/01 RMK AO1 T00620009 NZPM 312255Z 26015KT 20KM HZ FEW025 SCT030 BKN038 16/10 Q1018 RMK VATSIM USE ONL KBTL 312353Z 01018G27KT 10SM BKN026 BKN033 OVC047 02/M04 A3016 RMK AO2 PK WND 01029/2320 SLP222 60004 T00171039 10028 20017 53022 CYET 010000Z AUTO 28006KT 190V340 9SM OVC055 06/02 A2969 RMK SLP082 CWWU 310800Z 31010KT 15SM BKN018 OVC025 09/06 A2977 RMK SC6SC2 SLP080 CWXL 312300Z AUTO 16016KT 09/03 RMK AO1 PK WND 16023/2212 T00930030 CXOL 312300Z AUTO 31012KT 05/01 RMK AO1 PK WND 31018/2248 T00460010 CXPC 312300Z AUTO M00/M01 RMK AO1 2PAST HR 3028 SLP191 P0001 T10031010 50019 KBTM 312353Z AUTO 25005KT 10SM OVC095 16/M02 A2982 RMK AO2 SLP082 T01561017 10189 20094 53001 KCKM 312355Z AUTO 35019G26KT 10SM CLR 10/00 A3024 RMK AO1 CYEV 010000Z 34014G23KT 3SM -SN BLSN OVC017 M09/M10 A2963 RMK SN7SC1 SLP041 EGGD 312350Z 20013KT 9999 SCT006 BKN019 16/15 Q1012 KDAW 312351Z AUTO 00000KT 10SM CLR 06/01 A3003 RMK AO2 SLP167 T00560011 10100 20050 53005 KCLE 312351Z 00000KT 10SM -RA OVC031 07/04 A2992 RMK AO2 SLP135 P0001 60011 T00670039 10083 20067 53013 KCKN 312354Z AUTO 16008KT 10SM CLR M02/M07 A3042 RMK AO2 KDBN 312355Z AUTO 30004KT 10SM CLR 15/06 A2989 RMK AO2 NZPP 312300Z 34009KT 15KM VCSH BKN043 15/09 Q1016 RMK ALT VATSIM USE ONLY CYGE 010000Z 00000KT 15SM -SHRA FEW006 SCT025 BKN075 OVC120 07/07 A2970 RMK ST1SC3AS3AS1 LAST OBS/NEXT 011200Z SLP072 KBUF 312354Z 15007KT 6SM -RA BR FEW015 BKN023 OVC035 07/05 A2994 RMK AO2 SLP144 P0002 60003 T00670050 10094 20067 53016 CYFO 312300Z 14014G21KT 15SM BKN100 02/M05 A2995 RMK AC7 LAST OBS/NEXT01 1100UTC SLP159 CWWX 312300Z AUTO 06030G36KT 03/01 RMK AO1 PK WND 08038/2204 SLP216 T00250005 53034 KBTP 312355Z AUTO 08005KT 5SM BKN033 OVC044 05/03 A2990 RMK AO1 P0001 60007 10070 20050 400800050 52007 KDAY 312356Z 34017G22KT 7SM -RA BKN010 OVC017 04/03 A2996 RMK AO2 SLP151 P0002 60009 T00440028 10056 20044 53016 KCKP 312355Z AUTO 00000KT 10SM CLR M01/M07 A3047 RMK AO2 T10071072 10049 21009 KDBQ 312353Z 02013KT 10SM CLR 02/M08 A3040 RMK AO2 SLP309 T00171083 10050 20017 51014 CYGH 312300Z 24015G22KT 3/4SM -SN BLSN VV005 M08/M10 A2939 RMK SN8 CIG RAG /S02/ -8.5/-11.4/6.2/25 MUCH LOOSE LAST OBS/NXT 011300Z SLP961 CWWZ 010000Z AUTO 07005KT 08/07 RMK AO1 6PAST HR 1016 SLP143 P0006 T00790066 50042 KBTR 312353Z VRB06KT 10SM CLR 18/07 A3013 RMK AO2 SLP201 T01830072 10239 20183 53024 KCLI 312355Z AUTO 01006KT 10SM SCT048 00/M08 A3043 RMK AO2 CYFR 312200Z 16010G17KT 15SM FEW010 OVC070 03/01 A2946 RMK SC1AC7 2.9/1.1/TR/ LAST OBS/NXT031500Z SLP988 CWXR 010000Z AUTO 07010KT M05/ A2926 RMK SLP919 KCMA 312355Z 20009KT 10SM SCT040 OVC060 19/14 A2985 RMK AO2 SLP117 T01940139 10211 20194 56010 NZRC 312250Z 31015KT 60KM FEW045 BKN065 17/08 Q1002 RMK NZNV VATSIM USE ONLY CYHA 312100Z 36006KT 1SM -SG BR BKN001 OVC300 M00/M00 A2951 RMK FG2SF4CS1 SN COV/TR LOOSE LAST OBS/NEXT 011200UTC SLP996 CWZA 010000Z AUTO 21003KT 10/09 RMK AO1 4PAST HR 1019 SLP102 P0002 T01020088 50073 CWYJ 010000Z AUTO 17004KT 11/08 RMK AO1 3010 SLP102 T01080077 50004 CYFS 010000Z 15003KT 080V180 15SM FEW045 FEW065 SCT210 03/M01 A2936 RMK SC1SC1CI1 SLP953 KCLK 312355Z AUTO 06005KT 10SM CLR 09/M03 A3039 RMK AO2 CYFT 312000Z 27019G26KT 15SM FEW025 02/M04 A2975 RMK CU1 LAST OBS/NEXT010900 UTC SLP080 CYGK 010000Z 04013G22KT 15SM BKN050 OVC090 06/00 A3003 RMK SC5AC3 INTMT -RA SLP171 CWYK 010000Z AUTO 17017G27KT M07/ A2945 RMK SLP023 KDDC 312352Z AUTO 10007KT 10SM CLR 04/M07 A3038 RMK AO2 SLP302 T00391072 10100 20039 56008 KCLL 312353Z 36010KT 10SM CLR 18/06 A3024 RMK AO2 SLP237 60000 T01830056 10239 20183 53013 NZQN 312324Z 22015KT 50KM SCT070 18/05 Q1007 RMK VATSIM USE ONLY CXPL 312300Z AUTO 17007KT 11/04 RMK AO1 T01050044 EFOU 312350Z AUTO 00000KT CAVOK M07/M08 Q1025 R12/19//95 CWYL 010000Z AUTO 20002KT 03/03 RMK AO1 2PAST HR SOG 00 1003 SLP056 P0001 T00320030 50002 CYGL 010000Z 25004KT 15SM SKC M05/M07 A3021 RMK SLP248 KCKV 312352Z AUTO 33021G28KT 10SM OVC060 06/M04 A3017 RMK AO2 PK WND 34028/2343 SLP219 60000 T00611044 10100 20056 51022 KCLM 312353Z AUTO 18003KT 10SM SCT055 12/09 A2983 RMK AO2 SLP102 60000 T01220089 10139 20106 51008 KBTV 312354Z 36006KT 10SM OVC060 06/M02 A3005 RMK AO2 SLP178 T00611022 10106 20061 53010 KCMD 312355Z AUTO 36010G15KT 330V030 10SM SCT014 SCT029 OVC034 06/04 A3010 RMK AO2 P0003 T00550038 CWYM 010000Z AUTO 07021KT M04/ A2979 RMK SLP132 KBVE 312351Z AUTO 33016G25KT 10SM CLR 21/09 A3004 RMK AO2 SLP170 T02110094 10239 20211 53016 CYHD 312300Z AUTO 21004KT 9SM CLR M01/M06 A3044 RMK SLP334 EGHE 311720Z 27009KT 7000 RA SCT003 BKN030 14/14 Q1010 CYHE 010000Z AUTO 29008KT 9SM -RA BKN049 OVC055 10/09 A2981 RMK PCPN 1.2MM PAST HR SLP095 KF44 312355Z AUTO 01005KT 10SM CLR 15/05 A3028 RMK AO2 CXOX 010000Z AUTO 16010KT 02/M01 RMK AO1 PK WND 15018/2327 SLP103 T00191014 55008 EFPO 312350Z AUTO VRB02KT 9999 R30/1200VP2000U FZFG SCT002/// M02/M03 Q1025 CXOY 312300Z AUTO 19012KT 12/03 RMK AO1 T01170032 CWZG 312300Z AUTO 27005KT 13/M00 RMK AO1 SLP032 T01321002 53004 CYGP 010000Z 18002KT 15SM BKN035 03/M00 A3014 RMK SC7 SLP208 EGGP 312350Z 22008KT 9999 VCSH FEW015 BKN048 14/13 Q1009 KCMH 312351Z 35011KT 10SM FEW010 BKN017 OVC025 05/04 A2989 RMK AO2 RAE40 SLP127 P0000 60009 T00500044 10078 20050 51008 $ KDDH 312354Z AUTO 00000KT 10SM OVC047 08/01 A2997 RMK AO2 SLP154 T00780011 10100 20078 51009 KF46 312355Z AUTO 03004KT 10SM CLR 14/03 A3030 RMK AO2 T01400027 10185 20140 CYHH 312000Z 30006KT 15SM BKN015 00/M07 A3015 RMK SC6 LAST OBS/NEXT 031100 UTC SLP225 KBVI 312247Z 00000KT 10SM DZ BKN037 OVC050 05/04 A2987 CYGQ 010000Z 35003KT 12SM -SHSN OVC015 M05/M06 A3043 RMK SC8 TCU EMBD SLP330 KCMI 312353Z 33024G32KT 10SM OVC050 03/M06 A3025 RMK AO2 SLP251 T00331056 10061 20033 53023 $ EGHH 312350Z 20012KT 9999 SCT020 17/15 Q1014 KBUR 312353Z 16004KT 10SM OVC037 19/12 A2986 RMK AO2 SLP100 T01890117 10206 20183 58008 CYHI 010000Z 09020G33KT 6SM -SN DRSN OVC015 M05/M05 A2942 RMK ST8 -3.8/M/0.4/4.6 ONE LOOSE LAST OBS/NEXT 011400Z SLP967 CYGR 010000Z 00000KT 15SM SCT025 BKN040 04/00 A3012 RMK SC3SC2 SLP201 EGHI 312320Z 21011KT CAVOK 16/14 Q1014 KCLS 312355Z AUTO 17008KT 10SM CLR 14/10 A2984 RMK AO2 KCLT 312352Z 05004KT 10SM FEW075 BKN095 OVC250 14/07 A2978 RMK AO2 SLP084 OCNL LTG DSNT W T01390067 10161 20122 56009 KCNB 312354Z AUTO 12004KT 10SM CLR M01/M06 A3047 RMK AO2 T10131062 10037 21013 CYGT 312100Z 33016KT 15SM FEW010 FEW240 M13/M15 A3013 RMK SF1CI1 -13.0/-17.0/0.0/18 TRACE LOOSE/FROIN/LAST OBS/NEXT 011500Z SLP210 CXRB 312300Z AUTO 13018KT M16/M18 RMK AO1 PK WND 14023/2238 SLP167 T11571179 58014 CYHK 010000Z AUTO /////KT RMK CLD MISG WX MISG VIS MISG PCPN MISG ICG MISG KDCU 312353Z AUTO 34014G19KT 10SM FEW075 07/02 A3012 RMK AO2 PK WND 36026/2300 RAB2257E07 SLP199 P0000 60000 T00670022 10150 20067 53027 KDEC 312354Z 35018G24KT 10SM CLR 03/M05 A3031 RMK AO2 PK WND 36028/2338 SLP269 T00331050 10072 20033 51025 KCNC 312355Z AUTO 34006KT 10SM CLR 01/M07 A3045 RMK AO2 KBUU 312355Z AUTO 01017G22KT 10SM BKN050 01/M09 A3035 RMK AO2 T00101089 10030 20009 CWZL 312300Z AUTO 18008KT 09/05 RMK AO1 SLP077 T00940048 50000 KDED 312355Z AUTO 29004KT 10SM CLR 19/11 A2986 RMK AO1 KBWD 312355Z AUTO 36004KT 10SM CLR 17/01 A3031 RMK AO2 NZRO 312332Z 24010KT 35KM FEW025 17/11 Q1018 RMK VATSIM USE ONLY CYHM 010000Z 02008KT 6SM -RA BR FEW006 OVC018 06/05 A2994 RMK SF1SC7 SLP145 CYGV 010000Z AUTO 27002KT 9SM CLR M00/M02 A3010 RMK SLP194 PHSF 312356Z AUTO 15020G31KT 10SM CLR 21/M01 A3028 RMK AO2 PK WND 14028/2256 SLPNO T02091013 10212 20132 57025 $ KBVN 312355Z AUTO 15004KT 10SM CLR 01/M09 A3041 RMK AO2 T00051090 10060 20005 KCLW 312355Z AUTO 32007KT 10SM CLR 20/10 A2990 RMK AO2 CWZN 312300Z AUTO 08/03 RMK AO1 SLP185 T00780026 51018 KBVO 312353Z AUTO 36005KT 10SM CLR 05/M06 A3043 RMK AO2 SLP305 T00501056 10111 20050 50003 $ EGGW 312350Z 19006KT 150V220 CAVOK 14/13 Q1014 CYGW 010000Z AUTO 28014G20KT 8SM -SN FEW027 BKN038 OVC065 M01/M04 A3017 RMK SLP217 CWZO 010000Z AUTO 16012KT RMK AO1 CYGX 010000Z 22006KT 15SM FEW200 00/M07 A3009 RMK CI1 SLP203 ZSSS 010000Z 30004MPS 280V340 6000 SCT016 19/16 Q1017 BECMG TL0130 BKN014 KBWG 312353Z AUTO 32007G15KT 10SM BKN044 OVC060 06/M02 A3012 RMK AO2 SLP200 60001 T00611022 10106 20050 51024 KBUY 312354Z AUTO 00000KT 10SM OVC060 11/06 A2980 RMK AO2 SLP093 T01060056 10156 20106 58003 KDCY 312355Z AUTO 33020G29KT 10SM OVC042 05/M02 A3015 RMK AO2 T00451022 10071 20030 CWYY 010000Z AUTO 09001KT 12/10 RMK AO1 1003 SLP061 T01240099 50006 KDEH 312355Z AUTO 36005KT 10SM CLR 00/M08 A3043 RMK AO2 EGHQ 312050Z 18005KT 9999 FEW030 13/12 Q1012 CXRH 312300Z AUTO 28002KT 04/M00 RMK AO1 T00381004 CWZQ 312340Z AUTO 29008KT 08/02 RMK AO1 T00760020 UNNT 010000Z 20006MPS 9999 BKN009 OVC020 02/00 Q1022 25290150 16290150 NOSIG RMK QFE756/1009 KBWI 312354Z 00000KT 10SM BKN055 09/03 A2986 RMK AO2 SLP111 T00890028 10139 20089 58002 KCNI 312355Z AUTO 31009G15KT 250V360 10SM SCT016 BKN022 OVC030 10/05 A2991 RMK AO2 NZTB 312055Z 16004KT 9999 FEW030 M13/M19 A2934 RMK FEW VIS MIN 9999 WIND THR22 03001KT GRID32004KT KBVS 312355Z AUTO 14004KT 10SM OVC050 A2984 RMK A01 P000 KBXA 312355Z AUTO 35010KT 10SM 19/07 A3010 RMK AO2 T01850070 10244 20185 EGJA 311820Z 16012KT CAVOK 17/14 Q1015 CWZS 010000Z AUTO 00000KT M01/M02 RMK AO1 SLP207 T10091015 51013 EFSA 312350Z AUTO 32004KT 280V010 9999 OVC007 M02/M02 Q1023 KCNK 312355Z AUTO 00000KT 10SM CLR 03/M09 A3044 RMK AO2 SLP319 T00281089 10083 20028 56009 CYIK 312100Z 34025G33KT 8SM -SN DRSN OVC009 M03/M04 A2986 RMK ST8 SN CVR TR LOOSE LAST OBS/NEXT 011200UTC SLP116 EGJB 312050Z 17011KT CAVOK 16/16 Q1016 KBVU 312355Z AUTO 17012KT 10SM CLR 27/01 A2977 RMK AO2 CXSC 312300Z AUTO 18003KT 14/02 RMK AO1 T01420022 UNOO 010000Z 21003MPS 6000 SCT200 M00/M01 Q1018 25390140 NOSIG RMK QFE755 CXRL 010000Z AUTO 04/01 RMK AO1 T00420006 CYHU 010000Z AUTO 03005KT 9SM SCT120 BKN140 BKN170 01/M02 A3011 RMK SLP197 KCNM 312353Z AUTO 15008KT 10SM CLR 18/01 A3027 RMK AO2 SLP223 T01830011 10206 20178 56008 $ KCOD 312355Z 00000KT 10SM CLR 16/M03 A2986 RMK AO1 10190 20110 401900020 57003 CWZV 312300Z AUTO 22005KT 10/04 RMK AO1 SLP081 T01020043 51004 KDEN 312353Z 34003KT 10SM SCT150 BKN220 11/M01 A3012 RMK AO2 SLP180 T01061006 10144 20100 58004 $ KCOE 312355Z AUTO 00000KT 10SM BKN060 OVC075 11/08 A2979 RMK AO1 10110 20090 52017 NZTG 312232Z 24014KT 30KM FEW030 20/10 Q1018 RMK VATSIM USE ONLY NZSP 311750Z 02017G24KT 0200 BLSN VV005 M36/ A2847 RMK PK WND 02028/36 CLN AIR 01015G21KT ALL WNDS GRID SDN/HDN CXSE 312300Z AUTO 15013KT M11/M12 RMK AO1 PK WND 13017/2208 SLP099 T11081120 CWZW 010000Z AUTO 10004KT 01/M02 RMK AO1 SLP991 T00131023 52002 CYIN 010000Z AUTO VRB02KT 9SM FEW026 BKN044 OVC055 05/03 A2970 RMK SLP073 KCOF 312358Z AUTO 29013KT 10SM CLR 23/11 A2983 RMK AO2 SLP106 T02250105 10273 20225 52019 KCMX 312353Z AUTO 34005KT 10SM BKN032 M02/M07 A3045 RMK AO2 SLP327 60000 T10171067 10006 21017 51008 KCNO 312353Z 22006KT 10SM BKN047 OVC060 20/11 A2988 RMK AO2 SLP114 T02000111 10228 20178 56006 KBVX 312355Z AUTO 34004KT 10SM CLR 08/M08 A3032 RMK AO1 10140 20080 401600080 52027 CYJF 312200Z 21004KT 15SM FEW070 SCT200 02/00 A2945 RMK AC2CI1 2.9/-1.7/0/18 MEDIUM PACK LAST OB/NEXT 031500UTC SLP983 CYIO 010000Z AUTO 11004KT 9SM CLR M15/M17 A3021 RMK SLP238 EFRO 312350Z AUTO VRB03KT CAVOK M07/M08 Q1024 KBVY 312353Z 06003KT 10SM OVC055 09/01 A3001 RMK AO2 SLP160 T00890011 10111 20089 50006 KCMY 312355Z AUTO 34004KT 10SM CLR 01/M07 A3046 RMK AO2 T00071073 10054 20007 KBWP 312355Z AUTO 14006KT 10SM CLR 00/M07 A3044 RMK AO1 ZUCK 010000Z 01003MPS 5000 BR FEW008 SCT020 OVC050 17/15 Q1017 NOSIG CYHY 010000Z 22009KT 15SM FEW100 SCT230 03/01 A2946 RMK AC1CI3 SLP987 KDEQ 312353Z AUTO 00000KT 10SM CLR 12/05 A3028 RMK AO2 SLP252 T01220050 10178 20122 51016 CXSH 010000Z AUTO 36004KT 03/M04 RMK AO1 SLP202 T00281043 53015 CYHZ 312300Z 09006KT 15SM BKN052 BKN240 07/01 A3008 RMK SC5CI2 SLP191 CWZZ 010000Z AUTO 29021KT M03/ A2954 RMK SLP035 KDFI 312353Z AUTO 36022G34KT 9SM -SN BKN020 OVC027 03/M01 A3006 RMK AO2 PK WND 36034/2352 UPB28E35SNB35 SLP183 P0000 60010 T00281011 10067 20022 52039 $ EFSI 312350Z AUTO 00000KT 0300 FZFG OVC001 M05/M05 Q1025 EGKA 311950Z 11005KT CAVOK 15/13 Q1016 CYKA 010000Z 26006KT 40SM FEW012 BKN065 OVC120 10/07 A2972 RMK SF1SC5AC3 SF TR SLP070 KDET 312353Z 36017G27KT 10SM -RA OVC014 03/01 A3002 RMK AO2 PK WND 01032/2254 SLP169 P0000 60006 T00330006 10078 20033 53024 EGJJ 312050Z 18014KT CAVOK 16/15 Q1017 BECMG BKN015 KBXK 312355Z AUTO 00000KT 10SM CLR 30/06 A2978 RMK AO1 KF70 312355Z AUTO 20007KT 10SM OVC043 19/11 A2989 RMK AO1 EGKB 312020Z 17013KT CAVOK 16/11 Q1016 KCNU 312352Z AUTO 01004KT 10SM CLR 04/M07 A3043 RMK AO2 SLP307 60000 T00441067 10094 20044 50001 EHAK 312355Z AUTO 18025KT 9999 NCD 15/13 Q1012 KCPC 312355Z AUTO 00000KT 10SM CLR 12/09 A2980 RMK AO2 T01150085 10191 20115 CXSL 312300Z AUTO 01004KT 05/02 RMK AO1 T00510016 KCOM 312355Z AUTO 02006KT 10SM CLR 16/02 A3032 RMK AO2 T01630017 10210 20163 CYKD 312300Z 36015G24KT 1 1/2SM -SN DRSN VV009 M08/M09 A2970 RMK SN8 -7.2/-9.2/4.4/31 MUCH LOOSE/LAST OBS/NXT 011300Z SLP058 KCNW 312255Z 01008G15KT 10SM SKC 19/04 A3028 CXTD 010000Z AUTO 13005KT 05/02 RMK AO1 SLP208 T00500016 51010 CYIV 010000Z 18010G15KT 15SM FEW025 M01/M03 A3027 RMK SC1 SLP268 KCON 312351Z AUTO 00000KT 10SM OVC055 04/02 A3003 RMK AO2 SLP172 T00390017 10100 20039 53008 KDEW 312353Z AUTO 00000KT 5SM BR FEW008 OVC046 09/08 A2980 RMK AO2 RAE00 SLP096 P0000 60001 T00940083 10100 20094 51013 EHAM 312355Z 16007KT CAVOK 12/11 Q1018 NOSIG PHTO 312353Z 16004KT 10SM OVC050 26/19 A3001 RMK AO2 RAB2258E04 SLP160 P0000 60004 T02610189 10294 20222 56023 CZBF 010000Z 27003KT 260V330 15SM OVC075 04/M02 A3013 RMK AC8 SLP205 KCNY 312353Z AUTO VRB03KT 10SM CLR 20/M03 A2998 RMK AO2 SLP131 T02001033 10206 20167 56019 CYKF 010002Z AUTO 01005KT 6SM BR SCT011 BKN021 OVC029 05/04 A2994 RMK SLP148 KBYG 312353Z AUTO 32010KT 10SM CLR 14/M02 A2988 RMK AO2 SLP103 T01391017 10161 20106 55002 KBYH 311955Z 35019G29KT 10SM BKN060 12/00 A3016 CYKG 312100Z 35020G27KT 4SM -SN DRSN VCFG OVC015 M01/M02 A2954 RMK NS8 LAST OBS/NEXT 031200 UTC/ VIA CZNB SLP017 CXSP 312300Z AUTO 02003KT 07/01 RMK AO1 T00670012 KCOQ 312356Z AUTO 00000KT 10SM CLR M02/M09 A3047 RMK AO2 CXTH 312300Z AUTO 32005KT 06/02 RMK AO1 T00630019 KBYI 312353Z AUTO 09004KT 10SM CLR 16/01 A2979 RMK AO2 SLP071 T01560006 10183 20122 58010 VEPT 312350Z 00000KT 0800 MIFG NSC 21/20 Q1011 NOSIG VERC 310600Z 34006KT 5000 HZ FEW100 27/13 Q1016 NOSIG CXSR 312300Z AUTO 22006KT 03/M00 RMK AO1 SLP052 T00331001 53004 KCOS 312354Z 16006KT 10SM FEW170 BKN230 08/M03 A3021 RMK AO2 SLP231 T00831028 10111 20056 56010 NZTU 312300Z 01004KT 25KM BKN085 12/09 Q1008 RMK ALT VATSIM USE ONLY CYLA 312100Z 28018G24KT 15SM DRSN FEW020 BKN090 OVC220 M02/M04 A2962 RMK SC2AC4CI0 LAST OBS/NEXT 011200UTC SLP032 CYKJ 010000Z AUTO 17007KT 9SM OVC012 M00/M03 A2974 RMK SLP101 KCOT 312353Z AUTO 01005KT 10SM CLR 23/07 A3022 RMK AO2 SLP226 T02330072 10272 20233 53004 KCPK 312355Z AUTO 00000KT 10SM OVC050 13/07 A2982 RMK AO2 KCQB 312355Z AUTO 04003KT 5SM HZ CLR 09/M01 A3040 RMK AO2 CYJT 010000Z 31004KT 15SM SCT025 05/M00 A3011 RMK SC4 SLP198 KCQC 312353Z AUTO 14013G20KT 10SM CLR 11/M01 A3033 RMK AO2 SLP237 T01061011 10150 20106 56003 EGKK 312350Z 18006KT CAVOK 16/13 Q1015 KCOU 312354Z 36009KT 10SM CLR 03/M07 A3040 RMK AO2 SLP297 T00331067 10089 20033 51014 EHBK 312355Z AUTO 19010KT 9999 NCD 14/09 Q1020 CYLC 311900Z 09005KT 15SM OVC016 02/M00 A2954 RMK SC8 2.2/1.0/TR/TR LASTOB/NXTOB031100Z SLP009 CYKL 010000Z AUTO 28012G19KT 9SM BKN085 OVC180 M05/M08 A2991 RMK SLP163 EGLC 312350Z AUTO 21005KT 9999 NCD 18/12 Q1015 CYLD 312300Z 01010KT 15SM SCT030 BKN090 M04/M10 A3033 RMK SC3AC2 SLP297 KDFW 312353Z 02009KT 10SM FEW250 14/03 A3031 RMK AO2 SLP260 T01440033 10194 20144 53005 KCQF 312355Z AUTO 33013G20KT 300V360 10SM CLR 19/08 A2999 RMK AO2 EGLF 312050Z 18011KT CAVOK 15/13 Q1015 CXTO 312300Z AUTO 06/05 RMK AO1 6PAST HR 3017 SLP146 P0006 T00620051 50038 CXTP 312300Z AUTO 23005KT 05/M00 RMK AO1 SOG 14 1020 SLP181 T00501002 OSDI 010000Z 26002KT 9999 FEW030 11/10 Q1014 EFTP 312350Z AUTO VRB02KT 1600 BCFZFG FEW008 M01/M01 Q1025 CYKQ 312100Z 31008KT 10SM -SHSN SCT005 OVC012 M01/M02 A3026 RMK SF3NS5 LAST OBS/NEXT 021300 UTC SLP247 CYLH 010000Z AUTO 22005KT 9SM SCT150 M06/M07 A3038 RMK SLP306 KCPR 312353Z 10007KT 10SM CLR 14/M03 A2995 RMK AO2 SLP130 T01441028 10211 20089 56009 NZWB 312339Z 28012KT 40KM NSC 22/03 Q1012 RMK VATSIM USE ONLY KCPS 312353Z 34015KT 10SM CLR 06/M06 A3035 RMK AO2 PK WND 35026/2300 SLP278 T00611056 10089 20056 53019 KBYS 312355Z AUTO 21008KT 10SM CLR 24/01 A2977 RMK AO2 SLP055 T02350008 10246 20215 402570161 57016 $ CYLJ 010000Z 07005KT 15SM SCT080 OVC220 02/M01 A2967 RMK AC4CI4 LAST OB/NXT 011200 UTC SLP069 CYMA 312300Z 23004KT 190V260 20SM FEW012 SCT018 BKN030 M03/M06 A2936 RMK SC1SC3SC3 SLP974 EFVA 312350Z AUTO 01001KT 1700 BR FEW002/// M03/M03 Q1026 R16/19//95 KCPT 312350Z AUTO 01008KT 10SM CLR 15/03 A3032 RMK AO2 NZWD 312355Z 07007KT 9999 FEW015 SCT024 BKN030 M19/M25 A2918 RMK SLP883 SN DSNT GRID N AND E FATA MORGANA GRID E GRID24007KT SDF/HDG CYLK 010000Z 17012KT 15SM OVC020 02/M01 A2949 RMK SC8 2.0/0.5/TR/2 MUCHLOOSE/LAST OBS/NXT 011500Z SLP999 CZDB 312300Z AUTO 04004KT 04/M00 RMK AO1 SLP196 T00441003 51012 ORMM 312300Z 26006KT CAVOK 16/10 Q1008 NOSIG EGMC 312350Z 19012KT CAVOK 16/11 Q1015 CYLL 312300Z 15008KT 15SM FEW160 BKN270 09/01 A2960 RMK AC2CI4 SLP047 DENSITY ALT 2300FT EGLL 312350Z 19009KT CAVOK 16/13 Q1015 EFTU 312350Z AUTO VRB02KT CAVOK M02/M02 Q1024 KCQM 312355Z AUTO 00000KT 10SM CLR M03/M07 A3047 RMK AO2 EGMD 311850Z 17017KT CAVOK 18/14 Q1017 CXTV 312300Z AUTO 01018G24KT M09/M10 RMK AO1 PK WND 02028/2203 SLP041 T10861096 53007 KCRE 312353Z 00000KT 10SM CLR 11/08 A2980 RMK AO1 SLP091 T01110083 10200 20106 53005 KDGW 312353Z AUTO 14013G21KT 10SM CLR 12/M02 A2998 RMK AO2 SLP148 T01171017 10161 20078 56012 KDHN 312353Z 34006KT 10SM FEW060 SCT075 16/08 A2996 RMK AO2 PK WND 33039/2254 RAB2254E07 SLP142 P0000 60000 T01560083 10228 20150 53015 KCPW 312353Z AUTO 22013G24KT 10SM CLR 02/M05 A3045 RMK AO2 KBZN 312356Z 20009KT 10SM CLR 18/M03 A2980 RMK AO2 SLP079 T01831033 10217 20078 55001 KCRG 312353Z 29004KT 10SM CLR 19/09 A2984 RMK AO2 SLP104 T01890089 10239 20189 53015 KBYY 312355Z AUTO 36007KT 10SM 20/05 A3017 RMK AO2 T02080048 CYKY 312300Z 15016KT 15SM FEW050 BKN260 11/02 A2963 RMK SC2CI3 SLP052 DENSITY ALT 2600FT CZCP 010000Z AUTO 05024KT 1/4SM OVC009 M05/ A2937 RMK SLP955 ORNI 312300Z 35007KT CAVOK 19/11 Q1010 NOSIG CYKZ 010000Z 03010KT 7SM -RA OVC007 04/04 A2999 RMK SC8 CIG RAG SLP162 CYMH 010000Z AUTO 23008KT 9SM CLR M01/M04 A3000 RMK SLP158 NZWK 312332Z 24010KT 35KM FEW025 17/11 Q1018 RMK NZRO VATSIM USE ONLY CZCR 010000Z AUTO 29004KT 04/M02 RMK AO1 SLP209 T00371015 51015 KDIJ 312356Z AUTO 21009KT 10SM CLR 14/M04 A2995 RMK AO2 56003 T01441044 10194 20144 SLP090 CYMJ 010000Z 14007KT 15SM FEW210 BKN250 07/00 A2983 RMK CC1CI5 LAST OBS / NXT 031000 UTC SLP123 CYNA 010000Z AUTO 29006KT 9SM CLR 01/M02 A3010 RMK SLP192 KCQT 312347Z AUTO 00000KT 10SM OVC055 21/15 A2985 RMK AO2 SLP106 T02060150 10217 20194 58013 KDHT 312353Z AUTO 16011KT 10SM CLR 13/M01 A3031 RMK AO2 SLP251 T01331011 10161 20122 58010 KDIK 312356Z AUTO 16022G32KT 10SM CLR 04/M09 A3001 RMK AO2 PK WND 16032/2348 SLP186 T00391089 10072 20028 56013 CYLT 311900Z 23002KT 15SM FEW055 SCT070 M28/M32 A3018 RMK SC1AC2 LAST OBS/NXT 031300 UTC SLP227 CXWB 312300Z AUTO 33003KT M17/M19 RMK AO1 T11691190 EFUT 312350Z AUTO 35004KT 9999 SCT007 M01/M01 Q1023 CYLU 312100Z 24010G15KT 8SM -SN SCT010 OVC015 M01/M02 A2967 RMK SC4SC4 PRESRR/LAST OBS/NEXT 011200UTC/VIA CZNB SLP052 CYNC 311900Z 05006KT 2SM -SHSN BKN015TCU BKN030 M01/M03 A3022 RMK TCU5SC2 SLP234 EGNC 311750Z 19012KT 130V220 9999 SCT028 17/13 Q1006 NZWN 010000Z AUTO 01025KT 9999 NCD 16/07 Q1014 NOSIG EHDL 312355Z AUTO 15005KT 9999 FEW120 12/11 Q1020 BLU TXKF 312355Z 17008KT 9999 FEW010 SCT300 24/23 Q1011 RMK WND EST  CYND 010000Z 03007KT 15SM SCT120 BKN230 04/M03 A3010 RMK AC4CI3 SLP195 CXVM 312300Z AUTO 06001KT 10/03 RMK AO1 T00970026 CYMM 010000Z AUTO 13004KT 5SM -RA BR FEW018 OVC070 02/02 A2965 RMK SLP061 KCQW 312355Z AUTO 00000KT 10SM CLR 10/08 A2979 RMK AO2 NZWP 312300Z 20012KT 30KM FEW020 BKN023 19/14 Q1021 RMK NZAA VATSIM USE ONLY CXVN 312300Z AUTO 11003KT 07/06 RMK AO1 2PAST HR 3015 SLP132 P0001 T00730055 50007 CYNE 010000Z AUTO 18011G22KT 9SM FEW240 02/M03 A3015 RMK SLP224 CYLW 010000Z AUTO 24004KT 9SM FEW055 OVC100 10/09 A2973 RMK PRESRR PCPN 0.5MM PAST HR SLP073 KCQX 312352Z AUTO 06011G19KT 10SM OVC055 11/04 A2997 RMK AO2 SLP151 T01060039 10117 20106 58001 CYMO 010000Z AUTO 28005KT 9SM CLR M03/M06 A3037 RMK SLP284 KCSG 312351Z 36004KT 10SM CLR 16/04 A2992 RMK AO2 SLP129 T01560044 10211 20156 50010 KCRP 312351Z 01007KT 10SM FEW170 SCT250 22/11 A3017 RMK AO2 SLP214 T02170111 10272 20217 53006 NZWR 312300Z 20012KT 30KM FEW020 BKN023 19/14 Q1021 RMK NZAA VATSIM USE ONLY KCRQ 312353Z AUTO 24005KT 10SM OVC055 20/14 A2987 RMK AO2 SLP113 T02000139 10211 20200 58004 NZWS 312300Z 03004KT 15KM SKC 13/09 Q1018 RMK ALT VATSIM USE ONLY EHEH 312355Z AUTO 15005KT 9999 NCD 11/10 Q1019 BLU EFVR 312350Z AUTO 32003KT 7000 SKC M04/M04 Q1024 KCRS 312353Z AUTO 01007KT 10SM CLR 16/03 A3030 RMK AO2 SLP257 60000 T01610033 10206 20161 53010 NZWU 312142Z 26015KT 20KM BKN028 15/08 Q1018 RMK NZOH VATSIM USE ONLY CZFA 312200Z 00000KT 30SM FEW014 SCT035 BKN044 BKN085 M03/M03 A2930 RMK ST1SC3SC2AC1 CLIMAT -2.3/-4.4/TRCM/TRMWE LAST STFD OBS/NEXT 011400UTC SLP963 CYOA 312300Z 15020KT 2SM BR BLSN OVC004 M02/M02 A2939 RMK ST8 -1.9/-4.2/TR/32/MUCH LOOSE SLP989 EGNJ 312350Z AUTO 18014KT 9999 NCD 15/13 Q1010 KCTB 312356Z AUTO 15007KT 10SM CLR 12/03 A2972 RMK AO2 SLP073 T01170028 10144 20050 53005 KDKB 312355Z AUTO 36011G20KT 10SM OVC050 01/M08 A3035 RMK AO2 T00121080 10035 20012 CYMT 010000Z 34003KT 15SM BKN030 M03/M05 A3017 RMK CU6 SLP240 CYMU 312100Z 32010G17KT 5SM -SHSN BKN013 OVC025 M02/M03 A3007 RMK ST6SC2 LASTOBS/NEXT 01 1200Z SLP188 CYOC 010000Z 04015G25KT 1SM -SN BLSN VV016 M10/M13 A2967 RMK SN8 VIS VRB 3/4-1 1/4 SLP072 CZEL 010000Z AUTO 05011G18KT 04/03 RMK AO1 8PAST HR 3019 PK WND 05018/2355 SLP151 P0003 T00420034 50030 KCSM 312353Z 04005KT 10SM CLR 09/M02 A3040 RMK AO2 SLP293 T00941022 10150 20094 53000 CZEM 312000Z 32006KT 15SM FEW035 BKN070 00/M03 A3023 RMK SC2AC2 LAST OBS/NEXT 021400 UTC SLP238 CXWM 312300Z AUTO 15013KT 14/03 RMK AO1 T01390027 CYOD 010000Z 09004KT 15SM BKN100 OVC250 07/02 A2965 RMK AC6CI2 SLP061 CYNM 010008Z AUTO 34013G22KT 310V020 9SM BKN014 OVC019 M02/M04 A3025 RMK ICG MISG SLP261 EGNM 312350Z 20010KT 160V250 9999 FEW025 16/13 Q1008 KCRW 312354Z 22003KT 5SM -RA BR BKN013 OVC028 06/05 A2987 RMK AO2 SLP120 VLY FG P0003 60014 T00610050 10094 20061 51006 EHDV 312355Z AUTO 17027KT 9999 NCD 16/13 Q1012 EHFD 312355Z AUTO 19027KT 9999 NCD 16/13 Q1014 CXVW 312300Z AUTO 20006KT 06/01 RMK AO1 T00620011 CXWN 010000Z AUTO 23002KT 01/M07 RMK AO1 SLP285 T00111074 56022 KCRX 312355Z AUTO 34013KT 10SM CLR 08/M04 A3020 RMK AO2 EGNO 311720Z 16010KT CAVOK 17/14 Q1008 CYMX 010000Z VRB02KT 25SM FEW040 BKN120 OVC200 03/M03 A3011 RMK SC1AC5CI3 SC TR SLP200 KEBG 312355Z AUTO 03004KT 10SM CLR 23/14 A3019 RMK AO2 T02260141 10267 20226 KCSQ 312355Z AUTO 01007KT 10SM CLR 01/M08 A3045 RMK AO2 UNTT 010000Z 22007MPS 9999 SCT009 BKN016CB OVC066 01/00 Q1018 NOSIG RMK QFE748 21590132 KEAR 312355Z 10008KT 10SM CLR 01/M10 A3039 RMK AO1 10060 20010 401101030 57017 EGNR 312050Z 15009KT 9999 FEW031 18/14 Q1008 KCTJ 312355Z AUTO 31006KT 10SM SCT016 BKN027 OVC049 10/09 A2996 RMK AO2 CYPA 010000Z 17012G17KT 15SM SCT170 BKN230 04/M01 A2979 RMK AC3CI4 SLP110 CYOJ 010000Z 17004KT 15SM SCT260 04/01 A2955 RMK CI4 SLP022 KDKK 312353Z AUTO 08004KT 9SM -RA OVC048 06/05 A2993 RMK AO2 SLP138 P0001 60003 T00610050 10094 20061 53014 EGNS 312350Z 21011KT 9999 FEW015 OVC029 14/13 Q1006 EGPA 312350Z AUTO 24005KT 9000 FEW021/// SCT026/// 13/11 Q1000 KCUB 312353Z AUTO 00000KT 10SM CLR 14/09 A2979 RMK AO2 SLP088 60000 T01390094 10206 20139 57001 KEAT 312355Z AUTO 00000KT 3SM BR SCT004 12/10 A2976 RMK AO2 SLP078 60001 T01170100 10128 20111 51020 EGNT 312350Z 19014G25KT 150V220 9999 SCT047 16/13 Q1004 EGPB 312350Z AUTO 18014KT 4000 BR BKN009/// BKN012/// 12/12 Q1000 KEAU 312356Z 36004KT 10SM CLR M01/M08 A3048 RMK AO2 SLP334 T10061083 10050 21006 53006 CYPC 312300Z 06022G28KT 1/2SM -SN BLSN OVC015 M06/M07 A2934 RMK BLSN5SC3 -5.7/-8.2/0.6 11 MUCH LOOSE LAST OB/NEXT 011300Z SLP936 ZUGY 010000Z 02003MPS 9999 BKN016 OVC033 13/12 Q1019 NOSIG EGPC 312350Z AUTO 31005KT 7000 -DZ SCT023/// SCT033/// 12/11 Q1000 KCSV 312353Z AUTO 32011G20KT 10SM FEW014 BKN021 OVC049 02/M01 A3001 RMK AO2 SNE32 SLP167 P0000 60005 T00221006 10089 20011 51027 CZFM 312300Z 34011G21KT 1/2SM BLSN OVC010 M07/M08 A2965 RMK SC8 -7.4/-8.9/2.0/40 MUCH LOOSE LAST OBS/NEXT 011300Z SLP043 EGNV 312150Z 17015KT CAVOK 16/13 Q1007 CZEV 312300Z AUTO 36015G23KT M08/M10 RMK AO1 2PAST HR SOG 16 2012 PK WND 01029/2231 SLP038 P0001 T10811095 50007 EGOM 312350Z AUTO 26015KT 8000 -SHRA BKN002/// 12/12 Q1005 CYPD 010000Z AUTO 03004KT 9SM FEW190 SCT210 OVC230 03/00 A3012 RMK SLP203 EGPD 312350Z 18017KT 5000 -RADZ FEW009 SCT016 BKN021 15/13 Q1000 CZFN 312300Z 27022G31KT 20SM BLSN SCT015 OVC090 M08/M11 A2936 RMK SC4AC4 SLP953 CYPE 010000Z 30007KT 15SM BKN080 BKN250 05/00 A2962 RMK AC6CI1 SLP056 EGPE 312350Z AUTO 00000KT 9999 -DZ BKN031/// 12/12 Q1001 KDLF 312358Z AUTO VRB02KT 10SM CLR 25/05 A3022 RMK AO2 SLP223 T02470046 10269 20247 402690172 56001 $ CYOO 010000Z AUTO 04008KT 9SM -RA SCT019 OVC028 04/03 A2999 RMK SLP160 EGNX 312350Z 19015KT 9999 SCT019 16/14 Q1011 EGPF 312350Z AUTO 21012KT 9999 BKN009/// //////TCU 13/12 Q1003 KECG 312354Z 35008KT 10SM OVC035 14/06 A2980 RMK AO2 SLP092 T01390061 10178 20139 51005 CYPG 312200Z 16014G19KT 15SM BKN220 04/M10 A3034 RMK CI2 LAST OBS/NEXT 031200 UTC SLP289 EGOP 312350Z AUTO 22018KT 8000 // FEW008/// BKN012/// BKN090/// 14/13 Q1011 EHGG 312355Z AUTO 18006KT 9999 NCD 13/12 Q1019 KDLH 312355Z 00000KT 10SM CLR 00/M11 A3045 RMK AO2 SLP336 T00001106 10033 20000 50000 $ KCUH 312355Z AUTO 04003KT 10SM CLR 07/M01 A3040 RMK AO2 CXYH 312300Z AUTO 23005KT 06/M05 RMK AO1 PK WND 23018/2240 SLP940 T00561047 53006 CYPH 010000Z AUTO 34008KT 9SM -SN BKN027 OVC050 M04/M07 A3005 RMK SLP177 EGPH 312350Z 23010KT 9999 NSC 14/12 Q1003 KDKR 312355Z AUTO 34004KT 10SM CLR 16/08 A3027 RMK AO2 KEBS 312355Z AUTO 34005KT 10SM CLR M01/M08 A3045 RMK AO2 KDMA 312358Z AUTO 20011KT 10SM CLR 31/08 A2988 RMK AO2 SLP076 T03070083 10321 20281 57009 $ EGPI 312350Z AUTO 21010KT 9999 NCD 12/10 Q1003 EGQA 311150Z 00000KT 9999 -RA FEW016 FEW040 BKN110 15/// Q1004 BLU CZFS 312300Z AUTO 20007KT 04/M01 RMK AO1 SLP948 T00411006 53012 EGOS 312350Z AUTO 23007KT 9999 -SHRA FEW015/// SCT019/// BKN050/// 15/13 Q1010 CYQA 010006Z AUTO 02005KT 330V060 1 1/2SM -SN SCT009 OVC020 01/00 A3006 RMK ICG INTMT SLP192 KCVB 312355Z AUTO 02005KT 10SM CLR 21/04 A3025 RMK AO2 T02100042 10255 20210 EHFS 312355Z AUTO 18010KT 9999 NSC 14/12 Q1018 CYQB 010000Z 06008KT 15SM FEW038 OVC058 05/M00 A3013 RMK SC1SC8 SC TR SLP206 EGPK 312350Z 20010KT 9999 SCT025 13/11 Q1004 KCUL 312355Z AUTO 32022G29KT 10SM OVC055 07/M03 A3023 RMK AO2 T00671026 10085 20066 KCVC 312355Z AUTO 30006KT 10SM SCT110 13/06 A2988 RMK AO2 KEDC 312355Z AUTO 02011G15KT 10SM CLR 18/04 A3025 RMK AO2 KDLL 312355Z AUTO 36008KT 330V030 10SM CLR 01/M09 A3041 RMK AO2 T00081088 10038 20008 CYPL 010000Z 18003KT 170V230 15SM FEW025 M05/M07 A3040 RMK SC1 SLP322 CXZC 010000Z AUTO 28003KT M03/M06 RMK AO1 SLP283 T10301058 51016 EGPL 312350Z AUTO 21012KT 9999 FEW018/// 12/10 Q0999 CYQD 010000Z 15020G25KT 15SM -RA OVC032 02/M04 A2997 RMK SC7 PCPN VRY LGT SLP165 EGPM 312350Z AUTO 19018KT 6000 BKN008/// 13/12 Q0998 VGEG 311750Z 36003KT 5000 HZ FEW100 25/22 Q1009 NOSIG KDLN 312353Z AUTO 17015KT 10SM CLR 17/M05 A2979 RMK AO2 SLP062 T01721050 10206 20133 56004 EGOV 312350Z AUTO 20019KT 9999 -SHRA FEW036/// BKN100/// 14/13 Q1008 KEDE 312355Z AUTO 01005KT 10SM SCT060 12/06 A2981 RMK AO2 T01150062 10181 20115 EGPN 312020Z 17008KT 130V200 9999 SCT025 BKN045 16/14 Q1002 CYOW 010000Z 02011KT 15SM FEW058 BKN110 OVC220 05/M03 A3009 RMK SC2AS5CI1 SLP193 CYQF 010000Z 30007KT 15SM BKN130 04/01 A2964 RMK AC7 SLP064 KCTY 312353Z AUTO 27003KT 14/10 A2989 RMK AO1 SLP119 T01440100 10244 20144 53017 KCVG 312352Z 30011KT 10SM BKN018 OVC041 04/01 A2997 RMK AO2 SLP149 60006 T00390011 10056 20039 51011 VISNO 36R $ EGPO 312350Z AUTO 21010KT 9999 NCD 11/08 Q0999 KECP 312353Z 25005KT 10SM BKN070 17/11 A2992 RMK AO2 SLP142 T01720106 10239 20172 53013 CYQG 010000Z 35022G30KT 8SM -RASN FEW012 OVC020 03/01 A3000 RMK SF2SC6 SLP163 CYOY 010000Z AUTO 00000KT 9SM BKN036 OVC049 03/M01 A3011 RMK SLP204 KCVH 312355Z AUTO 05004KT 3SM SCT001 BKN008 OVC017 15/15 A2980 RMK AO1 P0021 KDMH 312354Z AUTO 12/01 A2987 RMK AO1 SLP114 T01170011 10133 20117 58002 KCTZ 312355Z AUTO 00000KT 10SM CLR 11/09 A2981 RMK AO2 T01140087 10188 20114 CYQH 312300Z 17008KT 30SM BKN030 03/M05 A2944 RMK SC6 SLP001 CYPQ 010000Z AUTO 05008KT 5SM -RA BR OVC010 03/03 A3002 RMK PCPN 0.8MM PAST HR SLP173 EHFZ 312355Z AUTO 19031KT 9999 NCD 16/13 Q1015 CYQI 010000Z 07004KT 15SM SCT045 OVC100 09/07 A3004 RMK SC4AC4 SLP173 EHGR 312355Z AUTO 18009KT 9999 NCD 13/11 Q1019 BLU CYPR 010000Z AUTO 15004KT 9SM CLR 09/05 A2974 RMK SLP072 KDLS 312353Z AUTO 28007KT 10SM CLR 13/07 A2982 RMK AO2 SLP100 T01280072 10150 20128 53004 KEDJ 312350Z AUTO 35018G28KT 5SM BKN009 OVC014 03/03 A2995 RMK AO1 P0001 KCWA 312345Z 35007KT 10SM SCT039 M01/M07 A3043 KECS 312355Z AUTO 12015G21KT 10SM CLR 08/M01 A3002 RMK AO2 CYRA 010000Z CCA 19005KT 160V230 15SM BKN006 OVC008 01/00 A2926 RMK ST6SC2 1.3/0/4.0/2.0 MEDIUM PACK CIG RAG LWR SE LAST OB/NXT 011500Z SLP921 KCUT 312353Z AUTO 19005KT 10SM CLR 04/M02 A3006 RMK AO2 SLP199 T00391022 10072 20039 56011 EGQK 312350Z AUTO 22003KT 9999 -RA BKN070/// 13/12 Q1000 CYRB 312300Z 13021KT 10SM DRSN FEW013 FEW130 M16/M19 A3002 RMK SC0AC1 SLP176 CYQK 010000Z 19007KT 15SM FEW230 M01/M05 A3040 RMK CI2 SLP321 KCWC 312355Z AUTO 01006KT 10SM CLR 14/00 A3035 RMK AO2 T01421002 10170 20142 KECU 312350Z AUTO 00000KT 10SM CLR 19/00 A3030 RMK AO2 CYQL 010000Z 27009G18KT 40SM FEW080 SCT180 BKN270 14/03 A2965 RMK AC1AC2CI2 SLP050 DENSITY ALT 3900FT EGQL 312350Z 23014KT 9999 OVC040 14/12 Q1002 BLU KEED 312356Z AUTO 21012KT 10SM CLR 31/M01 A2973 RMK AO2 SLP039 T03111011 10328 20256 56015 EGPU 312350Z AUTO 22014KT 290V350 9999 FEW019/// 12/10 Q1001 CYQM 010000Z 08005KT 15SM OVC063 05/M01 A3011 RMK SC8 SLP199 KDMN 312353Z AUTO 10010KT 10SM CLR 21/08 A3016 RMK AO2 SLP161 T02060078 10233 20194 58005 KCVN 312355Z AUTO 15008KT 10SM CLR 13/M01 A3036 RMK AO1 10170 20130 401700020 57007 EGQM 312350Z AUTO 17012KT 9999 SCT034/// BKN044/// 16/14 Q1004 KEDN 312355Z AUTO 31003KT 10SM SCT065 SCT080 BKN100 14/11 A2993 RMK AO2 CYPW 010000Z VRB02KT 25SM FEW012 FEW030TCU FEW120 FEW270 10/09 A2982 RMK SF1TCU1AC2CI1 SF TR TCU TR CI TR SLP098 KDMO 312353Z AUTO 33006KT 10SM CLR 03/M07 A3042 RMK AO2 SLP308 60000 T00331072 10083 20033 51005 KCVO 312355Z AUTO 16004KT 10SM CLR 14/09 A2984 RMK AO1 10160 20120 401600110 54000 KCWF 312150Z 35013KT 10SM SKC 22/07 A3012 CYPX 312300Z 31017KT 15SM -SN OVC025 M03/M05 A2996 RMK SC8 SLP148 CYPY 010000Z AUTO 13003KT 9SM SCT100 BKN150 03/01 A2960 RMK SLP038 KDLZ 312356Z AUTO 33010G15KT 10SM DZ SCT009 BKN013 OVC020 03/02 A2991 RMK AO2 CYQQ 010000Z 20002KT 20SM FEW020 SCT065 SCT120 BKN220 10/09 A2981 RMK CU1SC2AC1CI1 TCU ASOCTD SLP096 KCWI 312355Z 01005KT 10SM CLR 00/M08 A3043 RMK AO1 10060 20000 400800000 52020 CYQR 010000Z 14018G25KT 15SM BKN240 05/M02 A2988 RMK CI7 SLP147 KCVS 312358Z AUTO 15008KT 10SM CLR 14/00 A3033 RMK AO2 SLP255 T01360002 10180 20136 56005 $ CYRJ 010000Z 29005KT 25SM BKN045 01/M04 A3017 RMK SC7 SLP226 EGQS 312350Z 23005KT 8000 -RA FEW018 OVC050 13/12 Q1000 BLU EHJA 312355Z AUTO 17026KT 9999 NCD 16/14 Q1014 OTBD 312300Z 12010KT CAVOK 29/23 Q1010 NOSIG CYSB 010000Z 36017G26KT 15SM DRSN BKN021 M03/M06 A3023 RMK SC7 SLP257 CYQT 010000Z 25004KT 15SM SKC M03/M07 A3049 RMK SLP340 KDNL 312353Z AUTO 29009G16KT 10SM FEW100 18/06 A2982 RMK AO2 SLP096 T01780056 10222 20178 53008 KEDU 312355Z AUTO 23003KT 10SM 14/13 A2978 RMK AO1 CYRL 010000Z 16005KT 15SM FEW120 SCT200 M01/M07 A3038 RMK AC2CI1 SLP314 EGSC 311950Z 15012KT CAVOK 16/12 Q1014 CXZU 010000Z AUTO 05/03 RMK AO1 SLP072 T00540027 53011 CYQU 010000Z VRB02KT 25SM OVC100 03/01 A2965 RMK AC8 SLP070 CYSC 010009Z AUTO 05004KT 9SM CLR 02/M02 A3006 RMK SLP190 KEFD 312150Z 33012KT 10SM FEW250 24/07 A3015 EGSD 311950Z 19007KT CAVOK 17/14 Q1015 CXZV 010000Z AUTO 35003KT M01/M05 RMK AO1 SLP205 T10071048 51024 CYQV 010000Z AUTO 15012G18KT 9SM BKN200 01/M06 A2999 RMK SLP184 KEEN 312355Z AUTO 00000KT 10SM BKN050 OVC065 08/M01 A3001 RMK AO1 10090 20070 400900020 52010 KCWN 312356Z AUTO VRB02KT 10SM BKN210 07/M02 A3019 RMK AO2 SLP224 T00661023 10079 20039 57006 KDMW 312355Z AUTO 00000KT 10SM OVC050 09/01 A2987 RMK AO2 KCVW 312355Z AUTO 01015G22KT 10SM CLR 20/08 A3016 RMK A01 KCXE 312355Z AUTO 00000KT 10SM OVC060 10/09 A2982 RMK AO1 T01010086 10150 20101 KDNN 312355Z AUTO 32016G29KT 10SM RA SCT020 SCT026 OVC031 07/06 A2998 RMK AO2 KEDW 312358Z 24020G26KT 30SM FEW040 BKN200 BKN250 18/10 A2979 RMK AO2A PK WND 24030/40 SLP079 T01750095 10217 20175 57014 CYQW 010000Z AUTO 12011KT 9SM FEW150 SCT170 06/02 A2968 RMK SLP072 KEEO 312353Z AUTO 28003KT 10SM CLR 14/M02 A3010 RMK AO2 SLP159 T01391022 10206 20139 56004 KCVX 312355Z AUTO 01018G28KT 10SM OVC038 01/M06 A3037 RMK AO2 T00121056 10016 20009 CYQX 010007Z 21005KT 20SM FEW260 02/M01 A3009 RMK CI1 SLP194 CYSF 010000Z AUTO 15005KT 9SM OVC024 02/M02 A2972 RMK SLP080 CZHY 312300Z AUTO 21012KT 05/01 RMK AO1 PK WND 22017/2200 SLP974 T00460007 53003 CYQY 010000Z 27003KT 15SM SCT220 00/M01 A3013 RMK CC3 SLP206 CYRQ 010000Z AUTO 01004KT 9SM OVC048 03/M03 A3013 RMK SLP205 CYQZ 010000Z AUTO 29004KT 220V300 9SM BKN085 08/06 A2972 RMK SLP078 EGSH 312350Z AUTO 18005KT 150V230 2700 HZ NCD 14/12 Q1014 KDPA 312352Z 36017G25KT 10SM BKN055 02/M07 A3031 RMK AO2 PK WND 34028/2253 SLP271 T00221072 10056 20022 51026 KDNS 312355Z AUTO 00000KT 10SM CLR 01/M09 A3045 RMK AO2 OSKL 311400Z 10006KT 9999 SCT026 BKN100 18/11 Q1011 CYSJ 010000Z 03005KT 15SM -SHRA FEW030 OVC044 06/04 A3009 RMK SC2SC6 SLP193 KEET 010000Z AUTO 33013G20KT 10SM FEW026 BKN031 BKN041 12/08 A3004 RMK AO2 T01170078 KEFK 312355Z AUTO 36006KT 10SM CLR 03/M02 A3005 RMK AO2 T00261016 10076 20026 ORSU 010000Z 13006KT 7000 SCT045 SCT080 11/11 Q1014 CYSK 312200Z 31009KT 10SM VCSH FEW012 BKN014 M03/M05 A3013 RMK SC2SC2 -1.1/-3.1/M/M LAST OBS/NEXT 031300UTC SLP206 CYRT 010000Z 07008KT 2SM BR OVC001 M09/M10 A3014 RMK ST8 SLP212 EGTC 311750Z 17013KT CAVOK 17/14 Q1014 KCWV 312355Z AUTO 27003KT 10SM OVC110 15/11 A2983 RMK AO2 KDNV 312355Z AUTO 35024G31KT 10SM SCT029 SCT035 BKN042 03/M03 A3019 RMK AO2 T00261027 10057 20025 CYRV 010000Z AUTO 00000KT 5SM -RA BR SCT003 BKN009 OVC018 08/07 A2971 RMK SLP072 CYSM 312300Z 16008KT 15SM OVC015 02/00 A2956 RMK SC8 SLP023 EHKD 312355Z AUTO 17008KT 9999 NCD 13/11 Q1017 BLU KEGE 312350Z 230005KT 10SM SCT120 16/M04 A3013 CYSN 010000Z 05002KT 5SM -SHRA BR OVC029 07/06 A2995 RMK SC8 SLP143 EGTE 312350Z 19008KT 9999 FEW010 SCT028 16/14 Q1013 CYTE 010000Z AUTO 34010G17KT 300V360 9SM OVC013 M02/M04 A2981 RMK SLP098 KCXO 312353Z 34007KT 10SM CLR 18/07 A3021 RMK AO2 RAB19E33 SLP229 P0000 60000 T01780067 10250 20178 53016 KCXP 312355Z AUTO 28009KT 10SM CLR 16/00 A2971 RMK AO2 CYSP 312100Z 03005KT 15SM SCT008 BKN013 M02/M06 A3040 RMK SC3SC4 LAST OBS/NEXT 011200UTC SLP315 CYTH 010000Z 18008KT 15SM FEW150 BKN250 01/M05 A3005 RMK AC1CI5 SLP192 KEGI 312355Z 28005KT 10SM SCT065 17/09 A2993 RMK AO2A SLP138 T01740087 10233 20174 53015 $ EHJR 312355Z AUTO 17027G30KT //// ///////// 17/14 Q1015 W16/H14 OSLK 010000Z 03008KT 8000 RA SCT026 CB BKN030 15/13 Q1012 KEHA 312348Z AUTO 13009KT 09/M03 RMK AO1 PK WND 16 000 T00941027 CYUA 010000Z AUTO 36015G20KT 1SM -SN OVC021 M09/ A2977 RMK SLP087 EGSS 312350Z 17008KT CAVOK 13/12 Q1015 KEFT 312355Z AUTO 35009G14KT 10SM CLR 00/M07 A3038 RMK AO2 EGTK 312220Z 16008KT CAVOK 14/14 Q1013 CYUB 010000Z 35017G27KT 4SM -SN DRSN OVC020 M10/M13 A2968 RMK SN4SC4 OCNL BLSN SLP053 EGUB 312350Z AUTO 16011KT 9999 // NCD 16/14 Q1013 KDPL 312355Z AUTO 00000KT 10SM CLR 09/07 A2982 RMK AO2 T00920066 10183 20092 KEHC 312355Z AUTO 36024G29KT 10SM CLR 23/09 A3009 RMK A01 CYTL 010000Z AUTO 25008G16KT 9SM CLR M02/M05 A3030 RMK SLP280 KDOV 312358Z AUTO 35008KT 10SM OVC045 10/05 A2983 RMK AO2 SLP105 T00990045 10127 20099 57007 KCXY 312356Z 00000KT 10SM OVC060 09/02 A2988 RMK AO2 SLP121 T00890022 10122 20083 50002 CYSY 312300Z 01023KT 8SM DRSN BKN020 M13/M15 A2960 RMK SC7 0.0/4.0/ MED PACK LAST OBS/NEXT 011300Z SLP034 KDQH 312355Z AUTO 30003KT 10SM BKN075 18/05 A2988 RMK AO2 VGHS 312350Z 00000KT 3500 HZ FEW100 21/18 Q1010 NOSIG CYTQ 312100Z 28015G20KT 12SM -SN SCT017 BKN080 BKN220 M02/M05 A2972 RMK SC4AC3CI1 LAST OBS/NEXT 011200Z SLP068 CYTR 010000Z 05006KT 12SM -RA OVC032 05/04 A3001 RMK SC8 SLP168 KCYS 312353Z 20010KT 10SM CLR 08/M02 A3013 RMK AO2 SLP196 T00781017 10111 20056 56008 CYTS 010000Z 30006KT 15SM -SN SCT053 M06/M08 A3033 RMK SC4 SLP291 EHMA 312355Z AUTO 19021KT 9999 NCD 14/12 Q1018 EGVA 312358Z AUTO 18011KT 9999 BKN040 16/15 A2989 RMK AO2 SLP123 P2400 614400 T01640145 10166 20155 402170122 58007 EICK 010000Z 23009KT 9999 FEW020 09/09 Q1009 NOSIG CYVC 010000Z 15013KT 15SM BKN090 OVC250 02/M01 A2978 RMK AC6CI2 SLP106 CYUL 010000Z 05010KT 15SM SCT110 BKN210 05/M03 A3011 RMK AS3CI4 SLP196 EGUL 312358Z AUTO 17008KT 9999 CLR 15/15 A2993 RMK AO2 SLP138 T01540154 10174 20153 402160138 57003 KEGV 312355Z AUTO 35006KT 10SM OVC031 M02/M07 A3043 RMK AO2 T10211070 10000 21021 CZMD 010000Z AUTO 22009KT 9SM FEW120 M02/M05 A3031 RMK TS/LTNG TEMPO UNAVBL SLP285 EHKV 312355Z AUTO 20025KT 9999 NCD 17/14 Q1015 KEHO 312355Z AUTO 01004KT 7SM -RA SCT036 BKN050 OVC070 09/08 A2980 RMK AO2 P0011 60022 T00940084 10152 20092 EGUN 312358Z AUTO 15007KT 9999 CLR 15/12 A2994 RMK AO2 SLP142 T01500115 10173 20145 402190130 55002 EGUO 311550Z 18008KT CAVOK 18/14 Q1014 BLU EHMG 312355Z AUTO 20028KT 9999 NCD 16/12 Q1016 CYTZ 010000Z AUTO 05013G18KT 7SM -RA OVC011 06/05 A2997 RMK PCPN 1.2MM PAST HR SLP152 KEHR 312355Z AUTO 31022G26KT 10SM OVC055 06/M04 A3019 RMK AO1 10090 20050 52017 KDRI 312355Z AUTO 35004KT 10SM SCT060 16/08 A3020 RMK AO2 T01640080 10226 20163 CZMJ 010000Z AUTO 14010KT 06/M01 RMK AO1 PK WND 15018/2309 SLP126 T00631007 58012 CYUS 010000Z AUTO 12013KT 9SM CLR M22/ A3011 RMK SLP203 CYWA 010000Z AUTO 01009KT 9SM -SN SCT015 OVC041 02/M03 A3014 RMK SLP213 KEIK 312355Z AUTO 00000KT 10SM CLR 09/M01 A3012 RMK AO2 T00911009 10128 20075 KCZT 312355Z AUTO 00000KT 10SM CLR 22/09 A3021 RMK AO2 CYUT 312200Z 35022KT 8SM DRSN SKC M17/M20 A3016 RMK -15.9/-17.8/TR/1.0 MUCH LOOSE LAST OBS/NXT 011400Z SLP215 EIDL 311900Z 21006KT 9999 SCT022 SCT028 12/11 Q1004 KDRM 312355Z AUTO 02009G16KT 10SM OVC033 M01/M06 A3033 RMK AO2 T10101062 10010 21010 CYVM 010000Z AUTO 06002KT 9SM -SN OVC007 M02/M02 A3000 RMK SLP161 EHLW 312355Z AUTO 18007KT 9999 NCD 13/11 Q1018 BLU CYWE 010004Z AUTO 19015G22KT 5SM -SN OVC005 00/M00 A2929 RMK SLP943 KDRO 312353Z AUTO 16004KT 10SM FEW075 15/M02 A3020 RMK AO2 SLP205 T01501017 10183 20133 56011 EGUW 312350Z AUTO 18010KT 9999 NCD 14/11 Q1014 EGVN 312350Z 19008KT 9999 FEW020 16/14 Q1012 BLU TEMPO SCT020 WHT KFAF 312358Z AUTO 04002KT 10SM CLR 10/04 A2982 RMK AO2 SLP101 T01040040 10156 20104 53003 $ CYUX 010000Z 36015KT 9SM IC DRSN FEW008 M12/M13 A3014 RMK SF1 -10.2/-11.9/TR/0 TRACE LOOSE LST STFD OB/NXT 011200Z SLP207 CYVO 010000Z 35010KT 5SM -SN SCT010 OVC014 M02/ A3021 RMK SF4SC4 SLP252 EGVO 312350Z 17009KT CAVOK 16/13 Q1014 BLU KEHY 312355Z AUTO 24008KT 10SM CLR 13/M07 A3006 RMK AO2 EGUY 311550Z 16010KT CAVOK 20/14 Q1014 BLU EGVP 312350Z AUTO 20011KT 9999 // NCD 16/15 Q1014 CYWG 010000Z 16014KT 15SM SCT140 BKN210 01/M07 A3035 RMK AC3CI3 SLP293 CYUY 010000Z 35008KT 10SM -SHSN FEW015 BKN050 BKN090 M02/M04 A3026 RMK SC1SC5AS1 SLP264 CYVP 010000Z 26007KT 5SM -SN DRSN SCT025 OVC060 M03/M05 A2979 RMK SC3SC5 SLP090 KCZZ 312352Z AUTO 23012KT 17/12 A2989 RMK AO1 SLP104 T01720117 10200 20161 53003 CYWH 010000Z 17005KT 15SM FEW015 FEW030 SCT060 12/09 A2983 RMK CF1CU2SC2 SLP100 CYVQ 010000Z 29013G21KT 25SM -SN DRSN FEW015 SCT040 BKN080 BKN250 M08/M10 A2942 RMK SC1SC2AC3CI1 /S01/ SLP969 KEIR 312355Z AUTO 01025KT 10SM 23/09 A3008 RMK A01 CYVR 010000Z VRB02KT 20SM FEW008 BKN058 11/10 A2982 RMK CF1SC6 TCU TOP NE SLP099 KDTA 312355Z AUTO 24011G20KT 10SM CLR 22/M03 A2986 RMK AO1 T02171034 10351 21033 CYWJ 312300Z 28015G23KT 1 1/2SM -SN FEW006 BKN020 OVC080 M09/M11 A2924 RMK ST2SC4AC2 -0.4/-10.0/0.6/14 MUCH LOOSE LAST OB/NEXT 011300UTC SLP920 KDRT 312353Z AUTO 00000KT 10SM CLR 24/05 A3021 RMK AO2 SLP215 T02440050 10278 20244 56002 CZMT 010000Z 21006G15KT 160V250 15SM -SHRA FEW006 SCT015 BKN030 BKN080 OVC200 08/05 A2973 RMK CF1SC3SC1AC1CI2 SLP066 CYVT 010000Z 14006KT 12SM -SN OVC012 03/00 A2968 RMK SC8 SLP072 CYWK 010000Z 29004KT 15SM SCT030 BKN037 M04/M09 A3002 RMK SC3SC2 SLP199 KH21 312355Z AUTO 32006KT 10SM CLR 03/M07 A3039 RMK AO2 CZMU 312300Z AUTO 33005KT 06/03 RMK AO1 T00570027 CYWL 010000Z CCA 32010KT 15SM -RA FEW007 BKN010 03/02 A2973 RMK SF1SC6 SLP090 CYXC 010000Z VRB10KT 25SM FEW020 BKN060 BKN090 12/06 A2972 RMK SF1SC4AC2 SLP075 DENSITY ALT 3600FT KDSM 312354Z 01005KT 10SM FEW250 03/M08 A3046 RMK AO2 SLP325 T00331083 10067 20033 50003 KFAM 312355Z AUTO 32010G20KT 10SM CLR 04/M08 A3033 RMK AO1 52017 EGXC 312350Z 18009KT CAVOK 14/12 Q1011 BLU CYXD 010000Z AUTO 32007KT 5SM OVC007 OVC086 OVC095 04/03 A2964 RMK SLP060 CYVV 010000Z 03014G28KT 330V060 2SM -RASN BR OVC007 01/00 A3011 RMK FG2SF6 SLP206 EGXD 312350Z AUTO 18016KT 9999 // FEW044/// 16/13 Q1007 EGXE 312350Z AUTO 17012KT 9999 SCT034/// 16/14 Q1006 CYXE 010000Z 13010KT 15SM FEW170 BKN250 06/01 A2973 RMK AC2CI4 SLP090 EIDW 010000Z 22011KT 9999 -RA SCT010 SCT025 BKN050 13/11 Q1007 NOSIG KFBG 312358Z AUTO 00000KT 10SM FEW070 SCT140 12/08 A2980 RMK AO2 SLP094 T01170082 10188 20115 50000 $ CYXH 010000Z 22010KT 30SM FEW170 BKN280 13/03 A2964 RMK AC1CI6 SLP044 DENSITY ALT 2900FT KFAR 312353Z 15010KT 10SM CLR 02/M07 A3042 RMK AO2 SLP317 T00221072 10050 20017 56016 KDUA 312355Z AUTO 01008KT 10SM CLR 13/02 A3034 RMK AO2 KELA 312355Z AUTO 01006KT 10SM CLR 19/05 A3019 RMK AO2 T01910047 10256 20191 CYXJ 010000Z 16005KT 15SM BKN160 BKN220 03/M00 A2964 RMK AC5CI2 SLP066 KFAT 312353Z 19010KT 10SM BKN060 24/08 A2974 RMK AO2 SLP067 T02440083 10250 20200 56020 KDUB 312355Z AUTO 26008KT 10SM CLR 10/M06 A3000 RMK AO2 CYYB 010000Z 01008G16KT 10SM FEW010 BKN075 M02/M03 A3017 RMK SC2AC5 SLP235 KFBL 312354Z AUTO 00000KT 10SM CLR M04/M08 A3048 RMK AO2 KDTL 312355Z AUTO 15006KT 10SM CLR 00/M06 A3044 RMK AO2 KDUC 312355Z AUTO 00000KT 10SM CLR 12/00 A3036 RMK AO2 KEKM 312350Z 35010G22KT 10SM BKN026 BKN032 OVC042 02/M03 A3019 CZOL 312300Z AUTO 34007KT 04/02 RMK AO1 T00370023 EGWU 312350Z AUTO 20007KT 9999 // NCD 16/13 Q1014 CYYC 010000Z 35013KT 40SM BKN095 BKN250 09/01 A2963 RMK AC6CI1 SLP056 DENSITY ALT 4000FT CYXL 010000Z VRB02KT 15SM FEW130 M05/M07 A3044 RMK AC1 SLP335 CZPC 010000Z AUTO 25007KT 9SM CLR 11/01 A2968 RMK SLP066 DENSITY ALT 4600FT KDSV 312354Z AUTO 00000KT 10SM -RA OVC026 07/06 A2996 RMK AO2 RAB2256 SLP157 P0001 60001 T00670056 10100 20067 53015 EGYD 312350Z AUTO 19016KT 9999 // NCD 16/13 Q1011 CYYD 010000Z 26003KT 25SM SCT065TCU BKN120 BKN210 05/02 A2969 RMK TCU3AC2CI1 SLP071 KEKN 312351Z AUTO 34004KT 7SM -RA OVC017 04/04 A2985 RMK AO2 SLP127 P0003 60006 T00440039 10089 20044 53005 TSNO KDTN 312353Z 01007KT 10SM CLR 16/06 A3024 RMK AO2 SLP238 T01610056 10206 20161 53018 CYXN 312100Z 01010KT 1 1/2SM BR OVC003 M09/M10 A3014 RMK ST8 -9.5/-17.0/0.0MM/LAST OB/NEXT 031300Z SLP207 EGYE 311450Z 17016KT CAVOK ///// Q1013 BLU CYYE 010005Z 26003KT 160V270 1/2SM FZFG OVC004 M01/M01 A2957 RMK ST8 PRESRR SLP034 KDTO 312353Z 36006KT 10SM CLR 13/03 A3032 RMK AO2 SLP265 T01330033 10183 20133 53005 KEKO 312356Z AUTO 18010KT 10SM CLR 19/M07 A2976 RMK AO2 SLP048 T01941072 10206 20172 58020 OTHH 312300Z AUTO 13015KT CAVOK 29/22 Q1008 NOSIG CYYF 010000Z 22007KT 15SM VCSH FEW012 SCT025 BKN063 OVC110 12/09 A2971 RMK SF2SC2SC3AC1 SLP064 DENSITY ALT 1200FT KFAY 312353Z AUTO 05003KT 10SM CLR 12/07 A2980 RMK AO2 SLP085 T01170067 10194 20117 51001 KDUG 312356Z AUTO 11007KT 10SM CLR 26/07 A3003 RMK AO2 SLP106 T02560072 10283 20256 56006 CYWY 312200Z 33008KT 8SM -SN SCT009 BKN011 M07/M11 A2934 RMK SC4SC3 0.5/-7.5/TR/11 MUCH LOOSE LASTOBS/NXT031400Z SLP945 CYXP 312200Z 07014G22KT 15SM OVC040 02/M04 A2987 RMK SC8 4.0/1.9/0/0 10 MUCH LOOSE LAST STFD OBS/NEXT 011400Z SLP116 EGXP 312350Z AUTO 20014KT 9999 // NCD 16/13 Q1010 CYYG 312300Z 01004KT 15SM BKN059 04/00 A3013 RMK SC6 SLP203 KDUH 312354Z AUTO 35013G23KT 7SM -RA BKN012 OVC019 02/00 A3002 RMK AO2 EHPG 312355Z AUTO 18025KT 9999 NCD 16/14 Q1016 KEKQ 312356Z AUTO 30003KT 6SM BR SCT018 BKN040 OVC065 03/02 A3005 RMK AO2 51022 60019 T00330022 10094 20033 SNE32 P0001 SLP185 CYXQ 312200Z 00000KT 20SM SCT030 BKN075 BKN100 BKN210 M08/M12 A2932 RMK SC3AC2AC2CI1 CLIMAT -7.5/-12.0/0.0/LAST OBS/NEXT 011600UTC SLP977 EGYH 311050Z 21013KT CAVOK 18/15 Q1016 BLU CYYH 010000Z 11005KT 15SM FEW020 M19/M21 A3014 RMK SC1 FROIN SLP211 KFCI 312355Z AUTO 06003KT 10SM SCT060 10/00 A2985 RMK AO1 10150 20090 401600030 54000 KFBR 312355Z AUTO 23011G19KT CLR 18/M08 A3003 RMK AO2 T01751078 10192 20108 PWINO CYXR 010000Z AUTO 34012G20KT 9SM OVC033 M02/M05 A3028 RMK ICG SLP267 KDTS 312353Z AUTO 32007KT 10SM CLR 21/09 A2993 RMK AO2 SLP136 T02060094 10239 20206 51013 TSNO KDUJ 312353Z AUTO 08004KT 9SM BKN013 OVC033 04/03 A2988 RMK AO2 RAE35 SLP127 P0002 60023 T00390028 10061 20039 51009 EGXS 312350Z AUTO 17012KT 9999 // NCD 14/12 Q1011 CYXS 010002Z AUTO 23002KT 1 3/4SM BR BKN120 05/04 A2972 RMK SLP086 CYYJ 010000Z 13005KT 30SM FEW020TCU FEW038 FEW057 SCT110 11/10 A2982 RMK TCU1SC1SC1AC1 TCU TR SLP098 KELK 312355Z AUTO 08004KT 10SM CLR 11/00 A3042 RMK AO2 EGXT 312350Z AUTO 20010KT 9999 // NCD 15/12 Q1012 CYXT 010000Z 12003KT 090V170 10SM SCT006 BKN015 BKN030 07/05 A2974 RMK CF4SC1SC1 SLP080 EGXU 312350Z AUTO 16013KT 9999 // FEW048/// 15/12 Q1008 CYYL 010000Z AUTO 16008KT 9SM BKN130 OVC160 01/M06 A2987 RMK SLP141 CYXU 010000Z 03006KT 10SM -RA OVC040 06/05 A2994 RMK SC8 SLP145 KELM 312353Z 02004KT 10SM OVC070 08/02 A2992 RMK AO2 RAE2257 SLP138 P0000 60000 T00830017 10106 20078 53012 KFCM 312353Z 36003KT 10SM CLR 02/M09 A3048 RMK AO2 SLP335 T00171094 10050 20017 55002 KDTW 312353Z 34019G31KT 5SM -SN BKN020 OVC025 03/00 A3002 RMK AO2 PK WND 33032/2301 RAE20 SLP172 P0000 60001 T00280000 10061 20028 51036 KELN 312353Z AUTO 31013G21KT 10SM OVC070 11/05 A2979 RMK AO2 SLP087 60018 T01110050 10122 20100 51019 EGXV 312350Z AUTO 19013G23KT 9999 NCD 15/13 Q1009 EGYM 312350Z AUTO 17010KT 9999 NCD 15/11 Q1013 CYYN 010000Z AUTO 18009KT 9SM CLR 07/01 A2972 RMK SLP086 CYZE 010000Z AUTO 02019G28KT 9SM BKN029 M01/M06 A3027 RMK SLP261 KELO 312353Z AUTO 00000KT 10SM CLR M03/M07 A3046 RMK AO2 EGXW 312350Z 20017KT CAVOK 16/13 Q1011 BLU NOSIG EHQE 312355Z AUTO 19026KT 9999 NSC 16/13 Q//// CYZF 312319Z 19010G16KT 15SM SCT009 BKN016 03/02 A2940 RMK SC4SC3 CIG RAG SLP968 CYXX 010000Z 15003KT 15SM -RA FEW005 FEW030 BKN100 BKN220 10/10 A2984 RMK CF1SC1AC4CI1 SLP106 KELP 312351Z 13015G22KT 10SM FEW055 FEW100 SCT180 22/08 A3017 RMK AO2 SLP165 T02220083 10239 20206 55005 CYZG 312100Z 32010G17KT 1SM -SN BR DRSN VV001 M04/M05 A2974 RMK FG8 SNWCVR/MUCHLOOSE/LAST OBS/NEXT 011300 UTC/ VIA CZNB SLP090 CYXY 010000Z 17011KT 40SM SCT062 BKN140 01/M02 A2932 RMK SC3AC4 SLP964 EGYP 312350Z 18010KT 9999 SCT025 BKN060 01/M02 Q1017 BLU TEMPO 3000 SHGS SCT008 YLO1= CYXZ 010000Z 01003KT 330V050 15SM SCT015 M03/M08 A3040 RMK SC3 LAST OBS/NEXT 011100UTC SLP312 EGXZ 312350Z AUTO 17015KT 9999 FEW048/// 16/13 Q1007 CYZH 010000Z AUTO 31005KT 9SM BKN075 OVC094 06/04 A2967 RMK SLP070 CYYQ 010000Z 07003KT 15SM FEW070 FEW230 M03/M04 A3009 RMK AC1CI1 SLP191 CYYR 010000Z 22008KT 15SM FEW050 M01/M08 A2999 RMK SC1 SLP159 KFCS 312358Z AUTO 13006KT 10SM CLR 08/M03 A3019 RMK AO2 SLP250 T00791032 10114 20058 57010 CZPS 312300Z AUTO 33011KT 03/01 RMK AO1 T00250007 KFDK 312350Z 00000KT 10SM OVC060 11/03 A2990 KDVK 312355Z AUTO 31003KT 10SM SCT015 BKN020 OVC050 02/01 A3002 RMK AO2 KEMK 312355Z AUTO 35020G25KT 10SM CLR 23/11 A3012 RMK A01 CYYT 010000Z 15003KT 15SM BKN031 06/05 A3010 RMK SC7 SLP199 KDVL 312355Z AUTO 16016G19KT 10SM CLR 01/M09 A3027 RMK AO1 10040 20010 57024 CYYU 010000Z 34006KT 15SM SCT030 BKN100 M04/M06 A3039 RMK SC4AC2 SLP305 KEND 312358Z AUTO 05004KT 10SM CLR 07/M06 A3040 RMK AO2 SLP302 T00681056 10119 20068 401710051 53001 $ KEMM 312355Z AUTO 17003KT 10SM CLR 13/M06 A3002 RMK AO2 KDVN 312352Z AUTO 36008KT 10SM CLR 01/M08 A3041 RMK AO2 SLP306 T00111083 10067 20006 51019 TSNO EHRD 312355Z AUTO 18009KT 150V210 9999 NCD 14/11 Q1018 NOSIG KDUX 312355Z AUTO 13007KT 10SM 12/M02 A3033 RMK AO2 T01161020 10160 20116 KDVO 312355Z AUTO 26005KT SCT030 16/13 A2978 RMK AO2 KDVP 312355Z AUTO 00000KT 10SM CLR M01/M10 A3046 RMK AO2 T10091099 10037 21009 KELY 312353Z AUTO 16018G24KT 10SM CLR 16/M05 A2988 RMK AO2 SLP055 T01611050 10194 20161 58013 KEMP 312353Z AUTO 04006KT 10SM CLR 03/M07 A3044 RMK AO2 SLP317 T00281072 10089 20028 50001 CYZP 010000Z AUTO 18006KT 9SM CLR 09/03 A2974 RMK SLP070 CYYY 010000Z 20003KT 30SM FEW030 BKN080 01/M02 A3016 RMK SC2AC4 SLP215 KDWH 312353Z 35006KT 10SM CLR 19/06 A3020 RMK AO2 SLP225 T01940061 10250 20194 53015 KELZ 010005Z AUTO 12003KT 10SM -RA SCT014 OVC030 03/02 A2992 RMK AO2 P0001 T00330017 CYYZ 010000Z 05011KT 8SM -RA BKN007 OVC013 05/04 A2998 RMK SF7SF1 SLP157 KFDR 312353Z AUTO 06006KT 10SM CLR 13/M02 A3033 RMK AO2 SLP269 6//// T01331022 10178 20133 53002 PNO $ CYZR 010000Z AUTO 02029G41KT 5SM -RA BR BKN016 OVC023 04/03 A2998 RMK PCPN 1.8MM PAST HR SLP158 KFFA 312355Z AUTO 36008G15KT 330V030 10SM OVC026 15/09 A2977 RMK AO2 T01450092 10348 21080 KEMT 312346Z 17004KT 10SM SCT038 OVC050 20/12 A2988 CYZS 312300Z 33008KT 15SM FEW030 M15/M19 A3005 RMK SC1 SLP186 EHSA 312355Z AUTO 19018G21KT 9999 ///////// 16/13 Q1017 W15/H8 KDVT 312353Z AUTO 16008KT 10SM CLR 32/04 A2978 RMK AO2 SLP063 T03170044 10328 20283 56015 CYZT 010000Z VRB02KT 20SM BKN055 BKN100 10/08 A2979 RMK CU5AC2 SLP088 KFFC 312353Z AUTO 31014G22KT 10SM -RA FEW035 BKN046 OVC075 13/07 A2993 RMK AO2 RAB51 SLP137 P0000 60000 T01330067 10172 20133 53013 KENL 312355Z AUTO 35016G22KT 10SM SCT065 05/M05 A3030 RMK AO2 T00501054 10072 20050 CYZU 010000Z 32006KT 15SM BKN070 OVC100 05/03 A2968 RMK AC7AC1 SLP076 EHSC 312355Z AUTO 19020G23KT 9999 ///////// 16/12 Q1017 W15/H6 KEMV 312355Z AUTO 00000KT 10SM CLR 07/06 A2983 RMK AO2 CYZV 010000Z 35002KT 15SM SCT200 M03/M05 A3014 RMK CI4 SLP208 KFDW 010015Z AUTO 12004KT 10SM SCT060 SCT095 13/09 A2978 RMK AO1 LTG DSNT N KEOE 312355Z AUTO 24004KT 10SM BKN065 BKN075 BKN100 14/08 A2982 RMK AO2 LTG DSNT NE CYZW 010000Z 11004KT 060V160 20SM OVC030 02/M03 A2940 RMK SC8 CLIMAT 2.0/-3.2/0.0CM/44003/LAST OBS/NEXT 011600Z SLP991 CYZX 010000Z 07002KT 15SM BKN070 BKN220 07/02 A3009 RMK AC6CI1 WNDY HILL 10007KT SLP192 KFDY 312353Z AUTO 35020G30KT 10SM -RA OVC013 03/01 A2997 RMK AO2 PK WND 36033/2307 SLP151 P0000 60010 T00330011 10061 20033 53024 KFEP 312355Z AUTO 36008G14KT 10SM BKN050 01/M08 A3041 RMK AO2 T00081080 10043 20008 CZRP 312300Z AUTO 13013KT M12/M13 RMK AO1 PK WND 14018/2212 SLP112 T11211132 58003 CYZY 010000Z AUTO 14003KT 9SM CLR 04/03 A2969 RMK SLP081 KDYA 312355Z AUTO 33014G22KT 10SM CLR 15/06 A3008 RMK AO2 T01480060 10220 20148 CZSJ 010000Z AUTO 20004KT 160V230 9SM CLR M01/M05 A3031 RMK SLP287 KDYB 010015Z AUTO 00000KT 10SM CLR 12/11 A2981 RMK AO1 LTG DSNT NW KFET 312355Z AUTO 00000KT 10SM CLR 04/M08 A3046 RMK AO2 T00381081 10065 20036 KEOK 312355Z AUTO 35007KT 10SM CLR 03/M06 A3041 RMK AO2 CZTB 312300Z AUTO 28005KT M01/M07 RMK AO1 SLP332 T10141067 53005 KDWU 312355Z AUTO 33007KT 10SM OVC015 06/02 A2989 RMK AO1 10080 20060 400800020 52017 KFFL 312355Z AUTO 35006KT CLR 01/M07 A3043 RMK AO2 KFFM 312354Z AUTO 16004KT 10SM CLR M02/M08 A3046 RMK AO2 KENV 312355Z AUTO 26003KT 10SM CLR 14/M02 A2981 RMK AO1 10160 20110 401600040 57020 CZSM 312300Z AUTO 14005KT 02/M00 RMK AO1 SLP016 T00201001 53004 KENW 312353Z 35018G29KT 10SM BKN042 OVC050 03/M07 A3033 RMK AO2 PK WND 01029/2345 SLP280 T00281067 10039 20028 51025 KFEW 312356Z AUTO 21008KT 10SM FEW210 06/M02 A3009 RMK AO2 SLP206 T00591022 10108 20052 57007 $ KDWX 311955Z AUTO 26012G17KT 10SM CLR 19/M04 A3015 RMK AO2 T01911042 VHHH 010000Z VRB03KT 030V150 CAVOK 26/21 Q1014 NOSIG KFFO 312358Z 32009KT 7SM -DZ BKN011 BKN023 05/03 A2994 RMK AO2A CIG 011V024 SLP147 P0000 60005 T00470032 10053 20047 52013 PLCH 311800Z VRB04KT 9999 FEW020 28/23 Q1010 CZSP 010000Z AUTO 36005KT 06/M01 RMK AO1 SLP210 T00571006 50011 KEPH 312353Z AUTO 20008KT 10SM CLR 11/09 A2975 RMK AO2 SLP076 60005 T01110089 10122 20106 52005 ZUUU 010000Z VRB01MPS 9999 SCT050 16/10 Q1020 NOSIG KDXR 312353Z 06010KT 10SM SCT037 BKN047 OVC080 10/02 A2994 RMK AO2 SLP138 T01000022 10117 20100 53005 KH78 311714Z 32012KT 20SM SKC 25/11 A3004 RMK SEAS 2-3 KEQA 312355Z AUTO 06006KT 10SM CLR 03/M08 A3043 RMK AO2 KFHB 312355Z AUTO 27004KT 10SM CLR 20/12 A2982 RMK AO1 KFFT 312353Z AUTO 30008G16KT 9SM SCT024 BKN029 OVC035 03/01 A2999 RMK AO2 SLP160 60011 T00330006 10078 20033 51009 KDZB 312355Z AUTO 03003KT 10SM CLR 19/02 A3027 RMK AO2 T01860022 10236 20186 CZST 010000Z 00000KT 10SM BKN045 BKN065 06/05 A2974 RMK SC5CU2 SLP070 KDYL 312354Z AUTO 02004KT 10SM BKN050 OVC070 08/02 A2988 RMK AO2 SLP123 T00830022 10100 20083 58002 $ FABL 010000Z AUTO 04011KT //// // ////// 18/09 Q1018 KFGN 312354Z AUTO 15009KT 10SM CLR 02/M04 A3041 RMK AO2 EIKN 311930Z 19006KT 170V230 9999 FEW020 SCT150 BKN300 10/10 Q1003 NOSIG KDXX 312354Z AUTO 14005KT 10SM CLR 01/M04 A3046 RMK AO2 KFFX 312350Z AUTO 01008G16KT 10SM OVC037 01/M03 A3026 RMK AO2 T00051030 KFFZ 312350Z 22008KT 40SM FEW190 32/08 A2978 RMK WIND ESTIMATED KDYR 312355Z 35010G16KT 10SM CLR 06/M08 A3029 RMK AO1 10130 20060 401300060 52030 PKMJ 312158Z 18010KT 15SM FEW014 SCT050 OVC300 31/25 A2981 KDYS 312358Z AUTO 02008KT 10SM CLR 16/01 A3033 RMK AO2 SLP257 T01630006 10196 20163 53003 $ KDYT 312353Z AUTO 00000KT 10SM CLR 03/M07 A3050 RMK AO2 CZUM 010000Z AUTO 26007KT 230V300 9SM FEW050 M03/M07 A2995 RMK SLP168 EIME 010000Z 22014KT 9999 FEW015 SCT060 12/10 Q1007 KFGX 312355Z AUTO 31005KT 7SM -RA OVC007 03/02 A2997 RMK AO2 T00280022 10075 20028 KFIG 312354Z AUTO 33003KT 8SM -RA BKN025 BKN030 OVC037 04/04 A2989 RMK AO2 SLP132 P0002 60006 T00440039 10078 20044 51010 EIKY 311930Z 23009KT 9999 SCT027 12/10 Q1006 PKMR 312355Z 18005KT 15SM FEW015 SCT050 BKN120 OVC300 31/26 A2979 RMK SLP090 8/878 T03120259 10312 20282 58007 KERI 312351Z 15005KT 10SM BKN030 BKN040 OVC050 07/04 A2991 RMK AO2 SLP131 60001 T00720039 10094 20072 53014 KFHR 312353Z AUTO 16004KT 10SM CLR 11/08 A2984 RMK AO2 SLP104 60000 T01060078 10133 20106 51010 FACT 010000Z 12004KT CAVOK 13/08 Q1012 NOSIG EHVK 312355Z AUTO 16004KT 9999 NCD 13/10 Q1020 BLU KESC 312355Z AUTO 35007KT 10SM BKN048 00/M06 A3041 RMK AO1 10020 21010 52017 KFHU 312355Z 18008KT 10SM SCT080 BKN160 26/07 A3005 RMK SLP119 54000 CZVL 010000Z AUTO 31005KT 4SM -RA BR OVC060 03/03 A2965 RMK SLP063 EHVL 312355Z AUTO 17011KT 9999 NCD 13/12 Q1017 BLU KGAD 312355Z 33024G33KT 10SM BKN019 OVC026 A3005 RMK AO1 10160 20090 401600030 52034 FACV 311038Z 07006KT CAVOK 25/00 Q1016 KESF 312353Z AUTO VRB03KT 10SM CLR 16/09 A3019 RMK AO2 SLP222 T01610089 10222 20161 53027 KGAF 312355Z AUTO 16009KT 10SM CLR 00/M07 A3038 RMK AO2 VIAR 312330Z 00000KT 2000 BR NSC 14/14 Q1014 KGAG 312353Z AUTO 11006KT 10SM CLR 08/M06 A3038 RMK AO2 SLP292 T00831061 10139 20083 56003 KEQY 312353Z AUTO 00000KT 10SM FEW050 BKN100 12/08 A2978 RMK AO2 LTG DSNT SW SLP096 T01220083 10172 20122 56007 KI16 312355Z AUTO 5SM -RA SCT007 BKN010 OVC019 06/06 A2990 RMK AO2 T00600060 10095 20060 KGAI 312355Z 00000KT 10SM OVC050 08/02 A2990 RMK AO1 10110 20080 401200060 54000 KFKA 312355Z AUTO 35003KT 10SM CLR M01/M07 A3046 RMK AO2 T10071075 10029 21007 KFIT 312352Z AUTO 06004KT 10SM OVC044 09/02 A3002 RMK AO2 SLP169 T00890017 10117 20089 53012 KETB 312355Z AUTO 01012G16KT 10SM OVC045 01/M07 A3037 RMK AO2 VIBN 312330Z 00000KT 2000 BR NSC 20/19 Q1012 KETC 312355Z AUTO 00000KT 10SM CLR 08/07 A2983 RMK AO2 T00810069 10351 20021 KGBD 312355Z AUTO 10007KT 10SM CLR 05/M09 A3041 RMK AO1 10080 20040 401500010 57010 KERV 312355Z AUTO 03004KT 10SM CLR 18/02 A3028 RMK AO2 T01810023 10233 20181 FAEL 311800Z 22004KT 9999 FEW013 BKN024 OVC030 14/13 Q1024 KESN 312350Z 02005KT 10SM SKC 08/04 A2989 EINN 010000Z 18009KT 9999 FEW036 10/08 Q1007 NOSIG EHWO 312355Z AUTO 17003KT 9999 NCD 13/10 Q1019 BLU FAEO 310855Z 06008KT 9999 FEW015 22/12 Q1025 KERY 312354Z AUTO 01011G14KT 10SM OVC038 00/M07 A3037 RMK AO2 T10051066 KGBG 312355Z AUTO 35009KT 10SM CLR 02/M06 A3039 RMK AO2 T00171056 10062 20017 FADY 310843Z 09006KT CAVOK 21/06 Q1019 KETH 312356Z AUTO 14007KT 10SM CLR M02/M07 A3046 RMK AO2 KEST 312352Z AUTO 03005KT 10SM CLR M02/M10 A3047 RMK AO2 SLP337 T10171100 10044 21022 55002 KGBK 312355Z AUTO 35017G24KT 10SM FEW044 23/10 A3008 RMK A01 KGCC 312353Z AUTO 16023G31KT 10SM CLR 11/00 A2989 RMK AO2 PK WND 16035/2315 SLP121 T01110000 10139 20061 58009 KFKL 312355Z 00000KT 8SM SCT027 BKN033 OVC043 04/02 A2990 RMK AO1 P0001 60006 10070 20040 400700030 52010 KFLD 312353Z AUTO 01018KT 10SM BKN049 02/M07 A3040 RMK AO2 PK WND 03026/2338 SLP304 T00221072 10044 20022 53019 FAGC 010000Z AUTO 02007KT //// // ////// 17/12 Q1022 KGCD 312355Z AUTO 00000KT 10SM SCT065 SCT070 BKN090 11/04 A2979 RMK AO2 T01100041 10182 20110 KFKN 312355Z AUTO 00000KT 10SM CLR 07/06 A2983 RMK AO1 KEUF 312358Z AUTO 00000KT 10SM CLR 13/07 A2992 RMK AO2 SLP131 60000 T01330067 10233 20133 51018 KEUG 312354Z 28003KT 10SM FEW035 SCT070 BKN220 16/08 A2983 RMK AO2 SLP101 T01560078 10161 20122 51000 KFLG 312357Z 21016G24KT 10SM CLR 17/01 A3012 RMK AO2 SLP131 T01670006 10194 20167 58009 KI35 312355Z AUTO 30009G17KT 7SM BKN015 OVC020 03/02 A2994 RMK AO1 FAGG 311800Z 10015KT 9999 BKN035 15/10 Q1021 KFKR 312355Z AUTO 33016G27KT 3SM -SN OVC012 01/01 A3016 RMK AO2 T00120007 10038 20012 KFKS 312355Z AUTO 01006G23KT 10SM OVC040 02/M04 A3034 RMK AO2 T00181045 10025 20016 KEVB 312347Z 27007KT 10SM SKC 19/12 A2984 KGDB 312352Z AUTO 11003KT 10SM CLR 01/M08 A3049 RMK AO2 T00101082 KGCK 312354Z 12009KT 10SM CLR 06/M06 A3034 RMK AO2 SLP287 T00611061 10106 20050 57009 KI39 312355Z AUTO 31008G16KT 10SM OVC015 03/01 A2999 RMK AO2 KFLL 312353Z 29008KT 10SM SCT050 BKN090 27/18 A2982 RMK AO2 SLP097 60011 T02670178 10306 20256 53019 KEUL 312355Z AUTO 00000KT 10SM CLR 15/04 A2974 RMK AO1 10160 20110 401700070 57017 KGCM 312355Z AUTO 35004KT 10SM CLR 07/M05 A3043 RMK AO2 VIDP 312330Z 00000KT 0900 R28/P2000 R29/P2000 FU SCT100 20/13 Q1013 NOSIG FAGM 310900Z 35017KT CAVOK 27/07 Q1022 KGCN 312354Z 20012KT 10SM CLR 19/M01 A3007 RMK AO2 SLP128 T01891011 10222 20189 56010 KFME 312357Z AUTO 00000KT 10SM OVC055 07/03 A2989 RMK AO1 KFLO 312353Z 00000KT 10SM CLR 12/08 A2979 RMK AO2 SLP088 T01220078 10200 20122 55000 KFLP 312355Z AUTO 36009G15KT 10SM CLR 07/M09 A3035 RMK AO1 10120 20070 401700070 52017 KFMH 312355Z AUTO 06012KT 10SM OVC050 11/04 A2997 RMK AO2 KGDJ 312355Z AUTO 02004KT 10SM CLR 16/05 A3033 RMK AO2 T01630053 10200 20163 CZZJ 312300Z AUTO 22003KT 06/02 RMK AO1 SLP077 T00570015 53011 KFNB 312353Z AUTO 02005KT 10SM CLR 03/M08 A3045 RMK AO2 SLP320 T00331083 10078 20033 56007 KEWB 312353Z 04007KT 10SM OVC048 10/04 A2996 RMK AO2 SLP146 T01000039 10117 20100 50003 URFF 312330Z 00000MPS 4900 BR OVC032 07/06 Q1016 01190060 NOSIG KEVM 312351Z AUTO 00000KT 10SM CLR M02/M07 A3048 RMK AO2 KGED 312354Z AUTO 01003KT 10SM OVC040 11/05 A2984 RMK AO2 SLP105 T01060050 10133 20106 58006 KFMM 312355Z AUTO 15010KT 10SM CLR 11/M03 A3015 RMK AO2 T01061026 10144 20106 KFMN 312353Z 12015KT 10SM FEW110 19/M02 A3011 RMK AO2 SLP168 T01941017 10222 20167 56012 KGDP 312351Z AUTO 06023KT 10SM CLR 13/01 A3032 RMK AO2 PK WND 08030/2259 SLP230 T01280006 10156 20128 58002 KGEG 312353Z 14003KT 7SM FEW015 BKN039 OVC050 10/08 A2980 RMK AO2 RAE37 SLP095 P0000 60000 T01000083 10100 20083 53011 KFLY 312353Z AUTO 20005KT 10SM CLR 06/M03 A3022 RMK AO2 T00591032 10095 20054 KGFA 312356Z AUTO 21009KT 10SM SCT190 15/02 A2973 RMK AO2 SLP081 T01500020 10218 20100 52007 KFOA 312355Z AUTO 33015G25KT 10SM CLR 05/M04 A3027 RMK AO2 T00451044 10067 20045 KEWK 312355Z AUTO 06003KT 10SM CLR 05/M11 A3044 RMK AO1 10090 20050 401600020 57003 KFNL 312355Z AUTO 31003KT 10SM CLR 09/M02 A3013 RMK AO1 10120 20060 401401010 57017 FAJB 010000Z AUTO 01001KT //// // ////// 18/12 Q1022 KEVV 312354Z 32016G31KT 10SM OVC050 06/M04 A3019 RMK AO2 PK WND 32031/2351 SLP226 60000 T00561044 10078 20039 51017 $ KGDV 312355Z AUTO 15014G19KT 10SM CLR 08/M02 A2991 RMK AO1 10110 20060 401100000 57014 KFOD 312355Z AUTO 01004KT 10SM CLR 01/M09 A3047 RMK AO1 10040 20010 401101030 57003 DRRM 311800Z 00000KT CAVOK 32/10 Q1011 KFOE 312353Z 01004KT 10SM CLR 04/M08 A3044 RMK AO2 SLP317 T00441078 10083 20044 56005 KEVW 312353Z AUTO 21013KT 10SM CLR 15/M07 A3000 RMK AO2 PK WND 21027/2258 SLP101 T01501072 10194 20150 58005 TSNO KEWN 312354Z AUTO 35007KT 10SM CLR 14/06 A2980 RMK AO2 SLP092 T01390061 10194 20139 53006 $ DRRN 010000Z 10002KT CAVOK 29/08 Q1010 NOSIG KFMY 312353Z 32010KT 10SM CLR 21/11 A2988 RMK AO2 SLP119 T02110106 10272 20211 53022 $ EISG 311700Z 20005KT 160V230 9999 FEW031 BKN043 BKN050 12/10 Q1002 KEWR 312351Z 03009KT 10SM FEW025 BKN032 OVC070 12/05 A2990 RMK AO2 SLP123 T01170050 10122 20111 57002 EKAH 312350Z AUTO 18005KT 120V270 1500NDV BR OVC001/// 13/11 Q1019 KI67 312355Z AUTO 32006KT 10SM OVC041 03/01 A2998 RMK AO1 KGFK 312353Z 15008KT 10SM SCT250 00/M07 A3039 RMK AO2 SLP308 T00001072 10039 20000 56020 KFOK 312353Z 05015G21KT 6SM -RA BR BKN012 BKN028 OVC033 11/09 A2991 RMK AO2 RAB05 SLP130 P0000 60000 T01110089 10139 20111 53001 KFNT 312353Z 36016G25KT 1 3/4SM -SN BR BKN007 OVC013 02/M01 A3012 RMK AO2 PK WND 35027/2318 SLP207 P0001 60013 T00171006 10050 20017 52034 KI69 312355Z AUTO 31008KT 10SM OVC029 05/02 A2995 RMK AO1 KGEU 312347Z 14004KT 20SM FEW150 FEW200 33/07 A2978 DRRT 311800Z 10004KT CAVOK 33/12 Q1011 KGFL 312353Z AUTO 01008KT 10SM OVC060 08/00 A2999 RMK AO2 SLP162 T00830000 10106 20072 53009 KGEV 010000Z AUTO 30008G14KT 270V340 10SM OVC013 04/01 A2980 RMK AO2 T00430008 KEYE 312353Z AUTO 35022G34KT 10SM OVC018 02/00 A3009 RMK AO2 PK WND 33035/2325 RAB2256E03UPB27E29SNE2256B29E46 SLP195 P0000 60010 T00220000 10044 20022 53035 KGGE 312355Z AUTO 00000KT 10SM CLR 10/09 A2980 RMK AO2 KEYF 312355Z AUTO 00000KT 10SM CLR 11/08 A2980 RMK AO2 T01140077 10190 20114 KGGG 312353Z 34008KT 10SM CLR 16/06 A3025 RMK AO2 SLP244 T01560061 10211 20156 52018 KGEY 312353Z AUTO 09008KT 10SM CLR 19/M03 A2982 RMK AO2 SLP092 T01941033 10217 20139 56013 KI75 312355Z AUTO 33005KT 10SM CLR 01/M06 A3045 RMK AO2 T00081060 10061 20008 KGEZ 312353Z AUTO 34018G32KT 10SM -RA BKN013 OVC020 03/01 A3003 RMK AO2 PK WND 36033/2329 RAE04B14E28B49SNB04E14B28E49 SLP174 P0006 60009 I1000 I6000 T00330006 10061 20022 53021 KGGI 312355Z AUTO 33004KT 10SM CLR 01/M07 A3045 RMK AO2 T00101072 10057 20010 EKBI 312350Z AUTO 16006KT 1500NDV BR BKN002/// 12/12 Q1019 FALA 312000Z 05011KT CAVOK 24/11 Q1021 NOSIG KFPK 312355Z AUTO 35012G26KT 10SM SCT029 BKN038 OVC050 02/M03 A3014 RMK AO2 T00151026 10038 20015 KGHB 312340Z AUTO 36021KT 10SM CLR 23/09 A3008 RMK A01 KFQD 312355Z AUTO 28004KT 10SM SCT041 OVC050 10/10 A2982 RMK AO2 LTG DSNT E AND SE 60012 T01040096 10157 20103 FAKM 010000Z AUTO 04006KT //// // ////// 22/01 Q1014 FALE 010000Z 24007KT 9000 -DZ SCT018 OVC030 17/15 Q1022 NOSIG FAKN 010000Z AUTO 10007KT //// // ////// 18/16 Q1020 KEZF 312355Z AUTO 00000KT 10SM SCT060 08/04 A2985 RMK AO2 T00770044 10150 20077 KEXX 312355Z AUTO 00000KT 10SM SCT041 OVC060 12/07 A2980 RMK AO2 T01160073 10149 20111 KGHG 311810Z AUTO 10SM A3000 RMK AO2 KGGP 312355Z AUTO 36016G26KT 10SM OVC046 01/M01 A3016 RMK AO2 WAAA 312330Z 12004KT 070V160 9999 FEW020 27/16 Q1010 NOSIG KFOZ 312353Z AUTO 00000KT 10SM CLR M03/M09 A3047 RMK AO2 PKWA 010000Z AUTO 10012KT 10SM SCT018 SCT026 BKN034 30/24 A2981 RMK AO2 T03030241 KFPR 312353Z 29007KT 10SM CLR 19/12 A2983 RMK AO2 SLP101 T01940117 10289 20189 53022 EKCH 312350Z 17004KT 1300 R22L/P1500N R04L/P1500N R12/P1500N BR OVC003 12/12 Q1021 NOSIG KGIC 312355Z AUTO 25003KT 10SM SCT110 19/M01 A2979 RMK AO1 T01881010 10311 21008 KEZM 312355Z AUTO 30007KT 10SM CLR 16/07 A2991 RMK AO2 T01610066 10225 20161 FALM 310800Z 12015KT 8000 FEW020 25/// Q1021 KGGW 312353Z AUTO 11013KT 10SM CLR 09/01 A2979 RMK AO2 SLP107 T00890006 10128 20072 56015 KEYW 312353Z 32012KT 10SM FEW030 26/21 A2989 RMK AO2 SLP120 T02610211 10283 20261 53018 KGIF 312353Z AUTO 29009KT 10SM CLR 19/08 A2989 RMK AO2 SLP118 T01890083 10256 20189 53018 KFRG 312353Z 05008KT 10SM OVC055 12/06 A2989 RMK AO2 SLP122 T01220056 10128 20122 58003 URKA 312300Z 04004MPS 9999 SCT014 BKN110 08/07 Q1013 RMK QFE755/1007 SC070 WABB 310900Z 06003KT 9999 SCT018 29/25 Q1006 NOSIG KFRI 312358Z AUTO 10003KT 10SM CLR 04/M09 A3045 RMK AO2 SLP319 T00351087 10086 20035 57005 KEZS 312355Z AUTO 01013G17KT 10SM OVC046 02/M07 A3043 RMK AO2 T00211069 10048 20021 EKEB 312350Z AUTO 14005KT 3100NDV BR SCT100/// 12/12 Q1018 KFRM 312355Z AUTO 01003KT 10SM CLR 00/M12 A3048 RMK AO1 10040 20000 54000 KFSD 312356Z 14006KT 10SM SCT250 01/M09 A3044 RMK AO2 SLP330 T00111089 10050 20011 58009 VIJP 312330Z 00000KT 1500 R27/P2000N FU SCT030 BKN100 22/11 Q1015 NOSIG KHAE 312335Z AUTO 34006KT 10SM CLR 03/M08 A3040 RMK AO2 FAMM 010000Z AUTO 07009KT //// // ////// 24/07 Q1017 KGHW 312353Z AUTO 13004KT 10SM CLR M01/M08 A3046 RMK AO2 KFSE 312355Z AUTO 15004KT 10SM CLR M01/M05 A3043 RMK AO2 FALW 010000Z AUTO 22006KT //// // ////// 13/06 Q1010 KHAF 312355Z AUTO 14003KT 10SM FEW013 OVC020 14/13 A2980 RMK AO2 PMDY 312356Z AUTO 21012KT 10SM CLR 29/25 A2998 RMK AO2 TSNO 58017 60016 T02880250 10288 20233 SLP456 $ EIWF 312030Z 24015KT 210V270 9999 BKN005 13/12 Q1007 R21/2///// URKK 312330Z 35003MPS 0125 R23/0200V0450N FG VV002 06/05 Q1012 TEMPO 0200 FG VV002 RMK QBB060 OBST OBSC QFE755 SC070 KHAI 312355Z AUTO 36012G23KT 10SM OVC025 02/M01 A3017 RMK AO2 T00201015 10051 20016 KFRR 312355Z AUTO 00000KT 10SM SCT044 OVC060 08/03 A2984 RMK AO1 KFSI 312358Z AUTO 04007KT 10SM CLR 11/M02 A3036 RMK AO2 SLP281 T01141024 10166 20114 51005 USCC 010000Z 23003MPS 9999 FEW033CB BKN070 03/M04 Q1015 27290050 NOSIG RMK QFE741 FAOB 310900Z 13020KT 9999 SCT030 20/// Q1023 KFSM 312353Z 01010KT 10SM CLR 11/M04 A3035 RMK AO2 SLP279 T01061044 10167 20106 53018 WABP 312300Z 00000KT 3000 FOG SCT020 25/24 Q1012 NOSIG KHAO 312353Z AUTO 29009KT 10SM -RA BKN017 OVC026 04/02 A2998 RMK AO2 RAB04E17B42 SLP156 P0000 60006 T00440022 10056 20044 52006 KFSO 312355Z AUTO 01006KT 10SM BKN110 04/M02 A3007 RMK AO2 T00401023 10080 20040 KHBG 312353Z AUTO 34011G20KT 10SM CLR 17/08 A3009 RMK AO2 SLP188 T01720078 10228 20172 53029 KFTG 312347Z 16012KT 50SM BKN180 13/M01 A3012 VILK 312330Z 00000KT 0800 R27/P2000 BR FEW100 SCT200 19/18 Q1011 KHBI 312355Z AUTO 00000KT 10SM SCT090 11/06 A2982 RMK AO2 T01110062 10151 20111 KGKJ 010002Z AUTO 08003KT 4SM -RA BR FEW006 BKN010 OVC019 05/03 A2989 RMK AO2 P0000 T00500033 TSNO WADD 312330Z 36003KT 330V040 9999 FEW018 28/23 Q1010 NOSIG USCM 010000Z 24008MPS 8000 SCT100 02/M10 Q1017 NOSIG 19090065 RMK QFE725 KGJT 312353Z 31005KT 10SM CLR 16/M02 A3003 RMK AO2 SLP141 T01611017 10211 20156 58010 KFST 312353Z AUTO 10008KT 10SM CLR 20/M02 A3028 RMK AO2 SLP221 T02001017 10228 20194 55002 KFTK 010001Z 30015G19KT 10SM -RA BKN022 OVC028 03/00 A3005 RMK AO2A RAB0002 KGLD 312353Z AUTO 15012KT 10SM CLR 06/M06 A3030 RMK AO2 SLP279 T00561056 10094 20050 56013 EKGC 312350Z AUTO 20025KT 9999NDV 15/12 Q1014 KHCD 312352Z AUTO 08003KT 10SM CLR 01/M08 A3049 RMK AO2 T00111083 KFTN 312330Z AUTO 04009KT 10SM CLR 25/05 A3022 RMK AO1 KFSW 312355Z AUTO 35007KT 10SM CLR 04/M05 A3041 RMK AO2 KGLE 312355Z AUTO 01005KT 10SM CLR 13/01 A3035 RMK AO2 T01290007 10166 20129 FAPE 312300Z 09006KT 060V120 9999 SCT030 16/12 Q1021 NOSIG EKGF 312020Z 17020KT CAVOK 14/12 Q1015 KGLH 312353Z AUTO 34008KT 10SM FEW055 12/06 A3021 RMK AO2 SLP237 T01220056 10183 20122 52023 KHBR 312353Z AUTO 06008KT 10SM CLR 11/M05 A3038 RMK AO2 RAE22 SLP289 P0000 60000 T01061050 10161 20106 53002 $ URML 312300Z 00000MPS 6000 OVC026 12/10 Q1011 NOSIG RMK QFE758/1010 FAOR 010000Z 36008KT CAVOK 18/12 Q1024 NOSIG WADL 312300Z 00000KT 8000 FEW016 25/22 Q1011 NOSIG DRZA 312000Z 12004KT CAVOK 28/07 Q1014 URMM 312330Z 00000MPS 4700 BR SCT021 BKN130 05/05 Q1011 R12/CLRD70 NOSIG RMK MT OBSC QFE730/0974 EKHA 312350Z AUTO 18025KT 9999NDV 15/13 Q1015 KGKT 312355Z AUTO 33008KT 6SM SCT012 BKN016 OVC022 07/06 A2991 RMK URMN 312300Z 21001MPS 9999 OVC012 07/04 Q1011 NOSIG RMK MT OBSC QFE722 SC06 FBFT 010000Z 09011KT CAVOK 25/11 Q1016 KFUL 312353Z 19003KT 10SM SCT044 OVC055 21/13 A2985 RMK AO2 SLP105 T02110128 10228 20211 58010 KHDC 312355Z AUTO 33007KT 10SM CLR 18/07 A3012 RMK AO2 KHBV 312355Z AUTO 36005KT 10SM CLR 23/07 A3021 RMK AO2 T02310074 ZWSH 010000Z 18003MPS 2000 -RA BR OVC040 05/03 Q1032 NOSIG KFTW 312353Z 36010KT 10SM CLR 16/03 A3031 RMK AO2 SLP262 60000 T01560033 10200 20156 53009 EKHD 312350Z AUTO 20030KT 9999NDV ///// Q//// KFVE 312353Z AUTO 02004KT 10SM OVC055 02/M03 A3010 RMK AO2 SLP203 T00171033 10039 20017 51013 KHDE 312355Z AUTO 00000KT 10SM CLR 02/M10 A3037 RMK AO2 T00191105 10067 20019 KHCO 312353Z AUTO 15010KT 10SM CLR M01/M07 A3038 RMK AO2 KGKY 312353Z 01010KT 10SM CLR 17/02 A3031 RMK AO2 SLP259 6//// T01670017 10200 20161 53007 KFTY 312353Z 29006KT 10SM BKN034 OVC045 11/08 A2992 RMK AO2 RAB11E32 SLP130 P0003 60003 T01110083 10156 20106 53010 FAPP 010000Z AUTO 04004KT //// // ////// 16/13 Q1022 URMT 312330Z 10003MPS 0150 R07/0450N FG VV001 08/08 Q1011 NOSIG RMK QBB040 OBST OBSC QFE718 SC070 KGLR 312353Z AUTO 02007KT 10SM OVC030 M02/M07 A3028 RMK AO2 SLP270 60000 T10171067 11006 21017 53024 KGLS 312352Z AUTO 35018G25KT 10SM CLR 22/08 A3016 RMK AO2 PK WND 36026/2336 SLP213 T02220078 10250 20222 53010 KFWA 312354Z 36019G24KT 9SM -SN BKN015 OVC028 02/00 A3009 RMK AO2 PK WND 01032/2303 SLP194 P0001 60004 T00170000 10067 20017 51027 KGNA 312356Z AUTO 33003KT M02/M06 A3050 RMK AO1 SLP342 T10171061 10039 21017 53005 KGMJ 312355Z AUTO 01003KT 10SM CLR 07/M04 A3042 RMK AO2 KFWB 312355Z AUTO 35006KT 10SM CLR 04/M07 A3038 RMK AO2 KFWC 312355Z AUTO 33014G24KT 10SM OVC060 06/M05 A3025 RMK AO1 T00551047 10075 20055 KGNC 312355Z AUTO 13006KT 10SM CLR 15/01 A3034 RMK AO2 T01500005 10190 20150 KHDN 312355Z AUTO 26010KT 10SM CLR 15/M07 A3010 RMK AO1 10210 20130 402100010 57003 KGLW 312355Z AUTO 30008G14KT 10SM -RA SCT039 BKN045 OVC060 04/00 A3009 RMK AO2 60003 T00371003 10095 20035 KHDO 312351Z AUTO 03007KT 10SM CLR 18/06 A3025 RMK AO2 SLP235 T01780056 10244 20178 53004 EKHN 312350Z AUTO 19016KT 5000NDV FEW100/// BKN120/// 15/12 Q1019 KHEF 312245Z 06003KT 10SM OVC060 12/02 A2987 KGNF 312355Z AUTO 34007KT 10SM SCT055 SCT065 08/04 A3020 RMK AO2 KGLY 312355Z AUTO 00000KT 10SM CLR 02/M06 A3043 RMK AO2 ZYCC 010000Z 25003MPS 1000 R24/1200N BR OVC023 05/02 Q1015 BECMG TL0130 2000 KHEI 312353Z AUTO 13013G26KT 10SM CLR 04/M09 A3006 RMK AO2 PK WND 14027/2259 SLP203 T00391094 10067 20022 56013 DRZR 311800Z 00000KT CAVOK 32/03 Q1011 EKHR 312350Z AUTO 18014KT //// SCT120/// 15/14 Q1017 FASB 312224Z 27004KT CAVOK 15/05 Q1015 KGMU 312353Z 01011KT 10SM OVC060 13/06 A2980 RMK AO2 SLP091 T01330056 10172 20133 53002 KHFD 312353Z VRB06KT 10SM -RA FEW028 OVC038 09/06 A2997 RMK AO2 RAB11 SLP148 P0002 60002 T00890061 10117 20089 53011 KFXE 312353Z 30008KT 10SM SCT055 26/17 A2982 RMK AO2 SLP101 T02560172 10300 20256 53020 KFWN 312353Z AUTO 04003KT 10SM FEW038 OVC050 10/02 A2992 RMK AO2 SLP133 T01000022 10111 20100 51005 KHFF 311856Z AUTO VRB02KT 3SM SCT045 18/06 A2984 RMK AO2 SLP107 T01750055 KFVX 312355Z AUTO 00000KT 10SM BKN060 120 10/04 A2982 RMK AO2 KHEQ 312355Z AUTO 15012KT 10SM CLR 07/M02 A3023 RMK AO2 KGNR 312356Z AUTO 07004KT 02/M02 A3003 RMK AO1 SLP186 T00221017 10061 20017 53007 FASI 010000Z AUTO 07002KT //// // ////// 16/12 Q1022 KFWS 312349Z 01011KT 10SM SKC 14/04 A3033 KHFJ 312355Z AUTO 35005KT 10SM CLR 03/M06 A3038 RMK AO2 DTKA 010000Z 00000KT 9999 SCT020 13/11 Q1022 NOSIG KGOK 312353Z AUTO 05005KT 10SM CLR 08/M06 A3040 RMK AO2 SLP299 T00831056 10139 20083 53001 EKKA 010010Z AUTO 18006KT 150V210 1900NDV BR BKN003/// 13/13 Q1018 KGNT 312357Z AUTO 16009KT 10SM RA SCT023 BKN060 BKN070 15/02 A3024 RMK AO2 FCBB 312300Z 26002KT 9000 NSC 25/22 Q1013 NOSIG KGNV 312353Z 28005KT 10SM CLR 13/10 A2986 RMK AO2 SLP112 T01280100 10233 20128 53016 KGON 312356Z 05013G19KT 10SM FEW017 BKN034 OVC040 09/07 A2993 RMK AO2 SLP136 60000 T00890067 10128 20089 51006 USHH 010000Z 25003MPS 9999 BKN033CB OVC080 01/M01 Q1006 TEMPO 1300 SHSN BR BKN003 RMK QFE751 24////60 FBKE 311800Z 11009KT CAVOK 32/01 Q1012 KGOO 312340Z AUTO 14005KT 3SM FEW003 SCT033 OVC048 10/10 A2982 RMK AO1 P0001 KHEY 312353Z AUTO 35006KT 10SM FEW060 BKN080 BKN100 17/08 A2993 RMK AO2 SLP122 T01670078 10228 20161 53016 KGOP 312355Z AUTO 00000KT 10SM CLR 17/04 A3031 RMK AO2 KFYG 312355Z AUTO 33007KT 10SM CLR 04/M07 A3037 RMK AO2 KGPH 010015Z AUTO 36004KT 10SM CLR 04/M08 A3044 RMK AO2 KHEZ 312355Z AUTO 36009KT 10SM CLR 15/06 A3018 RMK AO1 10210 20150 402100070 52027 KFWZ 312355Z AUTO 10SM CLR 11/M08 A3004 RMK AO2 KGPI 312355Z 00000KT 10SM OVC100 09/06 A2976 RMK AO2 SLP091 T00940056 10106 20050 53003 KFYJ 312355Z AUTO 00000KT 10SM CLR 11/03 A2985 RMK AO2 T01050030 10164 20105 KGOV 312355Z AUTO 36015G23KT 10SM OVC035 00/M06 A3028 RMK AO2 T10011064 10005 21001 KFYM 312355Z AUTO 35014KT 10SM FEW044 04/M02 A3010 RMK KGPM 312250Z 36011G22KTS 10SM SKC 17/04 A3031 KHHF 312355Z AUTO 12006KT 10SM CLR 11/M04 A3035 RMK AO2 T01141042 10150 20114 KFZG 312355Z AUTO 32007KT 10SM SCT090 18/03 A2990 RMK AO2 T01820033 10237 20182 KHHG 312355Z AUTO 36014G17KT 7SM -SN BKN010 OVC015 A3009 RMK AO2 P0001 60004 KFXY 312355Z AUTO 35003KT 10SM CLR 00/M06 A3047 RMK AO2 UTAA 010000Z 00000MPS 7000 SKC 05/M01 Q1012 R12/CLRD70 TEMPO 2000 HZ KHGR 312353Z 01003KT 10SM OVC060 10/02 A2987 RMK AO2 SLP125 T01000017 10111 20100 56000 KGRB 312353Z 02013KT 10SM BKN048 02/M07 A3042 RMK AO2 SLP309 T00171067 10050 20011 53021 KGPT 312353Z 34011KT 10SM CLR 19/08 A3003 RMK AO2 SLP169 T01890078 10244 20183 53026 $ KHIB 312353Z AUTO 00000KT 10SM CLR M04/M09 A3047 RMK AO2 SLP342 T10391089 10039 21039 58000 DTMB 010000Z 36011KT 8000 FEW020 SCT026 20/11 Q1021 NOSIG KFYV 312353Z 35010KT 10SM CLR 06/M04 A3036 RMK AO2 SLP284 T00611039 10111 20061 51013 KGRD 312356Z AUTO 27006KT 10SM OVC110 14/07 A2982 RMK AO2 SLP095 60000 T01390067 10189 20139 53003 KHIE 312352Z AUTO 00000KT 10SM OVC050 06/02 A3002 RMK AO2 SLP175 T00560022 10094 20050 53009 KGRF 010005Z AUTO 15004KT 10SM CLR 13/09 A2984 RMK AO2 KHIF 312358Z AUTO 26003KT 10SM CLR 19/00 A2986 RMK AO2 SLP069 60000 T01901002 10234 20190 57011 URRR 312330Z 06004MPS 9999 BKN019 OVC100 08/03 Q1014 04CLRD70 NOSIG WAJJ 312300Z 13006KT 9999 FEW012 27/23 Q1009 FAUP 010000Z 25003KT CAVOK 22/02 Q1011 NOSIG KGPZ 312355Z AUTO 00000KT 10SM CLR M02/M09 A3045 RMK AO1 10030 21030 57010 UTAK 010000Z 14002MPS CAVOK 05/M07 Q1012 NOSIG KGRI 312353Z 14005KT 10SM CLR 02/M09 A3042 RMK AO2 SLP320 T00171089 10067 20017 56015 KHHR 312353Z 27006KT 10SM OVC055 20/15 A2986 RMK AO2 SLP111 T02000150 10211 20194 57010 KHII 312355Z AUTO 19010KT 10SM CLR 30/04 A2972 RMK AO2 ZWWW 010000Z VRB01MPS CAVOK M00/M06 Q1032 NOSIG UTAM 010000Z 12003MPS 6000 SKC 05/í01 Q1016 NOSIG RMK SC07 KGRK 312358Z AUTO 02010KT 10SM CLR 17/03 A3028 RMK AO2 SLP251 T01690034 10216 20169 52011 KGSB 312358Z AUTO 02004KT 10SM CLR 12/09 A2979 RMK AO2 SLP091 T01220085 10181 20121 53001 $ KIAB 312358Z AUTO 06006KT 10SM CLR 06/M11 A3043 RMK AO2 SLP314 T00631114 10101 20059 50001 FAWB 010000Z AUTO 02004KT //// // ////// 19/12 Q1019 FAUT 010000Z AUTO /////KT //// // ////// ///// Q//// KIAD 312352Z 04004KT 10SM OVC060 09/02 A2986 RMK AO2 SLP113 T00890017 10117 20089 57002 KHHV 312355Z AUTO 02014KT 10SM CLR 24/10 A3013 RMK A01 KHHW 312355Z AUTO 34004KT 10SM CLR 12/01 A3033 RMK AO2 T01210005 10168 20121 FBMN 010000Z VRB02KT CAVOK 24/03 Q1011 KHIO 010004Z VRB03KT 7SM -RA FEW027 SCT033 OVC047 11/10 A2985 RMK AO2 P0002 T01110100 KIAG 312353Z 08004KT 9SM -RA BKN035 BKN050 OVC070 07/05 A2994 RMK AO2 SLP148 P0001 60002 T00670050 10094 20067 52016 $ KFZY 312354Z AUTO 02006KT 10SM SCT065 OVC080 07/02 A2997 RMK AO2 SLP153 60000 T00720022 10100 20072 52010 URSS 312330Z 08003MPS 9999 SCT033CB OVC100 14/12 Q1009 NOSIG RMK R02/05002MPS MT OBSC QFE755 06290055 02290055 ZYHB 010000Z 20002MPS 0200 R23/0400N FU OVC006 02/M00 Q1013 BECMG TL0130 0500 KGSH 312353Z AUTO 36017G25KT 10SM SCT026 BKN034 OVC042 02/M02 A3015 RMK AO2 PK WND 34031/2317 SLP216 60004 T00171017 10067 20017 51036 KIAH 312353Z 35009KT 10SM FEW250 20/06 A3019 RMK AO2 SLP223 T02000061 10261 20200 53015 KHJH 312355Z AUTO 00000KT 10SM CLR 02/M11 A3044 RMK AO2 T00171114 10073 20017 UTAT 010000Z 08004MPS CAVOK 02/í12 Q1018 99CLRD70 NOSIG KGRR 312353Z 36017G26KT 10SM OVC033 02/M04 A3023 RMK AO2 PK WND 01026/2352 SLP245 60003 T00171044 10033 20017 51037 KHKA 312353Z AUTO 02014KT 10SM CLR 07/M03 A3029 RMK AO2 SLP257 T00671033 10161 20067 51028 UTAV 010000Z 00000íPS 7000 SKC 03/02 Q1018 NOSIG KGTB 312358Z AUTO 04009KT 10SM FEW023 05/M01 A3001 RMK AO2 SLP169 60000 T00511006 10078 20051 EKOD 311550Z 15006KT 2500 BR BKN004 BKN009 11/11 Q1021 LAST FAVV 010000Z AUTO 04006KT //// // ////// 18/12 Q1022 KGTF 312353Z 21006KT 10SM CLR 15/01 A2972 RMK AO2 SLP052 T01500006 10222 20150 51005 KHJO 312353Z AUTO 22011KT 10SM FEW060 23/08 A2974 RMK AO2 SLP071 T02330083 10250 20206 56020 KGSO 312354Z 06004KT 10SM BKN048 BKN075 OVC100 11/06 A2980 RMK AO2 SLP089 T01110061 10139 20111 58005 KGSP 312353Z 36009KT 10SM BKN065 OVC090 13/06 A2979 RMK AO2 SLP085 T01280056 10167 20128 53004 KGRY 312355Z AUTO 35008G19KT 270V070 10SM CLR 24/10 A3005 RMK A01 WALL 311230Z 23003KT 9000 SCT020 28/24 Q1008 NOSIG UTDD 010000Z 00000MPS 5000 BR OVC140 05/02 Q1018 09CLRD70 NOSIG RMK QFE696/0928 KHLC 312353Z AUTO 13006KT 9SM CLR 04/M11 A3038 RMK AO2 SLP304 T00441111 10083 20044 56015 KGUC 312355Z AUTO 18003KT 10SM CLR 15/M07 A3021 RMK AO1 10160 20090 401601080 57010 KIBM 312355Z AUTO 16015G22KT 10SM CLR 09/M03 A3012 RMK AO2 T00901027 10131 20073 KHLG 312353Z 00000KT 5SM -RA BR OVC017 06/04 A2987 RMK AO2 SLP125 P0003 60006 T00560044 10067 20056 53006 URWA 312330Z 08004MPS CAVOK 02/M01 Q1015 NOSIG RMK QFE763/1017 SC070 KGTR 312355Z 33010KT 10SM SKC 12/04 A3012 UTDL 010000Z 04003MPS 3800 BR SCT200 05/03 Q1020 NOSIG RMK QFE725/0967 88CLRD70 KIDA 312353Z 21009KT 10SM CLR 17/M02 A2987 RMK AO2 SLP101 T01721017 10222 20167 56003 KHKS 312353Z 35007KT 10SM FEW055 14/06 A3016 RMK AO2 SLP208 T01390061 10206 20139 51028 WAMM 010000Z 22003KT 150V290 9999 FEW021 29/24 Q1010 NOSIG KGTU 312350Z 02007KT 10SM CLR 18/03 A3026 KICL 312355Z AUTO 01005KT 10SM CLR 02/M08 A3048 RMK AO2 KGUL 312355Z AUTO 10SM 23/09 A3011 RMK A01 KHME 311950Z 08008KT 9999 FEW030CB SCT035 SCT200 10/M02 Q1018 KHLN 312353Z 00000KT 10SM CLR 13/03 A2975 RMK AO2 SLP093 T01280028 10144 20072 58004 KGVE 312355Z AUTO 00000KT 10SM OVC060 09/04 A2984 RMK AO1 T00930041 10132 20087 URWI 311700Z 12005MPS 9999 BKN029 OVC100 09/06 Q1016 NOSIG KGUP 312353Z AUTO 09007KT 10SM TS BKN080 17/07 A3014 RMK AO2 LTG DSNT NE-SE RAB06E22 TSE2257B2258E15B17E37B52 SLP118 P0002 60002 T01720072 10233 20172 56003 KHKY 312353Z AUTO 07003KT 9SM -RA OVC046 09/08 A2981 RMK AO2 LTG DSNT SE AND S RAB11 SLP086 P0000 60007 T00940083 10139 20094 51005 UTFA 312100Z 00000MPS 1800 BR NSC 02/00 Q1022 R88/09//70 KICR 312353Z AUTO 14014KT 10SM CLR 05/M12 A3028 RMK AO2 SLP280 T00501122 10078 20033 56023 KIDI 312355Z AUTO 03005KT 6SM BR OVC022 05/05 A2991 RMK A01 KGUR 312355Z AUTO 12010KT 10SM CLR 15/01 A3003 RMK AO2 T01530013 10189 20142 KGUS 312358Z 35016G29KT 10SM FEW007 BKN016 OVC027 02/02 A3012 RMK AO2A PK WND 36033/30 SLP209 P0000 60003 T00150015 10042 20011 52041 KICT 312353Z 05008KT 10SM FEW250 07/M11 A3043 RMK AO2 SLP307 T00671106 10106 20067 58000 KHNB 312355Z AUTO 01017G25KT 10SM OVC044 04/M03 A3014 RMK AO1 10070 20030 52014 KGWB 312355Z AUTO 35015G22KT 10SM SCT024 OVC030 02/M01 A3009 RMK AO2 USNN 010000Z 22004MPS 9000 OVC005 01/01 Q1006 TEMPO OVC004 RMK QFE750 QBB160 2132//51 KGVL 312353Z AUTO 30006KT 10SM CLR 11/05 A2988 RMK AO2 SLP116 T01060050 10167 20106 50006 UTFF 312100Z 14002MPS 7000 NSC 04/01 Q1021 R18/CLRD70 KHND 312356Z AUTO 14015G22KT 10SM CLR 27/M01 A2977 RMK AO2 TSNO 56018 T02721011 10300 20250 SLP063 KHMN 312358Z AUTO 17017G21KT 10SM CLR 20/04 A3019 RMK AO2 SLP183 T02010040 10231 20194 57006 $ KHLX 312355Z AUTO 32006KT 7SM -RA SCT014 BKN022 OVC027 04/03 A2982 RMK AO2 P0006 60015 T00400032 10103 20040 KGUY 312353Z AUTO 14009KT 10SM CLR 11/M02 A3032 RMK AO2 SLP266 T01111022 10150 20111 56005 KIDP 312355Z AUTO 03006KT 10SM CLR 03/M06 A3042 RMK AO2 WBGB 010000Z 09003KT 9999 FEW005 SCT014 FEW015CB BKN300 26/24 Q1010 KGXA 312355Z AUTO 32006KT 10SM CLR 19/07 A2982 RMK AO2 SLP095 T01890070 10214 20166 402420074 57012 TSNO $ KIFA 312355Z AUTO 34006KT 10SM CLR 00/M08 A3046 RMK AO2 T10051077 10050 21005 KHOB 312355Z AUTO 11007KT 10SM CLR 15/00 A3033 RMK AO2 KGVT 312355Z AUTO 00000KT 10SM CLR 12/03 A3032 RMK AO2 URWW 312330Z 00000MPS CAVOK 01/M04 Q1015 NOSIG RMK SC070 EKSB 312050Z 16004KT 1800 BR NSC 12/12 Q1020 EKRK 312350Z AUTO 14005KT 0150NDV R11/0650N R29/0800U FG VV001 11/11 Q1021 WAOO 312330Z 00000KT 7000 NSC 25/20 Q1009 NOSIG WBGG 010000Z 11005KT 070V140 9999 -RA FEW002 SCT020 BKN150 25/24 Q1010 NOSIG KIEN 312352Z AUTO 17012G19KT 10SM CLR 08/M03 A3010 RMK AO2 SLP212 T00781033 10111 20067 58019 KHOE 312355Z AUTO 29004KT 10SM CLR 16/09 A2987 RMK AO2 KGXF 312355Z 34003KT 10SM FEW150 31/07 A2978 RMK SLP070 56016 EKRN 312350Z AUTO 20006KT 1300NDV R11/P1500N R29/P1500N BR OVC003/// 12/11 Q1022 KGWO 312353Z AUTO 34004KT 10SM FEW060 11/04 A3019 RMK AO2 SLP223 T01060039 10183 20100 51023 TSNO KGVX 312355Z AUTO 33017KT 10SM CLR 24/08 A3015 RMK A01 KGWR 312355Z AUTO 14008KT 10SM CLR 00/M05 A3040 RMK A01 P000 KIER 312355Z AUTO 34005KT 10SM CLR 15/09 A3021 RMK AO2 T01530088 10221 20153 KHNR 312355Z AUTO 36003KT 10SM CLR M02/M06 A3050 RMK AO2 DTTA 010000Z 30003KT 8000 SCT026 17/12 Q1022 NOSIG KGYB 312355Z AUTO 02006KT 10SM CLR 19/04 A3027 RMK AO2 T01900043 10233 20190 FBSK 312300Z 06011KT 040V100 CAVOK 27/09 Q1015 NOSIG FDBB 010000Z AUTO 23006KT //// // ////// 20/16 Q1018 DTTB 010000Z VRB01KT 9999 SCT020 14/11 Q1022 WAPP 311500Z 34002KT 9999 SCT020 24/23 Q1009 DTTD 311800Z 04006KT 010V070 9999 SCT023 19/08 Q1021 USPP 010000Z 23003MPS 2100 -RASN BR BKN020 OVC076 01/01 Q1012 21290250 NOSIG RMK QFE748/0998 KHON 312355Z AUTO 15006KT 10SM CLR 02/M08 A3039 RMK AO2 SLP313 T00171083 10044 20017 56018 KGWW 312355Z AUTO 00000KT 10SM CLR 09/07 A2982 RMK AO2 T00850067 10180 20082 EKSN 311450Z 15012KT 2000 -BR OVC004 10/10 Q1020 EKTE 312350Z AUTO 19026KT 9999NDV 15/12 Q1014 WBGR 010000Z 14005KT 9999 FEW014 BKN300 29/24 Q1010 DTTF 312200Z 02008KT CAVOK 16/10 Q1022 KHOP 312358Z AUTO 30014G22KT 10SM BKN060 OVC080 06/M04 A3018 RMK AO2 SLP223 60001 T00561039 10085 20051 52020 KIFP 312355Z AUTO 19014KT 10SM CLR 30/03 A2971 RMK AO2 PWINO WBGS 010000Z 22004KT 9999 -RA SCT005 SCT018 BKN150 25/23 Q1011 FBSP 311800Z 09010KT CAVOK 30/14 Q1016 EKSP 312350Z 19005KT 2400 BR NSC 11/11 Q1019 RMK FEW100 BKN200 KGYH 312347Z 23006KT 10SM SCT041 12/02 A2979 KHNZ 312355Z AUTO 00000KT 10SM OVC060 10/07 A2982 RMK AO2 T01010069 10141 20099 DTTG 010000Z 28005KT 7000 FEW020 SCT030 16/14 Q1022 NOSIG KGYI 312355Z AUTO 03005KT 10SM CLR 13/04 A3033 RMK AO2 T01290036 10177 20129 DTTJ 010000Z 01013KT 9999 FEW020 SCT026 21/13 Q1020 NOSIG KHOT 312353Z AUTO 36010G17KT 10SM CLR 13/00 A3028 RMK AO2 SLP251 T01330000 10183 20133 51020 KHOU 312353Z 36014KT 10SM FEW250 21/04 A3017 RMK AO2 SLP221 T02110044 10256 20211 53013 KGYL 312354Z AUTO 00000KT 7SM CLR 00/M08 A3048 RMK AO2 T10011081 10046 21001 DTTK 010000Z 32004KT 9999 FEW023 16/11 Q1022 DTTL 311800Z 00000KT 9999 FEW020 19/13 Q1021 KIGM 312351Z AUTO 18009KT 10SM CLR 25/02 A2987 RMK AO2 SLP052 T02500022 10278 20250 56008 WBGY 010000Z 11003KT 6000 FEW000 SCT020 BKN150 24/24 Q1010 KHPN 312356Z 04004KT 10SM BKN080 10/03 A2991 RMK AO2 SLP130 T01000033 10117 20100 51004 DTTN 010000Z 16002KT 8000 SCT020 12/10 Q1023 KGXY 312355Z AUTO 31008KT 10SM CLR 09/M02 A3012 RMK AO1 10140 20090 401400000 57010 KGZH 312353Z AUTO 33005KT 10SM CLR 18/08 A2998 RMK AO2 SLP152 T01780083 10233 20178 53022 KIGQ 312355Z AUTO 02016G32KT 4SM -SN SCT014 SCT029 OVC033 02/M01 A3027 RMK AO2 T00191006 10043 20019 KGYR 312347Z VRB03KT 10SM FEW200 32/08 A2979 KHQI 312355Z AUTO 33020KT 10SM CLR 23/10 A3012 RMK A01 DTTR 311800Z 04012KT 9999 SCT026 22/07 Q1020 KIIB 312355Z AUTO 36008KT 10SM CLR 00/M06 A3044 RMK AO2 KGZL 312335Z AUTO 34006KT 10SM CLR 07/M02 A3038 RMK AO2 KHQM 312353Z AUTO 21006KT 6SM HZ FEW024 13/09 A2983 RMK AO2 SLP105 60001 T01280094 10139 20111 53004 EKVD 311550Z 17004KT 1500 BR VV001 12/12 Q1020 WARQ 311200Z 23005KT 6000 FEW017 29/ 22 Q1008 NSG KIGX 312356Z AUTO 00000KT 10SM FEW055 OVC080 11/07 A2981 RMK AO2 SLP094 T01110067 10156 20111 58006 WARR 312330Z 24003KT 210V280 3000 HZ FEW020 26/22 Q1009 NOSIG USRR 010000Z 22005MPS 2100 -SN OVC003 01/00 Q1005 TEMPO 1000 SN BR BKN003 RMK QBB110 OBST OBSC QFE749 25////55 DTTX 010000Z 32007KT 9999 SCT020 16/12 Q1021 NOSIG KGYY 312345Z 34035G50KT 10SM OVC050 MM/MM A3026 WARS 312200Z 13003KT 5000 HZ FEW020 25/22 Q1008 NOSIG EKVG 312350Z AUTO 18009KT 9999NDV OVC003/// 10/10 Q0994 DTTZ 010000Z 07003KT CAVOK 18/07 Q1022 NOSIG KHRI 312353Z AUTO 22004KT 10SM CLR 13/07 A2982 RMK AO2 RAE12 SLP096 P0000 60000 T01280067 10139 20117 53006 KHSA 312350Z 34010KT 10SM CLR 218/06 A3004 KHRJ 312355Z AUTO 00000KT 10SM SCT085 12/07 A2981 RMK AO2 T01180071 10185 20118 EKVJ 311450Z 17010KT 2000 BR -DZ BKN003 13/12 Q1020 KHSB 312355Z AUTO 33013G18KT 10SM CLR 06/M05 A3026 RMK AO2 T00561050 10083 20055 KHRL 312352Z 01006KT 10SM CLR 22/16 A3017 RMK AO2 SLP215 60000 T02170156 10256 20211 53012 KJAC 010001Z 22006KT 10SM CLR 13/M05 A2995 KHQU 312355Z AUTO 27004KT 10SM SCT090 SCT120 16/10 A2988 RMK AO1 T01620095 10214 20162 KIJD 312352Z AUTO 04006KT 10SM -RA OVC038 08/06 A2997 RMK AO2 SLP150 P0001 60002 T00830056 10122 20083 51012 KHSE 312351Z AUTO 01008G16KT 340V070 10SM FEW025 OVC031 16/11 A2975 RMK AO2 SLP073 T01560111 10178 20150 51001 TSNO KHRO 312353Z AUTO 33007KT 10SM CLR 05/M07 A3035 RMK AO2 SLP281 T00501067 10111 20050 51016 ELLX 312350Z 12002KT 4500 R24/0350V1300U NSC 11/10 Q1023 NOSIG USSS 010000Z 24003MPS 9999 OVC025 03/01 Q1013 7629//40 NOSIG RMK QFE739 KHQZ 312350Z 03005KT 10SM CLR 15/02 A3031 WBKK 010000Z 12004KT 100V160 9999 FEW015 BKN300 28/22 Q1009 NOSIG KHSI 312353Z AUTO 13005KT 10SM CLR 02/M11 A3041 RMK AO2 SLP316 T00221106 10067 20022 56013 WBKL 010000Z 13003KT 9999 FEW012 BKN300 29/25 Q1010 KL18 312355Z AUTO 24005KT 10SM SCT035 OVC050 19/12 A2989 RMK AO2 KHRT 312358Z AUTO 33005KT 10SM CLR 19/05 A2994 RMK AO2 SLP140 T01890053 10236 20189 52015 RVRNO $ UUBP 311400Z 32002MPS 4000 FU OVC025 04/M01 Q1020 NOSIG RMK QFE747 34CLRD70 KJAN 312354Z 35013KT 10SM BKN055 14/06 A3016 RMK AO2 SLP213 T01390061 10211 20139 51032 KHRX 312355Z AUTO 09007KT 10SM CLR 13/00 A3035 RMK AO2 T01340001 10179 20134 USTR 010000Z 23004MPS 9999 OVC022 02/01 Q1013 TEMPO BKN005 RMK QFE750/1000 21290060 12290060 KIIY 312355Z AUTO 28011G19KT 10SM CLR 16/08 A2984 RMK AO2 LTG DSNT NE KHSP 312355Z AUTO 23005KT 1SM DZ OVC002 02/02 A2978 RMK AO2 P0001 60005 T00210020 10054 20020 WBKS 010000Z 28005KT 240V320 9999 FEW016 FEW017CB BKN300 29/26 Q1009 WATT 312330Z 08011KT CAVOK 28/22 Q1011 NOSIG WBKT 010000Z 14001KT 9999 FEW015 BKN280 29/26 Q1009 KJAS 312355Z AUTO 35005KT 10SM CLR 16/08 A3023 RMK AO2 T01630080 KHUA 312358Z AUTO 35017G21KT 10SM BKN065 BKN080 06/02 A3010 RMK AO2 RAB2256E2308 SLPNO P0000 60002 T00560024 10149 20056 52030 UUDD 010000Z 26002MPS 8000 BKN044 02/M01 Q1018 82010095 NOSIG KHST 312358Z AUTO 27011KT 10SM CLR 24/19 A2984 RMK AO2 SLP108 T02440188 10301 20244 52019 KIKK 312355Z AUTO 34013G26KT 10SM BKN036 BKN042 BKN048 03/M03 A3028 RMK AO2 60007 T00271031 10055 20026 UUBW 010000Z 29002MPS 9999 BKN036 02/M02 Q1018 NOSIG RMK SC060 WBKW 010000Z 00000KT 9999 FEW017 BKN300 28/25 Q1010 KHTL 312353Z AUTO 01017G27KT 10SM OVC034 M01/M07 A3025 RMK AO2 PK WND 35032/2300 SLP258 60000 T10061067 10011 21006 51016 KHSV 312353Z 35009KT 10SM SCT060 SCT080 07/02 A3011 RMK AO2 SLP195 60000 T00720022 10156 20072 53032 KILE 312355Z AUTO 02009KT 10SM CLR 17/03 A3026 RMK AO1 10220 20170 52014 KHTO 311955Z VRB04KT 10SM SCT030 OVC050 13/08 A2991 KHUF 312353Z 35017G32KT 10SM OVC036 04/M02 A3017 RMK AO2 PK WND 34033/2327 RAE33 SLP219 P0000 60000 T00441022 10061 20033 53020 KJAX 312356Z 26005KT 10SM CLR 14/11 A2984 RMK AO2 SLP105 T01440111 10239 20139 53015 KIJX 312355Z AUTO 34010KT 10SM BKN060 05/M06 A3036 RMK AO2 T00501056 10086 20050 KILG 312351Z 36007KT 10SM FEW045 SCT055 BKN070 09/03 A2988 RMK AO2 SLP118 T00940028 10128 20094 58003 KL35 312355Z AUTO 23005KT 10SM CLR 12/01 A2998 RMK AO2 KJBR 312353Z AUTO 01006KT 10SM CLR 08/M07 A3030 RMK AO2 SLP259 T00831072 10150 20083 51031 UUDL 312100Z 28002MPS 9999 OVC043 02/00 Q1017 NOSIG RMK QFE754 23190055 KHTS 312351Z 31008KT 10SM -RA SCT009 OVC020 04/04 A2989 RMK AO2 SLP126 P0005 60016 T00440039 10078 20044 53012 KL38 312355Z AUTO 34007KT 10SM CLR 19/09 A3011 RMK AO2 T01860087 10239 20186 KIKT 312355Z AUTO 31019G25KT 10SM FEW050 FEW055 23/11 A2998 RMK A01 UUEE 010000Z 29003MPS 9999 BKN017 01/M01 Q1018 75000062 NOSIG KHUL 312353Z AUTO 36004KT 10SM FEW045 OVC060 05/01 A3009 RMK AO2 SLP193 T00500006 10078 20050 51012 KILM 312353Z 35003KT 10SM CLR 12/08 A2980 RMK AO2 SLP089 T01170078 10200 20117 53008 KHUM 312350Z 31010KT 7SM SKC 18/08 A3008 RMK RY12/30 CLSD...LAST KJDD 312355Z AUTO 35007KT 10SM CLR 14/05 A3031 RMK AO2 KIKV 312355Z AUTO 36005KT 10SM CLR 02/M07 A3046 RMK AO2 KIKW 312352Z AUTO 35011G20KT 10SM OVC027 02/M03 A3021 RMK AO2 T00151033 KILN 312354Z AUTO 31009KT 8SM -RA BKN012 OVC018 04/02 A2993 RMK AO2 SLP152 P0002 60015 T00390022 10061 20039 51012 KHVE 312355Z AUTO 00000KT 10SM CLR 20/M04 A2999 RMK AO2 FCPP 312300Z 18005KT 100V230 7000 FEW010 OVC023 26/23 Q1012 NOSIG OYAA 010000Z 07005KT CAVOK 26/19 Q1010 KJCT 312351Z AUTO 03007KT 10SM CLR 19/M01 A3028 RMK AO2 SLP226 T01941006 10239 20194 53006 KHUT 312352Z 04003KT 10SM CLR 04/M08 A3044 RMK AO2 SLP309 T00441083 10100 20044 55003 UTNN 312330Z 01001MPS CAVOK M08/M08 Q1018 R33/CLRD60 NOSIG EKYT 312350Z 16005KT 2500 BR SCT003 BKN006 13/12 Q1018 KIML 312353Z AUTO 15013KT 10SM CLR 06/M07 A3027 RMK AO2 SLP273 T00611072 10089 20039 56013 KIMM 010015Z AUTO 29005KT 9SM CLR 20/17 A2988 RMK A01 P000 KIND 312354Z 35021G37KT 10SM -SNRA OVC017 02/M01 A3008 RMK AO2 PK WND 33037/2347 SLP191 RAB33SNB33 P0000 60010 T00221006 10050 20011 53031 KHWD 312354Z 14005KT 10SM BKN090 15/15 A2979 RMK AO2 SLP096 60012 T01500150 10156 20117 58013 $ KJDN 312348Z AUTO 12006KT 10/01 A2979 RMK AO1 SLP105 T01000006 10156 20083 56010 KHVN 312353Z 03006KT 10SM -RA OVC025 11/06 A2995 RMK AO2 RAB36 SLP140 P0000 60000 T01060056 10133 20106 53011 KJEF 312353Z 35004KT 10SM CLR 06/M09 A3040 RMK AO2 SLP286 T00561089 10083 20056 51013 KINF 312355Z AUTO 00000KT 10SM CLR 16/10 A2989 RMK AO2 ZYTL 010000Z 31003MPS 1000 R28/1300 BR SCT026 14/11 Q1017 BECMG TL0100 1600 BR KHVR 312353Z AUTO 05005KT 10SM CLR 09/03 A2971 RMK AO2 SLP073 T00940028 10122 20050 56008 KHVS 312035Z AUTO 00000KT 10SM SCT048 SCT060 BKN090 A2981 RMK AO2 UTNU 312330Z 06002MPS CAVOK M01/M08 Q1017 R31/CLRD70 NOSIG KINJ 312355Z AUTO 36009KT 10SM CLR 16/03 A3030 RMK AO2 T01550033 10202 20155 KIMT 312354Z AUTO 36011G20KT 10SM BKN039 00/M08 A3042 RMK AO2 SLP317 60000 T00001083 10022 21006 53012 KINK 312353Z AUTO 10007KT 10SM CLR 20/M02 A3027 RMK AO2 SLP225 T02001017 10228 20200 56006 KIOB 312355Z AUTO 32006KT 10SM -DZ BKN018 BKN026 OVC044 02/02 A2998 RMK AO2 P0001 KINL 312355Z AUTO 00000KT 10SM CLR M05/M08 A3046 RMK AO2 SLP338 T10501083 10028 21050 56008 KHXD 312350Z 00000KT 10SM CLR 15/12 A2981 KHWO 312353Z 29012KT 10SM FEW048 26/16 A2984 RMK AO2 SLP103 60000 T02560161 10300 20256 53020 OYAR 311500Z 36006KT 9999 FEW030 22/04 Q//// KJER 312353Z AUTO 04008KT 10SM CLR 17/00 A2979 RMK AO2 SLP069 T01670000 10189 20161 58013 OYAT 311500Z 15007KT CAVOK 29/16 Q1016 KJES 312355Z AUTO 00000KT 10SM CLR 14/10 A2984 RMK AO2 KHYA 312356Z 05009KT 10SM OVC055 11/04 A2995 RMK AO2 SLP142 T01110039 10128 20106 58002 KINS 312358Z AUTO 11017G24KT 10SM CLR 25/M01 A2976 RMK AO2 SLP042 T02481015 10261 20207 57018 $ KJFK 312351Z 03010KT 10SM FEW030 BKN065 OVC080 12/06 A2989 RMK AO2 SLP122 T01220056 10128 20122 58004 $ KINT 312354Z 34005KT 10SM BKN036 BKN048 OVC080 12/06 A2981 RMK AO2 SLP094 T01170056 10139 20111 56004 ZYTX 010000Z 22002MPS 0700 R06/1000N FU OVC030 07/04 Q1017 BECMG TL0130 1000 ENAL 312350Z AUTO 13010KT 9999NDV OVC040/// 10/07 Q1009 KHWV 312356Z AUTO 04007G14KT 360V080 8SM RA FEW014 BKN033 OVC050 10/08 A2992 RMK AO2 RAB31 SLP131 P0003 60003 T01000078 10133 20100 53003 TSNO KINW 312356Z AUTO 18015G20KT 10SM CLR 24/03 A3002 RMK AO2 SLP114 T02390033 10272 20233 56005 ENAN 312350Z 11003KT 030V160 9999 -SHRA SCT015 BKN030 01/M02 Q1024 KJGG 312355Z AUTO 00000KT 10SM CLR 10/06 A2985 RMK AO1 KHWY 312355Z AUTO 00000KT 10SM OVC055 10/06 A2985 RMK AO2 T01020061 10145 20102 KHYI 312355Z 03008KT 10SM CLR 19/03 A3025 RMK AO1 10260 20190 52010 FDJR 312300Z AUTO 16003KT //// // ////// 09/07 Q1022 KIPJ 312355Z AUTO 33005KT 3SM +RA SCT008 BKN029 OVC038 10/09 A2981 RMK AO2 P0011 60011 T01030092 10140 20103 ENAT 312350Z 17003KT 9999 BKN048 M05/M07 Q1024 RMK WIND 700FT 15011KT KIPL 312353Z AUTO 27004KT 10SM CLR 29/07 A2971 RMK AO2 SLP061 T02940072 10306 20261 56012 FDLB 010000Z AUTO 20003KT //// // ////// 19/14 Q1022 ENBL 312050Z VRB01KT 9999 -RA FEW015 BKN020 07/06 Q1011 KIOW 312352Z AUTO 36007KT 10SM CLR 03/M07 A3044 RMK AO2 SLP316 T00331067 10061 20033 51013 KHZE 312355Z AUTO 14012G17KT 10SM CLR 02/M10 A3013 RMK AO2 KIPN 312355Z AUTO VRB03G10KT 10SM SCT055 24/10 A3000 RMK A01 ENBN 312350Z AUTO 09020KT //// R04///// R22///// // NCD 04/M03 Q1018 KJFX 312355Z AUTO 33009G15KT 10SM SCT026 SCT033 11/07 A3009 RMK A02 P-128 ENBO 312350Z 07021KT CAVOK M00/M04 Q1022 UTSA 312330Z 10005MPS 3400 BR NSC 04/00 Q1017 R07/CLRD70 NOSIG KJFZ 312355Z AUTO 31003KT 10SM DZ OVC004 05/04 A2984 RMK AO2 60009 T00510040 10092 20051 UTSB 312330Z 00000MPS 3500 BR NSC 02/M02 Q1017 R01/CLRD70 NOSIG WBSB 010000Z 20005KT 9999 FEW015 FEW016CB BKN300 27/25 Q1010 NOSIG KHYR 312353Z AUTO 35004KT 10SM CLR 00/M08 A3049 RMK AO2 SLP344 T00001078 10028 20000 53007 ENBR 312350Z 14014KT 9999 BKN024 14/09 Q1010 RMK WIND 1200FT 14025KT KHYS 312355Z AUTO 10007KT 10SM CLR 04/M09 A3040 RMK AO1 10080 20040 401400010 57014 ENBS 312050Z 27004KT 9999 VCSH FEW018 SCT035 M02/M07 Q1020 KIPT 312354Z 00000KT 10SM OVC060 09/01 A2990 RMK AO2 SLP126 T00890011 10117 20089 53006 KHZL 312355Z AUTO 11006KT 10SM OVC044 07/01 A2991 RMK AO2 ENBV 312150Z 33014KT 7000 -SHSN SCT012 BKN025 00/M01 Q1021 KHYW 312355Z AUTO 00000KT 7SM CLR 10/10 A2980 RMK AO2 ENCN 312350Z AUTO 04004KT 360V060 2900NDV BR BKN002/// OVC006/// 09/09 Q1017 KHYX 312354Z AUTO 36019G28KT 10SM OVC025 01/01 A3016 RMK AO2 UTSK 312330Z 08002MPS CAVOK 03/M04 Q1017 R16/CLRD70 KHZR 312355Z AUTO 34008KT 10SM CLR 17/09 A3015 RMK AO2 T01700088 10227 20170 KIRK 312355Z AUTO 35006KT 10SM CLR 02/M06 A3043 RMK AO2 SLP317 T00171061 10067 20017 53011 KJHW 312355Z AUTO 00000KT 6SM FEW005 FEW015 OVC021 04/02 A2990 RMK AO1 60002 10060 20040 400700020 52010 FDND 010000Z AUTO /////KT //// // ////// 19/14 Q1018 KHZX 312347Z AUTO 00000KT 10SM CLR 00/M07 A3048 RMK AO2 KHZY 312353Z AUTO 00000KT 8SM -RA OVC027 07/06 A2991 RMK AO2 RAB03 SLP132 P0001 60001 T00670056 10089 20067 53014 UTSS 312330Z 11002MPS 070V140 9999 NSC 02/M00 Q1018 R88/CLRD70 NOSIG UTST 312330Z 02002MPS CAVOK 05/01 Q1018 R88/CLRD70 NOSIG ENDR 312350Z AUTO 11028KT 07/02 Q1011 KIRS 312355Z AUTO 35012G18KT 10SM SCT028 BKN034 OVC060 01/M02 A3013 RMK AO2 KJKA 312355Z AUTO 32006KT 10SM CLR 19/08 A2998 RMK AO2 T01900075 10230 20190 FDMS 311500Z 00000KT 9999 FEW025 BKN030 FEW040CB 22/18 Q1017 NOSIG KM19 312356Z AUTO 35011KT 10SM CLR 08/M06 A3032 RMK AO2 51033 T00831061 10161 20083 SLP267 ENEK 312350Z 18035KT CAVOK 14/11 Q1010 W12/S4 ENFB 312350Z AUTO 16042KT 0900NDV -RA BR NCD 11/11 Q1003 W///S5 KISM 312350Z 31008KT 10SM SKC 19/10 A2986 ENDU 312350Z 15003KT 100V230 9999 FEW035 BKN045 M02/M04 Q1025 KISN 312352Z AUTO 16012G19KT 10SM CLR 06/M07 A2998 RMK AO2 SLP170 T00611067 10094 20039 56016 FDMV 010000Z AUTO 22004KT //// // ////// 19/17 Q1025 KISO 312356Z AUTO 00000KT 10SM CLR 10/06 A2981 RMK AO2 FEFF 312300Z 00000KT 8000 NSC 24/24 Q1011 BECMG NSW KM25 010015Z AUTO 34011G19KT 10SM CLR 06/M04 A3026 RMK AO2 KISP 312356Z 04015G20KT 10SM -RA FEW018 SCT028 OVC050 12/07 A2989 RMK AO2 RAB51 SLP121 P0000 60000 T01170072 10128 20117 53000 LBBG 010000Z 32004MPS 7000 NSC 06/04 Q1024 NOSIG ENFG 311620Z 22003KT 2000 SN VV008 M02/M03 Q1019 KISQ 312354Z AUTO 01009G18KT 10SM OVC042 00/M07 A3038 RMK AO2 T00001073 KITH 312356Z 04005KT 10SM BKN070 07/01 A2994 RMK AO2 53008 T00720005 10094 20072 SLP147 UTTT 312330Z 07003MPS 4000 BR FU NSC 02/M01 Q1019 R08R/CLRD70 NOSIG KJKJ 312354Z AUTO 17006KT 10SM CLR 01/M06 A3044 RMK AO2 KM30 312350Z AUTO 32007G16KT 10SM SCT065 06/M04 A3025 RMK AO2 T00601039 10098 20060 KJKL 312353Z AUTO 30007KT 8SM -SN BKN007 OVC014 02/01 A2994 RMK AO2 CIG 005V011 SLP144 P0002 60013 T00170006 10072 20017 53024 OYHD 010000Z 29004KT 240V330 CAVOK 30/24 Q1009 ENFL 312220Z 12015KT 9999 -RA FEW012 BKN020 12/09 Q1010 ENGC 312350Z 18040KT 0050 DZ FG VV001 11/11 Q1003 W10/S6 ENEV 312350Z VRB02KT CAVOK M03/M04 Q1025 RMK WIND 1400FT 11012KT KISW 312354Z AUTO 01005KT 10SM CLR M01/M08 A3044 RMK AO2 SLP323 T10111078 10044 21011 51009 FDNY 010000Z AUTO 09001KT //// // ////// 18/15 Q1029 OYHJ 311500Z 22008KT 0300 FG VV/// 19/17 Q//// KITR 312353Z AUTO 14014KT 10SM CLR 06/M03 A3024 RMK AO2 PK WND 15027/2304 SLP253 T00611033 10111 20061 58013 OYIB 311400Z 25013KT 9999 SCT025 22/12 Q1018 KM40 312355Z AUTO 34015G22KT 10SM SCT044 SCT050 SCT070 12/03 A3015 RMK AO2 FDOT 010000Z AUTO /////KT //// // ////// 19/14 Q1021 UUMO 311800Z 32002MPS 9999 BKN023 02/M02 Q1020 NOSIG RMK QFE749/0999 26090060 ENGM 312350Z 35001KT 5000 -RADZ SCT002 OVC003 02/02 Q1020 ENHD 312350Z AUTO 13017KT 9999NDV FEW012/// OVC029/// 13/10 Q1010 KJLN 312353Z 02007KT 10SM CLR 04/M07 A3042 RMK AO2 SLP303 T00441072 10089 20044 50006 ENHE 312350Z 11035KT CAVOK 07/03 Q1012 W///S5 ENHF 312350Z VRB01KT 9999 SCT039 BKN057 M03/M04 Q1022 RMK WIND 1254FT 20007KT FDPP 010000Z AUTO 03003KT //// // ////// 12/M06 Q1024 UUOB 010000Z 33004MPS 7000 SCT070 BKN200 02/M01 Q1016 29090060 NOSIG KIWA 312347Z 21004KT 45SM SCT200 32/07 A2980 ENHK 311820Z 00000KT 9999 FEW040 BKN053 M03/M05 Q1023 KIWD 312355Z AUTO 00000KT 10SM CLR M04/M06 A3046 RMK AO1 10000 21040 52007